ENHM 202020Z AUTO 10003KT 9999NDV NCD 08/07 Q1020 W08/S4 UUOK 202000Z 03005MPS CAVOK 17/05 Q1015 NOSIG RMK 12CLRD70 KIWI 201953Z AUTO 18008G15KT 10SM CLR 08/M03 A3045 RMK AO2 SLP312 T00831028 KJMR 202030Z AUTO 00000KT 10SM CLR 20/01 A3001 RMK AO2 KJMS 201956Z AUTO 18014G23KT 10SM CLR 24/00 A2989 RMK AO2 SLP127 T02390000 PPIT 201956Z AUTO 36007KT 10SM CLR 05/01 A2970 RMK AO2 SLP057 T00500006 KIXA 202035Z AUTO 03012G23KT 10SM BKN055 18/05 A3023 RMK AO2 UUOO 202030Z 08003MPS CAVOK 13/02 Q1017 NOSIG RMK 12090060 KIXD 201953Z 18010KT 10SM FEW065 24/12 A3006 RMK AO2 SLP173 T02440122 ENHV 201950Z 22018KT 9999 FEW030 SCT080 03/M04 Q1023 KM63 201256Z AUTO 08007KT 12SM CLR 11/08 A3013 RMK AO2 SLP167 T01120084 PPIZ 202041Z AUTO 05019KT 1 3/4SM BR M11/M13 A3010 RMK AO2 TSNO $ KIYA 202035Z AUTO 21007KT 10SM SCT060 31/11 A3011 RMK AO2 T03120110 ENKB 202020Z VRB02KT CAVOK 06/01 Q1021 KJNX 202035Z AUTO 05013G23KT 2SM OVC035 17/09 A3019 RMK AO2 KIZA 202035Z AUTO 26008KT 10SM CLR 26/08 A3005 RMK AO2 ENLA 202020Z AUTO 08022KT 9999NDV NCD 09/07 Q1016 W///S3 KJOT 202035Z AUTO 19005KT 10SM CLR 25/03 A3010 RMK AO2 LTG DSNT W T02520032 KJQF 201952Z 01010G14KT 10SM CLR 21/M02 A3023 LBGO 202000Z VRB01MPS 9999 FEW050 BKN100 11/11 Q1013 NOSIG KIZG 201954Z AUTO 21007KT 10SM CLR 16/M13 A3036 RMK AO2 SLP286 T01561128 ENKR 202020Z 23009KT CAVOK 00/M06 Q1026 RMK WIND 775FT 24017KT ENLK 201850Z 09008KT CAVOK 05/M02 Q1022 KN03 202035Z AUTO 19007G14KT 10SM CLR 18/M03 A3029 RMK AO2 ENMH 202020Z 20017KT 9999 SCT033 01/M04 Q1023 KLAA 201953Z AUTO 35006KT 9SM SCT110 20/09 A2994 RMK AO2 SLP103 T02000089 ENNA 201950Z 16006KT 140V200 CAVOK 01/M05 Q1025 RMK WIND 1800FT 22015KT ENML 202020Z VRB02KT CAVOK 07/00 Q1021 ENNE 202020Z AUTO 21010KT 9999NDV SCT096/// BKN110/// 07/05 Q1018 W04/S4 KLAF 201954Z 33005KT 10SM CLR 23/02 A3014 RMK AO2 SLP207 T02330022 ENMS 202020Z 17002KT CAVOK 06/02 Q1021 RMK WIND 412FT VRB03KT ENOA 201950Z 36002KT 0100 FG 07/06 Q1020 W///S4 KLBB 201953Z 21015G22KT 10SM SCT034 SCT045 SCT200 23/13 A3001 RMK AO2 SLP124 CB DSNT N-E MOV NE TCU DSNT W-NW T02280128 ENNK 201850Z VRB02KT CAVOK 04/M04 Q1024 KLAL 201954Z 01004KT 15SM BKN030 22/14 A3004 KJTC 202035Z AUTO 33012G17KT 10SM FEW070 18/00 A3024 RMK AO2 KLAM 202035Z AUTO 32005KT 10SM SCT090 SCT110 18/02 A3013 RMK AO2 T01800020 ENNM 201950Z 01008KT CAVOK 10/03 Q1019 KLBE 201950Z 12008KT 20SM SKC 20/M03 A3026 KLAN 201953Z 21010KT 10SM CLR 22/M03 A3017 RMK AO2 SLP218 T02221028 KLBF 201953Z AUTO 09006KT 10SM SCT100 23/10 A2995 RMK AO2 RAE01 SLP133 P0000 T02280100 KJSO 202035Z AUTO 17009KT 10SM SCT049 25/10 A3011 RMK AO2 T02500108 ENNO 201450Z 20005KT CAVOK 18/03 Q1020 LATI 202050Z 14003KT CAVOK 11/09 Q1012 NOSIG KLAR 201953Z AUTO 28020G26KT 10SM BKN085 OVC110 15/M03 A3012 RMK AO2 PK WND 28026/1952 SLP140 T01501033 VMMC 202030Z 10004KT 060V150 7000 FEW010 SCT035 24/23 Q1010 NOSIG KLAS 201956Z 00000KT 10SM FEW100 FEW250 31/01 A2997 RMK AO2 SLP125 T03060011 KJST 201954Z AUTO 16008KT 130V190 10SM CLR 16/M05 A3028 RMK AO2 SLP257 T01611050 KLBL 202035Z AUTO 18016KT 10SM FEW065 26/08 A2993 RMK AO1 ENOL 201950Z VRB03KT CAVOK 06/04 Q1021 NOSIG KLAW 201953Z 14009KT 10SM FEW023 BKN065 BKN100 19/15 A3006 RMK AO2 SLP174 T01890150 KLAX 201953Z 27010KT 10SM FEW250 20/13 A3006 RMK AO2 SLP176 T02000133 $ KLCH 201953Z AUTO 20007KT 10SM FEW060 27/12 A3013 RMK AO2 SLP209 T02720122 $ KLCI 202035Z AUTO 17008KT 10SM CLR 14/M11 A3037 RMK AO1 KLBR 202035Z AUTO 00000KT 7SM CLR 26/13 A3008 RMK AO1 T02620127 KN38 202035Z AUTO 16011G17KT 10SM CLR 17/M05 A3029 RMK AO2 ENQA 202020Z AUTO VRB02KT 9999NDV NCD 08/05 Q1021 W05/S6 KLBT 201954Z AUTO 04017G25KT 10SM SCT036 SCT060 BKN110 18/09 A3013 RMK AO2 PK WND 03029/1931 SLP201 T01830094 KLCK 202035Z AUTO 16008KT 10SM CLR 25/M03 A3017 RMK AO2 T02531035 ENQC 202020Z AUTO 10005KT 9999NDV NCD 08/06 Q1021 W///S6 ENOV 201950Z 00000KT CAVOK 06/02 Q1021 RMK WIND 2175FT 14003KT KLBX 201953Z AUTO 14012G17KT 10SM CLR 25/14 A3013 RMK AO2 SLP202 T02500144 VLVT 201500Z 27002KT 3000 BR FEW050 30/23 Q1006 NOSIG KLDJ 202055Z AUTO 14007G15KT 10SM CLR 11/M03 A3046 RMK AO2 T01131033 KKLS 202035Z 17007KT 10SM CLR 15/04 A3027 RMK AO1 ENRA 201950Z 21003KT 9999 FEW045 BKN080 05/M00 Q1022 KLEB 201953Z 22010KT 10SM CLR 16/M16 A3035 RMK AO2 SLP279 T01611156 KJVL 202045Z 20010G15KT 10SM CLR 28/03 A3005 KLDM 202035Z AUTO 25008KT 10SM SCT080 SCT090 16/02 A3012 RMK AO2 T01620015 KLEE 201953Z 34007KT 10SM OVC024 20/14 A3006 RMK AO2 SLP177 T02000139 KJWG 202035Z AUTO 16011KT 10SM SCT033 SCT040 SCT046 22/16 A3003 RMK AO2 T02200156 ENQR 202020Z AUTO 21010KT 9999NDV BKN009/// 06/04 Q1020 W///S4 KN60 201952Z AUTO 25014KT 23/03 A2983 RMK AO1 SLP107 T02280028 UUWW 202030Z 00000MPS CAVOK 11/M01 Q1021 NOSIG ENSB 201950Z 15002KT 9999 FEW007 SCT010 BKN024 M05/M07 Q1004 RMK WIND 1400FT 23003KT OYSN 202000Z 08004KT 050V120 CAVOK 20/M04 Q1026 NOSIG ENSD 201850Z 07003KT 010V080 CAVOK 11/02 Q1020 RMK WIND 1138FT 28004KT 240V320 ENRM 201550Z 10007KT 070V140 CAVOK 12/03 Q1021 UWGG 202030Z VRB01MPS 7000 SCT230 04/M01 Q1021 NOSIG 36090070 RMK QFE759 KJVW 202035Z AUTO 13004KT 10SM CLR 27/24 A3012 RMK AO2 TSNO LCEN 202020Z 29013KT CAVOK 15/10 Q1013 NOSIG ENSE 202020Z AUTO 21009KT 9999NDV BKN007/// BKN009/// 07/04 Q1020 W///S/ ENRO 202020Z AUTO 21006KT 160V250 9999NDV NSC 07/00 Q1020 ENSF 202020Z AUTO 21010KT 9999NDV BKN007/// 06/05 Q1021 W///S4 ENSG 201750Z VRB04KT CAVOK 10/M03 Q1020 RMK WIND 3901FT 19006KT ENSH 201850Z 07011KT CAVOK 05/M02 Q1023 KLFI 201958Z AUTO 05022G29KT 10SM CLR 14/06 A3030 RMK AO2 PK WND 05029/43 SLP267 T01430058 $ KJXI 202035Z AUTO 19005KT 10SM BKN050 26/14 A3009 RMK AO2 KLGA 201951Z 15010G15KT 120V190 10SM CLR 12/M03 A3043 RMK AO2 PK WND 17026/1922 SLP304 T01221028 ENRS 201120Z 16011KT CAVOK 07/03 Q1026 KLFK 201953Z AUTO 16011G15KT 10SM CLR 29/12 A3010 RMK AO2 SLP190 T02940122 KLGB 201953Z 20006KT 10SM CLR 21/12 A3004 RMK AO2 SLP172 T02060122 $ ENSK 201950Z 11006KT CAVOK 06/M01 Q1022 KLGC 202035Z AUTO 07006KT 10SM CLR 23/09 A3014 RMK AO2 T02300090 EPBC 201700Z 06006KT 8000 -RA BKN040 12/12 Q1013= ENSL 202020Z AUTO 11011KT 9999NDV NCD 08/07 Q1019 W05/S3 ENTC 202020Z 18003KT 140V210 CAVOK 02/M04 Q1023 NOSIG RMK WIND 2600FT 18024KT KLGD 202035Z AUTO 00000KT 10SM CLR 14/M01 A3023 RMK AO1 LBPD 202000Z 18003MPS CAVOK 10/09 Q1014 NOSIG KLEW 202035Z AUTO 15014G19KT 10SM CLR 10/M04 A3039 RMK AO1 KJXN 201956Z 23008KT 10SM CLR 21/M05 A3018 RMK AO2 SLP221 T02111050 ENSN 201550Z 14006KT CAVOK 17/03 Q1020 KLEX 201954Z 25004KT 10SM CLR 24/03 A3018 RMK AO2 SLP216 T02390033 $ KJYG 202041Z AUTO 06006KT 10SM CLR 24/09 A2995 RMK AO2 KJWY 202035Z AUTO 15006KT 10SM OVC060 23/11 A3009 RMK AO2 T02260114 ENRY 202020Z 05003KT CAVOK 10/06 Q1021 ENSR 201550Z 35005KT 9999 FEW049 04/M01 Q1026 RMK WIND 1119FT 23008KT ENSS 201850Z 23013KT 9999 FEW030 M02/M05 Q1025 RMK WIND 500FT 25019KT KLFT 201953Z 29003KT 10SM CLR 27/13 A3012 RMK AO2 SLP200 T02670128 KLHB 202035Z AUTO 18013KT 10SM SCT050 27/13 A3008 RMK AO2 T02660130 ENST 202020Z VRB02KT CAVOK 08/03 Q1019 RMK WIND 300FT VRB08KT KJYL 202035Z AUTO 06006KT 10SM OVC046 22/11 A3011 RMK AO2 T02150114 KJYM 202034Z AUTO 23005KT 10SM CLR 22/M06 A3017 RMK AO2 T02231065 UUYY 202030Z 34005G08MPS 300V360 9000 SCT040 BKN066 04/M05 Q1020 NOSIG 01CLRD61 RMK QFE756/1008 EPCE 202030Z 06007KT 020V090 9999 BKN094 12/05 Q1014 RMK 124 060 6/6= KJYO 202035Z AUTO 12005KT 10SM CLR 17/03 A3034 RMK AO2 ENTO 202020Z 01003KT CAVOK 11/04 Q1021 KJZI 202055Z AUTO 35008G17KT 10SM OVC031 18/12 A3007 RMK A02 LTG DATA MISG P000 KJYR 202035Z AUTO 19006KT 9SM -RA FEW060 BKN075 22/14 A2996 RMK AO2 EPDA 202030Z 06009KT 9999 BKN092 12/07 Q1013 RMK 120 070 7/7= ENVA 202020Z 25011KT CAVOK 10/03 Q1021 RMK WIND 670FT 29016KT FGBT 202000Z 00000KT 8000 SCT010 BKN100 23/22 Q1009 NOSIG KLGU 201951Z AUTO 28005KT 10SM CLR 19/M03 A3015 RMK AO2 SLP183 T01891033 KLIC 201955Z AUTO 01015G23KT 10SM CLR 22/02 A3004 RMK AO2 SLP127 T02170022 KLHM 202035Z AUTO 02004KT 10SM CLR 24/08 A3006 RMK AO1 ENVD 201950Z 24012KT CAVOK 02/M03 Q1026 EPDE 202030Z 07006KT 9999 FEW027 BKN066 11/10 Q1013 RMK 107 096 6/2= EPBY 202030Z 05005KT 9000 -SHRA FEW006 SCT016CB BKN049 12/11 Q1013 KLHQ 201953Z AUTO 11006KT 10SM CLR 24/03 A3018 RMK AO2 SLP220 T02390028 ENVH 202020Z AUTO 08029KT 9999NDV NCD 09/07 Q1015 W///S3 UWKD 202030Z 30004MPS CAVOK 10/M00 Q1019 R29/CLRD70 NOSIG RMK QFE753/1004 UWKE 202030Z 24006MPS CAVOK 08/M01 Q1018 NOSIG RMK QFE746/0995 21090070 KLHW 202018Z AUTO 35007KT 10SM BKN030 21/15 A3007 RMK AO2 KMAE 201953Z AUTO 32003KT 10SM CLR 23/09 A3009 RMK AO2 SLP187 T02330089 KLHX 202010Z AUTO 29010KT 10SM FEW055 BKN070 BKN100 21/05 A2998 RMK AO2 LTG DSNT NE T02110050 $ KLJF 202033Z AUTO 09007KT 10SM CLR 23/02 A2998 RMK AO2 KMAF 201953Z 21010G16KT 10SM FEW037 24/13 A3004 RMK AO2 SLP137 T02390133 $ LBSF 202030Z 11003MPS 9999 BKN061 12/10 Q1014 NOSIG DXNG 201800Z 06002KT 9999 FEW012 28/20 Q1011 NOSIG KLHZ 202035Z AUTO 05014G21KT 10SM BKN044 BKN060 17/08 A3022 RMK AO2 VOCB 201800Z 23002KT 6000 NSC 27/23 Q1011 NOSIG KMAI 201953Z AUTO 04009KT 10SM OVC021 16/12 A3016 RMK AO2 SLP211 T01560117 PWINO VOBL 202030Z VRB00KT 6000 NSC 24/15 Q1013 NOSIG KLIT 201953Z 12009KT 10SM BKN065 BKN250 27/11 A3012 RMK AO2 SLP201 T02670106 KO22 202015Z AUTO 25005KT 10SM CLR 24/03 A3011 RMK AO1 KMAN 202035Z AUTO 34005KT 10SM CLR 16/M05 A3025 RMK AO1 KMAO 202035Z AUTO 01017G24KT 10SM OVC034 18/09 A3012 RMK AO2 VOCI 202030Z 00000KT 4000 HZ FEW015 26/23 Q1007 NOSIG KMBG 201952Z AUTO 17016KT 10SM CLR 24/M03 A2987 RMK AO2 SLP113 T02441033 UWKS 202030Z 28003MPS CAVOK 13/M00 Q1020 NOSIG RMK QFE750 24000060 VNKT 201950Z 00000KT 7000 FEW025 15/06 Q1016 NOSIG VOCL 202030Z 00000KT 6000 FEW015 27/22 Q1007 NOSIG KMCB 201953Z AUTO 11005KT 10SM CLR 27/09 A3014 RMK AO2 SLP201 T02670089 KMBL 202015Z AUTO 23011G18KT 10SM FEW080 20/02 A3012 RMK AO1 KMCC 202035Z AUTO 33007KT 10SM CLR 25/07 A3009 RMK AO2 KMCD 202038Z AUTO 00000KT 1SM BR SCT001 BKN022 OVC029 06/06 A3010 RMK AO2 T00550055 KMCE 201953Z AUTO 33013G20KT 10SM CLR 25/08 A3008 RMK AO2 SLP185 T02500083 EPGD 202030Z 06009KT CAVOK 13/05 Q1014 KMCF 201958Z AUTO 29009KT 10SM BKN034 23/18 A3005 RMK AO2 SLP179 T02270175 KLKR 202035Z AUTO 01006KT 10SM OVC046 19/02 A3017 RMK AO2 KMCI 201953Z 19014KT 10SM SCT065 SCT130 OVC250 24/12 A3004 RMK AO2 SLP166 T02390117 KMCJ 202035Z AUTO 11013KT 010V020 10SM CLR 27/10 A3007 RMK AO1 KMBS 201953Z 19009KT 10SM CLR 22/M02 A3016 RMK AO2 SLP213 T02221022 KLLJ 201955Z AUTO 14006KT 10SM CLR 14/M16 A3017 RMK AO2 SLP190 T01391156 KMCK 201953Z AUTO 00000KT 10SM FEW060 BKN080 24/11 A2994 RMK AO2 SLP126 T02390111 LCLK 202030Z 32008KT CAVOK 16/11 Q1013 NOSIG UWLW 202000Z 00000MPS P5000 SKC 06/M00 Q1021 20CLRD60 NOSIG RMK QFE760 KLKU 202035Z AUTO 08010G14KT 050V110 10SM CLR 19/02 A3028 RMK AO2 KLKV 202035Z AUTO 11005KT 10SM CLR 16/M08 A3026 RMK AO1 KMDD 202035Z AUTO 22010G15KT 10SM SCT042 25/12 A3003 RMK AO2 T02520124 KMCN 201953Z 01007KT 10SM OVC050 23/08 A3014 RMK AO2 SLP202 T02280078 KMCO 201953Z 33009KT 10SM OVC027 21/13 A3004 RMK AO2 SLP171 T02110133 KMDH 201952Z AUTO VRB05KT 10SM CLR 25/06 A3013 RMK AO2 SLP202 T02500061 KLLQ 201953Z AUTO 19006KT 10SM CLR 27/08 A3012 RMK AO2 SLP196 T02720083 KMDJ 202035Z AUTO 07009KT 10SM CLR 20/16 A3017 RMK A01 KMEB 201952Z AUTO 04017G23KT 10SM SCT040 BKN055 BKN100 20/09 A3015 RMK AO2 PK WND 05029/1858 SLP209 T02000089 KLNC 202035Z AUTO 18009KT 10SM OVC065 23/10 A3009 RMK AO2 T02300102 KLND 201953Z AUTO 30018G23KT 10SM CLR 21/M07 A3003 RMK AO2 SLP126 T02061072 KMCW 201953Z AUTO 14010KT 10SM FEW095 21/13 A3000 RMK AO2 LTG DSNT E AND SE SLP152 T02110128 $ KLMO 202035Z AUTO 02007KT 10SM SCT120 21/01 A3004 RMK AO2 T02130013 KMCX 202035Z AUTO 14003KT 10SM CLR 23/03 A3014 RMK AO2 T02260032 KO54 202035Z AUTO 00000KT 10SM CLR 21/M03 A3016 RMK AO1 KMEH 201956Z AUTO 00000KT 10SM CLR 13/M06 A3023 RMK AO2 SLP241 T01281056 KMDQ 202035Z AUTO 32005KT 10SM CLR 23/02 A3015 RMK AO2 KMEI 201958Z VRB05KT 10SM CLR 24/09 A3016 RMK AO2 SLP210 T02440089 KMDS 202035Z AUTO 15012G20KT 10SM CLR 24/04 A2993 RMK AO2 KLMT 201953Z VRB03KT 10SM CLR 15/M03 A3024 RMK AO2 SLP233 T01501028 $ KLNK 202034Z 25009KT 10SM VCTS FEW120 27/11 A2994 RMK AO2 LTG DSNT SW T02670111 KMDT 201956Z 14006KT 10SM FEW250 18/02 A3034 RMK AO2 SLP275 T01780017 $ LDDU 202030Z 13014KT 9999 BKN009 15/13 Q1011 KLNL 202035Z AUTO 27006G14KT 10SM CLR 20/M01 A3000 RMK AO2 T02011014 UWOO 202030Z VRB01MPS P5000 SKC 04/M02 Q1020 26CLRD65 NOSIG RMK QFE754/1006 KMFD 201952Z 20008KT 10SM CLR 22/02 A3021 RMK AO2 SLP230 T02220022 KMEM 201954Z 19004KT 10SM SCT200 26/07 A3014 RMK AO2 SLP203 T02610072 $ KMDW 201951Z 24010KT 10SM BKN280 25/04 A3011 RMK AO2 SLP194 T02500044 $ ENZV 202020Z 00000KT CAVOK 09/04 Q1020 KMFE 201953Z 14009KT 10SM OVC033 26/18 A3005 RMK AO2 SLP173 T02560183 LBWN 202030Z 36002MPS CAVOK 09/08 Q1013 NOSIG UWOR 202000Z 30003MPS CAVOK 11/00 Q1020 07CLRD65 NOSIG RMK QFE740/0987 KLNP 202035Z AUTO 22003KT 10SM CLR 22/M11 A3021 RMK AO2 KMDZ 202035Z AUTO 19008KT 10SM BKN038 OVC048 15/11 A3003 RMK AO2 LTG DSNT SW T01450111 KMER 202045Z 34009G14KT 10SM SKC 27/07 A3008 KMFI 202035Z AUTO 21008KT 9SM SCT013 BKN022 OVC027 15/12 A3004 RMK AO2 T01500117 KLNR 201956Z AUTO 31006KT 10SM OVC080 21/09 A3007 RMK AO2 SLP175 T02060094 EPIR 202000Z 07004KT 6000 -RA BKN040 OVC060 12/12 Q1013 RMK 117 099 8/5= KLNS 201953Z AUTO VRB06KT 10SM CLR 15/01 A3035 RMK AO2 SLP279 T01500011 KO69 202035Z AUTO 31004KT 10SM CLR 24/10 A3012 RMK AO1 KLOL 201953Z AUTO VRB04KT 10SM CLR 19/M09 A3021 RMK AO2 SLP207 T01941094 TSNO KLPC 202035Z AUTO 25010KT 130V310 10SM CLR 21/10 A3008 RMK AO1 KMGC 202035Z AUTO 24006KT 10SM CLR 24/00 A3013 RMK AO2 KLOM 202035Z AUTO 11010G15KT 10SM CLR 16/M02 A3038 RMK AO1 KMGE 201958Z 12005KT 10SM FEW250 23/05 A3017 RMK AO2A SLP212 T02250053 $ KMGG 202037Z AUTO 02003KT 10SM CLR 23/02 A2999 RMK AO2 LTG DSNT SE T02260018 KMEZ 202035Z AUTO 11005G15KT 10SM BKN065 25/10 A3011 RMK AO2 PWINO LCPH 202030Z 34005KT CAVOK 14/10 Q1014 KLOR 201953Z AUTO 10SM OVC026 18/11 A3016 RMK AO2 SLP210 T01780111 $ KMFR 201953Z 00000KT 10SM CLR 17/04 A3021 RMK AO2 SLP231 T01720039 KMGJ 201954Z AUTO VRB03KT 10SM CLR 17/M04 A3036 RMK AO2 SLP283 T01671044 TSNO $ KLOT 202035Z AUTO 19012G15KT 10SM CLR 25/03 A3009 RMK AO2 T02540031 TSNO EPLB 202030Z 08005KT 9999 SCT042 11/11 Q1013 KLOU 201953Z AUTO VRB03KT 10SM CLR 26/04 A3016 RMK AO2 SLP209 T02610039 EPKK 202030Z 05005KT CAVOK 09/08 Q1011 KMGM 201953Z VRB04KT 10SM CLR 24/11 A3015 RMK AO2 SLP207 T02390111 KMFV 202035Z AUTO 08021G29KT 10SM CLR 12/M01 A3032 RMK AO2 KMHE 201953Z AUTO 11013G24KT 10SM CLR 27/06 A2991 RMK AO2 SLP126 T02670056 $ KMGN 202035Z AUTO 00000KT 10SM OVC110 12/09 A3007 RMK AO2 T01240092 FHAW 202050Z 13013KT 9999 SCT020 27/21 Q1013 WHT VOHS 202010Z VRB03KT 5000 HZ FEW020 SCT100 25/09 Q1011 NOSIG KLOZ 201953Z AUTO VRB04KT 10SM CLR 24/03 A3017 RMK AO2 SLP208 T02440028 KO86 202030Z AUTO 17004KT 10SM CLR 20/M04 A3017 RMK AO1 KLPR 201953Z AUTO 19011KT 10SM CLR 24/01 A3020 RMK AO2 SLP228 T02390011 TSNO KMGR 202035Z AUTO 01006KT 10SM OVC015 15/12 A3015 RMK AO2 KMIA 201953Z 34006KT 10SM BKN044 BKN250 26/14 A3001 RMK AO2 SLP161 T02560139 $ LCRA 201950Z 28010KT CAVOK 17/10 Q1012 EPKS 202030Z 07004KT 9999 SCT020 OVC100 12/11 Q1012 RMK 116 094 8/4= KMHK 201952Z 22014G19KT 10SM -RA FEW050 SCT075 SCT095 24/13 A3000 RMK AO2 RAB43 SLP153 P0000 T02390128 KLQK 202055Z AUTO 10SM CLR 22/ A3016 RMK AO2 T0224 KMIB 201958Z AUTO 20017G22KT 10SM CLR 22/04 A2978 RMK AO2 SLP093 T02160035 $ EPMB 202030Z 09004KT 9999 SCT100 BKN200 15/09 Q1014 RMK 145 068 6/4= EPLK 202030Z 10006KT 7000 BKN100 09/08 Q1012 RMK 085 096 6/6= KMIC 201953Z VRB04KT 10SM CLR 23/02 A2997 RMK AO2 SLP149 T02280022 EPKT 202030Z 14008KT 100V190 9999 FEW030CB 11/07 Q1011 EPLL 202030Z 11004KT 4000 MIFG BR NSC 08/08 Q1012 KLRD 202016Z 12012KT 10SM SCT030 BKN041 BKN048 26/19 A3005 RMK AO2 VOHY 201440Z 00000KT 5000 HZ NSC 34/10 Q1012 NOSIG KMGW 201953Z 12004KT 10SM CLR 23/M07 A3022 RMK AO2 SLP231 T02281067 KMIE 201953Z 25008KT 10SM CLR 23/02 A3017 RMK AO2 SLP214 T02280022 KLRF 201958Z AUTO VRB01KT 10SM FEW200 27/12 A3012 RMK AO2 DZB1949E1950 SLP201 P0000 T02670119 KMGY 201953Z AUTO VRB05KT 10SM CLR 23/03 A3018 RMK AO2 SLP217 T02280033 KMHR 202046Z 32005KT 10SM FEW200 24/07 A3007 RMK PRESFR EPMI 202000Z 09003KT 6000 SCT040 OVC070 12/12 Q1013 RMK 121 099 8/4= KMHS 201956Z AUTO 00000KT 10SM CLR 19/M05 A3021 RMK AO2 SLP237 T01891050 KLRJ 202035Z AUTO 19010KT 5SM HZ SCT095 27/12 A2990 RMK AO2 KMHT 201953Z 23007KT 10SM SCT250 13/M10 A3040 RMK AO2 SLP309 T01331100 KLSB 202035Z AUTO 28007KT 10SM CLR 22/03 A3012 RMK AO2 LEAB 202000Z 25010KT CAVOK 13/07 Q1005 NOSIG KMHV 202035Z AUTO 31004KT 10SM CLR 27/00 A3006 RMK AO1 EPMM 202030Z 10008KT 9999 SCT008 OVC012 11/10 Q1014 RMK 113 093 8/3= KLSE 201953Z 18008KT 6SM BR FEW031 FEW060 BKN100 14/12 A3004 RMK AO2 RAE49 SLP169 P0001 T01390122 $ KLRO 202055Z AUTO 36007G16KT 7SM OVC031 A3007 RMK AO2 KLSF 202003Z AUTO 03007KT 10SM SCT049 22/11 A3014 RMK AO2 EPMO 202030Z 09009KT 9999 FEW009 BKN012 12/12 Q1013 EPLY 202030Z 09004KT 9999 SCT005 BKN040 10/10 Q1013 RMK 101 096 6/4= UWSS 202030Z 11003MPS CAVOK 13/03 Q1021 120///60 NOSIG RMK QFE754 LEBA 201900Z 00000KT 9999 FEW015 BKN030 15/12 Q1004 KMIS 202035Z AUTO VRB05KT 10SM CLR 24/14 A3015 RMK A01 LEBB 202030Z 00000KT 9999 SCT030 SCT065 12/11 Q1004 NOSIG KNAK 201954Z AUTO 05007KT 10SM CLR 14/02 A3036 RMK AO2 SLP282 T01440022 KNBC 201956Z AUTO 06017G23KT 10SM SCT039 BKN055 21/11 A3007 RMK AO2 SLP184 T02110111 KMKC 201954Z 17015G19KT 10SM FEW055 25/12 A3004 RMK AO2 SLP165 T02500117 KLRU 202035Z AUTO 26007KT 220V290 10SM CLR 24/00 A3012 RMK AO2 T02361001 LEAL 202030Z VRB01KT 9999 FEW025 SCT050 19/12 Q1003 NOSIG LEAM 202030Z 24014KT 9999 FEW030 18/11 Q1005 KMIV 201954Z AUTO 09009G19KT 10SM CLR 13/01 A3039 RMK AO2 SLP290 T01330006 KMKE 201952Z 13012KT 10SM SCT120 BKN250 22/05 A3009 RMK AO2 SLP188 T02170050 KMIW 201953Z AUTO 20016G22KT 10SM SCT080 26/12 A2997 RMK AO2 SLP145 T02610117 LEAO 201800Z 18006KT 140V220 9999 FEW035 13/08 Q1004 LEBG 201900Z 16001KT 9999 FEW035 10/06 Q1002 KNBG 201955Z VRB04KT 10SM FEW035 SCT250 26/12 A3013 RMK AO2 SLP203 T02600120 PNO $ KMKG 201955Z 20015G21KT 10SM SCT130 SCT250 20/01 A3015 RMK AO2 SLP212 T02000006 KMJQ 202032Z AUTO 12005KT 10SM CLR 24/07 A2995 RMK AO2 LEAS 202030Z 26003KT 8000 FEW012 SCT032 12/11 Q1004 TEMPO SHRA BKN008 SCT020TCU KNCA 201956Z AUTO 01018G28KT -RA OVC010 13/13 A3010 RMK AO2 PK WND 03034/1932 CIG 006V014 SLP195 P0004 T01330133 $ KP28 201956Z AUTO 15011G15KT 22/15 A3000 RMK AO1 SLP151 T02170150 $ KLUA 202035Z AUTO 03006KT 10SM CLR 19/01 A3029 RMK AO2 KMKJ 202035Z AUTO 09005KT 10SM CLR 19/M04 A3026 RMK AO2 T01871038 KMLB 201953Z 01011G19KT 10SM BKN026 21/15 A3002 RMK AO2 SLP164 T02110150 EPOK 202030Z 04004KT 310V090 9999 BKN094 10/06 Q1014 RMK 100 076 7/7= KMKL 201953Z VRB04KT 10SM CLR 26/07 A3014 RMK AO2 SLP204 T02610067 KMLC 201953Z AUTO 17007KT 10SM SCT046 BKN070 24/12 A3011 RMK AO2 SLP188 T02390117 LEBL 202030Z 09003KT 9999 FEW018 15/12 Q1005 NOSIG KLSV 201958Z AUTO 25005KT 10SM CLR 29/03 A2999 RMK AO2 SLP136 T02930030 KLUD 202035Z AUTO 16009G16KT 10SM BKN060 22/11 A3007 RMK AO2 T02150108 KMKN 202035Z AUTO 16007KT 10SM BKN029 OVC034 21/15 A3006 RMK AO2 LTG DSNT N AND NW T02130150 KMLE 202035Z AUTO 22007G15KT 10SM SCT070 SCT080 28/11 A2991 RMK AO2 LTG DSNT NE T02770109 KMLF 201952Z AUTO VRB03KT 10SM -RA FEW050 SCT070 BKN095 22/01 A3011 RMK AO2 RAB43 SLP146 P0000 T02220006 KMKO 201953Z AUTO 20009KT 10SM FEW050 24/13 A3010 RMK AO2 SLP187 T02390128 KMJX 202035Z AUTO 10005KT 10SM CLR 09/M04 A3044 RMK AO1 KLUF 201958Z AUTO 24008KT 10SM CLR 30/06 A2999 RMK AO2 SLP145 T03000061 KMLI 201952Z 23012G21KT 10SM CLR 28/07 A3004 RMK AO2 SLP169 T02780067 LEDA 201230Z 06007KT 030V110 6000 VCSH FEW014TCU BKN024 14/12 Q1003 NOSIG KMKS 202135Z AUTO 36015G23KT 10SM CLR 19/12 A3009 RMK AO2 UWUU 202030Z 24003MPS CAVOK 04/M00 Q1017 821///54 NOSIG RMK QFE751/1002 KLTS 201958Z AUTO 14011KT 10SM SCT070 SCT085 BKN200 21/16 A3003 RMK AO2 SLP161 T02080164 $ KMLJ 202035Z AUTO 06003KT 10SM CLR 24/M06 A3013 RMK AO2 VOMM 202010Z 00000KT 6000 FEW020 26/23 Q1007 NOSIG KLUK 201953Z 20006KT 10SM CLR 23/05 A3017 RMK AO2 SLP215 T02330050 KMKT 202035Z AUTO 09005KT 10SM SCT041 21/11 A2997 RMK AO1 KNBT 201956Z AUTO 01027G37KT 3SM -RA OVC007 13/ A3007 RMK AO2 PK WND 01040/1944 CIG 006V010 SLP186 T0133 PNO $ KLUM 202035Z AUTO 17006KT 10SM CLR 22/09 A3000 RMK AO2 LTG DSNT S T02150091 LDLO 201400Z 11004KT 9999 SCT020 15/14 Q1008 LECO 202030Z VRB02KT 9999 FEW020 SCT038 12/10 Q1004 DXXX 202030Z 24004KT 8000 TS SCT010 FEW019CB 25/22 Q1009 NOSIG KMLP 201953Z AUTO 24008KT 10SM BKN035 BKN043 02/M07 A3023 RMK AO2 SLP212 T00221067 TSNO KMKY 202035Z AUTO 29010G15KT 10SM FEW037 BKN045 24/16 A3000 RMK AO1 EPPO 202030Z 08003KT 9999 FEW009 BKN034 11/10 Q1012 LEBZ 201900Z 09005KT 050V110 9999 FEW020TCU SCT049 13/12 Q1002 KMMH 202035Z AUTO 14006KT 10SM CLR 19/M13 A3023 RMK AO1 KMMI 202035Z AUTO 02005KT 10SM CLR 24/04 A3016 RMK EPPR 202030Z AUTO 35006KT ///093 ///110 12/07 Q1013 RMK 118 071= KLVJ 201953Z AUTO 14011G18KT 10SM CLR 26/11 A3014 RMK AO2 SLP205 T02610106 KMLS 201953Z AUTO 30021G31KT 10SM CLR 19/M07 A3001 RMK AO2 PK WND 28031/1935 SLP159 T01891067 KLWA 202036Z AUTO 26007KT 10SM CLR 22/00 A3014 RMK AO2 T02201004 EPRA 202030Z 11002KT 6000 FEW025 SCT090 10/10 Q1013 RMK 101 098 4/2= KLVK 201953Z VRB05KT 10SM CLR 25/08 A3011 RMK AO2 SLP193 T02500078 KMMK 201953Z AUTO 18008KT 10SM CLR 13/M06 A3042 RMK AO2 SLP302 T01281056 TSNO $ KMLT 201953Z AUTO VRB03KT 10SM CLR 12/M12 A3036 RMK AO2 SLP289 T01221117 KLWB 202035Z AUTO 12003KT 10SM CLR 19/M07 A3024 RMK AO2 T01891074 KLWC 201952Z AUTO 20010KT 10SM CLR 24/12 A3004 RMK AO2 SLP167 T02440122 KMLU 201953Z 00000KT 10SM CLR 27/10 A3013 RMK AO2 SLP201 T02720100 KMML 202035Z AUTO 12010KT 10SM CLR 23/02 A2995 RMK AO1 LECV 201700Z 23013KT 9999 FEW035TCU SCT045 13/03 Q1003 KLVM 201953Z AUTO 30023G28KT 10SM CLR 17/M09 A3011 RMK AO2 PK WND 30037/1854 SLP170 T01671089 KLWD 201953Z AUTO 20008G21KT 10SM CLR 26/11 A3001 RMK AO2 SLP157 T02560111 KLVN 202017Z AUTO 18004KT 10SM CLR 21/11 A2998 RMK AO2 LTG DSNT SE KP53 201956Z AUTO 18008KT 12/05 A3003 RMK AO2 SLP175 T01220050 PWINO TSNO $ KMNE 202035Z AUTO 00000KT 10SM BKN060 28/12 A3011 RMK AO2 T02770115 EPPW 202030Z 08010KT 8000 SCT009 BKN011 BKN033 12/11 Q1012 RMK 118 095 7/3= KLUX 202035Z AUTO 05009KT 030V090 10SM CLR 22/00 A3018 RMK AO2 KMNH 202035Z AUTO 03005KT 10SM SCT060 SCT070 OVC085 15/00 A3012 RMK AO2 LTG DSNT SW KMNI 202055Z AUTO 01015G23KT 10SM BKN038 OVC050 19/05 A3012 RMK AO2 KP58 201951Z AUTO 33003KT 11/03 A3016 RMK AO2 SLP218 T01110028 PWINO TSNO KLVS 201953Z AUTO 07014KT 10SM FEW029 BKN075 OVC090 13/06 A3012 RMK AO2 LTG DSNT E RAB02E44 SLP135 P0000 T01330056 KMMT 201958Z 02015G21KT 10SM FEW048 SCT075 BKN250 20/06 A3014 RMK AO2A SLP209 T02040059 KP59 201951Z AUTO 36007KT 04/01 A3001 RMK AO2 SLP170 T00440006 PWINO TSNO $ KP60 201956Z AUTO VRB04KT 09/M07 A3022 RMK AO1 SLP216 T00891067 KMOB 201956Z 05010KT 10SM FEW020 SCT200 23/13 A3015 RMK AO2 SLP209 T02280128 KNEL 202000Z AUTO 07012KT CLR 11/M05 A3043 RMK AO2 SLP304 T01061050 $ UWWW 202030Z 26004MPS CAVOK 10/M05 Q1021 23CLRD60 33//99// NOSIG RMK QFE754/1006 KMMU 201945Z 16011KT 15SM SCT250 13/M04 A3043 EPSC 202030Z 00000KT 9999 FEW045 12/11 Q1012 KMMV 201953Z AUTO 11004KT 10SM SCT037 15/07 A3025 RMK AO2 SLP244 T01500072 $ KMOD 201953Z 31011KT 10SM CLR 25/08 A3009 RMK AO2 SLP188 T02500083 KLWM 201954Z VRB06KT 10SM CLR 12/M07 A3045 RMK AO2 SLP313 T01171067 KMNM 202035Z AUTO 21008KT 7SM OVC090 09/07 A3006 RMK AO1 KMNN 201953Z AUTO 20011G17KT 10SM CLR 22/03 A3021 RMK AO2 SLP231 T02220033 TSNO KNFE 201956Z AUTO 03016G27KT 10SM OVC055 14/04 A3028 RMK AO2 PK WND 04027/1926 SLP254 T01440044 KNFG 201954Z AUTO 22009KT 5SM CLR 21/13 A3004 RMK AO2 SLP172 T02060128 KNDZ 201956Z AUTO 05010KT 10SM OVC025 19/11 A3016 RMK AO2 SLP199 T01890111 $ LEGA 201200Z 00000KT 9999 RA SCT030 BKN050 12/10 Q1009 KP68 201953Z AUTO 00000KT 17/M06 A3022 RMK AO1 SLP181 T01671056 KLWS 201956Z 01006KT 10SM CLR 16/M02 A3026 RMK AO2 SLP248 T01611022 KLWT 201954Z AUTO 30019G29KT 10SM CLR 13/M10 A3008 RMK AO2 PK WND 30033/1915 SLP183 T01331100 TSNO KP69 201952Z AUTO 00000KT 16/M01 A3027 RMK AO1 SLP249 T01561006 KLXL 202038Z AUTO 27005KT 10SM CLR 21/M02 A2998 RMK AO2 KNFL 201956Z 30009KT 10SM SCT180 BKN250 20/M03 A3021 RMK AO2 SLP192 T02001033 KLWV 201953Z AUTO 00000KT 10SM CLR 24/05 A3016 RMK AO2 SLP212 T02390050 FGSL 202000Z 18004KTKT 180V220 9999 SCT010 BKN100 25/23 Q1010 NOSIG KNEW 201953Z 31004KT 6SM HZ CLR 24/13 A3014 RMK AO2 SLP200 T02440133 KLXN 202035Z AUTO 19009KT 10SM SCT055 BKN075 BKN110 25/11 A2993 RMK AO2 T02460109 LEGE 202030Z VRB01KT 9999 SCT015 BKN019 12/11 Q1004 EPSN 202030Z 06002KT 9999 BKN080 13/11 Q1013 RMK 129 087 6/6= KMOP 202034Z AUTO 18007KT 160V230 10SM CLR 22/00 A3013 RMK AO2 T02211005 KLYH 201954Z 08007G17KT 10SM CLR 22/M01 A3027 RMK AO2 SLP246 T02171006 KMNZ 202035Z AUTO 17015G20KT 10SM BKN025 OVC034 23/15 A3008 RMK AO2 T02310154 KMOR 202035Z AUTO 06005KT 10SM CLR 23/01 A3017 RMK EPRZ 202030Z 09003KT CAVOK 07/05 Q1013 LDOS 202030Z 12002KT 9999 SCT033 13/12 Q1010 KLXT 201953Z AUTO 20009KT 10SM FEW060 24/11 A3006 RMK AO2 SLP174 T02390106 KMOT 201954Z 18017G27KT 10SM CLR 21/00 A2980 RMK AO2 PK WND 20027/1948 SLP095 T02110000 KMQB 202035Z AUTO 21011G17KT 10SM CLR 28/07 A3007 RMK AO2 LTG DSNT NW T02750066 LEHC 201600Z 27005KT 230V320 9999 SCT025 15/10 Q1002 LDPL 202030Z 08004KT 9999 FEW020 12/11 Q1008 NOSIG KLXV 201953Z AUTO 23012KT 10SM SCT049 BKN070 06/M02 A3026 RMK AO2 SLP152 T00611017 EPTM 202030Z 05002KT 0100 FG VV/// 08/07 Q1012 RMK 077 098 ///= KNFW 201952Z 16012G19KT 7SM OVC065 26/10 A3011 RMK AO2 SLP177 T02560100 $ KMQE 201954Z AUTO 07011KT 10/M06 A3042 RMK AO1 SLP317 T01001056 KMOX 202031Z AUTO 10006KT 10SM CLR 23/01 A2995 RMK AO2 KMPO 201953Z AUTO VRB06G16KT 10SM CLR 14/M03 A3035 RMK AO2 SLP285 T01391033 KNGP 201956Z AUTO 12021KT 10SM BKN080 26/19 A3009 RMK AO2 SLP190 T02560189 KLXY 202035Z AUTO 16005KT 10SM SCT046 BKN090 23/15 A3007 RMK AO2 T02320147 LEGR 202030Z VRB01KT 9999 FEW020 FEW030TCU BKN048 13/09 Q1007 KMQI 202035Z AUTO 04024G38KT 4SM -RA OVC006 09/09 A3009 RMK AO2 T00920087 KMQJ 202035Z AUTO 20005KT 10SM CLR 24/02 A3016 RMK AO1 LEGT 201800Z 25014KT 9999 FEW040TCU SCT050 17/04 Q1002 KNHK 201952Z 08012KT 10SM BKN250 16/02 A3035 RMK AO2 SLP276 T01610017 KMRB 201953Z AUTO 15008KT 10SM CLR 18/01 A3033 RMK AO2 SLP270 T01780006 TSNO LEIB 202030Z VRB02KT 9999 FEW012 16/15 Q1004 NOSIG KMRC 202035Z AUTO 03003KT 10SM CLR 25/11 A3014 RMK KNGU 201959Z 04021G28KT 10SM SCT040 BKN110 BKN220 12/06 A3031 RMK AO2 PK WND 05031/1940 SLP263 T01220061 KP92 201953Z AUTO VRB03KT 27/15 A3013 RMK AO1 SLP203 T02720150 KMPV 201951Z AUTO VRB04KT 10SM CLR 14/M13 A3037 RMK AO2 SLP293 T01391133 $ KLYV 202035Z AUTO 08004KT 10SM CLR 26/06 A2992 RMK AO2 LTG DSNT SE KNID 201956Z AUTO 11007KT 10SM 29/04 A3002 RMK AO2 SLP151 T02890044 $ KMRF 202035Z AUTO 27010G15KT 190V300 10SM BKN090 24/03 A3013 RMK AO1 KMRH 201958Z AUTO 01024G36KT 8SM -RA OVC008 13/12 A3005 RMK AO2 PK WND 02036/1957 CIG 006V012 SLP177 P0001 T01280122 TSNO KMPZ 202035Z AUTO 23013KT 10SM CLR 28/05 A3002 RMK AO2 T02820050 LDRI 201800Z VRB02KT 9999 BKN027 17/13 Q1008 KMQS 202035Z AUTO 12010G20KT 060V140 10SM CLR 15/M02 A3037 RMK AO2 KMRJ 202035Z AUTO 34007KT 10SM BKN080 BKN120 23/05 A3006 RMK AO2 LDSB 201400Z 13010KT 9999 FEW/// SCT015 14/11 Q1009 EPWA 202030Z 09010KT 9999 BKN008 11/11 Q1013 NOSIG KLZU 202045Z 09007KT 10SM CLR 23/05 A3016 RMK ATIS B RWY 7 JW KMRN 202035Z AUTO 34004KT 10SM CLR 22/M02 A3024 RMK AO2 T02161019 KNIP 201953Z 34012KT 10SM OVC017 17/12 A3009 RMK AO2 SLP184 T01720117 KMQY 201956Z 36004KT 10SM CLR 27/06 A3016 RMK AO2 T02660061 SLP219 KLZZ 202035Z AUTO 17009G14KT 10SM BKN029 BKN036 OVC042 22/17 A3007 RMK AO2 T02200170 KOAJ 202035Z AUTO 01017G26KT 3SM SCT009 OVC015 13/13 A3013 RMK AO1 P0001 LFBA 202030Z AUTO 11004KT 9999 OVC046 10/10 Q1005 KMRT 202034Z AUTO 21005KT 10SM CLR 23/02 A3019 RMK AO2 T02250017 KOAK 201953Z 27007KT 10SM SCT250 21/09 A3013 RMK AO2 SLP201 T02110094 $ KNJK 201956Z AUTO 13005KT 10SM CLR 31/07 A2995 RMK AO2 SLP159 T03110072 $ KMSL 201953Z AUTO 29003KT 10SM CLR 25/08 A3017 RMK AO2 SLP212 T02500078 KMTC 201955Z 09009KT 10SM BKN240 18/03 A3018 RMK SLP234 T01800031 LFBC 202030Z AUTO 21006KT 9999 FEW018 BKN076 12/09 Q1004 KNJM 202046Z AUTO 02014G34KT 2SM -RA BR OVC009 13/11 A3009 RMK AO2 PK WND 02034/2037 CIG 006V011 P0000 T01280111 LFBD 202030Z AUTO 24003KT 9999 NSC 12/05 Q1005 KMSN 201953Z 23003KT 10SM SCT070 OVC200 25/06 A3006 RMK AO2 SLP176 T02500061 KOBE 202035Z AUTO 03006KT 10SM OVC031 21/15 A3003 RMK AO2 LFBE 202030Z AUTO 08002KT 3500 BR NSC 10/10 Q1005 KMSO 201953Z 34007G16KT 320V020 10SM CLR 13/M06 A3024 RMK AO2 SLP245 T01281061 VOTR 202010Z VRB02KT 5000 HZ FEW016 27/23 Q1008 NOSIG KMSP 201953Z VRB04KT 10SM SCT090 SCT300 23/03 A2999 RMK AO2 SLP153 T02280028 KMRY 201954Z 30005KT 9SM CLR 16/11 A3012 RMK AO2 SLP212 T01560111 LDSP 202030Z 08004KT 010V130 CAVOK 15/11 Q1010 NOSIG LFBG 202030Z AUTO 17007KT 9999 NSC 12/09 Q1004 KMTH 201953Z AUTO 28008G16KT 10SM FEW037 26/16 A3002 RMK AO2 SLP164 T02610156 LFBH 202030Z AUTO 33005KT 9999 NSC 11/05 Q1004 LFAQ 202030Z AUTO 05005KT 9999 NSC 10/04 Q1004 LEJR 202030Z 22017G27KT 9999 SHRA FEW012TCU FEW016CB SCT023 BKN029 16/15 Q1005 LFBI 202030Z AUTO 17005KT 9999 NSC 11/07 Q1004 KMTJ 201953Z AUTO 30007KT 10SM CLR 20/02 A3013 RMK AO2 SLP150 T02000017 KMSS 201953Z AUTO 19006KT 10SM CLR 16/M05 A3031 RMK AO2 SLP268 T01611050 EPWR 202030Z 12008KT CAVOK 12/06 Q1011 VOTV 202010Z 32003KT 4000 HZ SCT015 FEW025CB SCT100 29/26 Q1006 LFAT 202030Z AUTO 15002KT 9999 ////// 09/05 Q1004 LELC 202000Z 24007KT 9999 FEW030 21/08 Q1004 NOSIG KNLC 201956Z AUTO 01009KT 10SM CLR A3009 RMK AO2 SLPNO $ LFBL 202030Z AUTO 15004KT 3200 -DZ BR OVC002 08/07 Q1005 KMSV 202035Z AUTO 23003KT 10SM CLR 16/M06 A3036 RMK AO1 LFBM 202030Z AUTO 12002KT 6000 NSC 11/09 Q1005 KMTN 201950Z 07008KT 10SM SCT180 16/03 A3038 KMTO 201953Z AUTO 17007KT 140V210 10SM CLR 23/07 A3015 RMK AO2 SLP206 T02280067 KOCF 202050Z 03006KT 10SM OVC020 18/11 A3007 LFBO 202030Z AUTO 14003KT 9999 FEW014 OVC052 10/10 Q1005 KMTP 201954Z AUTO VRB04KT 11/M03 A3047 RMK AO1 SLP317 T01061028 KMSY 201953Z 01006KT 10SM FEW050 SCT250 27/08 A3014 RMK AO2 SLP208 T02670083 LFBP 202030Z AUTO 14003KT 9999 FEW050 OVC080 11/08 Q1005 KOCH 202035Z 15004KT 10SM FEW060 26/13 A3009 RMK AO1 KNKT 201954Z 02024G31KT 5SM BR OVC008 12/11 A3010 RMK AO2 PK WND 03031/1954 RAE12 CIG 006V011 SLP191 P0000 T01220111 LFBT 202030Z AUTO 19003KT 9999 OVC050 09/08 Q1005 LFCK 202030Z AUTO 30002KT 5000 BR OVC006/// ///TCU 09/09 Q1006 LELL 201830Z 16005KT 120V190 9999 FEW015 SCT020 BKN030 14/11 Q1003 LFBU 201700Z AUTO 16007KT 130V200 9999 SCT018 BKN076 OVC110 12/07 Q1003 KMTV 202035Z AUTO 03008G16KT 10SM CLR 21/00 A3025 RMK AO2 T02110001 LEMD 202030Z 19015KT 9999 FEW065 15/07 Q1003 NOSIG LELN 202000Z 25003KT CAVOK 08/05 Q1003 KMVE 202034Z AUTO 16008KT 10SM CLR 24/02 A2996 RMK AO2 LTG DSNT SE KMTW 201956Z AUTO 10005KT 10SM BKN110 09/03 A3011 RMK AO2 SLP220 T00940028 LELO 202000Z VRB02KT 9999 FEW045 10/09 Q1004 KNKX 201955Z 28010KT 10SM FEW200 21/12 A3000 RMK AO2 PRESFR SLP142 T02110122 $ KMUO 201958Z AUTO 32011G16KT 10SM FEW200 17/M07 A3024 RMK AO2 SLP232 T01681066 LFBY 202000Z AUTO 11002KT //// // ////// 10/09 Q1004 LEMG 202030Z 14003KT 9999 FEW020 BKN035 16/13 Q1006 NOSIG EPZG 202000Z 04005KT CAVOK 13/09 Q1011 KOCQ 202035Z AUTO 22006KT 10SM BKN090 OVC120 12/09 A3006 RMK AO1 T01150092 LFBZ 202030Z AUTO 08004KT 9999 NSC 09/07 Q1004 LEMH 202030Z 24003KT 220V280 9999 FEW020 14/11 Q1005 LFCR 202030Z AUTO 00000KT 9999 -DZ BKN023 BKN028 OVC034 07/06 Q1005 KMWA 202045Z 20008KT 20SM BKN150 26/06 A3013 KOEB 202034Z AUTO 18005KT 10SM CLR 22/M03 A3016 RMK AO2 T02171027 KMUT 202035Z AUTO 22013KT 10SM CLR 28/08 A3002 RMK AO2 KMWC 202045Z 23012G17KT 10SM SKC 24/03 A3006 KMVL 201954Z AUTO VRB05KT 10SM CLR 15/M13 A3034 RMK AO2 SLP281 T01501133 KNMM 201956Z 03009KT 10SM FEW045 FEW280 25/09 A3016 RMK AO2 SLP223 T02500094 $ KMVN 202035Z AUTO 13003KT 10SM CLR 26/08 A3014 RMK AO1 KOCW 202035Z AUTO 03015G23KT 5SM BKN010 OVC015 12/09 A3019 RMK AO2 P0001 T01170093 LEMO 202040Z 22017KT 190V260 9999 VCTS SCT019CB BKN040 16/14 Q1004 KODO 201953Z AUTO 19008G18KT 10SM FEW036 23/13 A3005 RMK AO2 SLP139 T02330128 $ KMWH 201952Z 17012G20KT 10SM CLR 16/M03 A3024 RMK AO2 SLP243 T01561028 KMWK 202035Z AUTO 10006KT 10SM CLR 21/M05 A3021 RMK AO2 T02111047 KMWL 201953Z AUTO 18012KT 10SM OVC042 23/14 A3004 RMK AO2 LTG DSNT W AND NW SLP163 T02330139 KMWM 202032Z AUTO 00000KT 10SM CLR 24/08 A2995 RMK AO2 LTG DSNT E KMWN 201957Z 24015G20KT 110SM FEW100 SCT120 SCT140 BKN160 BKN200 BKN220 01/M10 RMK ACSL DSNT NW-S PR HALO ARND SUN KODX 201953Z AUTO 21010KT 10SM FEW080 BKN110 23/09 A2993 RMK AO2 SLP130 T02330094 $ KOFF 201958Z AUTO 22008G15KT 10SM SCT160 BKN180 29/11 A2993 RMK AO2 CIG 170 RWY30 SLP132 T02860109 $ KMWO 202035Z AUTO 00000KT 10SM CLR 24/M02 A3018 RMK AO2 T02371022 KOEO 202035Z AUTO 00000KT 10SM CLR 23/02 A3000 RMK AO2 T02310016 KMXF 201958Z AUTO 03007KT 10SM CLR 25/14 A3014 RMK AO2 SLP208 T02530143 KMVY 201953Z 05008KT 10SM CLR 11/M04 A3045 RMK AO2 SLP312 T01061039 $ KNOG 201956Z AUTO 14015KT 10SM OVC039 27/18 A3007 RMK AO2 SLP161 T02670178 PTKK 202050Z 06007KT 15SM FEW014 BKN290 28/23 A2985 RMK SLP110 8/101 T02810234 52014 KMWS 202030Z 23500G00KT MM/08 RMK SNOW DEPTH 4.00 KNPA 201956Z 02011KT 10SM OVC028 19/12 A3015 RMK AO2 SLP211 T01890117 $ KOGA 202035Z AUTO 13004KT 10SM CLR 24/05 A2995 RMK AO2 T02360050 LEPA 202030Z 19002KT CAVOK 16/13 Q1005 NOSIG KMWT 201953Z AUTO VRB05KT 10SM BKN065 24/11 A3012 RMK AO2 SLP194 T02440106 KOGB 201953Z AUTO 05012KT 10SM OVC036 18/07 A3013 RMK AO2 PK WND 01026/1904 SLP202 T01780072 KOFK 201956Z AUTO 20007KT 10SM CLR 27/11 A2991 RMK AO2 SLP119 T02670106 $ KOGD 201953Z AUTO 31009G15KT 270V350 10SM CLR 20/M06 A3016 RMK AO2 SLP174 T02001061 KMYF 201953Z 25006KT 10SM CLR 19/13 A3006 RMK AO2 SLP176 T01940133 KMXO 202035Z AUTO 20008G16KT 170V230 10SM FEW075 26/09 A3002 RMK AO2 KOFP 201954Z AUTO VRB06G16KT 10SM CLR 18/01 A3031 RMK AO2 SLP264 T01780006 PTKR 202050Z 00000KT 15SM FEW017 BKN300 26/25 A2979 RMK SLP087 8/101 T02580249 53008 KNQA 202050Z 00000KT 10SM FEW100 SCT250 28/09 A3011 LDZA 202030Z 02003KT 360V060 9999 SCT030 OVC048 13/11 Q1009 NOSIG LFGJ 202030Z AUTO 18006KT 9999 -RA NSC 11/07 Q1005 KMYL 201951Z AUTO 26010G14KT 10SM CLR 12/M07 A3023 RMK AO2 SLP228 T01171072 TSNO LDZD 202030Z 14004KT 9999 SCT033 12/11 Q1009 NOSIG LEPP 202030Z 00000KT 9999 FEW023 10/08 Q1004 ESCF 202020Z AUTO 08005KT 9999NDV NCD 08/03 Q1022 KMYP 202033Z AUTO 05008KT 10SM -DZ BKN032 OVC040 03/M02 A3045 RMK AO2 LTG DSNT NE KMZG 202035Z AUTO 12013KT 10SM CLR 22/18 A3010 RMK A01 KMZH 202025Z AUTO 26005KT 10SM CLR 21/01 A2998 RMK AO2 KMYR 201945Z 35020G26KT 320V020 10SM VCSH SCT017 OVC022 16/11 A3006 KNQI 202001Z 14017G25KT 10SM FEW024 SCT037 BKN200 28/18 A3006 RMK AO2 T02780183 $ GABS 202030Z 01004KT CAVOK 32/03 Q1008 NOSIG KNRB 201952Z 34009KT 10SM BKN016 OVC037 17/12 A3008 RMK AO2 SLP187 T01720122 $ KMYV 201953Z AUTO 31010KT 290V360 10SM CLR 26/07 A3008 RMK AO2 SLP188 T02610072 ESDF 202020Z AUTO 05010KT 9999NDV NCD 12/03 Q1018 FJDG 201955Z 00000KT 9999 FEW020 28/25 A2980 RMK SLP088 T02770254 KMYZ 202035Z AUTO 20013G21KT 10SM SCT090 26/11 A2997 RMK AO2 LTG DSNT NW LERI 201800Z 35007KT 300V020 9999 FEW050 22/06 Q1002 NOSIG WIBB 201800Z 00000KT 6000 TSRA FEW017 FEW020CB 24/23 Q1009 KOJA 202035Z AUTO 17015KT 10SM SCT028 BKN070 BKN090 22/15 A3002 RMK AO2 LESA 202030Z 22003KT CAVOK 10/06 Q1002 KOJC 201953Z 20011G20KT 10SM SCT050 24/12 A3006 RMK AO2 SLP171 T02390117 LGAD 202020Z 08004KT 9999 FEW020 BKN080 15/11 Q1013 KPAE 201953Z 18011KT 10SM FEW060 BKN110 13/M01 A3025 RMK AO2 SLP246 T01281006 $ KNSE 201956Z AUTO VRB05KT 10SM OVC024 17/11 A3016 RMK AO2 SLP198 T01720106 $ KNQX 201953Z 33011KT 10SM SCT030 BKN045 BKN180 25/16 A3003 RMK AO2 SLP166 T02500156 $ KPAH 201953Z 25006KT 10SM CLR 27/05 A3014 RMK AO2 SLP203 T02670050 $ FIMP 202000Z 10004KT 9999 SCT018 25/24 1015 KMZZ 202035Z AUTO 21005KT 10SM CLR 22/00 A3016 RMK AO2 T02221005 KNSI 201953Z VRB04KT 7SM FEW003 17/14 A3007 RMK AO2 SLP178 T01670139 $ LERS 202030Z VRB01KT 9999 SCT015 SCT025 14/13 Q1004 FIMR 201600Z 10013KT 9999 BKN018 26/22 Q1015 KNRS 201956Z AUTO 26007KT 10SM OVC010 18/13 A3007 RMK AO2 SLP183 T01780133 $ LERT 202000Z 22019KT 9999 FEW018TCU BKN030 17/14 Q1004 NOSIG KOKB 201952Z AUTO 26006KT 8SM CLR 19/13 A3004 RMK AO2 SLP173 T01940133 LFKB 202030Z 12005KT 090V160 9999 FEW020 SCT033 BKN100 13/10 Q1005 NOSIG LFKC 201700Z 30005KT 260V350 9999 FEW030 SCT110 16/11 Q1003 NOSIG KOKC 201952Z 17014KT 10SM SCT070 BKN090 24/12 A3006 RMK AO2 PK WND 19026/1904 SLP170 T02390117 $ LGAL 202020Z 00000KT 9999 FEW020 11/09 Q1013 LFJL 202030Z AUTO 10005KT 9999 NSC 13/07 Q1004 KNTD 201954Z 19011KT 7SM FEW009 21/14 A3005 RMK AO2 SLP176 T02110144 $ KPAM 201958Z AUTO 04009KT 10SM OVC019 16/12 A3014 RMK AO2 SLP209 T01620121 $ KPAN 202035Z AUTO 17005KT 10SM FEW039 FEW050 BKN120 19/03 A3019 RMK AO2 LESO 201930Z VRB01KT CAVOK 12/11 Q1004 KPBF 201953Z AUTO VRB03KT 10SM CLR 27/11 A3012 RMK AO2 SLP198 T02720106 KPAO 201947Z 35010KT 30SM SKC 23/12 A3012 LFKF 202030Z AUTO 08007KT 040V130 9999 BKN022/// BKN048/// BKN054/// 14/10 Q1006 KPBG 201953Z AUTO 14013KT 10SM CLR 13/M07 A3032 RMK AO2 SLP271 T01331072 KPBH 202035Z AUTO 18009KT 10SM CLR 20/07 A2998 RMK AO2 LTG DSNT SW T02010074 KPBI 201953Z 02006KT 10SM BKN030 OVC045 24/16 A2999 RMK AO2 SLP154 T02390161 LFJR 202030Z AUTO 00000KT 9999 NSC 09/04 Q1004 LFKJ 202030Z VRB01KT 9999 BKN046 16/11 Q1004 NOSIG WIDD 202030Z AUTO 00000KT 7000NDV BKN085 25/25 Q1008 KOKK 202035Z AUTO 20004KT 10SM 23/00 A3015 RMK AO1 LFLB 202030Z AUTO 00000KT 8000 -RA OVC074 10/08 Q1006 LEST 202030Z VRB01KT 9999 FEW040 08/07 Q1004 NOSIG LGBL 201950Z 27004KT 9999 FEW030 11/07 Q1013 NOSIG RMK FEW080 BLU LFLC 202030Z 19010KT 9999 -RA FEW033 BKN040 09/06 Q1004 NOSIG LETL 202030Z AUTO 22010KT CAVOK 13/01 Q1005 PTPN 201350Z 07009KT 15SM SCT017TCU BKN130 OVC300 27/25 A2983 RMK TCU S LAST LGAV 202020Z VRB02KT 9999 FEW030 14/10 Q1015 NOSIG KOKM 202035Z AUTO 20008KT 10SM SCT050 BKN060 OVC120 23/13 A3006 RMK AO2 T02340132 KOLE 202035Z AUTO 21005KT 10SM CLR 18/M06 A3025 RMK AO2 KOLF 201953Z AUTO 27025G39KT 10SM CLR 19/M04 A2993 RMK AO2 PK WND 29039/1946 SLP141 T01941039 LETO 202000Z 22012KT 9999 FEW065 15/04 Q1003 NOSIG ESGG 202020Z 07006KT CAVOK 13/04 Q1019 KNUI 201953Z AUTO 08015G18KT 10SM CLR 16/03 A3034 RMK AO2 SLP273 T01560033 KOMA 201952Z 20010KT 10SM FEW060 SCT140 OVC220 27/10 A2993 RMK AO2 SLP127 T02720100 LFKS 202030Z AUTO 18005KT 9999 BKN074 OVC092 15/10 Q1006 ESGJ 202020Z AUTO 07003KT 9999 NCD 04/02 Q1020 KNTU 201956Z 04023G30KT 10SM OVC060 11/06 A3028 RMK AO2 PK WND 04033/1906 SLP254 T01110056 KPDC 202035Z AUTO 31005KT 10SM SCT019 SCT025 SCT030 18/14 A3003 RMK AO2 P0006 T01800137 LFMC 202030Z AUTO 12005KT 9999 ////// 14/08 Q1005 LFLL 202030Z 13005KT 9999 RA FEW020 OVC046 09/07 Q1006 NOSIG LEVC 202030Z 25010KT 9999 FEW030 SCT060 21/07 Q1003 NOSIG LEVD 202030Z VRB02KT 9999 FEW048 10/06 Q1003 KOLM 201954Z 18006KT 7SM FEW045 BKN060 13/04 A3025 RMK AO2 SLP244 T01330039 KOKV 202035Z AUTO 12008KT 10SM CLR 17/00 A3031 RMK AO2 KPCM 202035Z AUTO 33005KT 10SM OVC031 23/15 A3006 RMK AO2 LFMD 202030Z AUTO 36004KT 330V030 9999 SCT084 OVC120 13/09 Q1005 LFLN 202030Z AUTO 10003KT 9999 -RA OVC020 10/08 Q1005 LFLP 202030Z AUTO 00000KT 9999 -RA FEW058 BKN078 OVC092 09/07 Q1005 ESGP 202020Z 02005KT CAVOK 12/05 Q1019 KNUQ 201956Z AUTO 35010KT 10SM CLR 23/12 A3012 RMK AO2 SLP203 T02280122 TSNO KOKZ 202035Z AUTO 06008KT 020V090 10SM CLR 23/06 A3014 RMK AO2 T02250058 KOMH 202035Z AUTO 05008KT 10SM CLR 19/00 A3031 RMK AO2 LFMH 202030Z AUTO 15005KT 9999 OVC043 08/06 Q1005 LFMI 202030Z AUTO 02007KT 9999 NSC 12/11 Q1005 ESGR 202020Z AUTO VRB01KT 9999 NCD 08/03 Q1021 KOLS 201954Z AUTO VRB06KT 10SM BKN095 24/02 A3010 RMK AO2 SLP146 T02440017 KONA 202040Z AUTO RMK AO2 KPEA 202035Z AUTO 23009G16KT 180V250 10SM CLR 28/11 A2999 RMK AO2 T02790111 LFLS 202030Z AUTO 00000KT 6000 -RA FEW020/// SCT036/// BKN045/// ///TCU 08/07 Q1006 KPDK 201953Z AUTO 36005KT 10SM CLR 22/04 A3016 RMK AO2 SLP208 T02220044 TSNO KOMK 201953Z AUTO 14013G20KT 10SM CLR 16/M04 A3020 RMK AO2 SLP227 T01611039 LFMK 202030Z AUTO 00000KT 2400 -RA BR OVC013/// ///TCU 10/09 Q1005 ESIB 202020Z AUTO 07006KT 9999NDV NCD 09/04 Q1020 KOLU 202035Z AUTO 20017KT 10SM CLR 18/11 A2993 RMK AO1 LFML 202030Z 01006KT 9999 -RA FEW053TCU BKN072 13/10 Q1005 NOSIG KOLV 201950Z 12004KT 10SM SCT250 26/08 A3014 KOMN 201850Z 01010KT 10SM OVC022 19/13 A3006 PTRO 201951Z 00000KT 15SM FEW017 FEW120 BKN300 24/24 A2976 LFLW 202030Z AUTO 10006KT 7000 -RA OVC024 05/04 Q1005 KPCW 202033Z AUTO 07006KT 10SM CLR 17/05 A3018 RMK AO2 $ KNUW 201956Z 16014KT 10SM FEW023 FEW040 SCT120 15/03 A3025 RMK AO2 PK WND 14026/1929 SLP246 T01500033 $ LFMN 202030Z VRB02KT 9999 BKN084 14/10 Q1006 NOSIG LFMO 202030Z AUTO 33004KT 4700 RA BR OVC062/// ///CB 10/09 Q1006 LFLX 202030Z AUTO 18003KT 9999 NSC 11/07 Q1004 KOLY 202035Z AUTO 00000KT 10SM CLR 23/06 A3015 RMK AO2 LFMP 202030Z AUTO 03003KT 9999 BKN014 OVC020 12/11 Q1005 LFLY 202030Z AUTO 14003KT 9999 -RADZ OVC054 09/08 Q1006 KOLZ 202035Z AUTO 04012KT 10SM CLR A3001 RMK AO2 KPCZ 202038Z AUTO 19006KT 7SM SCT033 BKN050 BKN065 14/11 A3008 RMK AO2 LEVS 202000Z 21013KT 180V240 9999 SCT045 13/07 Q1003 KOOA 202035Z AUTO 20013G21KT 10SM CLR 27/08 A3001 RMK AO2 T02730083 LFOA 202030Z AUTO 24004KT 9999 NSC 11/07 Q1005 KPDT 201953Z 27004KT 10SM CLR 14/M01 A3025 RMK AO2 SLP238 T01441006 LFMT 202030Z 01009KT 9999 -RA FEW030TCU SCT050 BKN066 10/09 Q1006 NOSIG LFOB 202030Z AUTO VRB01KT 9999 NSC 10/05 Q1004 LEVT 202030Z 00000KT 9999 FEW030 SCT070 08/08 Q1004 KONL 202035Z AUTO 15005G14KT 10SM CLR 26/05 A2992 RMK AO2 T02590054 LGEL 202020Z 35004KT 9999 FEW030 13/10 Q1014 LFOC 202030Z AUTO VRB02KT 9999 NSC 08/04 Q1004 LFMU 202030Z AUTO 01008KT 5000 -RA BR OVC026/// ///TCU 10/10 Q1005 KONM 202035Z AUTO 20013KT 10SM SCT090 SCT120 21/05 A3011 RMK AO2 LTG DSNT E T02070048 LFMV 202030Z AUTO 36005KT 9999 -RA BKN062/// OVC072/// ///CB 10/09 Q1006 ETAD 201958Z AUTO 10005KT 9999 SCT110 15/05 A2969 RMK AO2 SLP039 T01450051 $ LFOE 202030Z AUTO 15003KT 9999 NSC 11/04 Q1004 KPDX 201953Z 05006KT 10SM FEW045 BKN170 OVC250 15/05 A3025 RMK AO2 SLP244 T01500050 KPEO 201953Z AUTO 21007KT 10SM CLR 19/M05 A3028 RMK AO2 SLP254 T01941050 KONO 201953Z AUTO 18007KT 10SM CLR 17/M06 A3027 RMK AO2 SLP253 T01671061 KNXF 202016Z AUTO 26007KT 6SM HZ SCT010 20/13 A3005 RMK AO2 T02000128 LEVX 202030Z 31004KT 260V360 9999 FEW016 11/09 Q1004 NOSIG RCKH 202000Z 03004KT 6000 FEW013 SCT035 25/22 Q1011 NOSIG RMK A2988 KONP 202035Z AUTO 22008KT 3SM HZ 12/08 A3027 RMK AO2 SKY OBSCURED LFMY 202030Z AUTO VRB02KT 9999 -RA ///TCU 11/11 Q1005 KPEQ 202035Z AUTO 09004KT 10SM CLR 27/11 A3000 RMK AO2 T02730109 LFOH 202030Z AUTO 17004KT 9999 NSC 12/04 Q1004 LEXJ 202030Z 09002KT 9999 FEW032 BKN070 12/10 Q1004 KPGA 201953Z AUTO VRB05KT 10SM CLR 24/01 A3008 RMK AO2 SLP133 T02440011 TSNO $ LFOJ 202030Z AUTO 06003KT 9999 NSC 11/05 Q1004 KONT 201953Z 26008KT 9SM FEW090 27/11 A3003 RMK AO2 SLP155 T02670106 LFOK 202030Z AUTO 01003KT 9999 NSC 13/03 Q1004 LFPB 202030Z AUTO 16004KT 9999 NSC 14/02 Q1004 KNYC 201951Z AUTO VRB03KT 10SM CLR 12/M03 A3046 RMK AO2 SLP305 T01171028 LFPC 202030Z AUTO 18003KT 9999 NSC 13/03 Q1004 KPGD 201953Z AUTO 32007KT 10SM BKN042 25/16 A3004 RMK AO2 SLP173 T02500156 WIHH 201000Z 00000KT 5000 HZ SCT016 26/23 Q1008 RMK RA TO S PTTP 201954Z 06005KT 15SM FEW019 SCT130 BKN300 28/23 A2987 RMK SLP115 T02780230 KOPF 201953Z 02007KT 10SM SCT042 26/14 A3000 RMK AO2 SLP160 T02560139 KPEX 202032Z AUTO 00000KT 10SM CLR 21/02 A2999 RMK AO2 LTG DSNT SE T02090016 KONX 202035Z AUTO 02016G26KT 5SM BR OVC020 10/08 A3025 RMK AO2 T01000076 VQPR 200550Z 11006KT 9999 FEW030 SCT200 23/00 Q1020 NOSIG KNYG 201956Z AUTO 06012KT 10SM CLR 18/02 A3034 RMK AO2 SLP274 T01780022 $ KNXP 201956Z AUTO 14009KT 10SM CLR 30/03 A3008 RMK AO2 SLP153 T03000028 $ LFPG 202030Z 16003KT CAVOK 15/00 Q1004 NOSIG LFOP 202030Z AUTO 07002KT 9999 NSC 10/03 Q1004 KONZ 202034Z AUTO 19004KT 10SM CLR 17/06 A3018 RMK AO2 KPEZ 202035Z AUTO 12009G14KT 10SM SCT029 OVC041 25/17 A3006 RMK AO2 T02460165 ETAR 201958Z AUTO 08004KT 9999 BKN110 14/06 A2968 RMK AO2 SLP053 T01350063 $ LFQA 202030Z AUTO VRB01KT 9999 NSC 08/04 Q1004 LFOT 202030Z 14005KT CAVOK 11/04 Q1004 NOSIG LFQB 202030Z AUTO 34002KT 9999 NSC 11/04 Q1004 KOPL 202035Z AUTO 23006KT 10SM 27/13 A3011 RMK AO2 T02680132 KNYL 201957Z AUTO VRB04KT 10SM CLR 32/04 A2997 RMK AO2 SLP147 T03220044 $ KPHD 201953Z AUTO 20004KT 10SM CLR 22/M06 A3021 RMK AO2 SLP231 T02221061 KOPM 202035Z AUTO 08014KT 8SM CLR 21/19 A3008 RMK A01 LFOV 202030Z AUTO 14003KT 9999 NSC 08/06 Q1003 LFPM 202030Z AUTO VRB02KT 9999 NSC 11/03 Q1004 KOPN 202035Z AUTO 03005KT 10SM CLR 22/05 A3015 RMK AO2 LFPN 202030Z AUTO VRB01KT 9999 NSC 12/03 Q1004 KQA4 201955Z 08004KT 9999 BKN100 BKN200 19/05 A2998 RMK SLP101 WND DATA ESTMD ALSTG/SLP ESTMD Q1015 ESKN 202020Z 08006KT CAVOK 07/00 Q1022 KPHF 201954Z 04016G28KT 10SM CLR 16/04 A3031 RMK AO2 PK WND 03032/1931 RAE54 SLP263 P0000 T01610039 LFPO 202030Z 20004KT CAVOK 12/02 Q1004 NOSIG WIII 202030Z 27005KT 6000 FEW021 25/23 Q1008 NOSIG LEZG 202030Z 25004KT 9999 FEW020 SCT050 BKN070 13/10 Q1004 LFQG 202030Z AUTO /////KT 9999 NSC 11/07 Q1005 LGHI 201750Z 21003KT 9999 FEW020 16/12 Q1014 KPIA 201954Z 23006G15KT 10SM CLR 27/06 A3008 RMK AO2 SLP184 T02670061 KPIB 202035Z AUTO 06005KT 10SM CLR 26/10 A3014 RMK AO1 KORB 202034Z AUTO 00000KT 10SM CLR 17/M02 A2998 RMK AO2 LFRB 202030Z 26002KT 7000 FEW015 BKN070 07/06 Q1001 NOSIG LFPT 202030Z AUTO 29004KT 9999 NSC 11/04 Q1004 LEZL 202050Z 26009KT 200V310 9000 BKN012TCU OVC025 15/12 Q1003 NOSIG GAMB 201800Z 30004KT CAVOK 41/03 Q1006 KPHL 201954Z 08010KT 10SM BKN250 14/M02 A3040 RMK AO2 SLP294 T01441022 KORC 202035Z AUTO 18007KT 10SM BKN100 26/11 A2992 RMK AO2 LFRC 202030Z AUTO 14007KT 9999 BKN009 BKN014 OVC020 09/08 Q1002 KORD 201951Z 21009KT 190V250 10SM BKN250 25/04 A3010 RMK AO2 SLP192 T02500044 KPGV 202035Z AUTO 03020G26KT 10SM SCT028 BKN036 OVC085 15/08 A3020 RMK AO2 LFPV 202030Z AUTO 21002KT 9999 NSC 12/02 Q1004 LFRD 202030Z AUTO 18006KT 9999 FEW039 SCT047 OVC054 10/08 Q1002 KORE 201952Z AUTO VRB05KT 10SM CLR 14/M14 A3038 RMK AO2 SLP294 T01441144 KPIE 202000Z 32012KT 10SM BKN033 22/15 A3005 RMK AO2 T02220150 KPHN 202037Z AUTO 17011KT 10SM CLR 20/01 A3019 RMK AO2 KORF 201951Z AUTO 04022G27KT 10SM SCT110 13/07 A3028 RMK AO2 PK WND 06032/1909 SLP254 T01280072 TSNO KPHP 201955Z AUTO 23010KT 10SM CLR 26/07 A2986 RMK AO2 SLP104 T02560072 KORG 202035Z AUTO 16007KT 10SM CLR 26/11 A3013 RMK AO2 T02620107 LFRG 202030Z AUTO 22003KT 9999 NSC 07/04 Q1004 KPIH 201953Z 22013G23KT 10SM CLR 15/M07 A3021 RMK AO2 PK WND 25027/1907 SLP202 T01501067 KORH 201954Z VRB03KT 10SM CLR 12/M10 A3040 RMK AO2 SLP303 T01221100 LFQQ 202030Z 00000KT CAVOK 13/02 Q1005 NOSIG LFRH 202030Z AUTO 26010KT 9999 BKN008 BKN014 BKN020 09/08 Q1002 LFRI 202030Z AUTO 27004KT 9999 NSC 07/05 Q1004 KOSA 202035Z AUTO 17005KT 10SM SCT060 25/13 A3009 RMK AO1 T02540134 LFRJ 202030Z AUTO 25002KT 3300 BR BKN002 BKN006 OVC034 08/08 Q1001 KOQT 201953Z AUTO 08004KT 10SM CLR 25/04 A3017 RMK AO2 SLP211 T02500044 LFRK 202030Z AUTO 17006KT 9999 NSC 10/07 Q1003 LFSB 202030Z 29002KT CAVOK 11/07 Q1004 NOSIG KOQU 201950Z 18018KT 15SM SCT250 10/00 A3045 ESMK 202020Z AUTO 04004KT 9999NDV NCD 12/05 Q1017 KPIL 201953Z AUTO 11015G20KT 8SM OVC030 25/19 A3007 RMK AO2 SLP183 T02500189 KORL 201953Z AUTO 36008KT 10SM BKN026 21/13 A3005 RMK AO2 SLP179 T02110133 KOSC 202034Z AUTO 18009KT 10SM SCT110 18/M03 A3013 RMK AO2 T01821037 ETEB 201958Z AUTO 05007KT 9999 CLR 11/04 A2973 RMK AO2 SLP078 T01090044 LFRL 202030Z AUTO 21003KT 9999 SCT034 OVC066 09/07 Q1001 LFRM 202030Z AUTO 10001KT 9999 NSC 09/03 Q1003 LFSD 202030Z AUTO 18005KT 9999 NSC 11/06 Q1005 LFRN 202030Z AUTO 19005KT 9999 NSC 07/05 Q1003 KPHX 201951Z 23009KT 10SM FEW080 31/05 A2999 RMK AO2 SLP138 T03060050 LGIO 202020Z AUTO VRB02KT //// -RA ////// 10/07 Q1014 RE// LFRO 202030Z AUTO 21008KT 5000 -DZ BR OVC004 09/08 Q1001 KNZY 201952Z 24008KT 10SM BKN010 22/13 A3005 RMK AO2 SLP176 T02220133 $ ESNG 202020Z AUTO VRB02KT 9999 FEW090/// 02/M08 Q1024 KOSH 201953Z 23003KT 7SM -RA OVC090 17/09 A3008 RMK AO2 RAB30 SLP183 P0001 T01720089 LFRQ 202030Z AUTO 20003KT 3500 BR OVC021 08/08 Q1002 PTYA 201951Z VRB03KT 12SM FEW016TCU SCT130 BKN300 26/25 A2977 RMK TCU VC NE AND S SLP081 T02630249 ESMQ 202020Z AUTO 01006KT 9999 NCD 07/04 Q1019 KPIR 201953Z AUTO 14012G18KT 10SM CLR 25/01 A2987 RMK AO2 SLP114 T02500006 LGIR 202020Z 17007KT 9999 FEW020 14/11 Q1015 NOSIG LFSI 201830Z AUTO 00000KT 9999 NCD 16/03 Q1003 KORS 202035Z AUTO 19006KT 6SM HZ SCT100 13/05 A3023 RMK AO2 LFRS 202030Z 22003KT CAVOK 07/05 Q1004 NOSIG LFRT 202000Z AUTO 22005KT 170V250 9999 BKN009 OVC014 09/08 Q1001 KPIT 201951Z VRB06KT 10SM SCT250 22/M07 A3023 RMK AO2 SLP241 T02171067 ESMS 202020Z 07012KT CAVOK 13/03 Q1016 KPKB 201953Z VRB06KT 10SM CLR A3022 RMK AO2 SLPNO $ LGKC 201350Z /////KT 9999 FEW008 SCT180 16/10 Q1015 LHBC 201745Z 11005KT CAVOK 11/09 Q1011 ESNK 202020Z AUTO 14003KT 9999 FEW023/// BKN028/// BKN038/// 04/03 Q1026 ESMT 202020Z AUTO 09005KT 9999 NCD 15/01 Q1018 LFSL 202030Z AUTO 15003KT 120V180 9999 -RA BKN017 BKN027 OVC036 08/08 Q1005 ESNL 202020Z AUTO 12007KT 9999 OVC053/// 06/M02 Q1025 KPKD 201953Z AUTO 25009KT 10SM CLR 22/M02 A2998 RMK AO2 SLP157 T02171017 TSNO LFRV 202030Z AUTO VRB03KT 9999 BKN016 BKN022 OVC029 08/05 Q1002 LFSN 202030Z AUTO VRB02KT 9999 NSC 13/08 Q1004 LGKF 202020Z AUTO 12006KT //// // ////// 16/12 Q1012 RE// ESNN 202020Z AUTO VRB01KT 9999NDV SCT032/// OVC055/// 05/02 Q1026 R16/09//95 ESOE 202020Z AUTO 09004KT 9999NDV NCD 12/04 Q1022 KQBF 201955Z AUTO 20002KT 9999 FEW170 35/16 A2979 RMK AO2 SLP068 T03470159 LFSO 202030Z AUTO 22002KT 9999 NSC 11/03 Q1004 ESNO 202020Z AUTO 36002KT 9999 OVC059/// 04/M03 Q1026 ESMX 202020Z AUTO 04005KT 9999 NCD 11/03 Q1019 KOTG 202035Z AUTO 06003KT 10SM CLR 24/08 A2996 RMK AO1 KS25 202035Z AUTO 30017G23KT 10SM CLR 18/M03 A2990 RMK AO2 KOTH 202035Z 28009KT 10SM CLR 14/07 A3025 RMK AO1 LFRZ 202030Z AUTO 22007KT 9999 SCT024 SCT030 OVC037 10/06 Q1003 LFTH 202030Z AUTO 03005KT 010V070 9999 FEW025 OVC140 13/09 Q1005 KQAR 201955Z AUTO 30003KT 9000 BKN100 BKN120 20/00 A3000 RMK AO2 SLP115 T01981004 ESNQ 202020Z 20004KT CAVOK M00/M07 Q1023 GANR 201800Z 08004KT CAVOK 42/01 Q//// ESPA 202020Z AUTO 13001KT 9999NDV SCT088/// 03/M03 Q1027 ESNS 202020Z AUTO 00000KT 9999NDV FEW092/// BKN110/// 02/M02 Q1027 LFST 202030Z AUTO VRB01KT 9999 NSC 11/07 Q1004 KQCC 201255Z AUTO 28004G15KT 9999 BKN060 22/04 A3010 RMK AO2 SLP174 T02180044 $ ESOK 202020Z AUTO 05003KT 9999 FEW058/// 09/04 Q1021 KOSU 201953Z 20011G14KT 10SM CLR 23/04 A3019 RMK AO2 SLP223 T02280044 KQBL 201956Z AUTO VRB05KT 12SM BKN021 OVC025 17/11 A3016 RMK AO2 SLP220 T01690114 LGKL 201950Z 00000KT 9999 FEW025 11/10 Q1014 KOTM 201953Z AUTO 20012G21KT 10SM CLR 27/08 A3001 RMK AO2 SLP158 T02720083 ESNU 202020Z 08003KT CAVOK 04/M04 Q1027 R14/09//70 KS32 202035Z AUTO 20012G20KT 10SM CLR 20/00 A2991 RMK AO2 ESPE 202020Z AUTO VRB02KT 9999NDV OVC049/// 05/M05 Q1025 LGKO 202020Z 02002KT CAVOK 15/11 Q1015 LFSX 202030Z AUTO 00000KT 9999 NSC 12/04 Q1005 LGKP 201650Z 26004KT 9999 FEW025 SCT180 18/13 Q1014 ESNX 202020Z AUTO 14009KT 9999NDV FEW037/// SCT055/// OVC098/// 04/M04 Q1025 KQAY 201955Z AUTO 30003KT 8000 CLR 30/06 A2982 RMK AO2 SLP095 T02970055 $ LHBP 202030Z VRB03KT CAVOK 07/05 Q1011 NOSIG ETGG 202020Z 08010G20KT 9999 SCT220 11/06 Q1014 BLU+ KQAZ 202000Z AUTO 10008KT 9999 CLR 34/02 A2978 RMK CDP03565 CLR ESNZ 202020Z 11011KT CAVOK 05/01 Q1022 LGKR 202020Z 16002KT 9999 BKN030 BKN080 17/13 Q1012 NOSIG ETHA 202020Z AUTO 08002KT //// // ////// 09/06 Q1005 /// WIMM 202030Z 20003KT 4000 HZ SCT018 25/24 Q1008 VRMM 202000Z 30007KT 9999 FEW018 SCT270 29/24 Q1009 NOSIG LHDC 201415Z 11007KT 9999 VCSH BKN036 16/08 Q1010 ETHB 202020Z 10009KT 9999 FEW090 SCT280 14/07 Q1009 BLU+ LGKV 201750Z 00000KT 9999 SCT025 15/12 Q1012 ETHC 202020Z AUTO 07006KT 6000 // ////// 15/07 Q1010 /// KPMD 201953Z 30009G14KT 10SM CLR 28/M01 A3005 RMK AO2 SLP153 T02781011 LGLM 202020Z AUTO VRB02KT //// // ////// 12/10 Q1014 RERA KPKV 202010Z AUTO 11017KT 10SM CLR 25/17 A3010 RMK AO2 T02460172 KOVE 201953Z AUTO VRB05KT 10SM CLR 26/07 A3009 RMK AO2 SLP189 T02610067 KPLN 201954Z AUTO 13004KT 7SM -RA OVC080 10/08 A3011 RMK AO2 SLP201 P0005 T01000078 KOUN 202035Z AUTO 18015KT 10SM SCT043 BKN060 OVC090 21/13 A3007 RMK AO2 LFTW 202030Z AUTO 35005KT 9999 ///TCU 10/07 Q1006 ETHE 202020Z AUTO 07005KT 4200 // ////// 16/07 Q1008 /// ESOW 202020Z AUTO 10005KT 9999NDV NCD 10/01 Q1023 ETHF 202020Z 31003KT 9999 FEW140 SCT200 10/06 Q1008 BLU+ LGKZ 202020Z AUTO VRB01KT //// // ////// 09/06 Q1014 RE// ETGQ 202020Z AUTO 08006KT //// // ////// 16/05 Q1006 /// LGLR 201950Z 10004KT 9999 FEW030 SCT080 11/06 Q1013 NOSIG BLU KQEA 201955Z AUTO 00000KT 9999 CLR 25/21 A2974 RMK AO2 SLP071 T02460213 KOWA 202034Z AUTO 19005KT 10SM SCT028 21/12 A3000 RMK AO2 LTG DSNT SE KPNA 202035Z AUTO 32015G22KT 10SM CLR 13/M03 A3019 RMK AO2 LGMK 201750Z 23007KT 9999 FEW020 SCT080 15/13 Q1015 KQEB 201955Z AUTO 00000KT 9999 CLR 17/15 Q1023 RMK AO2 SLP178 T01670153 KOWB 201956Z VRB06KT 10SM CLR 24/02 A3015 RMK AO2 T02440016 SLP209 KPNC 201953Z AUTO 16013KT 10SM FEW039 SCT120 25/13 A3005 RMK AO2 SLP166 T02500128 TSNO KOVL 202033Z AUTO 09008KT 10SM CLR 23/03 A2996 RMK AO2 KPLU 202035Z AUTO 24003KT 10SM 14/03 A3024 RMK AO2 ETHL 202020Z AUTO 09005KT 8000 // ////// 11/05 Q1005 /// KOWD 201953Z 10007KT 10SM CLR 11/M06 A3044 RMK AO2 SLP309 T01111061 ETIC 201958Z AUTO 07003KT 9999 CLR 09/02 A2974 RMK AO2 SLP074 T00890022 $ KPNE 201954Z AUTO 10012KT 10SM CLR 14/M03 A3042 RMK AO2 SLP301 T01441028 TSNO ETHN 202020Z 07005KT 9999 SCT180 10/04 Q1006 BLU+ LFVP 202000Z 30025KT 9999 FEW020 03/M05 Q1019 NOSIG KPMP 201953Z 32010KT 10SM BKN042 25/15 A3000 RMK AO2 SLP158 T02500150 ETIH 201958Z AUTO 29005KT 9999 BKN055 07/05 A2974 RMK AO2 SLP075 KQEI 202040Z AUTO 00000KT 5SM BR CLR 08/03 A3011 RMK A02 KOVS 201953Z AUTO 10004KT 9SM OVC090 17/14 A3006 RMK AO2 RAB19E52 SLP180 P0002 T01720139 ETHS 202020Z 07006KT 9999 BKN230 11/07 Q1011 BLU+ KOXB 201953Z AUTO 04018G25KT 10SM CLR 11/02 A3038 RMK AO2 PK WND 06026/1858 SLP288 T01060022 TSNO KPOB 201958Z AUTO 05019G27KT 10SM BKN050 OVC065 19/10 A3016 RMK AO2 PK WND 05027/44 SLP216 T01910095 LGMT 202020Z 01005KT 9999 FEW025 SCT180 16/10 Q1015 ESSA 202020Z 06006KT CAVOK 08/01 Q1023 R88/09//95 NOSIG KQFB 202040Z AUTO 29002KT 3SM BR FEW190 09/06 A3012 RMK A02 ESSB 202020Z AUTO 06004KT 9999NDV OVC220/// 09/01 Q1023 KPOC 201947Z 25008KT 10SM CLR 24/11 A3007 KOXC 201945Z 16007KT 10SM FEW250 12/M04 A3043 ETIK 201958Z AUTO 04002KT 9999 CLR 09/05 A2973 RMK AO2 SLP069 T00900049 KQEL 202040Z AUTO 08001KT 7SM FEW055 06/03 A2995 RMK A02 WIOO 201500Z 00000KT 6000 SCT012 KPNM 202033Z AUTO 00000KT 10SM CLR 22/02 A2999 RMK AO2 KPMV 202035Z AUTO 19008G16KT 10SM SCT070 SCT085 29/08 A2993 RMK AO2 LTG DSNT NE T02870077 ESSD 202020Z AUTO 11005KT 9999 NCD 07/02 Q1024 KPOE 201955Z 15008KT 10SM FEW060 27/12 A3012 RMK AO2 SLP201 T02670117 KQEN 202040Z AUTO 24012KT 6SM BR SCT140 BKN170 07/01 A3042 RMK A02 KPOF 201953Z AUTO 21007KT 10SM CLR 26/07 A3011 RMK AO2 SLP195 T02610067 KOWP 202035Z AUTO 19010KT 10SM SCT048 SCT060 OVC110 25/12 A3007 RMK AO2 T02470118 KQEP 202040Z AUTO 18001KT 3SM BR CLR 09/05 A3017 RMK A02 KQFG 201955Z AUTO 07002KT 9999 FEW120 BKN150 20/09 A3007 RMK AO2 SLP159 T01990086 PWINO $ KQEQ 202040Z AUTO 22001KT 1SM BR OVC007 10/07 A3004 RMK A02 RCSS 202000Z 10010KT 9999 FEW012 BKN020 BKN050 21/17 Q1013 NOSIG RMK A2994 KPNS 201953Z 02009KT 10SM OVC025 18/11 A3015 RMK AO2 SLP213 T01830111 LGPA 202020Z AUTO 09004KT 060V120 //// // ////// 14/13 Q1015 RE// KPPA 202035Z AUTO 22009KT 10SM -TSRA SCT029 SCT055 BKN095 20/10 A2997 RMK AO2 LTG DSNT ALQS T02040100 KQES 202040Z AUTO 22004KT 3SM BR FEW065 10/08 A3007 RMK A02 ESTA 202020Z AUTO 06006KT 9999 NCD 12/05 Q1017 KPNT 202035Z AUTO 21008KT 10SM CLR 27/03 A3010 RMK AO2 LTG DSNT NW ESSL 202020Z 09003KT CAVOK 06/02 Q1021 KQEV 202040Z AUTO 23001KT 1SM BR CLR 07/04 A3001 RMK A02 WIPP 201600Z 00000KT 8000 -TSRA BKN012 FEW020CB 25/24 Q1010 KQEW 202040Z AUTO 17002KT 7SM FEW190 11/04 A3002 RMK A02 FKKD 202000Z VRB02KT 8000 BKN013 FEW016CB BKN110 25/24 Q1010 NOSIG LGNX 201350Z 21013KT 9999 FEW025 SCT180 19/11 Q1015 KQEX 201950Z AUTO 36004KT 7SM CLR 14/04 A2995 RMK A02 RCTP 202030Z 04013KT 9999 FEW006 BKN015 21/18 Q1013 NOSIG RMK A2994 KPPF 201952Z AUTO 18010G17KT 10SM SCT047 SCT120 23/12 A3010 RMK AO2 SLP187 T02330122 TSNO KQEY 202040Z AUTO 18002KT 7SM FEW140 08/05 A2980 RMK A02 KQFQ 201955Z AUTO VRB01KT 2SM BR FEW055 08/07 A2999 RMK AO2 SLP155 T00780074 $ ESSP 202020Z AUTO 00000KT 9999NDV NCD 06/02 Q1022 WIPT 201500Z 09003KT 6000 R33/M0050N -RA BKN018 25/24 Q1011 KOXR 201951Z 24005KT 8SM CLR 19/13 A3006 RMK AO2 SLP177 T01890133 KOZA 202035Z AUTO 18009KT 10SM CLR 21/15 A3008 RMK AO2 KQFT 202040Z AUTO 19002KT 3SM BR FEW018 07/04 A3006 RMK A02 KPOU 201953Z 27008KT 10SM CLR 17/M03 A3037 RMK AO2 SLP281 T01671033 KQFU 202040Z AUTO 08001KT 1SM BR CLR 08/05 A3012 RMK A02 ESTL 202020Z AUTO 09004KT 9999NDV NCD 13/06 Q1017 KPOV 202035Z AUTO 15004KT 10SM CLR 22/M06 A3022 RMK AO2 T02151059 PWINO KOXV 202035Z AUTO 21015KT 10SM CLR 27/10 A2998 RMK AO2 KQFV 202040Z AUTO 17002KT 3SM BR CLR 06/03 A3019 RMK A02 ESUD 202020Z AUTO 00000KT 9999 OVC051/// 03/M04 Q1024 ESSV 202020Z AUTO 09008KT 9999NDV NCD 09/02 Q1020 FKKN 201700Z 04006KT 9999 TS BKN013 SCT020CB BKN100 21/19 Q1014 KPPO 202035Z AUTO 23005KT 10SM CLR 23/01 A3014 RMK AO2 T02280014 KQFX 202040Z AUTO 00000KT 2SM BR CLR 07/04 A3004 RMK A02 KPPQ 202035Z AUTO 17011KT 10SM CLR 27/06 A3008 RMK AO2 LTG DSNT N T02710057 KQGR 202000Z AUTO 36002KT 9999 CLR 38/05 A2987 RMK CDP03564 CLR KPQI 202035Z AUTO 09004KT 10SM CLR 09/M11 A3034 RMK AO1 LFYR 202030Z AUTO 19005KT 9999 NSC 13/06 Q1004 FKKR 202000Z 04006KT 9999 TS SCT023 FEW026CB BKN130 30/21 Q1007 NOSIG KPRB 201953Z AUTO 35005KT 10SM CLR 24/07 A3009 RMK AO2 SLP184 T02440067 TSNO KPQL 201953Z 04008G16KT 360V070 10SM CLR 26/12 A3013 RMK AO2 SLP205 T02560122 KPRC 201953Z 07006KT 10SM SCT080 23/00 A3017 RMK AO2 SLP155 T02280000 KQGV 201955Z 31011G17KT 9999 SCT250 28/07 A2985 RMK SLP103 QNH1012MB PA +530 KPQN 202033Z AUTO 12007G16KT 075V155 10SM CLR 24/02 A2994 RMK AO2 KQGX 201958Z AUTO 18005KT 9999 CLR 23/12 A2980 RMK AO2 SLPNO T02300122 403410216 $ KPRG 202035Z AUTO 22005KT 10SM CLR 25/05 A3015 RMK AO2 T02450048 LGPZ 201950Z 12004KT 9999 FEW025 SCT100 16/08 Q1013 NOSIG KOZR 201958Z AUTO 06008KT 10SM OVC023 17/12 A3017 RMK AO2 SLP218 T01670115 LGSA 202020Z 13007KT 9999 FEW025 SCT080 15/12 Q1015 VTBD 202030Z 18005KT 9999 FEW020 BKN300 29/25 Q1007 NOSIG ESUT 202020Z AUTO 17011KT 9999 -DZ OVC064/// 04/M01 Q1021 REUP KPSC 201953Z 20012G18KT 10SM CLR 17/00 A3027 RMK AO2 SLP248 T01720000 $ KRAC 201953Z AUTO 16012KT 10SM CLR 18/03 A3011 RMK AO2 SLP198 T01780028 KOZW 202035Z AUTO 23007KT 10SM CLR 22/M04 A3016 RMK AO2 T02191042 KPRN 201956Z AUTO 07006KT 10SM FEW035 21/11 A3015 RMK AO2 SLP205 T02110111 ETMN 202020Z 08010KT 9999 BKN230 13/10 Q1011 BLU+ KPSF 201954Z AUTO 30005KT 10SM CLR 15/M08 A3034 RMK AO2 SLP272 T01501083 KPRO 202035Z AUTO 20016G21KT 10SM CLR 29/07 A2994 RMK AO2 T02920070 KQL5 201955Z 25002KT 9999 BKN150 19/14 A3006 RMK SLP159 T01890135 KQHY 201956Z AUTO VRB06G13KT 12SM OVC023 17/12 A3017 RMK AO2 SLP223 T01730118 LGRP 202020Z 22006KT 9999 FEW018 15/09 Q1015 NOSIG ETNG 201750Z 13004KT CAVOK 19/06 Q1005 NOSIG ETNH 202020Z 06013KT 9999 SCT200 10/06 Q1013 BLU+ KQIR 201958Z AUTO 32005KT 9999 CLR 25/14 A2978 RMK AO2 SLP085 T02450137 $ VTCC 202030Z 31002KT 9999 FEW040 26/20 Q1009 A2982 NOSIG KPRS 202035Z AUTO 31004G14KT 10SM CLR 29/01 A3001 RMK AO2 T02910007 LGSK 201850Z 00000KT 9999 FEW025 SCT080 15/11 Q1013 KT20 202035Z AUTO 11006KT 10SM SCT049 SCT070 OVC095 26/17 A3006 RMK AO2 T02560165 KPTB 202035Z 06013G21KT 10SM CLR 21/02 A3027 RMK AO2 PWINO KPSK 202035Z AUTO 07007KT 10SM CLR 18/M03 A3026 RMK AO2 T01821027 LIBC 201950Z 20006KT 9999 FEW010 SCT030 15/15 Q1009 KRAL 201953Z 30005KT 10SM CLR 27/11 A3002 RMK AO2 SLP151 T02670106 LGSM 201620Z 21004KT 9999 SCT025 17/11 Q1015 ETNL 202020Z AUTO 08010KT 9999 // ////// 09/06 Q1013 /// VTBO 201100Z 21008KT 9999 FEW023 30/24 Q1006 LIBD 202020Z 20006KT 150V230 CAVOK 16/13 Q1009 KRBD 201953Z 17009G19KT 10SM FEW048 OVC070 24/11 A3008 RMK AO2 SLP181 T02390111 KPSM 201958Z 13012KT 10SM BKN250 09/M09 A3044 RMK AO2A SLP312 T00911086 LHKE 202045Z 12001MPS CAVOK 09/08 Q1011 NOSIG RMK BLU KPSN 202035Z AUTO 17008KT 10SM BKN080 25/12 A3011 RMK AO2 T02550128 LIBF 201750Z 09004KT 9999 FEW035 15/13 Q1007 ETNN 202020Z AUTO 07005KT 9999 // ////// 14/05 Q1006 /// VTCH 201100Z 04007KT 360V070 9999 SCT028 35/19 Q1004 A2965 RETS KPSO 202035Z AUTO 29012G15KT 10SM BKN080 BKN100 18/M05 A3015 RMK AO2 LTG DSNT S T01761049 KPRX 202035Z 15009KT 10SM FEW048 FEW060 SCT075 24/13 A3008 RMK AO1 LGRX 201950Z 00000KT 9999 SCT020 SCT080 14/09 Q1013 NOSIG LGSO 202020Z AUTO 21009KT 160V220 //// // ////// 15/12 Q1015 RE// LIBG 201750Z 14007KT 9999 SCT008 SCT012 BKN015 16/14 Q1008 KQKG 201955Z AUTO VRB02KT 8000 BR SCT130 BKN150 17/11 A3002 RMK AO2 SLP142 T01650107 LGTG 201950Z 23004KT 9999 FEW030 14/08 Q1014 NOSIG BLU KRAP 201952Z 35015G20KT 10SM CLR 23/06 A2994 RMK AO2 SLP132 T02280056 KRBG 201953Z AUTO 00000KT 10SM CLR 18/06 A3022 RMK AO2 SLP233 T01780056 KPSP 201953Z 10006KT 10SM FEW120 32/07 A2998 RMK AO2 SLP148 T03170067 LIBH 201955Z 17008KT 8000 BKN011 17/16 Q1009 RMK BKN QUK / QUL / VIS MAR 8 KM VIS MIN 8000 VTBS 202030Z 18005KT CAVOK 28/23 Q1007 NOSIG LGSR 202020Z AUTO VRB02KT //// // ////// 14/10 Q1015 RE// VTCL 201000Z 25007KT 220V280 9999 SCT023CB BKN120 OVC200 32/25 Q1006 A2971 INFO VTBU 202030Z 00000KT 8000 FEW020 SCT300 27/24 Q1008 A2977 LICA 201950Z 07007KT 9999 FEW030 17/12 Q1008 KRCA 201958Z AUTO 35012KT 10SM FEW085 SCT120 BKN160 BKN190 21/05 A2995 RMK AO2 SLP136 T02090048 $ KRAS 202035Z AUTO 12013KT 10SM OVC085 23/19 A3009 RMK AO2 T02320189 LICB 201950Z 10019KT 9999 FEW040 24/06 Q1005 ETNS 202020Z AUTO 07017KT 4300 // ////// 11/06 Q1014 /// KPTK 201953Z 21006KT 10SM FEW050 SCT150 BKN250 21/M04 A3018 RMK AO2 SLP221 T02061039 KPUB 201953Z 00000KT 10SM SCT070 OVC095 20/01 A3002 RMK AO2 SLP120 T02000006 VTCN 201400Z VRB02KT 6000 BKN023 OVC100 25/25 Q1007 A2976 RWY02/INFO H ETNT 202020Z 07009KT 9999 SCT200 15/10 Q1011 BLU+ LICC 202020Z 09009KT 9999 FEW040 SCT100 15/14 Q1007 KPUC 202014Z AUTO 02011KT 10SM -RA BKN070 BKN090 OVC110 15/06 A3013 RMK AO2 WSHFT 1954 LTG DSNT E AND W P0001 T01500056 KRBL 201954Z AUTO 34010KT 10SM CLR 27/03 A3010 RMK AO2 SLP189 T02720028 LICD 201950Z 12011KT 090V150 8000 NSC 22/12 Q1002 LIBN 201755Z 12009KT 9999 SCT015 16/14 Q1009 RMK BKN BKN180 VIS MIN 9999 WIND THR14 14010KT BLU VTCP 200600Z 23011KT 6000 HZ FEW018 CB TCU BKN300 37/22 Q1007 A2975 RWY 19 INFO F KPTN 202035Z AUTO 08005KT 10SM CLR 28/12 A3016 RMK AO1 KRCE 202035Z AUTO 18014G22KT 10SM FEW038 22/13 A3005 RMK AO2 ETNW 202020Z AUTO 31014KT 5000 // ////// 07/05 Q1010 /// LICF 201955Z 29004KT 9999 FEW046 17/15 Q1007 RMK BKN SCT080 BKN200 QUK / QUL / VIS MAR 10 KM MON INVIS NC VIS MIN 9999 KPSX 201953Z AUTO 13015KT 10SM SCT085 24/16 A3012 RMK AO2 SLP198 T02440161 KRBO 202035Z AUTO 14018G21KT 10SM BKN033 OVC040 27/17 A3006 RMK AO2 T02670172 LICG 201755Z 29016KT 9999 FEW035 18/12 Q1004 LGSY 201720Z 16009KT 9999 FEW025 SCT080 17/09 Q1011 NOSIG RMK SCT180 BLU LIBP 201950Z 00000KT 9999 SCT070 14/10 Q1009 KT35 202035Z AUTO 17010G17KT 10SM SCT100 27/14 A3006 RMK AO2 T02690136 VTCT 201400Z 15006KT 6000 NSC 27/20 Q1008 A2977 RMK/RWY03 INFO O LIBR 202015Z 15009KT 8000 SCT010 SCT015 16/15 Q1010 NOSIG LICJ 202020Z 08001KT 9999 FEW030 18/14 Q1003 LGTS 202020Z 00000KT 9999 FEW030 SCT080 12/08 Q1013 NOSIG KPTS 202035Z AUTO 22011G17KT 10SM CLR 22/12 A3009 RMK AO2 T02240121 KPUJ 202030Z AUTO 06006KT 10SM CLR 24/04 A3016 RMK AO2 KPTT 202035Z AUTO 16015G21KT 10SM BKN120 23/12 A2999 RMK AO2 KPVB 202035Z AUTO 36006KT 10SM SCT070 24/08 A3005 RMK AO1 T02400077 LICL 201755Z 07009KT 9999 FEW026 21/13 Q1004 RMK OVC SCT080 OVC210 QUK 2 QUL 1 SW VIS MAR 10 KM VIS MIN 9999 KPVC 202035Z AUTO 10SM CLR 07/00 A3048 RMK AO1 P0002 KQKV 202000Z AUTO 36005KT //// CLR 29/M01 A2997 RMK CDP03576 CLR KRCM 202035Z AUTO 21012KT 10SM SCT065 A3006 RMK AO2 LIBV 201955Z 16009KT 3500 BR SCT005 SCT007 13/12 Q1008 RMK BKN VIS MIN 3500 WIND THR32 17013KT WIND THR14 /////KT YLO KPVD 201951Z 15011KT 10SM FEW250 12/M06 A3044 RMK AO2 SLP307 T01221061 KRDD 201953Z 33008KT 10SM CLR 26/00 A3009 RMK AO2 SLP185 T02610000 KPTV 202035Z AUTO 24005KT 10SM CLR 23/09 A3011 RMK AO1 ETOU 201958Z AUTO 08009KT 9999 SCT100 15/05 A2971 RMK AO2 SLP061 T01520049 GCGM 201700Z 11006KT 030V140 9999 SCT038 SCT048 BKN050 20/13 Q1015 RMK CAB09 08005KT 050V140 GCFV 202030Z 32008KT 280V340 9999 FEW035 20/13 Q1015 KPTW 201954Z AUTO VRB06KT 10SM CLR 14/M01 A3039 RMK AO2 SLP290 T01441006 KPVE 202035Z AUTO 17007KT 10SM CLR 26/06 A3013 RMK KRBW 202035Z AUTO 01011G16KT 340V040 10SM SCT035 BKN041 OVC049 18/11 A3011 RMK AO2 KPVF 202035Z AUTO 29003KT 10SM CLR 21/03 A3015 RMK AO1 LIBY 201955Z 13013KT 9999 FEW014TCU SCT015 15/14 Q1009 RMK BKN QUK / QUL / VIS MAR 10 KM VIS MIN 9999 KPVG 202035Z AUTO 05016G25KT 10SM FEW040 BKN060 14/04 A3031 RMK AO1 KRDG 201954Z 08005G15KT 10SM CLR 16/M01 A3035 RMK AO2 SLP283 T01611006 KQLQ 201955Z 16009G19KT 9999 BKN050 09/04 A3024 RMK AO2A SLP214 T00870035 PWINO LICR 201950Z 31003KT 9999 FEW070 16/15 Q1007 KRCR 202035Z AUTO 27003KT 10SM CLR 24/00 A3015 RMK AO2 GCHI 201700Z 35017KT 330V030 9999 FEW030 21/14 Q1015 WS R34 LIEA 202020Z 19012KT 9999 SCT015 SCT020 BKN035 17/14 Q1005 KPWA 201953Z 19014KT 10SM FEW036 SCT090 23/12 A3005 RMK AO2 SLP168 T02280117 LICT 201955Z 28006KT 9999 FEW020TCU SCT026 17/14 Q1004 LIEB 201955Z 31005KT CAVOK 13/10 Q1005 RMK SKC QUK / QUL / VIS MAR 25 KM MON INVIS VIS MIN 9999 KQLT 201956Z AUTO 03003KT 6000 FEW120 15/02 A3006 RMK AO2 SLP089 T01450024 402380082 KRDK 202035Z AUTO 22011KT 10SM SCT070 27/12 A2995 RMK AO2 LIEC 201955Z 00000KT CAVOK 15/11 Q1005 RMK SCT SCT070 QUK / QUL / VIS MAR 20 KM VIS MIN 9999 KPWC 202033Z AUTO 07003KT 10SM CLR 20/02 A3001 RMK AO2 LTG DSNT S LIED 201955Z 13004KT 9999 FEW060 14/13 Q1005 RMK BKN SCT100 VIS MIN 9999 WIND THR35 14004KT WIND THR17 13004KT BLU KQND 201955Z AUTO 00000KT 6000 CLR 36/12 A2966 RMK AO2 SLP021 T03610115 KRDM 201956Z VRB05KT 10SM CLR 16/M07 A3020 RMK AO2 SLP231 T01611067 LIEE 202020Z 16004KT CAVOK 15/13 Q1006 KPUW 201953Z AUTO VRB06KT 10SM BKN050 12/M01 A3029 RMK AO2 SLP263 T01171006 FLHN 201500Z 10004KT CAVOK 29/12 Q1019 NOSIG KRCX 202035Z AUTO 00000KT 10SM SCT100 21/08 A3001 RMK AO2 LTG DSNT S T02110077 KPWG 202035Z AUTO 17010G15KT 10SM SCT050 25/14 A3008 RMK AO1 LICZ 201955Z 13011KT 9999 SCT035 BKN100 15/14 Q1008 RMK OVC VIS MIN 9999 WIND THR28 12009KT A2977 BLU KRCZ 202035Z AUTO 02008KT 10SM 20/07 A3016 RMK AO2 T01950074 KRDR 201958Z AUTO 19010KT 10SM CLR 21/04 A2994 RMK AO2 SLP148 T02060037 $ ETSA 202020Z 06006KT 9999 FEW080 08/05 Q1005 BLU+ KPWK 201952Z 22008KT 10SM CLR 24/05 A3011 RMK AO2 SLP196 T02440050 ETSB 202020Z AUTO 08007KT 9999 // ////// 13/04 Q1006 /// KPVU 201955Z 30013KT 15SM FEW090 20/03 A3014 KRDU 201951Z 04014G24KT 10SM SCT055 BKN250 19/07 A3020 RMK AO2 PK WND 03026/1902 SLP224 T01940067 KPWM 201951Z 19013KT 10SM FEW250 08/M04 A3044 RMK AO2 SLP310 T00831044 KRFD 201954Z 24010G18KT 10SM SCT250 27/05 A3008 RMK AO2 SLP183 T02670050 KPVW 202035Z AUTO 24017G25KT 10SM SCT070 BKN100 25/07 A2996 RMK AO2 LTG DSNT NE AND E T02530066 ETSE 202020Z AUTO 08004KT 9999 // ////// 08/05 Q1006 /// LIEO 202020Z 17003KT 120V220 9999 FEW040 13/11 Q1006 KREO 201952Z AUTO 07005KT 15/M09 A3026 RMK AO1 SLP239 T01501089 KT65 202035Z AUTO 13010G18KT 7SM OVC036 26/17 A3003 RMK AO2 T02630169 ETSH 202020Z 06002KT 9999 BKN140 11/07 Q1009 BLU KRFI 202035Z AUTO 17007KT 10SM SCT055 27/11 A3009 RMK AO2 T02710106 ETSI 202020Z AUTO 12003KT 6000 // ////// 10/04 Q1006 /// LHPA 202045Z 11001MPS 6000 NSC 10/09 Q1010 NOSIG RMK WHT KPWT 202035Z AUTO 21010KT 10SM CLR 13/05 A3027 RMK AO1 ETSL 202020Z 06006KT 9999 FEW090 07/04 Q1005 BLU+ KQPD 201955Z AUTO 01002KT 9999 CLR 19/02 A3000 RMK AO2 SLP112 T01870024 $ ETSN 202020Z AUTO 05005KT 9000 // ////// 10/04 Q1006 /// LGZA 201750Z 17011KT 9999 FEW018 BKN080 17/14 Q1013 GCLA 202030Z 15006KT 110V180 9999 FEW040 20/13 Q1015 KRGK 202035Z AUTO 15005KT 10SM BKN042 21/11 A2999 RMK AO2 LTG DSNT S KPYM 201952Z AUTO 05008KT 010V070 10SM CLR 09/M02 A3046 RMK AO2 SLP316 T00941017 KT82 202035Z AUTO 17013G16KT 10SM OVC017 20/16 A3008 RMK AO2 T01960157 LHPP 201945Z 10003KT 9999 FEW026 10/08 Q1011 FMCH 201500Z VRB02KT 9999 FEW020TCU 29/24 Q1011 NOSIG KRHI 201953Z AUTO 22005KT 10SM OVC042 17/09 A3003 RMK AO2 SLP173 T01670089 $ LHPR 201945Z /////KT CAVOK 10/08 Q1011 FLLI 201500Z 10004KT CAVOK 29/12 Q1019 NOSIG AGGH 202000Z 00000KT 9999 FEW014 24/23 Q1010 KRIC 201954Z 05013G23KT 10SM BKN250 18/02 A3029 RMK AO2 SLP263 T01830017 $ KPYX 202035Z AUTO 33009G29KT 2SM SCT020 BKN050 OVC060 14/10 A2996 RMK AO2 P0009 T01430101 KRHP 202035Z AUTO 25010KT 10SM CLR 25/08 A3012 RMK AO2 T02500081 KPZQ 202035Z AUTO 14003KT 10SM RA SCT031 BKN045 OVC075 13/08 A3014 RMK AO2 T01250077 KQRH 201955Z AUTO 17004KT 9999 CLR 30/15 A2981 RMK AO2 SLP091 T03040151 $ GCLP 202030Z 36010KT 330V030 9999 FEW025 SCT045 BKN055 20/14 Q1016 NOSIG KSAA 202035Z AUTO 32006KT 10SM SCT037 SCT047 OVC090 14/02 A3016 RMK AO2 KQSA 201958Z 36010KT 9999 BKN070 OVC120 14/06 A3013 RMK AO2A SLP129 P0000 T01380064 KQSB 201955Z AUTO 26010G14KT 8000 FEW120 20/02 A3004 RMK AO2 SLP117 T02010017 $ KRIL 201953Z AUTO 29004KT 10SM CLR 20/M01 A3009 RMK AO2 SLP149 T02001011 KSAC 201953Z 36009G14KT 10SM CLR 26/07 A3009 RMK AO2 SLP188 T02560072 KSAD 201951Z AUTO 21005KT 10SM CLR 26/03 A3005 RMK AO2 SLP140 T02610028 KRHV 201959Z 30007KT 10SM SKC 24/12 A3013 FMEE 202030Z AUTO 11009KT 9999 SCT060 25/20 Q1014 KSAF 201953Z 23015G20KT 10SM FEW060 SCT075 20/01 A3009 RMK AO2 LTG DSNT NE SLP113 T02000011 KQQY 201955Z AUTO VRB03KT 9999 FEW220 32/20 A2990 RMK AO2 SLP106 T03170203 KU16 201958Z AUTO 34005KT CLR 19/M06 A3016 RMK AO2 SLP831 T01891061 $ FMCZ 202030Z AUTO 14005KT 9999 NCD 28/23 Q1012 KQSJ 201955Z AUTO 00000KT 9000 CLR 13/01 A3007 RMK AO2 SLP129 T01280013 PWINO $ KSBA 201953Z 23006KT 10SM CLR 19/12 A3006 RMK AO2 SLP178 T01940122 KQRU 201955Z AUTO 09004KT 9999 CLR 09/06 A3019 RMK AO2 SLP190 T00930056 KSBD 201950Z 22005KT 10SM FEW080 27/07 A3003 KRKD 202035Z AUTO 20009KT 10SM CLR 07/M03 A3044 RMK AO1 LHSM 201945Z 00000KT CAVOK 11/09 Q1010 KRIV 201958Z AUTO 31008KT 10SM CLR 26/09 A3004 RMK AO2 SLP163 T02640093 ETWM 202020Z AUTO 06005KT 7000 // ////// 14/05 Q1009 /// KQSN 201955Z 03003KT 9999 FEW150 10/04 A3026 RMK AO2A SLP220 WND DATA ESTMD ALSTG/SLP ESTMD T01040044 LHSN 202015Z 12001MPS CAVOK 09/07 Q1011 NOSIG RMK BLU KSAN 202051Z 26006KT 10SM FEW014 SCT080 19/13 A3007 RMK AO2 SLP181 TCU DSNT NE T01940128 58006 $ KRIW 201953Z AUTO VRB03KT 10SM SCT095 20/M06 A3005 RMK AO2 SLP134 T02001061 KQRY 201955Z AUTO 09001KT 9999 FEW090 11/03 A3021 RMK AO2 SLP189 T01090026 $ KQSQ 201955Z 33007KT 9999 SCT120 BKN200 19/08 A2992 RMK SLP094 T01860079 PA2985 DA4031 FMEP 202030Z AUTO 03005KT 9999 FEW100/// BKN240/// 24/19 Q1014 KQTH 201955Z AUTO 10005KT 9999 CLR 31/02 A2990 RMK AO2 SLP086 T03120022 KSAR 202035Z AUTO 00000KT 10SM CLR 25/06 A3011 RMK AO2 KSAT 201951Z 13007KT 10SM FEW019 BKN027 OVC033 22/18 A3009 RMK AO2 SLP174 T02170178 $ KSAV 201953Z 35013G19KT 10SM SCT025 BKN050 BKN150 22/12 A3008 RMK AO2 SLP184 T02170117 KSBM 201953Z AUTO 12004KT 10SM SCT110 17/06 A3010 RMK AO2 SLP193 T01670056 $ KSCD 202035Z AUTO 35004KT 10SM CLR 27/06 A3013 RMK AO2 T02650056 LHUD 201945Z 04003KT 9999 FEW030 BKN200 10/08 Q1011 KQUD 201955Z AUTO 22001KT CLR 21/19 A3012 RMK AO2 SLP157 T02070191 PWINO $ GBYD 202000Z 28007KT CAVOK 24/20 Q1008 KSAW 201945Z 18008KT 10SM SKC 16/08 A3002 KSBN 201954Z VRB03KT 10SM CLR 23/01 A3017 RMK AO2 SLP215 T02280006 LJCE 202030Z AUTO 00000KT 9999 SCT035/// OVC044/// 11/10 Q1010 KSCF 202035Z AUTO 00000KT 10SM CLR 26/14 A3014 RMK A01 KSBO 202035Z AUTO 05008G15KT 10SM CLR 21/11 A3012 RMK AO2 KRKP 201953Z AUTO 12016KT 10SM BKN085 25/18 A3010 RMK AO2 SLP194 T02500178 TSNO KSBP 201956Z 30010KT 10SM CLR 27/11 A3004 RMK AO2 SLP171 T02720106 KSCH 201755Z 00000KT 10SM CLR 14/M08 A3041 KSAZ 202033Z AUTO 31004KT 10SM CLR 22/M04 A2997 RMK AO2 KRKR 202035Z AUTO 16007KT 10SM SCT065 26/09 A3007 RMK AO2 T02630093 LIMA 201750Z VRB02KT 9999 SCT035 13/09 Q1005 KRKS 201954Z AUTO 27020G28KT 10SM FEW085 20/M06 A3014 RMK AO2 PK WND 27029/1925 SLP146 T02001061 KSBS 202035Z AUTO 24010G16KT 10SM SCT037 SCT045 SCT060 17/M05 A3015 RMK AO1 T01701048 KSDA 202035Z AUTO 23011G18KT 10SM FEW070 SCT080 SCT090 30/11 A2995 RMK AO2 KSDB 202048Z AUTO 33019G22KT 10SM CLR 22/01 A3016 RMK AO2 SLP169 T02220006 58006 KSCK 201955Z 31010G16KT 10SM CLR 24/09 A3009 RMK AO2 SLP189 T02440089 LIMC 202020Z VRB02KT 9999 SCT030 BKN070 13/08 Q1007 NOSIG LIME 202020Z 33009KT 4000 -RA BR SCT025 BKN040 12/11 Q1007 KRME 201953Z 15007KT 10SM CLR 17/M04 A3031 RMK AO2 SLP267 T01721044 LIMF 202020Z 33006KT 9999 SCT030 BKN050 12/08 Q1007 KQVF 201955Z AUTO 17003KT 9999 CLR 27/24 A2987 RMK AO2 SLP114 T02720235 KSDF 201956Z VRB03KT 10SM BKN250 26/05 A3015 RMK AO2 SLP207 T02610050 LIMG 201850Z 33005KT 9999 BKN080 13/11 Q1006 KRMG 201953Z AUTO 02004KT 10SM CLR 25/09 A3014 RMK AO2 SLP199 T02500089 KSBY 201954Z 07017G24KT 10SM CLR 14/00 A3037 RMK AO2 SLP285 T01390000 LIMH 201955Z 15013KT 0200 FZFG VV/// M06/M08 Q1008 RMK MON INVIS VAL INVIS VIS MIN 0200 KQTZ 201955Z 06003KT 2400 DU FEW020 25/09 A2983 RMK DU FEW020 SLP100 WND DATA ESTMD ALSTG/SLP ESTMD LIMJ 202020Z 02005KT 9999 FEW030 BKN060 15/08 Q1006 KSEA 201953Z 23007KT 10SM SCT050 OVC150 14/01 A3026 RMK AO2 SLP253 T01390011 LIMK 201955Z 01006KT 9999 -RA SCT025 09/09 Q1005 RMK OVC SCT070 VAL FOSCHIA VIS MIN 9999 FKYS 202000Z 09001KT 9999 TS FEW020CB 23/22 Q1015 TEMPO 4000 TSRA LIML 202020Z 10004KT 9999 -RA BKN040 BKN080 13/12 Q1007 NOSIG KSDL 201953Z 16004KT 10SM CLR 29/05 A3002 RMK AO2 SLP145 T02890050 KRNC 202035Z AUTO VRB03KT 10SM CLR 25/06 A3015 RMK KSDM 201953Z 26011KT 10SM CLR 19/13 A3006 RMK AO2 SLP175 T01940128 KRND 202043Z AUTO 12007KT 10SM SCT020 BKN027 22/17 A3007 RMK AO2 CIG 023V029 $ KSEE 202035Z AUTO 29004KT 9SM CLR 25/12 A3005 RMK AO2 KRMN 202035Z AUTO 10006KT 10SM CLR 18/03 A3036 RMK AO2 T01810033 LIMP 201950Z 06007KT 9999 -RA BKN030 14/11 Q1007 KSEG 201953Z AUTO 19005KT 10SM CLR 19/01 A3033 RMK AO2 SLP271 T01940006 TSNO KRNH 202035Z AUTO 20005KT 10SM CLR 23/04 A2999 RMK AO2 T02250036 LIMS 201755Z 30006KT 260V330 9999 SCT050 BKN080 13/13 Q1005 KROA 201954Z 12008KT 10SM SCT250 20/M02 A3026 RMK AO2 SLP245 T02001017 KSFB 201953Z 34007KT 10SM OVC021 19/14 A3004 RMK AO2 SLP172 T01940144 LIMU 201955Z 01010KT CAVOK 13/13 Q1006 RMK BKN SCT070 QUK / QUL / VIS MAR 35 KM VIS MIN 9999 KQWL 201955Z AUTO 32003KT 9999 CLR 18/05 A2995 RMK AO2 SLP101 T01800054 KROC 201954Z 19005KT 10SM FEW250 21/M08 A3025 RMK AO2 SLP249 T02061083 KQZ2 201955Z AUTO VRB06KT 10SM FEW210 34/17 A2994 RMK AO2 SLP127 T03410166 KQWM 201955Z 32013KT 9999 FEW160 28/07 A2986 RMK SLP103 QNH1011 KRNM 201953Z 27011G18KT 10SM CLR 25/13 A3005 RMK AO2 SLP164 T02500128 KSEM 202035Z AUTO 16005KT 10SM CLR 25/12 A3012 RMK AO2 LIMW 201850Z AUTO 09006KT 9999 -RA 12/06 Q1006 VTPH 201000Z 15015KT 9999 FEW030 32/25 Q1005 NOSIG KSFF 201953Z 18009KT 10SM FEW055 13/M02 A3027 RMK AO2 SLP251 T01281017 KRNO 201955Z VRB05KT 10SM BKN200 BKN250 19/M08 A3023 RMK AO2 SLP202 T01891083 LIMY 201755Z 29006KT 9999 -RA BKN018 12/09 Q1005 RMK OVC SCT066 VAL FOSCHIA VIS MIN 9999 KRMY 202034Z AUTO 17004G14KT 10SM CLR 22/M02 A3015 RMK AO2 T02161025 KSDY 202035Z AUTO 28017G23KT 10SM SCT120 18/M03 A2995 RMK AO1 KRNP 202034Z AUTO 17006KT 150V210 10SM CLR 22/M04 A3014 RMK AO2 T02191036 KROG 201957Z 18013KT 10SM BKN055 BKN070 23/10 A3014 RMK AO2 SLP195 T02330100 KSEP 202035Z AUTO 17009KT 10SM SCT022 BKN030 OVC036 21/15 A3009 RMK AO2 T02100150 LIMZ 201950Z 32004KT 9999 FEW030 BKN070 12/10 Q1006 GCRR 202030Z 29008G18KT 260V340 9999 FEW030 20/13 Q1015 LIPB 201950Z VRB03KT 9999 FEW050 BKN070 16/08 Q1006 KRNT 201953Z 12004KT 10SM CLR 14/02 A3025 RMK AO2 SLP248 T01440017 KSET 201954Z AUTO 19007KT 10SM CLR 27/06 A3008 RMK AO2 SLP184 T02670056 LIPC 201955Z 14004KT CAVOK 14/14 Q1007 FNBC 200900Z 23007KT 9999 FEW011 BKN090 25/24 Q//// VTPO 201000Z 21006KT 5000 SCT025 BKN300 37/23 Q1003 KSFM 202035Z AUTO 17006KT 10SM CLR 11/M19 A3042 RMK AO1 KRNV 202035Z AUTO 16004KT 10SM CLR 26/10 A3012 RMK AO2 T02600098 KRPD 202035Z AUTO 22004KT 10SM SCT090 22/03 A3000 RMK AO2 LTG DSNT S T02210033 VTPP 201500Z 06006KT 6000 SCT025 BKN300 31/22 Q1007 LIPE 202020Z 09007KT 9999 BKN080 14/10 Q1006 LIPF 201755Z 12004KT 9999 BKN030 16/10 Q1006 KSGF 201952Z 24009KT 10SM CLR 24/11 A3012 RMK AO2 SLP190 T02390106 KSFO 201956Z 06004KT 10SM FEW200 19/13 A3012 RMK AO2 SLP200 T01940128 FNBG 200900Z 33005KT 9999 BKN015 SCT120 29/24 Q1013 LIPH 202015Z /////KT 9999 SCT070 13/11 Q1009 KSGH 201956Z AUTO 16011G15KT 6SM HZ CLR 24/05 A3020 RMK AO2 T02380050 SLP226 KSFQ 202035Z AUTO 05018G31KT 10SM SCT040 OVC055 14/04 A3027 RMK AO2 T01360035 KRPH 202035Z AUTO 33004KT 10SM -RA SCT039 SCT045 SCT050 18/17 A3005 RMK AO2 P0005 T01810165 KSEZ 202035Z AUTO 16005KT 10SM SCT095 27/02 A3014 RMK AO2 KSGJ 201958Z 35012KT 10SM OVC021 19/13 A3007 RMK AO2 SLP182 T01890133 KROS 202035Z AUTO 00000KT 10SM CLR 20/02 A3000 RMK AO2 LTG DSNT S T01950017 KRPJ 202035Z AUTO 19013G16KT 10SM CLR 27/03 A3007 RMK AO2 T02730034 FNCA 200900Z 00000KT 9999 FEW020 BKN090 28/23 Q1012 EVLA 202020Z AUTO 06005KT CAVOK 13/04 Q1019 KRQB 202034Z AUTO 24007G18KT 190V250 10SM CLR 22/03 A3011 RMK AO2 T02200032 KQXT 201955Z 33004KT 9999 SCT140 SCT170 21/05 A2994 RMK SLP086 T02140049 PA2421 DA3752 LIPL 201755Z 10013KT 9999 SCT040 SCT080 16/10 Q1005 RMK OVC VIS MIN 9999 BLU LIQC 201955Z ///02KT 9999 SCT025 16/09 Q1008 RMK BKN SCT060 QUK / QUL / VIS MAR 15 KM VIS MIN 9999 KSHD 202035Z AUTO 04003KT 10SM CLR 18/M01 A3030 RMK AO2 T01801012 KRQE 201953Z AUTO 28005KT 10SM FEW100 19/M01 A3018 RMK AO2 SLP139 T01941006 TSNO KROW 201951Z 10SM CLR 25/04 A3001 RMK AO2 SLP114 T02500039 LIPO 201950Z 11009KT 9999 BKN070 15/10 Q1007 KROX 202034Z AUTO 00000KT 10SM CLR 14/05 A2998 RMK AO2 KSFY 202035Z AUTO 17011KT 10SM CLR 28/05 A3004 RMK AO2 LTG DSNT NW T02750053 LIPQ 202020Z VRB03KT 9999 FEW060 12/09 Q1008 KSFZ 202035Z AUTO 12004KT 10SM CLR 13/M08 A3043 RMK AO1 VTSB 201400Z 33005KT 8000 FEW020 BKN300 29/27 Q1008 A2977 INFO P / RWY 04 LIPR 202015Z 11005KT 9999 SCT060 13/10 Q1007 KSGR 201953Z 18011G16KT 10SM SCT090 27/12 A3011 RMK AO2 SLP199 T02670122 $ VTSC 200500Z 10008KT 060V130 9999 FEW020TCU SCT022 SCT200 32/26 Q1009 A2979 TCU NW RWY20 INFO D LIPS 201955Z 06005KT 9999 BKN070 11/10 Q1008 RMK BKN VIS MIN 9999 WIND THR26 06005KT WIND THR08 06005KT BLU LIRA 202015Z 18007KT 150V220 9999 -RA FEW020TCU SCT030 13/06 Q1007 KSGS 202032Z AUTO 17006KT 10SM SCT090 23/07 A2997 RMK AO2 LTG DSNT S T02330074 KSGT 202035Z AUTO 19005KT 10SM CLR 27/10 A3013 RMK AO1 GCTS 202030Z VRB02KT 9999 FEW030 20/16 Q1015 NOSIG LIPU 201750Z 06010KT 9999 BKN025 15/11 Q1007 KSGU 202035Z AUTO 22008KT 10SM CLR 28/03 A3003 RMK AO1 KSHL 202035Z AUTO 17012KT 10SM CLR 25/11 A2991 RMK AO2 VTSF 201400Z 00000K 9999 FEW020 27/26 Q1008 A2977 INFO P / RWY 19 KSHM 201956Z AUTO M 12SM FEW070 BKN085 18/M01 A3010 RMK AO2 SLP145 T01791006 $ LIQN 201650Z 12006KT 9999 FEW045 17/09 Q1006 VTSG 201500Z 00000KT 5000 TS BR FEW018CB 27/25 Q1009 A2982 INFO T RWY32 LIRE 201955Z 14003KT 9999 -RA SCT030 17/10 Q1006 RMK BKN BKN080 VIS MIN 9999 WIND THR31 12002KT BLU KSHN 201953Z AUTO VRB05KT 10SM BKN060 12/06 A3023 RMK AO2 RAE20 SLP241 P0000 T01220056 TSNO $ LIQO 201955Z 22006KT 0000 FG VV/// 11/09 Q1005 RMK VAL INVIS AUM VIS MIN 0000 VTSH 200600Z 03008KT 9999 FEW020CB BKN300 32/23 Q1008 A2977 KRQO 202035Z AUTO 17017G23KT 10SM CLR 22/12 A3004 RMK AO2 LIPX 202015Z 06014KT 9999 SCT040 BKN070 13/09 Q1008 LIRF 202020Z 16006KT 140V200 9999 BKN050 14/11 Q1008 NOSIG KSIF 202035Z AUTO 06006KT 10SM CLR 21/00 A3022 RMK AO2 T02051001 LIPY 201950Z 16004KT 120V190 9999 FEW070 14/12 Q1008 LIRH 201755Z 14005KT 9999 FEW030 17/07 Q1006 WMBA 202000Z 08001KT 9999 FEW030 SCT150 BKN280 26/25 Q1008 LIPZ 202020Z 05009KT 9999 FEW035 13/08 Q1008 LIRI 201750Z 24004KT 8000 SCT050 15/12 Q1008 KSHR 201953Z AUTO 32014KT 10SM CLR 17/02 A3007 RMK AO2 SLP182 T01670017 FMMI 202030Z 10003KT 9999 FEW017TCU 17/17 Q1022 NOSIG LIRK 201955Z ///12KT 0000 -RA FG VV000 04/04 Q1010 RMK MON NE INVIS NC VAL INVIS NC VIS MIN 0000 VTSM 201500Z 13005KT 9999 FEW020 BKN300 29/24 Q1009 A2982 LIRL 201755Z 12004KT 9999 FEW040 SCT080 14/10 Q1006 KSJC 201953Z 30008KT 10SM FEW200 22/11 A3011 RMK AO2 SLP196 T02220111 KRRL 202035Z AUTO 00000KT 10SM SCT042 BKN065 OVC075 16/11 A3003 RMK AO2 T01570105 LIRM 201955Z 03003KT 9999 BKN060 14/13 Q1008 KTAD 201954Z AUTO 25010KT 10SM -RA BKN060 OVC070 13/08 A3009 RMK AO2 RAE1858B16 SLP144 P0000 T01330083 KSHV 201956Z VRB04KT 10SM BKN055 BKN300 28/13 A3012 RMK AO2 SLP196 T02780128 VTSP 202030Z 00000KT 9000 FEW020 BKN300 27/24 Q1009 A2979 LIRN 202020Z 04003KT 9999 SCT070 15/11 Q1008 VTSR 201100Z 22006KT 7000 BKN023 BKN150 32/23 Q1006 A2971 RERA RWY02 INFO L LIRP 202015Z 02003KT 9999 SCT060 13/10 Q1006 NOSIG VTSS 202030Z 00000KT 8000 FEW020 SCT120 BKN300 24/24 Q1008 A2978 NOSIG LIRQ 202020Z 07004KT CAVOK 13/10 Q1006 VTST 201100Z 00000KT 9000 FEW020 BKN120 OVC300 30/26 Q1006 RERA RWY08 INFO K LIRS 201955Z /////KT CAVOK 14/10 Q1007 WMAU 202000Z 26004KT 7000 FEW000 SCT140 BKN270 24/24 Q//// QFF1008 KSKA 201958Z AUTO 19007G17KT 10SM CLR 11/M01 A3025 RMK AO2 SLP255 T01101006 VTUD 201300Z 22003KT 8000 NSC 33/24 Q1006 A2972 INFO O RWY30 LIRT 201955Z 15004KT CAVOK 10/06 Q1008 RMK SCT SCT080 MON INVIS VAL INVIS VIS MIN 9999 KRRT 202034Z AUTO 08004KT 10SM CLR 13/05 A2999 RMK AO2 LIRU 201950Z VRB03KT 9999 -RA NSC 15/10 Q1007 FMMT 202000Z 00000KT 9999 VCSH BKN017 23/23 Q1014 KRSL 201953Z AUTO 17014KT 10SM SCT100 21/13 A2997 RMK AO2 RAB39E52 SLP139 P0000 T02110128 TSNO LIRV 201755Z 22007KT CAVOK 15/10 Q1006 FMNM 202000Z 04004KT 9999 FEW020 28/25 Q1012 KTAN 201952Z AUTO 00000KT 10SM CLR 13/M10 A3044 RMK AO2 SLP308 T01281100 $ KSJN 201954Z AUTO VRB06G15KT 10SM FEW075 21/00 A3016 RMK AO2 SLP155 T02060000 TSNO KRSN 202035Z AUTO 16005KT 10SM SCT065 28/11 A3014 RMK AO2 T02750112 LIRX 201755Z 18004KT 9999 FEW010 12/09 Q1005 RMK SCT SCT070 VIS MIN 9999 VIS MAR 20 KM FMNN 201500Z 30006KT 9999 FEW020CB 29/24 Q1010 KSKF 202038Z AUTO 12008KT 10SM BKN026 OVC034 23/17 A3005 RMK AO2 $ VTUI 201400Z 17003KT 7000 FEW020CB SCT100 BKN300 30/23 Q1007 A2976 CB W-N RWY23 INFO C KRSP 201954Z AUTO VRB05KT 10SM CLR 14/M01 A3033 RMK AO2 SLP280 T01391006 $ KSIY 201953Z AUTO 34003KT 10SM CLR 17/M02 A3023 RMK AO2 SLP245 T01671022 TSNO LIRZ 201950Z 02005KT 9999 FEW070 10/09 Q1007 VTUK 202000Z 14002KT 9999 FEW025 SCT100 BKN300 26/25 Q1006 A2972 NOSIG VTUL 200700Z 18003KT 5000 FEW025 38/19 Q1003 A2963 KSJS 202035Z AUTO 11005KT 10SM CLR 25/M01 A3017 RMK AO2 T02471014 PWINO KSJT 202018Z 18009KT 9SM FEW019 SCT031 OVC039 20/18 A3005 RMK AO2 RAE1955 P0000 T02000183 KRST 202014Z 21013KT 8SM OVC015 17/13 A3002 RMK AO2 T01720133 KSLB 202035Z AUTO 19016KT 7SM FEW110 26/11 A2993 RMK AO2 KSLC 201953Z 28011G20KT 10SM FEW070 FEW120 BKN200 19/M04 A3015 RMK AO2 SLP176 T01941044 KTCC 201953Z AUTO VRB05KT 10SM SCT060 BKN080 22/08 A2998 RMK AO2 SLP108 T02220083 KRSV 202035Z AUTO 28005KT 10SM CLR 25/05 A3015 RMK AO2 T02500049 KRTN 201953Z AUTO 36005KT 10SM -RA BKN043 OVC060 11/07 A3011 RMK AO2 SLP150 P0002 T01060067 KRSW 201953Z 04007KT 10SM OVC042 24/14 A3001 RMK AO2 SLP161 T02390144 KRUE 201953Z AUTO VRB04KT 10SM OVC070 26/11 A3011 RMK AO2 SLP191 T02610111 $ KSLE 201956Z 19007KT 10SM FEW035 17/06 A3023 RMK AO2 SLP238 T01670056 KTBN 201958Z AUTO 18010KT 10SM FEW070 25/08 A3011 RMK AO2 SLP192 T02530079 KSJX 202036Z AUTO 22010G17KT 10SM OVC017 06/01 A3009 RMK AO2 T00570009 GCXO 202030Z 30017KT 9999 FEW004 BKN010 14/12 Q1017 NOSIG VVCR 201930Z 19002KT CAVOK 28/23 Q1009 NOSIG KSLG 202035Z AUTO 19007G15KT CLR 24/11 A3012 RMK AO1 KRUG 202035Z AUTO 20016G21KT 10SM CLR 22/02 A2981 RMK AO2 KSLH 202036Z AUTO 00000KT 10SM -DZ SCT023 SCT032 OVC085 11/08 A3010 RMK AO2 T01100085 KTAZ 202035Z AUTO 21008KT 10SM CLR 25/05 A3011 RMK AO2 LTG DSNT NW VVCT 201100Z 22003KT 8000 FEW015 BKN040 28/24 Q1006 NOSIG KSLI 201958Z 19007KT 10SM CLR 22/14 A3004 RMK AO2A SLP175 T02200142 KTBR 202035Z AUTO 03006KT 10SM BKN041 21/09 A3010 RMK AO2 T02060089 VTUU 201900Z 00000KT 8000 NSC 27/23 Q1007 A2975 KRTS 202035Z AUTO 13004KT 10SM CLR 18/M12 A3022 RMK AO2 LJLJ 202030Z 00000KT 9999 FEW007 OVC033 09/09 Q1010 NOSIG VTUV 200000Z 17005KT 4000 BR FEW022 SCT300 27/23 Q1009 A2980 INFO A RWY 36 KSLK 201951Z AUTO 22006KT 10SM CLR 14/M12 A3028 RMK AO2 SLP270 T01391117 $ LJMB 202030Z AUTO 00000KT 5000 NSC 10/09 Q1010 VTUW 200900Z 07004KT 7000 FEW028 SCT300 36/23 Q1003 A2964 RWY15 INFO G VVDN 202030Z 13002KT 7000 FEW015 BKN060 26/25 Q1008 NOSIG LIVC 201655Z 26009KT 0800 FG VV003 02/00 Q1008 RMK MON INVIS VAL INVIS VIS MIN 0800 KTCL 201953Z VRB04KT 10SM CLR 24/07 A3015 RMK AO2 SLP209 T02440067 LIVD 201755Z 09005KT 9999 -RA BKN015 05/03 Q1008 RMK OVC SCT080 VIS MIN 9999 KTCM 201958Z AUTO 25008KT 10SM SCT046 SCT055 BKN190 14/05 A3025 RMK AO2 SLP248 T01420048 $ LIVE 201955Z 18006KT 9999 OVC030 07/05 Q1005 RMK OVC VIS MIN 9999 KSLN 201953Z 19014KT 10SM OVC095 21/13 A3002 RMK AO2 SLPNO T02060133 $ KSME 202035Z AUTO 33005KT 10SM CLR 25/03 A3015 RMK AO2 LIVF 201655Z 08004KT 9999 SCT020 12/09 Q1006 RMK BKN SCT080 MON S W CIME INC NC VAL LIB VIS MIN 9999 KSMF 201953Z 35011G18KT 10SM CLR 26/06 A3008 RMK AO2 SLP184 T02610056 KSKX 202035Z AUTO 23012G16KT 10SM SCT055 SCT075 SCT085 15/04 A3016 RMK AO1 KSLO 202035Z AUTO 18005KT 10SM CLR 25/08 A3013 RMK AO2 T02500082 KTBX 202035Z AUTO 28006KT 10SM SCT075 SCT085 14/M02 A3021 RMK AO2 KTDF 202035Z AUTO 06012G16KT 10SM CLR 19/04 A3024 RMK AO2 KRUQ 202035Z AUTO 03009G15KT 010V080 10SM SCT060 21/00 A3019 RMK AO2 T02060002 KSLR 202035Z AUTO 17011KT 10SM SCT055 25/12 A3010 RMK AO2 T02530122 KTCS 202025Z AUTO 23010G16KT 10SM CLR 21/03 A3011 RMK AO2 LTG DSNT NW T02060033 KSNA 201953Z 24007KT 10SM CLR 22/13 A3004 RMK AO2 SLP172 T02220128 EVRA 202020Z 04006KT CAVOK 16/04 Q1019 NOSIG KTEB 201951Z 20010G17KT 10SM CLR 13/M02 A3042 RMK AO2 SLP301 T01281017 KRUT 202035Z 26003KT 10SM CLR 16/M08 A3033 RMK AO1 KSNC 202035Z AUTO 16009KT 10SM CLR 11/M02 A3044 RMK AO2 LKCV 202000Z 14004KT CAVOK 12/10 Q1009 NOSIG RMK BLU BLU KSMN 202035Z AUTO 04003KT 10SM FEW002 14/M09 A3018 RMK AO1 LIVO 201755Z 00000KT 9999 OVC030 07/05 Q1008 RMK OVC VIS MIN 9999 KSMO 201951Z 26007KT 10SM CLR 21/13 A3006 RMK AO2 SLP176 T02060128 KRWF 201953Z AUTO 10SM CLR 24/00 A2996 RMK AO2 SLP145 T02390000 LIVP 201955Z 24019KT 0050 FG VV/// 01/01 Q1006 RMK MON INVIS VAL INVIS VIS MIN 0050 KSMQ 201953Z AUTO 15012G16KT 10SM CLR 14/M03 A3039 RMK AO2 SLP292 T01391028 LIVR 201755Z 15010KT 0100 SN FG VV/// 01/01 Q1006 RMK MON INVIS VIS MIN 0100 KTDR 202022Z AUTO 03011KT 10SM OVC018 16/13 A3012 RMK AO2 SLP199 KRWI 201953Z AUTO 02020G32KT 10SM OVC033 16/08 A3022 RMK AO2 PK WND 03032/1946 SLP231 T01610078 $ KRVS 201953Z 19006KT 10SM BKN110 24/13 A3008 RMK AO2 SLP190 T02440128 KSMS 202035Z AUTO 03012G18KT 10SM BKN042 A3014 RMK AO2 KSOA 202035Z AUTO 17008KT 10SM BKN021 BKN033 BKN050 21/17 A3006 RMK AO2 LIVT 201955Z 06012KT CAVOK 14/09 Q1007 RMK SCT SCT070 QUK / QUL / VIS MAR 20 KM VIS MIN 9999 KSNK 202035Z AUTO 18009KT 10SM SCT016 OVC036 21/17 A3004 RMK AO2 T02080171 KRWL 201953Z AUTO 28009G22KT 10SM FEW090 18/M05 A3013 RMK AO2 PK WND 29033/1936 SLP137 T01831050 KSNL 202035Z AUTO 19008KT 10SM BKN090 BKN110 25/16 A3009 RMK AO2 FNHU 200900Z 06011KT CAVOK 23/11 Q1024 FMSD 202000Z 06014KT 9999 FEW016 24/22 Q1014 KRXE 201953Z AUTO 18012G19KT 10SM CLR 15/M02 A3017 RMK AO2 SLP195 T01501022 KSMX 201951Z VRB06KT 10SM CLR 22/10 A3007 RMK AO2 SLP185 T02170100 $ KTDZ 201953Z AUTO 08003KT 10SM CLR 22/04 A3019 RMK AO2 SLP223 T02220044 TSNO KSPA 202035Z AUTO 05011G16KT 10SM CLR 22/01 A3018 RMK AO2 KSNS 201953Z 26009KT 10SM CLR 24/12 A3009 RMK AO2 SLP197 T02390122 KSNT 202051Z AUTO 35006KT 09/M14 A3024 RMK AO1 SLP196 T00891139 58002 KSPB 201953Z AUTO 13007KT 10SM FEW044 FEW055 14/07 A3025 RMK AO2 SLP241 T01440067 $ FNIU 200000Z 02005KT 9999 SCT020 BKN080 26/22 Q1012 NOSIG KSPD 201956Z AUTO 32015G19KT 21/07 A2997 RMK AO1 SLP101 T02060072 KRWV 202035Z AUTO 17014G19KT 10SM FEW036 FEW045 BKN090 25/13 A3011 RMK AO2 KTEW 202033Z AUTO 23004KT 10SM CLR 22/M02 A3016 RMK AO2 T02211019 KTEX 202017Z AUTO 01004KT 10SM SCT060 BKN085 12/M04 A3026 RMK AO2 KSPF 202035Z AUTO 31016G22KT 10SM CLR 15/M02 A3005 RMK AO2 KSNY 201953Z AUTO 17005KT 10SM CLR 23/02 A2998 RMK AO2 SLP123 T02330017 KSPG 201953Z 33008KT 10SM OVC030 22/16 A3003 RMK AO2 SLP168 T02170156 KSOP 202035Z AUTO 05008G16KT 10SM OVC060 19/06 A3017 RMK AO1 KTFP 202035Z AUTO 12019G26KT 10SM OVC080 26/18 A3007 RMK AO2 T02560179 KSPI 201952Z 18009KT 10SM CLR 27/04 A3011 RMK AO2 SLP191 T02720044 KTHA 202035Z AUTO VRB04KT 10SM CLR 25/06 A3016 RMK KSPL 202035Z AUTO CLR 25/20 A3007 RMK AO2 KSOW 202035Z AUTO 02007KT 10SM FEW045 FEW065 SCT070 17/01 A3023 RMK AO2 KRYN 202045Z 290071KT 10SM CLR 28/02 A3005 KSQI 202035Z 23007G16KT 180V280 10SM CLR 27/06 A3005 RMK AO1 KSPR 202035Z AUTO 00000KT 10SM CLR 24/17 A3013 RMK A01 KSPS 202038Z AUTO 16010KT 4SM RA BR FEW039 SCT046 OVC070 17/16 A3008 RMK AO2 P0015 TSNO MBGT 202000Z 16015KT 9999 SCT015 28/21 Q1016 EVVA 202020Z AUTO 07005KT CAVOK 12/02 Q1020 KSRB 202035Z AUTO 04004KT 10SM CLR 26/06 A3014 RMK KRYT 201953Z AUTO VRB03KT 10SM CLR 16/01 A3032 RMK AO2 SLP269 T01560006 $ KSRC 202056Z AUTO 16009KT 10SM CLR 26/11 A3012 RMK AO2 TSNO 56020 T02610105 SLP201 $ KSQL 202047Z 36003KT 10SM SKC 24/08 A3011 KRZL 202035Z AUTO 22004KT 10SM CLR 23/00 A3014 RMK AO2 KRYV 202035Z AUTO 22011G17KT 10SM CLR 25/08 A3005 RMK AO2 LTG DSNT W T02500080 KSPW 201953Z AUTO VRB05KT 10SM SCT110 23/12 A2994 RMK AO2 SLP137 T02330117 LIYW 201958Z AUTO 04005KT 9999 FEW055 10/08 A2979 RMK AO2 SLP091 T00960082 KRYW 202035Z AUTO 17008KT 10SM SCT024 BKN031 OVC037 22/16 A3010 RMK AO2 T02200160 KRZN 202030Z AUTO 29005KT 10SM CLR 21/00 A3000 RMK AO2 T02111003 KTIF 202035Z AUTO 18008KT 10SM CLR 27/05 A2993 RMK AO2 T02670045 KRYY 202047Z 10005KT 10SM SKC 23/07 A3016 WMKA 202000Z 05001KT 9999 FEW030 SCT140 BKN280 25/24 Q1008 LJPZ 202030Z AUTO 11004KT 9999 NSC 11/11 Q1008 KRZR 202035Z AUTO 05006KT 10SM CLR 24/03 A3015 RMK WMKB 202000Z 06003KT 5000 BR FEW000 BKN280 25/24 Q1008 NOSIG WMKC 202000Z 23003KT 9999 FEW020 BKN280 26/23 Q1008 WMKD 202000Z 35002KT 9000 FEW008 SCT160 BKN280 24/23 Q1008 NOSIG KTIK 201958Z AUTO 18016KT 10SM FEW035 22/13 A3007 RMK AO2 SLP182 T02210131 $ WMKE 201100Z 11004KT 9999 FEW020 SCT140 BKN220 30/25 Q1007 KSSC 201958Z AUTO 02017KT 10SM OVC041 19/08 A3013 RMK AO2 SLP204 T01920078 $ GEML 202000Z VRB02KT 9999 FEW010 17/14 Q1008 NOSIG FNLU 202000Z 18006KT 9999 SCT020 27/25 Q1009 NOSIG KTHV 201953Z AUTO 09006KT 10SM CLR 18/01 A3034 RMK AO2 SLP276 T01780011 KSSF 202029Z 13007KT 10SM OVC028 23/17 A3005 RMK AO2 T02330172 FNMO 200900Z 00000KT 9999 FEW022 SCT130 28/22 Q1011 WMKI 202000Z 02006KT 340V060 8000 FEW010 BKN150 BKN260 25/23 Q1009 KTIP 202035Z AUTO 22008KT 10SM CLR 26/01 A3013 RMK AO2 T02630012 TSNO WMKJ 202000Z 36002KT 9999 FEW010 BKN300 24/24 Q1008 KSRQ 201953Z AUTO 30014KT 10SM BKN029 OVC037 22/16 A3003 RMK AO2 WSHFT 1900 SLP167 T02220156 WMKK 202030Z 09002KT 9999 FEW017CB BKN280 25/24 Q1008 NOSIG KSSI 201953Z AUTO VRB04KT 10SM -RA OVC015 15/12 A3009 RMK AO2 SLP189 P0000 T01500117 KSRR 202035Z AUTO 30013G18KT 10SM CLR 17/02 A3018 RMK AO2 WMKL 202000Z 10002KT 9999 FEW026 SCT140 BKN270 28/26 Q1008 WMKM 202000Z 00000KT 9999 FEW017CB SCT140 BKN270 25/24 Q1009 LKKB 202000Z 11007KT 090V150 CAVOK 12/07 Q1009 NOSIG WMKN 202000Z 20004KT 9999 FEW024 BKN270 25/24 Q1008 KSTC 201953Z VRB03KT 10SM CLR 22/00 A2999 RMK AO2 SLP166 T02220000 KTKC 202032Z AUTO 10007KT 10SM CLR 24/01 A2996 RMK AO2 LTG DSNT SE T02440010 KW22 202035Z AUTO 29004KT 10SM CLR 23/M07 A3020 RMK AO2 WMKP 202030Z 02004KT 8000 FEW025 SCT140 BKN270 26/25 Q1008 NOSIG KTIW 201953Z 28005KT 10SM SCT050 13/03 A3026 RMK AO2 SLP247 T01330033 $ KSTE 202035Z AUTO 19006KT 10SM BKN017 BKN021 OVC030 13/10 A3006 RMK AO2 T01330101 KUBE 202035Z AUTO 31003KT 10SM CLR 21/M01 A2998 RMK AO2 LTG DSNT S KTIX 202047Z 02010KT 7SM OVC025 19/14 A3004 KUAO 201953Z AUTO 25006KT 10SM FEW035 16/08 A3025 RMK AO2 SLP245 T01560078 KSTF 202035Z AUTO 14004KT 10SM CLR 24/10 A3015 RMK AO2 LLBG 202020Z 34004KT 9999 SCT020 19/15 Q1014 NOSIG KTKI 201953Z 14011G19KT 10SM FEW050 25/12 A3006 RMK AO2 SLP181 T02500122 KSUA 202047Z 36008KT 7SM SCT025 OVC035 20/17 A3003 KSTJ 201953Z 22014G21KT 10SM SCT060 27/12 A3001 RMK AO2 SLP157 T02670117 KW29 202045Z AUTO 10008KT 10SM CLR 15/00 A3036 RMK AO1 KSTK 202030Z AUTO 00000KT 10SM CLR 25/03 A2995 RMK AO2 KSTL 201951Z 19010G14KT 10SM BKN250 27/06 A3010 RMK AO2 SLP186 T02720056 KSUE 202035Z AUTO 18006KT 10SM OVC095 06/04 A3009 RMK AO1 KSTP 201953Z VRB06KT 10SM SCT090 23/02 A2998 RMK AO2 SLP150 T02330022 $ KTLH 201953Z 02006KT 10SM BKN016 OVC020 16/10 A3014 RMK AO2 SLP207 T01610100 $ VVNB 202030Z 13006KT 3500 -DZ BR FEW006 SCT010 BKN030 26/24 Q1007 NOSIG KSTS 201953Z 31004KT 10SM CLR 25/08 A3010 RMK AO2 SLP187 T02500078 KTMA 202035Z AUTO 04006KT 10SM BKN020 OVC029 16/13 A3013 RMK AO2 T01600126 TSNO KTMB 201953Z 34012KT 10SM SCT042 26/14 A3000 RMK AO2 SLP159 T02560139 KSVC 202035Z AUTO 25006KT 10SM FEW080 21/00 A3016 RMK AO2 KTKV 202035Z AUTO 00000KT 10SM SCT028 SCT070 18/10 A3002 RMK AO2 T01790102 LKKV 202000Z 05005KT CAVOK 08/05 Q1008 LKLN 202000Z AUTO VRB03KT CAVOK 10/06 Q1008 KSUN 201950Z 18005KT 10SM FEW180 16/M06 A3017 KTME 202035Z AUTO 15013G16KT 10SM SCT090 27/11 A3010 RMK AO2 KW43 202035Z AUTO 36013G17KT 10SM CLR 16/M02 A3006 RMK AO2 KUDG 202035Z AUTO 02007KT 10SM BKN043 OVC050 18/08 A3017 RMK AO1 KUCP 201956Z AUTO VRB05KT 10SM CLR 22/M03 A3023 RMK AO2 TSNO T02221033 SLP254 KSVH 202035Z AUTO 04009KT 10SM CLR 20/01 A3019 RMK AO2 T02000008 KSUS 201954Z 14007KT 10SM SCT250 27/03 A3008 RMK AO2 SLP181 T02720033 LKNA 202000Z 08004KT 9999 SCT045 BKN050 09/06 Q1010 NOSIG RMK BLU BLU KSUT 202035Z AUTO 01013G26KT 7SM BKN012 OVC017 14/13 A3004 RMK AO2 P0002 T01380127 KTMK 202035Z AUTO 32007KT 7SM BKN043 15/06 A3024 RMK AO2 KTNB 202035Z AUTO 14005KT 10SM CLR 18/M03 A3024 RMK AO2 T01781035 KSUU 201958Z AUTO 21005KT 10SM CLR 23/14 A3009 RMK AO2 SLP196 T02340142 PWINO PNO $ KSVN 201958Z AUTO 35007KT 320V030 10SM SCT033 21/12 A3005 RMK AO2 SLP179 T02100123 KSUW 202035Z AUTO 07004KT 10SM CLR 17/05 A2999 RMK AO2 T01730045 KSUX 201952Z 15009G16KT 10SM CLR 27/12 A2991 RMK AO2 SLP125 T02670117 KSWF 201945Z 09012KT 20SM SKC 15/M02 A3039 KUCY 202035Z AUTO 00000KT 10SM CLR 24/07 A3013 RMK VVPB 202030Z VRB02KT CAVOK 26/25 Q1008 NOSIG KTOA 201747Z 28010KT 10SM SKC 22/14 A3008 KTOB 202034Z AUTO 20004KT 10SM OVC018 18/14 A3002 RMK AO2 LKMT 202030Z 23004KT 9999 -RA NSC 09/08 Q1011 NOSIG KTOC 202035Z AUTO 14003KT 10SM CLR 24/03 A3016 RMK AO2 T02380032 KSWO 201953Z 18010G15KT 10SM FEW045 OVC100 25/13 A3005 RMK AO2 SLP167 T02500128 KTOI 201953Z AUTO 06009G20KT 10SM BKN034 21/11 A3016 RMK AO2 SLP210 T02110111 KUES 202045Z 20013KT 10SM SCT150 23/06 A3007 KTPA 201953Z 29009KT 10SM BKN030 BKN036 22/15 A3005 RMK AO2 SLP175 T02170150 LLET 201450Z 34012KT CAVOK 37/13 Q1008 KTOL 201952Z 19007G15KT 10SM CLR 23/M03 A3018 RMK AO2 SLP219 T02281033 KTNU 202035Z AUTO 21016G24KT 10SM CLR 28/11 A2998 RMK AO2 LKPD 202000Z 12005KT CAVOK 11/06 Q1009 NOSIG RMK BLU BLU KSWW 202035Z AUTO 15006KT 5SM SCT010 BKN020 OVC024 19/19 A3009 RMK AO2 P0002 T01850185 VVPQ 201300Z VRB01KT 9999 FEW017 27/24 Q1007 NOSIG KTPF 202035Z AUTO 28007KT 10SM BKN034 OVC040 23/16 A3004 RMK AO2 KSYF 202035Z AUTO 00000KT 10SM SCT055 22/06 A2995 RMK AO2 T02220063 FNSO 200900Z 05004KT 9999 FEW012 BKN017 27/23 Q1012 KTOP 201953Z 19011KT 10SM CLR 25/12 A3003 RMK AO2 SLP161 T02500122 KTPH 201956Z AUTO 30006G15KT 10SM CLR 21/M13 A3020 RMK AO2 SLP168 T02111133 $ KTOR 201953Z AUTO 31008G18KT 10SM CLR 24/M01 A2996 RMK AO2 SLP112 T02391006 KSYI 202035Z AUTO 22003KT 10SM CLR 26/07 A3016 RMK LLHA 201550Z 32010KT 9999 SCT015 20/17 Q1013 KSXT 201956Z AUTO VRB03KT 10SM CLR 13/M01 A3024 RMK AO2 SLP229 T01331006 FNUB 200900Z 14010KT 9999 FEW025 23/// Q1026 KTPL 202035Z AUTO 15014G26KT 10SM BKN040 OVC050 24/13 A3008 RMK AO1 KSYM 202030Z AUTO VRB06KT 10SM CLR 24/02 A3018 RMK AO2 KUGN 201952Z 14011KT 10SM CLR 19/04 A3010 RMK AO2 SLP190 T01940039 KSYN 202032Z AUTO 00000KT 10SM SCT035 21/11 A2998 RMK AO2 LTG DSNT S T02070107 KTQE 201954Z AUTO 19017G21KT 10SM CLR 29/10 A2991 RMK AO2 SLP115 T02940100 FNUE 200900Z 09012KT 9999 FEW028 SCT065 25/// Q1023 WMSA 202000Z 00000KT 6000 FEW025 SCT140 BKN280 25/24 Q1009 KTQH 202035Z AUTO 16004KT 10SM CLR 22/12 A3010 RMK AO2 KSYR 201954Z 07004KT 10SM FEW180 BKN200 BKN260 18/M03 A3028 RMK AO2 SLP254 T01831033 LKPR 202030Z 10005KT 9999 -SHRA FEW040 10/06 Q1008 NOSIG LLIB 201350Z 32014KT CAVOK 27/06 Q1012 KSZL 201958Z AUTO 21014G25KT 10SM FEW060 25/11 A3007 RMK AO2 SLP181 T02510105 GFLL 202100Z 28007KTS 9999 FEW014 27/24 Q1011 MBPV 201900Z 14010KT 9999 SCT012 SCT040 31/24 Q1015 KTRI 201953Z 00000KT 10SM SCT250 23/M03 A3019 RMK AO2 SLP204 T02331033 MDAB 202000Z 04005KT 9999 BKN020 30/26 Q1015 KTRK 201945Z 35006KT 10SM SCT180 16/M06 A3025 RMK NOSPECI KW99 202035Z AUTO 10007KT 10SM CLR 23/02 A3026 RMK AO2 T02300019 KSZT 202030Z AUTO 18008KT 10SM SCT060 SCT070 12/00 A3025 RMK AO2 KUIL 201953Z AUTO 14004KT 2 1/2SM -RA BR BKN035 OVC050 09/08 A3023 RMK AO2 SLP239 P0002 T00890078 KTRL 201953Z AUTO 18014KT 10SM FEW075 24/12 A3010 RMK AO2 SLP187 T02440117 KTRM 201952Z AUTO 14007KT 10SM CLR 33/10 A2993 RMK AO2 SLP137 T03280100 KVAD 201958Z AUTO 01009KT 350V060 10SM OVC016 16/12 A3012 RMK AO2 SLP202 T01550119 $ KUIN 201954Z AUTO 17007G16KT 10SM FEW070 27/09 A3007 RMK AO2 SLP176 T02670094 KVAF 202035Z AUTO 12009KT 10SM CLR 22/17 A3013 RMK A01 KTTA 202035Z AUTO 03012G20KT 10SM 20/06 A3018 RMK AO2 T02010061 LKTB 202030Z 07005KT CAVOK 10/07 Q1010 NOSIG KTTD 201953Z VRB06KT 10SM CLR 17/06 A3023 RMK AO2 SLP238 T01670056 KTTF 202034Z AUTO 10007KT 10SM CLR 20/02 A3017 RMK AO2 KUKF 202035Z AUTO 11006KT 10SM CLR 20/00 A3026 RMK AO2 KVBG 201955Z AUTO 29004KT 10SM CLR 18/11 A3009 RMK AO2 SLP180 T01830106 TSNO KTSP 202035Z AUTO 32016G20KT 9SM CLR 20/03 A3015 RMK AO2 MDBH 202000Z 10012KT 9999 SCT024 29/23 Q1016 FOOG 202000Z 24004KT 9999 TS SCT008 FEW020CB BKN026 29/25 Q1009 VVTS 202030Z VRB02KT 9999 FEW015TCU SCT017 28/26 Q1008 NOSIG KUKI 201956Z AUTO 25003KT 10SM CLR 24/04 A3012 RMK AO2 SLP195 T02390039 KVCB 201953Z AUTO 00000KT 10SM CLR 25/05 A3011 RMK AO2 SLP194 T02500050 $ KTTN 201953Z 11011KT 10SM CLR 14/M03 A3040 RMK AO2 SLP289 T01391028 FOON 201800Z 04002KT 9999 -TSRA SCT013 FEW016CB 22/22 Q1008 KVAY 201954Z AUTO 09007KT 10SM CLR 12/M03 A3042 RMK AO2 SLP299 T01221028 KVBS 200435Z AUTO 24004KT 10SM OVC050 20/17 A3012 RMK A01 KTTS 201958Z AUTO 01009G15KT 10SM BKN022 20/15 A3003 RMK AO2 SLP172 T02030148 $ KVBT 202035Z AUTO 25008KT 10SM FEW055 24/11 A3012 RMK AO1 KUKT 202035Z AUTO 12007KT 10SM CLR 15/M01 A3038 RMK AO1 KTUL 201953Z 16011KT 10SM FEW055 SCT120 BKN250 24/13 A3007 RMK AO2 SLP177 T02390133 KTVC 201953Z 25008KT 10SM FEW080 OVC130 19/02 A3010 RMK AO2 SLP193 T01940017 KULM 202033Z AUTO 12005G08KT 10SM CLR 22/09 A2996 RMK AO2 LTG DSNT SE KTVF 202035Z AUTO 22009G15KT 10SM CLR 19/04 A2997 RMK AO1 KVDF 202035Z AUTO 33005KT 10SM SCT035 OVC041 24/14 A3004 RMK AO2 KTUP 201953Z VRB03KT 10SM CLR 26/08 A3015 RMK AO2 SLP209 T02560078 KVDI 202035Z AUTO 02009KT 10SM OVC050 21/13 A3010 RMK AO2 KTVI 202030Z AUTO 03006KT 10SM OVC015 15/13 A3014 RMK AO2 RJAA 202030Z 33004KT 5000 BR BKN035 10/09 Q1020 TEMPO 4000 -RA BR KTUS 201953Z 35007KT 10SM CLR 28/02 A3008 RMK AO2 SLP145 T02830022 KVCT 201951Z 12015KT 10SM FEW045 OVC090 27/14 A3009 RMK AO2 SLP188 T02720144 $ KTVK 202035Z AUTO 19009KT 10SM CLR 25/10 A3004 RMK AO2 KTVL 201953Z AUTO 01006KT 10SM CLR 16/M05 A3025 RMK AO2 SLP216 T01561050 KVCV 202035Z AUTO 05004KT 10SM SCT085 SCT110 28/M03 A3006 RMK AO2 RJAF 200700Z 15019G29KT 9999 SCT040 BKN/// 11/03 Q1016 KTWF 201953Z 25012G21KT 10SM CLR 16/M08 A3024 RMK AO2 SLP206 T01611083 MDCY 202000Z 16005KT SCT018 29/25 Q1015 RJAH 202032Z 00000KT 4000 -RA BR SCT015 OVC025 09/08 Q1019 RMK 3SC015 8SC025 A3012 KTVR 201953Z AUTO 08006KT 10SM CLR 27/11 A3013 RMK AO2 SLP209 T02720106 TSNO KUNI 202035Z AUTO 13008KT 10SM CLR 24/M05 A3017 RMK AO2 T02411050 RJAK 200438Z 08004KT 9999 FEW020 BKN035 BKN100 12/03 Q1023 RMK 1CU020 5SC035 7AC100 A3021 RJBB 202030Z 04005KT 9999 -RA FEW015 SCT035 BKN045 13/11 Q1016 NOSIG KVEL 201953Z AUTO 33013KT 7SM RA BKN065 OVC080 12/07 A3014 RMK AO2 PK WND 33026/1930 WSHFT 1919 LTG DSNT SW RAB43 SLP183 P0001 T01220067 RJBD 201000Z 07007KT 9999 FEW015 BKN060 BKN100 14/11 Q1016 KTWM 202033Z AUTO 16005KT 10SM CLR 16/04 A2998 RMK AO2 LTG DSNT N SABE 202000Z 09004KT CAVOK 19/13 Q1018 RJBE 201200Z 05015KT 9999 FEW015 SCT045 BKN080 13/09 Q1018 KUNO 201953Z AUTO 22005KT 10SM CLR 24/08 A3013 RMK AO2 SLP197 T02440083 SAAR 202000Z 07005KT CAVOK 24/11 Q1017 KVER 202035Z AUTO 22010KT 10SM SCT070 27/09 A3005 RMK AO2 T02670085 RJAT 200038Z 34004KT 7000 FEW000 SCT010 BKN030 04/03 Q1023 RMK 1ST000 3ST010 6SC030 A3021 KVES 202035Z AUTO 18004KT 10SM 22/00 A3017 RMK AO2 RJCB 201100Z VRB02KT CAVOK 04/M04 Q1018 EYKA 202050Z 07006KT CAVOK 12/02 Q1017 KTXK 202019Z 14004KT 10SM SCT060 25/12 A3011 RMK AO2 RJCC 202030Z 14002KT 9999 FEW005 SCT100 BKN/// M00/M02 Q1017 KUNU 202035Z AUTO 25005KT 10SM SCT100 22/02 A3007 RMK AO2 T02170023 RJAW 202000Z 15008KT 9999 BKN015 22/19 Q1015 RMK 7CU015 A3000 KUNV 201953Z 23004KT 10SM SKC 18/M04 A3031 RJCH 201100Z 10007KT CAVOK 06/00 Q1019 RJBT 200900Z 16007KT 140V200 9999 FEW030 SCT100 15/06 Q1016 RJCK 201100Z VRB02KT 9999 FEW040 BKN/// 00/M02 Q1020 RJDC 201200Z 11012KT 9999 FEW025 BKN040 13/09 Q1015 RJCM 201100Z 00000KT 9999 FEW050 BKN/// 02/M03 Q1019 LLOV 201150Z 23012KT CAVOK 36/07 Q1011 RMK FEW100 RJCN 200900Z 04005KT CAVOK 03/M02 Q1019 SADF 202000Z 09002KT CAVOK 20/13 Q1018 SACO 202000Z 02010KT 9999 SCT025 BKN100 22/14 Q1017 KUOX 202035Z AUTO 15003KT 10SM CLR 25/07 A3014 RMK AO2 KTYQ 202035Z AUTO 17005KT 10SM CLR 24/M04 A3016 RMK AO2 T02351042 FQCH 200600Z /////KT 9999 FEW015 19/16 Q1024 KTYR 201953Z 18006KT 10SM FEW040 SCT050 SCT110 26/13 A3010 RMK AO2 SLP186 T02560128 FQBR 202000Z 12005KT CAVOK 24/20 Q1017 KTYS 201953Z VRB06KT 10SM FEW250 24/06 A3015 RMK AO2 SLP206 T02390056 RJEB 200700Z 10009KT CAVOK 06/M05 Q1018 KVGT 201953Z VRB03KT 10SM CLR 29/01 A3000 RMK AO2 SLP157 T02940006 RJEC 201100Z 33005KT CAVOK 05/M02 Q1018 RJCW 200900Z 20014KT 9999 FEW008 BKN/// 05/01 Q1018 SADP 201306Z 09003KT CAVOK 18/11 Q1022 KVIH 201953Z AUTO 17008KT 10SM CLR 26/08 A3008 RMK AO2 SLP180 T02560083 KTZR 201950Z 15006KT 10SM SKC 22/06 A3020 RJDT 201100Z 05005KT 350V150 9999 FEW010 SCT025 13/10 Q1015 MDJB 202000Z 19010KT 9999 SCT018 SCT070 28/24 Q1016 RJFE 200441Z 04015KT 9999 -RA FEW006 SCT008 BKN060 14/13 Q1014 RMK 1ST006 4ST008 5SC060 A2995 LLSD 201850Z 35004KT 9999 BKN017 20/17 Q1013 KUSE 202035Z AUTO VRB06G11KT 10SM CLR 22/M03 A3017 RMK AO2 RJFF 202030Z 11003KT 9999 FEW030 BKN050 BKN060 14/12 Q1012 RJFG 200900Z 07011G23KT 030V110 0800 R31/0450V1000N -SHRA FG FEW001 SCT002 BKN003 16/16 Q1011 KVJI 202035Z AUTO 06005KT 10SM CLR 23/M03 A3019 RMK AO2 T02301031 KVIS 202035Z AUTO 21004KT 10SM CLR 24/11 A3009 RMK AO1 KUTA 202035Z AUTO 22003KT 10SM CLR 26/08 A3012 RMK AO2 RJFK 201200Z 09009KT 050V120 9999 FEW010 SCT015 BKN050 16/12 Q1013 KY19 202035Z AUTO 20015G24KT 10SM CLR 23/00 A2987 RMK AO2 KWAL 201954Z AUTO 07022G29KT 10SM CLR 12/06 A3036 RMK AO2 PK WND 06031/1932 SLP277 T01220056 TSNO RJFM 201200Z 04012KT 2000 -SHRA BR FEW002 SCT003 BKN004 16/14 Q1014 KY23 202035Z AUTO 00000KT 10SM SCT100 21/05 A2999 RMK AO2 T02080054 RJFO 201200Z 10006KT 9999 FEW025 BKN040 BKN070 13/10 Q1016 RJGG 202030Z 36010KT 3000 -RA BR FEW002 SCT004 BKN010 11/11 Q1017 BECMG 4500 BR FEW005 SCT008 BKN015 SAEZ 202000Z 06003KT CAVOK 20/08 Q1019 RJFR 202000Z 12008KT 090V160 9999 FEW008 BKN015 BKN050 13/11 Q1013 RJFS 201900Z 32006KT 9999 -SHRA FEW030 SCT035 BKN050 15/13 Q1013 RJFT 201200Z 05010KT 030V100 9999 FEW020 SCT060 BKN100 16/10 Q1013 EYPA 202050Z 05008KT CAVOK 14/05 Q1018 RJFU 201200Z 29003KT 250V330 9999 FEW025 SCT060 15/14 Q1013 KVLD 201953Z 02009KT 10SM OVC015 17/11 A3013 RMK AO2 SLP211 T01720111 RJFY 201711Z 05010KT 5000 BR FEW003 SCT010 BKN015 17/16 Q1011 RMK 1ST003 3ST010 7CU015 A2987 KUTS 201953Z AUTO 19005KT 10SM SCT050 OVC090 26/13 A3011 RMK AO2 SLP192 T02560128 $ KVKS 202035Z AUTO VRB04KT 10SM CLR 27/11 A3012 RMK A01 KUVA 202035Z AUTO 11005KT 1 3/4SM DZ SCT005 BKN009 OVC020 20/19 A3006 RMK AO2 T02000193 KVLL 202035Z AUTO 17006KT 10SM CLR 22/M04 A3018 RMK AO2 T02181040 GGOV 201900Z 24007KT 180V300 CAVOK 31/18 Q1009 NOSIG KWDG 201950Z 15014KT 10SM BKN036 BKN044 OVC130 25/15 A3003 KVKY 202035Z AUTO 08009KT 10SM CLR 19/13 A3015 RMK A01 MDLR 202000Z 16006KT 9999 BKN022 28/22 Q1015 KY50 202036Z AUTO 15004KT 3SM -RA BR FEW022 SCT036 BKN046 13/12 A3007 RMK AO2 TSNO P0004 KY49 202035Z AUTO 12005KT 10SM CLR 18/M01 A2998 RMK AO2 LTG DSNT S T01841006 LMML 202045Z 15014KT CAVOK 19/13 Q1005 NOSIG KUUU 201953Z AUTO 18010KT 10SM CLR 09/M01 A3045 RMK AO2 SLP310 T00941006 KVNC 202035Z AUTO 31013KT 10SM SCT042 22/17 A3004 RMK AO2 KY51 202034Z AUTO 17008KT 7SM SCT032 BKN065 OVC080 14/14 A3004 RMK AO1 P0002 T01400135 SBAF 202000Z 20011KT 9000 SCT020 BKN100 25/20 Q1014 KWDR 202035Z AUTO 06005KT 10SM 22/M06 A3020 RMK AO1 RJKA 201000Z 20010KT 9999 FEW025 SCT040 BKN050 22/19 Q1010 KVOA 202035Z AUTO 04015KT 10SM OVC024 17/13 A3013 RMK A01 EYSA 202050Z 04004KT CAVOK 14/05 Q1019 SBAN 202000Z 34002KT 9999 FEW037 29/16 Q1018 SBBE 202000Z 01004KT 9999 SCT030 BKN100 27/24 Q1009 KY63 202033Z AUTO 13003KT 10SM CLR 22/01 A2996 RMK AO2 LTG DSNT SE T02160007 SBAQ 201600Z 33003KT 9999 FEW045 SCT080 32/19 Q1018 SBBH 202000Z 20003KT 9999 FEW048TCU 26/20 Q1016 SBBI 202000Z 15008KT 9999 SCT013 BKN017 BKN027 20/16 Q1020 SBAR 202000Z 11009KT 9999 SCT020 28/21 Q1012 SBCA 202000Z 29004KT 9999 SCT045 25/19 Q1017 SBAT 202000Z 14004KT 9999 VCSH FEW022 FEW025TCU 31/23 Q1011 SBCB 202000Z 26008KT 9999 BKN007 26/24 Q1013 SBAU 202000Z 16005KT 9999 FEW040 32/19 Q1014 SBCC 202000Z 07008KT 9999 SCT030 FEW035TCU BKN080 28/22 Q1013 KY70 202033Z AUTO 20007KT 10SM CLR 22/M03 A3014 RMK AO2 T02171034 KVOK 201958Z 14006KT 10SM -RA SCT020 OVC040 13/13 A3005 RMK AO2A SLP180 MDPC 202000Z 18012KT 9999 FEW025 SCT300 29/23 Q1016 KVPC 201953Z AUTO 01005KT 10SM CLR 23/07 A3016 RMK AO2 SLP204 T02330072 KUXL 202035Z AUTO 18007KT 10SM CLR 27/13 A3012 RMK AO2 T02730127 SBCF 202000Z 11004KT 9999 BKN040 BKN100 26/19 Q1016 SBCG 202000Z 16004KT 9999 SCT040 FEW050TCU SCT100 29/19 Q1014 SBBQ 202000Z 23002KT 9999 SCT040 SCT100 24/17 Q1020 SBCH 202000Z 17010KT 9999 SCT040 22/14 Q1018 KVNY 201951Z 23003KT 10SM CLR 26/08 A3003 RMK AO2 SLP160 T02610083 SBBR 202000Z 10006KT 9999 SCT040 30/16 Q1017 SBCJ 202000Z 00000KT 9999 FEW025 24/22 Q1013 KUZA 201954Z AUTO 05009G16KT 360V100 10SM SCT055 21/M01 A3019 RMK AO2 SLP218 T02111006 SBBU 202000Z 24008KT CAVOK 30/22 Q1015 SBCM 202000Z 27005KT 6000 -DZ SCT008 BKN018 OVC070 20/19 Q1019 FPST 202000Z 33002KT 9999 TS FEW020CB BKN040 26/23 Q1011 TEMPO 5000 TSRA SBBV 202000Z 15006KT 9999 FEW040 FEW050TCU BKN080 31/22 Q1008 SBBW 202000Z 00000KT 9999 FEW020 32/20 Q1012 FQLC 202000Z 10016KT 2000 DZ BKN003 BKN010 FEW020CB 16/16 Q1022 RMK CB TO ALL/D SAME 202000Z 09005KT CAVOK 22/06 Q1015 SBCO 202000Z 14011KT 9999 BKN040 21/16 Q1018 SBCP 202000Z 04004KT 7000 -TSRA BKN015 FEW030CB BKN090 23/22 Q1 014 RERA MDPP 202000Z 06015KT 9999 SCT022 BKN070 30/24 Q1014 SBCR 202000Z 27005KT 9999 SCT020 FEW030TCU 31/22 Q1011 KVPS 201955Z 05006KT 10SM OVC022 17/12 A3015 RMK AO2A SLP216 T01690119 $ SBCT 202000Z 13008KT 9999 SCT013 SCT033 BKN050 20/16 Q1020 FQMA 202000Z 06006KT CAVOK 22/20 Q1017 NOSIG KVRB 202015Z AUTO 01008KT 10SM SCT023 OVC034 22/17 A3002 RMK AO2 T02220167 SBDN 202000Z 18006KT CAVOK 28/19 Q1014 SBCX 202000Z 21006KT 7000 SCT005 BKN007 16/15 Q1020 RJNG 202026Z 01003KT 3000 -RA BR FEW002 BKN008 BKN015 10/10 Q1017 RMK 2ST002 5ST008 7SC015 A3005 SBCY 202100Z 19003KT 9999 SCT030 BKN100 26/23 Q1011 SBEG 202000Z 08005KT 9999 SCT020 FEW025TCU 30/22 Q1008 SBCZ 202000Z 25003KT 9999 SCT015 BKN100 26/26 Q1010 RETS KWHP 202047Z 17005KT 10SM SKC 26/09 A3006 KVQQ 202050Z 33012KT 7SM OVC016 16/12 A3009 KVPZ 201953Z AUTO 23008KT 10SM CLR 23/02 A3015 RMK AO2 SLP210 T02280017 TSNO RJOA 201200Z 10004KT CAVOK 11/05 Q1017 SBEK 202000Z 21001KT 9999 SCT015 28/26 Q1009 RJNK 202000Z 03003KT 9999 FEW020 BKN060 12/08 Q1015 EYVI 202050Z 06005KT CAVOK 13/03 Q1017 NOSIG RJOB 201200Z 09004KT 9999 FEW030 SCT050 BKN060 12/08 Q1017 SAOC 202000Z 36011KT 9999 SCT030 24/12 Q1015 RJOC 201100Z 07009KT CAVOK 12/08 Q1016 RJOE 200033Z 30006KT 3500 -RA BR FEW008 BKN015 BKN025 09/08 Q1022 RMK 2ST008 6CU015 7SC025 A3019 MDSD 202000Z 16010KT 9999 SCT020 29/23 Q1015 RJOF 201844Z 29003KT 9999 -RA FEW020 SCT025 BKN045 13/11 Q1014 RMK 1CU020 3CU025 7SC045 A2996 KVSF 201954Z AUTO 16008KT 10SM CLR 16/M11 A3035 RMK AO2 SLP283 T01561111 KWJF 201956Z 33006KT 10SM CLR 28/M01 A3004 RMK AO2 SLP159 T02831006 RJOH 202000Z VRB01KT 9999 -RA FEW040 BKN050 OVC090 12/11 Q1014 KVSH 202035Z AUTO 28004KT 10SM CLR 28/08 A3012 RMK AO1 RJOI 202025Z 00000KT 9999 -RA FEW025 SCT040 OVC070 13/10 A2995 RMK SLP143 SBFI 202000Z 19002KT 9999 SCT020 24/21 Q1015 SBES 202000Z 24011KT 9999 FEW009 SCT020 24/22 Q1013 RJNS 201100Z 02004KT 320V090 9999 -RA FEW010 SCT020 BKN045 09/09 Q1021 SANT 202000Z 20006KT 9000 SCT035 BKN100 23/19 Q1014 KVTA 201954Z AUTO VRB04KT 10SM CLR 24/M01 A3018 RMK AO2 SLP219 T02391006 RJNT 201200Z 31003KT 270V350 9999 FEW040 BKN080 10/06 Q1018 RJOK 201100Z 34004KT 9999 FEW040 BKN060 OVC090 16/13 Q1016 SBFL 202000Z 18008KT 9999 SCT035 SCT090 21/17 Q1017 RJOM 201200Z 02002KT 9999 SCT070 BKN100 14/10 Q1016 SBFN 202000Z 12012KT 9999 SCT017 27/24 Q1011 RJNW 201000Z 11003KT 9999 FEW040 SCT/// 07/05 Q1017 LOAN 201800Z 16004KT 17KM FEW015CU SCT040CU BKN070SC RMK BKN RJOO 202000Z 06007KT 9999 FEW015 BKN040 13/09 Q1016 RJOP 202039Z 10004KT 3100 -RA BR SCT005 BKN008 OVC040 13/12 Q1015 RMK 3ST005 6ST008 8SC040 A2999 RJNY 202019Z 36003KT 330V040 8000 -RA FEW005 BKN007 BKN025 11/11 Q1019 RMK 1ST005 5ST007 7SC025 A3009 FQNP 201900Z /////KT 9999 BKN020 22/21 Q1017 RJOR 201200Z 16004KT CAVOK 11/09 Q1017 RJOS 202037Z VRB02KT 3100 -RA BR FEW002 BKN005 OVC010 13/12 Q1015 RMK 1ST002 6ST005 8ST010 A2998 SBFS 202030Z 28008KT 9999 TSRA SCT017 FEW025CB BKN100 ///// Q10 13 KVTI 202035Z AUTO 21014G18KT 10SM CLR 27/07 A3000 RMK AO2 T02700067 RJOT 201200Z VRB02KT 9999 FEW025 SCT060 BKN080 10/07 Q1017 VYMD 201130Z 00000KT 7000 HZ SCT025 35/24 Q1002 MDST 202000Z 11022KT 9999 SCT030 32/20 Q1014 SBGL 202000Z 23009KT 8000 SCT040 SCT100 26/19 Q1014 LOAV 201800Z VRB02KT 20KM SCT020CU BKN050CU 11/08 Q1010 RMK OVC KWLD 201954Z AUTO 17010KT 10SM SCT100 22/16 A3007 RMK AO2 RAE25 SLP175 P0000 T02220156 RJOW 201000Z VRB02KT 9999 BKN045 BKN070 13/06 Q1016 KVTN 201952Z AUTO 19010G19KT 10SM CLR 26/05 A2990 RMK AO2 SLP124 T02560050 SBGO 202000Z 02005KT 9999 FEW040 31/13 Q1015 RJOY 201000Z 35007KT 320V020 9999 FEW020 SCT030 BKN060 13/08 Q1018 RJOZ 202012Z 12007KT 9999 FEW015 BKN020 BKN230 13/11 Q1014 RMK 1CU015 6CU020 A2995 KVTP 202029Z AUTO 07003KT 10SM SCT032 BKN049 OVC060 07/01 A3025 RMK AO2 LTG DSNT N AND S KXBP 202035Z AUTO 15005KT 10SM VCTS BKN049 OVC065 22/10 A3007 RMK AO2 LTG DSNT SW THRU N T02180101 SBFZ 202000Z 05008KT 9999 FEW020 29/21 Q1010 SBGR 202000Z 17006KT 9999 BKN025 22/18 Q1018 KVUJ 202035Z AUTO 04014G20KT 10SM SCT060 20/03 A3023 RMK AO2 LTG DSNT E T02040026 SARC 202000Z 14006KT 9999 FEW025 25/20 Q1014 KWMC 201956Z AUTO 34007KT 10SM CLR 18/M11 A3024 RMK AO2 SLP213 T01781106 TSNO SBGW 202000Z 26006KT 9999 SCT025 SCT100 27/20 Q1015 SARE 202000Z 18001KT 9999 SCT025 27/21 Q1014 SARF 202000Z 14005KT 9999 SCT025 27/20 Q1014 KVUO 201953Z AUTO 00000KT 10SM CLR 16/05 A3025 RMK AO2 SLP243 T01560050 SBIH 202000Z 09004KT 9999 FEW022 FEW023TCU 31/25 Q1008 KVVG 202035Z AUTO 02005KT 10SM 19/14 A3006 RMK AO2 SARI 202000Z 16006KT 9999 SCT025 25/20 Q1016 SASA 202000Z 07008KT 9999 FEW018 SCT025 BKN100 21/13 Q1018 RJSA 201200Z VRB01KT CAVOK 02/M00 Q1018 SBHT 202000Z 13003KT 9999 FEW025 30/25 Q1008 RKJB 202000Z AUTO 06005KT 3000 NCD 09/08 Q1016 SBIL 202000Z 10008KT 9999 FEW025 28/20 Q1012 SARL 202000Z 09010KT 9999 SCT018 SCT100 24/17 Q1016 RJSC 201000Z 07011KT 9999 FEW030 SCT150 BKN/// 09/01 Q1018 FQQL 201900Z 19005KT 9999 FEW020 23/20 Q1018 SBJF 202000Z 24008KT 9999 SCT030 21/19 Q1018 RETS RJSF 201000Z 17007KT 9999 FEW030 SCT180 BKN/// 08/02 Q1020 SBIP 202000Z 00000KT CAVOK 33/19 Q1013 SARP 202000Z 09005KT 9999 SCT020 26/21 Q1017 RJSI 201000Z 18010KT 9999 FEW030 SCT100 BKN170 08/M00 Q1020 SCBA 202000Z 28007KT 240V320 9999 FEW040 SCT100 10/04 Q1017 SASJ 202000Z 07008KT 9999 SCT025 22/16 Q1016 RKJK 201958Z AUTO 30002KT 10SM CLR 10/10 A3002 RMK AO2 SLP170 T01000100 $ RJSK 201200Z 09005KT CAVOK 07/03 Q1018 KVVV 202033Z AUTO 13008KT 096V166 10SM CLR 23/01 A2995 RMK AO2 RJSN 201200Z 03003KT 9999 FEW060 BKN070 10/07 Q1018 RJTF 200800Z 18005KT 140V240 9999 FEW020 BKN035 12/04 Q1022 SBKG 202000Z 11010KT CAVOK 29/20 Q1013 SCAP 202000Z AUTO 28006KT CAVOK 12/02 Q1025 SBJP 202000Z 13011KT 9999 FEW030 28/21 Q1012 SBIZ 202000Z 21003KT 9999 FEW020 31/23 Q1009 SBJR 202000Z 23005KT 9999 SCT020 BKN040 26/24 Q1015 SCAR 202000Z 21010KT CAVOK 21/14 Q1012 RJSR 201000Z VRB01KT CAVOK 07/01 Q1018 RJTI 200700Z 13010KT 9999 FEW030 BKN045 12/05 Q1022 RJSS 201200Z 33004KT 300V030 9999 FEW040 SCT100 BKN180 08/04 Q1021 SBLB 202000Z 03017KT CAVOK 27/22 Q1012 W///S3 SCAT 202000Z 27008KT CAVOK 19/12 Q1014 RJTL 202035Z 01003KT 1600 R19/1400N -RA BR FEW003 SCT005 BKN010 09/08 Q1020 RMK 1ST003 4ST005 7ST010 A3013 RJSU 200542Z 15012KT 9999 FEW030 SCT100 BKN180 09/01 Q1022 RMK 1CU030 3AC100 6CI180 A3019 SBJU 202000Z 13005KT 9999 FEW022 32/24 Q1013 SBJV 202000Z 15005KT 9999 SCT030 BKN050 24/21 Q1017 KVWU 202029Z AUTO 30003KT 10SM CLR 16/02 A3000 RMK AO2 KXFL 201950Z 01007KT 7SM OVC020 19/13 A3005 SBLE 201900Z 21008KT CAVOK 33/18 Q1014 SCCF 202000Z 27017KT CAVOK 25/M12 Q1024 RJTO 200700Z 04006KT 9999 FEW020 SCT030 BKN040 12/08 Q1021 SBKP 202000Z 25008KT CAVOK 27/16 Q1016 RJSY 201200Z VRB02KT 9999 FEW030 BKN050 08/04 Q1018 SCCH 202000Z 20010KT CAVOK 22/02 Q1017 SCCI 202000Z 07004KT CAVOK 10/04 Q1016 NOSIG SCDA 202000Z 23009KT 8000 NSC 19/12 Q1012 SBMA 202000Z 05002KT 9999 FEW023 FEW027TCU 29/25 Q1010 RJTT 202030Z 01006KT 1200 R34L/P1800N R22/P1800N R34R///// R23/P1800N -RA BR FEW003 BKN005 BKN008 11/10 Q1020 NOSIG SAVC 202000Z VRB02KT CAVOK 13/04 Q1018 SBMD 202000Z 11003KT 9999 SCT022 34/25 Q1010 SBME 202000Z 19007KT 7000 SCT015 BKN100 26/24 Q1013 SAVE 202000Z 20008KT 9999 SCT030 10/01 Q1018 RERA SBLO 202000Z 15003KT 9999 FEW030 27/21 Q1015 SBMG 202000Z 15004KT CAVOK 25/// Q1015 RJTY 202041Z AUTO 00000KT 3SM BR OVC018 08/07 A3017 RMK AO2 RAB2015E2026DZE2035 CIG 015V021 SBLS 202000Z 11003KT 9999 SCT040 SCT100 25/19 Q1016 SBMK 202000Z 01003KT CAVOK 32/15 Q1013 KVYS 202030Z AUTO 20010G14KT 10SM CLR 26/05 A3008 RMK AO2 T02610054 SBML 202000Z 18008KT CAVOK 28/17 Q1016 KWRB 201958Z AUTO VRB04KT 10SM OVC050 23/09 A3013 RMK AO2 SLP204 T02260087 $ SAWE 202000Z 16003KT 9999 FEW033 13/09 Q1016 SBMN 202000Z 16004KT 9999 SCT020 FEW025TCU BKN100 29/24 Q1009 SBMO 202012Z 19006KT 5000 RA BKN008 SCT014 FEW030TCU BKN070 25/24 Q1013 SBNF 202000Z 16009KT 9999 FEW030 SCT050 BKN070 26/20 Q1016 SCCY 202000Z 35003KT 9999 BKN040 09/01 Q1018 SAWG 202000Z 14001KT 9999 FEW040 13/03 Q1016 SAWH 202100Z 00000KT 9999 SCT010 SCT040 06/05 Q1017 SBMQ 202000Z 03006KT 9999 SCT020 FEW023TCU 31/25 Q1009 LOIH 201600Z 03003KT 35KM FEW040CU 17/07 Q1003 RMK SCT KXIH 202035Z AUTO 14009KT 10SM CLR 22/17 A3011 RMK A01 SBMS 202000Z 03006KT 9999 BKN025 28/25 Q1009 KWRI 201958Z AUTO 11011KT 10SM FEW190 12/M03 A3040 RMK AO2 SLP298 T01201026 SCFA 202000Z 20009KT 9999 FEW020 18/12 Q1012 NOSIG SBMT 202000Z 25009KT 8000 SCT030 SCT100 23/17 Q1018 SCEL 202000Z 21015KT CAVOK 27/M06 Q1014 NOSIG KWRL 201953Z AUTO 36012KT 10SM CLR 20/M01 A3001 RMK AO2 SLP148 T02001006 SBMY 202041Z 30002KT 9999 -RA SCT020TCU BKN080 25/25 Q1010 RETS SBOI 202000Z 06003KT 9999 -RA SCT020 BKN100 26/26 Q1011 SBPA 202000Z 13011KT 9999 BKN040 23/15 Q1019 SBNT 202000Z 13015KT 9999 SCT023 29/22 Q1011 SBPB 202000Z 12007KT 9999 BKN017 BKN090 28/25 Q1010 SBPC 202000Z 30006KT 9999 FEW020 BKN080 24/19 Q1020 RKPC 202000Z 17005KT CAVOK 10/07 Q1016 NOSIG SCGE 202000Z 19010KT CAVOK 21/01 Q1020 SBPF 201500Z 04008KT 9999 BKN025 21/16 Q1020 RKNY 202000Z 34003KT 080V230 9999 FEW030 SCT120 BKN180 14/03 Q1013 NOSIG SBPJ 202000Z 19002KT 9999 FEW025 FEW027TCU 31/23 Q1010 SBPK 201500Z 18002KT 9999 BKN035 22/15 Q1021 SCFT 202000Z AUTO VRB01KT CAVOK 10/03 Q1020 LPBJ 202000Z 25006KT 9000 -RA FEW008 SCT020 BKN040 12/11 Q1003 RKPK 202000Z 05002KT CAVOK 09/08 Q1015 NOSIG MGCB 202000Z 09004KT 9999 BKN014 SCT070 20/17 QFE 872.2 PCPN SMC W KWST 201953Z AUTO 14007KT 10SM CLR 09/M02 A3046 RMK AO2 SLP315 T00891017 SBPL 202000Z 16010KT 9999 SCT023 31/18 Q1012 SBPP 202000Z 03004KT CAVOK 27/16 Q1016 SBPR 202041Z 17003KT 9999 FEW030 SCT080 24/20 Q1017 LPAZ 202030Z 33012KT 9999 FEW020 14/09 Q1016 SBPS 202000Z 07010KT 9999 FEW020 ///// Q1012 SBRB 202000Z 09007KT 5000 -RA BR SCT015 BKN100 24/22 Q1010 SCIC 202000Z 20008KT CAVOK 21/06 Q1015 SBPV 202100Z 20005KT 9999 SCT020 FEW021TCU SCT100 28/24 Q1009 KXLL 202035Z AUTO 12003KT 10SM CLR 16/M06 A3037 RMK AO2 SAZM 202000Z 14006KT CAVOK 17/05 Q1019 SCIE 202000Z 24012KT CAVOK 19/11 Q1018 SAZN 202000Z 00000KT CAVOK 19/04 Q1016 SBRF 202000Z 13009KT 9999 FEW023 28/23 Q1011 MGCP 201900Z 22006KT 9000 FEW020 34/26 QFE1007.4 HZ FEW200 KWVI 201953Z AUTO 22006KT 10SM CLR 22/13 A3011 RMK AO2 SLP195 T02220133 SAZS 202000Z 14004KT 8000 RA OVC025 08/06 Q1020 SBRJ 202000Z 21010KT 8000 FEW008 OVC030 26/22 Q1013 KXNA 201953Z 21011KT 10SM SCT060 23/12 A3012 RMK AO2 SLP190 T02330117 FSIA 202000Z 26002KT 9999 FEW017 27/23 Q1010 NOSIG SBSC 202000Z 21012KT 9999 FEW030 BKN090 25/21 Q1014 SBQV 202000Z 14010KT 9999 FEW018 26/19 Q1017 KWVL 202035Z AUTO 24007KT 10SM CLR 13/M10 A3033 RMK AO1 KWWD 202035Z AUTO 04016G20KT 10SM CLR 10/M02 A3042 RMK AO1 RKSG 201958Z 00000KT 4SM BR BKN050 09/09 A3002 RMK AO2A SLP166 $ SBRP 202000Z 30005KT 9999 FEW040 30/17 Q1014 SCIP 202000Z 29006KT 9999 BKN020 25/19 Q1020 NOSIG SCIR 202000Z 15012KT 9999 SCT015 18/12 Q1023 RKSI 202030Z 14002KT 3000 BR SCT005 09/08 Q1016 NOSIG SBTA 202000Z 18002KT 9999 SCT020 26/19 Q1016 SBSJ 202000Z 18007KT 5000 HZ FEW020 25/17 Q1018 KXMR 201958Z AUTO 35015G19KT 10SM FEW024 21/14 A3002 RMK AO2 SLP169 T02050139 SBTC 202020Z 06004KT CAVOK 29/23 Q1012 SBSL 202000Z 05008KT 9999 SCT017 FEW020TCU 27/23 Q1010 RKSM 202000Z 17001KT 6000 BR BKN050 BKN200 09/07 A3002 SBSM 202000Z 10008KT 9999 SCT040 23/17 Q1018 SBSN 202000Z 15003KT 9999 FEW017 FEW020TCU 29/23 Q1008 SBTE 202000Z 36004KT 9999 FEW030 BKN100 32/26 Q1008 SCJO 202000Z 00000KT 9999 OVC025 13/09 Q1020 SBTF 202000Z 35004KT 8000 -TSRA SCT017 SCT025CB BKN090 26/23 Q1 009 RKSO 201958Z AUTO 36002KT 5SM R27/4500FT BR CLR 09/07 A3001 RMK AO2 SLP166 T00870071 $ SBSP 202000Z 17010KT 9999 FEW015 SCT017 23/16 Q1019 SBSR 202000Z 23003KT 9999 FEW040 30/18 Q1015 SBUA 202000Z 25002KT 9999 SCT020 FEW025TCU 34/24 Q1008 KWWR 202035Z AUTO 16015G23KT 10SM SCT044 BKN050 25/12 A2999 RMK AO2 RKSS 202000Z 04002KT 2800 BR FEW015 SCT040 09/07 Q1016 NOSIG SBTK 202000Z 29002KT 9999 FEW020 26/24 Q1011 SBST 202000Z 21007KT 9999 BKN015 25/22 Q1015 MGES 202000Z 32010KT 999B BKN020 27/17 QFE 911.8 LPFL 201230Z 35011KT 320V020 9999 FEW021 15/09 Q1020 SBSV 202000Z 12008KT 9999 SCT017 29/23 Q1012 RKTN 202000Z 04001KT CAVOK 10/07 Q1015 NOSIG SBUF 202000Z 11015KT 9999 SCT020 31/22 Q1012 SBUG 202000Z 07011KT 9999 FEW030 23/16 Q1016 LPFR 202030Z 26015KT 9999 SCT015 16/14 Q1004 SBTT 202000Z 11004KT 9999 VCSH BKN020 FEW025TCU BKN100 28/25 Q1 009 SBUL 202000Z 21008KT CAVOK 26/16 Q1017 RKTU 202000Z 04002KT 4000 BR NSC 07/05 Q1016 NOSIG VYYY 201730Z 27003KT 7000 NSC 28/23 Q1008 SBVH 202000Z 14002KT 9999 FEW023 FEW025TCU BKN100 28/23 Q1013 SBUR 202000Z 24006KT 9999 FEW045 28/16 Q1017 MGGT 202100Z 02014KT 9999 SCT024 25/13 Q1024 A3024 SBUY 202000Z 00000KT 9999 SCT020 SCT090 31/25 Q1007 KXPY 202035Z AUTO 13007KT 10SM CLR 23/16 A3015 RMK A01 YABA 202030Z AUTO 28007KT 9999 // SCT027 OVC054 10/10 Q1016 LPHR 202030Z 31008KT 9999 SCT014 SCT035 13/10 Q1017 KXSA 202035Z AUTO 05011G17KT 10SM CLR 17/M01 A3033 RMK AO2 T01651011 SBVT 202000Z 05012KT 9999 SCT030 29/21 Q1012 MGHT 202000Z 14012KT 9999 SCT025 25/09 QFE 816.8 WSAP 201500Z 04001KT 9999 FEW018 BKN300 28/25 Q1009 KYIP 201953Z AUTO 26008KT 10SM CLR 23/M02 A3019 RMK AO2 SLP220 T02331022 TSNO $ SCNT 201600Z VRB01KT CAVOK 10/02 Q1017 SCON 202000Z AUTO 02003KT 270V070 9999 ///008 11/// Q1019 MHAM 201900Z 04012KT 9999 FEW030 37/22 LPLA 202000Z 30004KT 270V330 9999 SCT020 BKN040 14/12 Q1017 MHCA 201900Z 08011KT 9999 BKN030 33/19 HZ LQBK 202030Z 33002KT 8000 NSC 12/11 Q1010 BECMG 5000 BR KYKM 201953Z 15010KT 10SM CLR 16/M01 A3024 RMK AO2 SLP242 T01611006 KYKN 202035Z AUTO 17005KT 10SM CLR 24/10 A2992 RMK AO1 SCPQ 202000Z 01008KT 340V040 2500 BR OVC004 09/09 Q1019 MHCH 201900Z 03018KT 9999 FEW034 SCT070 37/19 HZ FU SBYS 202000Z 00000KT 9999 SCT030 FEW035TCU SCT100 27/20 Q1016 RETS LPMA 202030Z 27004KT 240V330 9999 FEW015 15/11 Q1012 RS27003KT 0529005KT 2330006KT SCRD 202000Z 18015KT CAVOK 25/04 Q1014 KXVG 202038Z AUTO 31003KT 10SM CLR 21/M02 A2998 RMK AO2 MGMM 200000Z 08006KT 9999 SCT020 FEW025CB SCT090 29/20 Q1015 A2997 CB S SCSE 202000Z 27008KT CAVOK 16/11 Q1014 LOWG 202020Z VRB01KT 9999 -SHRA SCT020 SCT030 BKN050 10/09 Q1010 NOSIG KYNG 201951Z 20010G14KT 10SM FEW200 BKN250 22/M07 A3023 RMK AO2 SLP236 T02221067 LOWI 202020Z 10005KT 060V120 9999 -SHRA FEW060 SCT080 BKN100 13/07 Q1005 NOSIG LPMR 202000Z 01008KT 9999 FEW025 BKN040 14/10 Q1003 SCTB 202000Z 24007KT CAVOK 27/05 Q1016 MGMT 202000Z 18006KT CAVOK 34/23 QFE1006.1 LOWK 202020Z VRB01KT 8000 SCT004 BKN018 09/08 Q1010 NOSIG LPMT 202000Z 34004KT 9999 FEW015 SCT025 14/12 Q1003 SCTC 202000Z 22004KT CAVOK 19/07 Q1019 LOWL 202020Z 08007KT CAVOK 09/07 Q1006 NOSIG SCSN 202000Z 26004KT CAVOK 17/09 Q1016 SCTE 202000Z 08005KT 9999 OVC040 11/08 Q1020 NOSIG LOWS 202020Z VRB02KT 9999 FEW070 08/07 Q1005 NOSIG MGPB 202000Z 36008KT 9999 SCT018 30/24 Q1015 A2997 LPPD 202030Z VRB02KT 9999 FEW020 13/11 Q1016 LOWW 202020Z 12003KT 080V170 9999 -RA FEW040 SCT060 BKN070 11/09 Q1010 NOSIG LOWZ 201700Z 12013KT 40KM FEW050SC SCT090AC 13/06 Q1004 RMK SCT LOXT 201950Z 05004KT 30KM BKN060SC 11/07 Q1009 RMK BKN SCVD 202000Z VRB02KT CAVOK 16/11 Q1019 LPOV 202000Z 36010KT 9999 FEW018 15/12 Q1003 LOXZ 201950Z VRB01KT 10KM FEW006ST OVC030SC 07/06 Q1009 RMK OVC LPPR 202030Z 34006KT 9999 FEW020 13/11 Q1004 LPPS 202030Z 30015KT 9999 SCT015 17/13 Q1011 LPPT 202030Z 30005KT 9999 FEW012 SCT044 14/11 Q1003 SCVM 202000Z 35010KT CAVOK 23/10 Q1014 YBAF 202030Z AUTO 00000KT 9999 // NCD 14/13 Q1020 MGQZ 202000Z 07016KT 9999 SCT014 23/11 QFE 767.0 FEW070 YBAS 202030Z 00000KT CAVOK 11/07 Q1018 MGSJ 202000Z 21010KT 8000 FEW018 34/21 Q1011 A2985 HZ MGRT 202000Z 22006KT 9999 SCT022TCU 33/21 Q1013 A2991 FEW080 TCU NE/SE VOL. STA. MARIA Y SANTIAGUITO EN ACTIVIDAD BGAA 201950Z 14005KT 110V170 9999 FEW020 M10/M16 Q1013 YBBN 202030Z 20005KT 9999 FEW025 16/14 Q1020 LRBC 202000Z 24002KT CAVOK 10/10 Q1013 YBCG 202030Z AUTO 25004KT 9999 // NCD 17/16 Q1020 YBCK 202030Z AUTO 08004KT //// // ////// 18/10 Q1018 YAMB 202030Z AUTO 00000KT 7000 // NCD 10/10 Q1020 LRAR 202000Z AUTO 15006KT 9999 R09////// R27/P2000 FEW044 11/11 Q1011 MHLC 202000Z 02009KT 9999 SCT020TCU BKN080 28/25 Q1015 A2998 NOSIG LRBM 202000Z VRB02KT CAVOK 10/08 Q1012 YBDG 202030Z AUTO 00000KT 9999 // NCD 05/03 Q1020 MHLE 201900Z 05012KT 9999 BKN022 22/15 Q1027 YBCS 202030Z 17010KT 9999 SCT025 BKN060 24/18 Q1014 LRBS 202030Z 00000KT CAVOK 11/10 Q1013 NOSIG SEGU 202000Z 040/5KT 9999 BKN020 SCT033 OVC090 28/22 Q1009 RMK A2979 NOSIG YBCV 202030Z AUTO 17006KT 9999 // NCD 13/04 Q1019 LRCK 202030Z 00000KT CAVOK 10/09 Q1013 NOSIG MGTU 202000Z 23006KT 9999 FEW020 34/23 LRCL 202030Z 27002KT CAVOK 09/07 Q1012 MHLM 202000Z 01012KT 9999 SCT030TCU BKN080 30/22 Q1014 A2994 NOSIG YBDV 202030Z AUTO 11003KT //// // ////// 15/02 Q1017 LRCV 202030Z AUTO 03002KT 9999 NCD 10/08 Q1013 LQMO 202100Z VRB02KT 9999 FEW008 SCT035 BKN055 13/11 Q1011 BGBW 201950Z 24001KT 9999 SKC M05/M17 Q1006 ROAH 202030Z 29003KT 9999 FEW008 BKN015 23/21 Q1012 BGCO 201950Z AUTO 04004KT 360V060 //// BKN035/// M12/M14 Q1007 SFAL 201500Z 16023KT -RA 9999 BKN015 XX/XX Q0999 GMAD 202000Z 24005KT 210V270 9999 SCT020 SCT030 18/14 Q1013 MHNO 201900Z 36006KT 9999 FEW040 32/15 FU GMAG 201800Z 32014KT 9999 SCT016 19/09 Q1013 FTTA 202000Z 18008KT CAVOK 30/17 Q1008 FTTC 201500Z 32006KT 9999 FEW040 FEW050CB SCT150 43/08 Q1004 FTTD 201500Z 14010KT 9999 SCT040 BKN140 34/20 Q1007 HDAM 202000Z 16008KT CAVOK 31/22 Q1009 YBHI 202030Z AUTO 04006KT 9999 // NCD 12/08 Q1019 MGZA 202000Z 07014KT 9999 FEW018 35/21 QFE 988.0 FEW080 FTTJ 202000Z 08005KT CAVOK 35/20 Q1005 NOSIG YBHM 202030Z AUTO 10016KT 9999 // SCT042 24/16 Q1017 GMAT 201800Z 32010KT 9999 SCT016 SCT200 19/12 Q1014 MHPL 201900Z 04007KT 9999 SCT028TCU 31/23 Q1014 TCU TDS HZ YARG 202000Z AUTO 30003KT 9999 // NCD 22/09 Q1012 LRIA 202000Z 23004KT CAVOK 12/09 Q1012 BGGH 201950Z 05005KT 9999 FEW020 M10/M15 Q1010 SELT 202000Z 17016KT 9999 VCSH SCT030 SCT100 18/11 Q1028 YARM 202030Z AUTO 30006KT 9999 // NCD 08/05 Q1022 FVBU 201800Z 13009KT CAVOK 18/06 Q1023 NOSIG RODN 202030Z AUTO 26005KT 10SM BKN011 BKN017 23/22 A2990 RMK AO2 CIG 011V017 BKN011 V SCT FTTY 201500Z 04021KT 4000 BLSA SKC 39/03 Q//// YCBA 202030Z AUTO 07005KT //// // ////// 10/04 Q1021 YCBB 202030Z AUTO 19006KT //// // ////// 08/04 Q1021 SEMT 202000Z 27008KT 9999 SCT020 29/23 Q1009 LQSA 202030Z VRB02KT 9999 FEW040 BKN055 11/07 Q1011 NOSIG WSSL 201500Z 07003KT 9999 FEW020 BKN300 28/25 Q1009 RMK 1430Z Q1009 YBKE 202030Z AUTO 10002KT //// // ////// 06/02 Q1020 MHSC 201958Z AUTO 35016KT 9999 CLR 32/18 A2997 RMK AO2 SLP104 T03230175 $ MHRO 202000Z 06014KT 9999 SCT020TCU SCT080 26/23 Q1015 A2997 REDZ NOSIG YCAR 202030Z AUTO 16011KT 9999 // NCD 20/15 Q1014 WSSS 202030Z 33002KT 3000 BR FEW018 SCT160 BKN300 26/25 Q1008 NOSIG YCAS 202030Z AUTO 00000KT //// // ////// 10/09 Q1019 FVCZ 200900Z 04008KT CAVOK 28/15 Q1025 NOSIG FVFA 201500Z 14008KT 090V170 CAVOK 28/14 Q1018 NOSIG MHTE 201900Z 36010KT 9999 BKN026TCU 31/24 Q1014 TCU SE S FU YCBP 202030Z AUTO 35013KT //// // NCD 20/05 Q1017 MHTG 202000Z 36012KT 9999 FEW032 30/14 Q1018 A3006 NOSIG YBMA 202030Z AUTO 14008KT 9999 // NCD 22/00 Q1015 YBKT 202030Z AUTO 10007KT //// // ////// 23/23 Q1012 MHSR 201900Z 02003KT 9999 BKN025 SCT100 24/13 HZ YBLN 202030Z AUTO 00000KT //// // ////// 06/05 Q1018 GMFK 201800Z 12006KT CAVOK 26/M07 Q1007 GMFM 202000Z 24012KT 6000 FEW013 BKN020 14/09 Q1011 BGJN 202020Z AUTO 08007KT 9999NDV NCD M11/M19 Q1013 GMFO 202000Z 07003KT 030V100 9999 FEW026 15/07 Q1008 NOSIG YBNA 202000Z AUTO 00000KT 9999 // NCD 13/12 Q1019 YBLT 202030Z AUTO 01015KT 9999 // SCT038 09/04 Q1018 YBMK 202030Z AUTO 26004KT 9999 // ////// 16/16 Q1017 MHTR 201900Z 01003KT 9999 SCT024CB SCT080 29/24 CB NE SW TCU TDS HZ FVHA 201900Z 09006KT CAVOK 17/11 Q1024 NOSIG YCEE 202030Z AUTO 36022KT //// // ////// 21/08 Q1012 SEQM 202030Z 03006KT 9999 SCT030 SCT090 21/13 Q1023 NOSIG NOSIG YCDO 202030Z AUTO 00000KT //// // ////// 03/02 Q1021 BGKK 202020Z AUTO 20003KT 9999NDV NCD ///// Q1007 YCCY 202030Z AUTO 00000KT //// // ////// 19/04 Q1014 ROIG 201100Z VRB01KT 9999 FEW020 BKN060 24/22 Q1011 YCDU 202030Z 36014KT CAVOK 23/02 Q1011 YCEM 202030Z AUTO 00000KT //// // ////// 07/05 Q1019 GLRB 202030Z 00000KT 9999 FEW015 27/25 Q1010 NOSIG YBNS 202030Z AUTO 35006KT 9999 // NCD 07/04 Q1019 YBOK 202030Z AUTO 13005KT 9999 // NCD 11/09 Q1021 YCFL 200700Z AUTO 14017KT //// // ////// 27/20 Q1012 YAYE 202030Z AUTO 13001KT //// // ////// 13/06 Q1017 LROD 202000Z AUTO 10004KT 9999 OVC055 11/11 Q1012 YCFS 202030Z 00000KT 9999 FEW020 14/13 Q1019 RMK BR. SGAS 202000Z 09003KT 9999 BKN033 27/20 Q1014 BGMQ 202020Z AUTO 07001KT 9999NDV NCD M04/M15 Q1011 HEBA 202000Z 01010KT CAVOK 16/12 Q1016 NOSIG FVKB 200900Z 19006KT 9999 FEW030 29/18 Q1019 YBPN 202030Z AUTO 00000KT 9999 // SCT040 SCT048 15/15 Q1017 LSGC 202020Z AUTO VRB01KT 9999 FEW031 SCT050 OVC070 08/02 Q1005 LSGG 202050Z 24006KT 9999 -RA BKN060 OVC080 10/08 Q1005 NOSIG LROP 202030Z 28004KT CAVOK 11/09 Q1013 NOSIG YCHK 202030Z AUTO 36009KT 9999 // NCD 21/07 Q1013 HEAR 202000Z 35002KT CAVOK 19/16 Q1015 NOSIG HECA 202030Z 35010KT CAVOK 18/11 Q1016 NOSIG HEAT 202000Z 30009KT CAVOK 23/16 Q1014 NOSIG HEAX 202000Z 33009KT CAVOK 17/12 Q1016 NOSIG YBRK 202051Z 18004KT 9999 FEW018 18/17 Q1019 MHYR 201900Z 09004KT 9999 SCT025TCU 30/18 TCU TDS HZ YBRL 202030Z AUTO 00000KT //// // ////// 19/17 Q1011 LSGS 201750Z 25005KT 230V290 9999 BKN100 15/01 Q1002 YBRM 202030Z AUTO 00000KT 9999 // NCD 21/20 Q1010 GMMB 201800Z 20010KT 5000 FEW010 FEW013TCU SCT015 17/15 Q1010 YCIN 202000Z AUTO 17005KT //// // NCD 21/18 Q1010 FWCL 201500Z 22005KT 9999 FEW030 SCT100 24/17 Q1019 BECMG CAVOK GMMC 202000Z 24008KT 9999 FEW016TCU 18/13 Q1009 YBSG 202030Z AUTO 17004KT //// // OVC110 24/20 Q1010 GMME 202030Z 24015KT 6000 SCT013 BKN020 17/13 Q1010 NOSIG GMMH 202000Z SNMC40 GMMH 202000RRB AAXX 20204 60096 32460 63411 10196 20170 40161 83502 333 83616 86070 GMMI 201900Z 24014KT 5000 SCT013TCU BKN016 18/14 Q1012 LRSB 201900Z AUTO VRB02KT 9999 NCD 10/04 Q1012 LTAC 202020Z VRB02KT 9999 SCT040 SCT100 08/03 Q1014 NOSIG SGEN 202000Z 17005KT 9999 BKN030 25/19 Q1015 GMML 202000Z 33008KT 9999 FEW026 BKN080 20/14 Q1015 BGPT 202020Z AUTO 34010KT 310V010 9999NDV NCD M07/M17 Q1008 KZZV 201953Z AUTO 13006KT 10SM CLR 24/M02 A3019 RMK AO2 SLP222 T02391022 TSNO YBRY 202030Z AUTO 00000KT 9999 // NCD 20/05 Q1014 LTAF 202020Z 09003KT CAVOK 15/12 Q1013 NOSIG GMMN 202030Z 21009KT 9999 BKN016 15/13 Q1012 NOSIG ROMY 201100Z 24004KT 9999 FEW020 SCT040 24/19 Q1012 LTAG 202020Z 12002KT 9999 FEW030 15/15 Q1012 NOSIG LTAI 202020Z 36003KT CAVOK 13/10 Q1013 NOSIG SGES 202000Z 00000KT 9999 SCT015 BKN070 26/22 Q1015 YBSU 202030Z AUTO 27005KT 9999 // NCD 15/14 Q1020 BGQQ 202020Z AUTO 14009KT 9999NDV NCD M09/M17 Q1017 LTBA 202020Z 17001KT 9999 SCT035 12/11 Q1015 NOSIG LTAJ 202020Z 09009KT 050V120 9999 FEW020CB SCT030 16/11 Q1013 NOSIG YBTL 202030Z 18006KT 9999 FEW030 20/17 Q1016 YBUD 202030Z AUTO 18005KT 9999 // NCD 16/15 Q1019 YCKN 202030Z AUTO 12012KT 9999 // BKN025 BKN033 OVC041 26/21 Q1012 LRTC 202000Z AUTO 00000KT 8000 NCD 12/11 Q1013 LRSM 202000Z AUTO 12004KT 9999 FEW060 10/08 Q1012 FVMV 200400Z 00000KT 2000 BR NSC 09/08 Q1024 LTAN 201950Z 31008KT CAVOK 13/M02 Q1014 NOSIG LTBF 201950Z VRB01KT 9999 SCT035 10/08 Q1016 NOSIG GMMW 202000Z 06007KT 9999 FEW020 16/13 Q1008 LTBG 201706Z 00000KT 9999 SCT035 BKN100 12/12 Q1015 RESHRA NOSIG RMK RWY18 31003KT 280V020 LTAP 202020Z 01013KT CAVOK 10/05 Q1014 BECMG TL2100 VRB02KT GMMX 202030Z 27013KT 8000 SCT026 SCT200 18/09 Q1013 NOSIG LTBH 200910Z 25013KT 9999 -SHRA SCT030 BKN100 16/13 Q1014 BGSF 202020Z AUTO 10004KT 060V150 9999NDV NCD M09/M19 Q1012 LTBI 201813Z 31006KT 280V350 9999 -SHRA SCT035 BKN100 12/06 Q1014 NOSIG RMK RWY09 30006KT LTAR 201950Z 16004KT CAVOK 05/M01 Q1015 GMMZ 202000Z 27018KT 9999 FEW030 BKN200 19/M01 Q1010 LTAS 201430Z 33007KT 9999 FEW035 SCT180 18/05 Q1014 RMK RWY18 32007KT 290V350 LTBJ 202020Z VRB01KT CAVOK 11/09 Q1016 NOSIG LTCA 201950Z 09007KT 060V120 9999 FEW035 SCT100 12/08 Q1015 NOSIG LTAT 202020Z 31006KT CAVOK 12/07 Q1013 NOSIG LTBL 200711Z 12011KT 9999 SCT035 BKN100 15/09 Q1016 RESHRA NOSIG RMK RWY17 14010KT LTAU 202020Z 09002KT CAVOK 10/00 Q1014 NOSIG LTCC 202020Z 04006KT CAVOK 11/10 Q1015 NOSIG LTCD 201950Z 29005KT 9999 -SHRA FEW030CB SCT036 BKN090 11/05 Q1018 BECMG 15015KT LRTM 202000Z 00000KT CAVOK 07/06 Q1012 LRSV 202000Z AUTO 18004KT 9999 NCD 10/09 Q1013 YDBY 202000Z AUTO 15004KT //// // ////// 22/19 Q1010 LTCE 202020Z 23009KT 200V260 9999 SCT030 BKN080 05/03 Q1018 NOSIG LTCF 201950Z 26006KT 9999 SCT030 BKN070 09/02 Q1017 LTCG 202020Z 12003KT 090V150 9999 SCT035 BKN100 15/10 Q1015 TEMPO 26015G30KT -TSRA LTAZ 202020Z VRB01KT CAVOK 09/M00 Q1014 LTBR 201950Z 26002KT 9999 -SHRA BKN030 BKN090 12/10 Q1016 NOSIG LTCI 201950Z 23005KT 9999 -SHRA SCT030 BKN070 06/05 Q1018 NOSIG LRTR 202030Z 12005KT 9999 FEW046 10/09 Q1011 11190095 LSMA 201950Z AUTO 21003KT 170V250 9999NDV BKN110 BKN190 11/06 Q1004 RMK WHT LTBS 202020Z 07004KT CAVOK 13/10 Q1015 NOSIG LTCJ 202020Z 36005KT CAVOK 11/10 Q1015 YCMM 202030Z AUTO 01015KT //// // ////// 20/08 Q1011 LTCK 201450Z 24017KT 9999 -SHRA FEW020CB BKN035 OVC070 13/06 Q1017 BIAR 202000Z 21008KT 190V270 9999 -DZ FEW028 BKN052 04/M04 Q1012 LTBU 202020Z 23004KT 2900 BCFG SCT001 BKN080 11/11 Q1015 BGSS 201950Z 09004KT 060V180 9999 FEW030 M08/M17 Q1011 RMK 1CU LSMD 201950Z AUTO 00000KT 9999NDV FEW100 10/07 Q1004 RMK BLU LTCN 200450Z VRB02KT 7000 FEW033 12/12 Q1016 BGTL 201958Z AUTO 00000KT 9999 SCT015 OVC036 M11/M14 A3000 RMK AO2 CIG 010 RWY26 SLP148 T11071140 LSME 201950Z AUTO 00000KT 9999NDV BKN110 11/06 Q1004 RMK WHT HEGN 202000Z 33016KT CAVOK 28/14 Q1010 NOSIG LTBY 201704Z 31009KT 9999 -SHRA SCT035 BKN100 14/05 Q1014 RMK RWY27 32009KT YCMT 202030Z AUTO 00000KT //// // ////// 12/10 Q1019 YCNK 202030Z AUTO 00000KT //// // ////// 06/05 Q1019 LTCR 201227Z 07011KT 9999 FEW030CB BKN036 16/14 Q1015 RESHRA LTCS 201617Z 11010KT 9999 TS FEW033CB SCT040 15/12 Q1015 RMK RWY22 12011KT LTCT 200525Z 22012KT 9999 FEW040 BKN070 17/07 Q1018 YCNM 202030Z AUTO 10001KT //// // ////// 04/03 Q1020 YCOE 202030Z AUTO 17006KT //// // ////// 24/20 Q1012 LTCV 201520Z 31009G20KT 270V360 9999 -RA SCT040 BKN100 14/11 Q1016 RESHRA RMK RWY29 30015KT BGUK 201950Z AUTO 35004KT 300V050 9999NDV NCD M10/M16 Q1014 LSMM 202050Z AUTO 07009KT 050V110 9999NDV FEW088 BKN099 13/05 Q1004 RMK WHT YBWP 202030Z AUTO 15004KT 9999 // BKN115 24/20 Q1010 LSMP 202050Z AUTO 00000KT 9999NDV FEW068 OVC080 13/05 Q1004 RMK WHT RORS 201000Z 27002KT 9999 FEW012 BKN060 24/21 Q1011 BGUQ 201950Z AUTO 24003KT //// ///120/// M12/M21 Q1013 RMK /// LSMS 202050Z AUTO 27002KT 9999NDV SCT077 BKN089 BKN130 13/03 Q1003 RMK WHT YCOM 202030Z AUTO 00000KT 9999 // NCD M01/M02 Q1021 LTFC 202020Z 34009KT CAVOK 10/05 Q1016 LTFD 200926Z VRB02KT 9000 -SHRA SCT030 BKN090 17/09 Q1015 RMK RWY23 VRB02KT YBWX 202030Z AUTO 19011KT //// // ////// 28/18 Q1011 YCNY 202030Z AUTO 17001KT //// // ////// 18/08 Q1012 LTFE 202020Z 14003KT 120V180 CAVOK 11/10 Q1016 NOSIG LTFH 201950Z 06001KT 9999 FEW036 BKN100 10/07 Q1015 NOSIG BIEG 202000Z 22015KT 9999 FEW050 06/M02 Q1013 RPLB 201800Z 04005KT 9999 FEW020 28/22 Q1008 NOSIG LTFJ 202020Z 14003KT 9999 SCT030 BKN100 12/11 Q1016 RESHRA NOSIG RPLC 202000Z 07002KT 8000 SCT036 BKN100 26/23 Q1010 A2984 RMK NOSIG GMTA 202000Z 32002KT 8000 -RA SCT016 BKN026 17/14 Q1009 ROTM 201958Z 29003KT 9999 FEW010 BKN020 22/21 A2990 RMK SLP111 T02230209 RPLI 201000Z 34008KT 9999 FEW019CB SCT290 30/25 Q1008 NOSIG RMK A2978 CB SE FWKI 201500Z 10005KT 9999 FEW030 BKN100 21/16 NOSIG RPLL 202000Z 10003KT 070V150 9999 SCT023 27/20 Q1009 NOSIG RMK A2980 RPMD 201200Z 18002KT 9999 FEW016 29/26 Q1009 A2981 LOW CLDS MVNG N GMTN 202000Z 24016KT 210V280 9999 SCT033TCU SCT080 17/12 Q1006 HEMA 202000Z 35010KT CAVOK 28/14 Q1008 NOSIG GMTT 202030Z 24016KT 6000 FEW010 SCT016 FEW023CB 17/13 Q1008 NOSIG HEMM 202000Z 12002KT CAVOK 17/12 Q1018 NOSIG HELX 202000Z 32002KT CAVOK 30/15 Q1009 NOSIG RPMZ 201500Z 00000KT 9999 FEW018 BKN120 28/26 Q1010 RMK A2984 NCAI 202000Z AUTO 10004KT //// ///// 26/20 Q1015 MKJP 202000Z 15019KT 9999 FEW020 SCT032 ///// Q1013 MKJS 202000Z 02006KT 9999 SCT020 FEW022CB BKN032 29/25 Q1014 YCUN 202000Z AUTO 15004KT //// // ////// 13/10 Q1016 LUBL 202030Z AUTO 05002KT 9999 NCD 13/11 Q1012 YDLQ 202030Z AUTO 03004KT //// // ////// 05/03 Q1020 YCWA 202030Z AUTO 00000KT 9999 // NCD 15/03 Q1015 GOGG 202000Z 28006KT CAVOK 29/21 Q1010 BIKF 202030Z 23012KT 9999 VCSH FEW018CB BKN046 02/M01 Q1013 RESHSN GOGK 201800Z VRB02KT CAVOK 42/18 Q1007 GOGS 201900Z 26004KT CAVOK 25/22 Q1010 HEPS 202000Z 35012KT CAVOK 19/15 Q1015 NOSIG YCWR 202030Z AUTO 17005KT //// // ////// 03/02 Q1021 HESC 202000Z 00000KT CAVOK 22/11 Q1020 NOSIG HESH 202000Z 36014KT CAVOK 31/16 Q1007 NOSIG HETB 202000Z 28014KT 6000 NSC 18/13 Q1015 NOSIG YDPO 202030Z AUTO 17010KT 9999 // SCT060 05/02 Q1018 HESN 202000Z 35011KT 8000 NSC 33/07 Q1009 NOSIG LSZA 202050Z AUTO VRB03KT 9000 -SHRA SCT031 SCT048 11/10 Q1007 LSZB 202050Z AUTO VRB01KT 9999 FEW050 OVC070 11/08 Q1004 LSZC 202020Z AUTO 28004KT 250V320 9999 BKN110 BKN180 11/05 Q1004 LSZG 202020Z AUTO 05004KT CAVOK 11/07 Q1004 LSZH 202050Z 32002KT CAVOK 09/07 Q1004 NOSIG RPVM 202000Z 36004KT 9999 FEW020 SCT300 24/23 Q1009 A2981 LSZL 201950Z AUTO VRB02KT 9999NDV -SHRA BKN057 BKN071 12/09 Q1007 RMK WHT LSZR 202020Z AUTO VRB01KT CAVOK 09/07 Q1004 LSZS 201650Z 20012KT 9999 BKN050 05/02 Q1006 MMAA 201945Z 23011KT 5SM SKC 31/25 A2985 RMK HZY YELD 202030Z AUTO 14005KT //// // ////// 25/24 Q1009 CAHR 202000Z AUTO 32008KT 04/M09 RMK AO1 SLP281 T00421092 56012 BIRK 202000Z 20012KT 9999 VCSH FEW020 BKN035 02/M01 Q1013 GOOD 201800Z 10004KT CAVOK 43/09 Q1007 MMAN 201940Z 12011KT 4SM BKN015 OVC025 23/17 A3008 RMK 8/5// BR HZY YFBS 202030Z AUTO 19003KT //// // ////// 03/03 Q1021 GOOG 201800Z 06006KT 7000 NSC 43/15 Q//// MMAS 201945Z 26008KT 10SM FEW050TCU OVC230 28/02 A3024 RMK 8/207 BINOVC MMCB 201947Z 08007KT 12SM SCT030 30/10 A3008 RMK 8/100 VCCB NW TCU NE RTS LUKK 202030Z 27003KT CAVOK 13/05 Q1012 R26/CLRD65 NOSIG GOOK 201800Z 04004KT CAVOK 42/17 Q1008 FYGB 201900Z AUTO 04001KT //// // ////// 16/11 Q1026 YFDF 202030Z AUTO 29007KT 9999 // NCD 24/07 Q1013 CBBC 202000Z AUTO 13014G22KT 9SM FEW060 SCT075 BKN100 13/01 A2994 RMK SLP139 MMCE 201949Z 09010KT 7SM FEW010 31/22 A2994 RMK 8/100 YEML 202030Z AUTO 10005KT 9999 // NCD 15/15 Q1019 MMBT 201950Z 22010KT 6SM FEW030TCU 32/25 A2990 RMK 8/200 HZY MMCL 201940Z 21005KT 10SM SKC 32/21 A2994 RMK HZY ISOL CU MMCM 202040Z 12012KT 7SM SCT020TCU 30/26 A2995 RMK SLP143 5//// 900 8/200 RTS MMCN 201951Z 22009KT 10SM SKC 33/06 A2991 RMK HZY ISOL CI MMCP 201940Z 28013KT 7SM SCT025 29/23 A2996 RMK 8/100 FYGO 202000Z AUTO 17007KT //// // ////// 29/12 Q1016 NCMH 202000Z AUTO 08008KT //// ///// 32/26 Q1011 GOOY 202030Z 35006KT CAVOK 22/18 Q1010 NOSIG MMCS 201942Z 24006KT 10SM SCT040TCU 25/09 A3007 RMK 8/200 MMCT 201943Z 06005KT 10SM FEW030 34/14 A2998 RMK 8/100 MSGTX MMMD MMCU 201940Z 12012KT 10SM SCT030 SCT200 27/02 A3009 RMK 8/108 MMCV 201942Z 21010KT 6SM SCT008 OVC200 25/19 A3003 RMK 8/708 HZY AC DSNT CB W VRB COND MMDO 201941Z 19015KT 14SM FEW035 28/M05 A3019 RMK 8/100 ISOL AC MMCZ 201946Z 05010KT 8SM FEW015 27/20 A3002 RMK 8/500 CI MMEP 201951Z 36010KT 12SM SCT020 BKN250 32/12 A3013 RMK 8/501 GOSM 201800Z 08002KT CAVOK 43/17 Q1007 GOSP 201800Z 00000KT CAVOK 42/09 Q1006 GOSS 202000Z 02012KT CAVOK 35/16 Q1009 GOTK 201800Z 36006KT CAVOK 41/16 Q1008 MMGL 201941Z 29012KT 10SM SCT020 OVC300 30/03 A3015 RMK 8/107 MMGM 201951Z 18010KT 10SM SKC 28/18 A2992 RMK HZY FYKM 201800Z 00000KT CAVOK 21/16 Q1019 MMIA 202040Z 21010KT 8SM BKN250 31/12 A2998 RMK 8/001 RTS YERN 202030Z AUTO 00000KT //// // ////// 13/04 Q1019 GOTT 202000Z 00000KT CAVOK 36/09 Q1007 FYKT 202000Z AUTO 04007KT //// // ////// 19/06 Q1021 MMHO 201950Z 30004KT 10SM SKC 33/05 A2998 RMK HZY NCPY 202000Z AUTO 00000KT //// ///// 32/25 Q1011 NCRG 202000Z 28003KT 9999 FEW025 26/19 Q1014 FYML 202000Z AUTO 13004KT //// // ////// 23/07 Q1022 YESP 202030Z AUTO 19006KT 9999 // SCT024 BKN042 13/11 Q1015 MMIO 202040Z 36010KT 8SM SCT040 26/10 A3016 RMK 8/500 CU YGBI 202030Z AUTO 13009KT //// // ////// 26/23 Q1009 YEST 202030Z AUTO 19010KT 9999 // SCT027 SCT034 BKN053 16/10 Q1015 FYLZ 202000Z AUTO 22004KT //// // ////// 11/08 Q1014 FYOA 201900Z AUTO 20001KT //// // ////// 23/15 Q1018 YGAY 202030Z AUTO 00000KT //// // ////// 13/12 Q1020 YFLI 202030Z AUTO 06005KT 9999 // SCT037 BKN093 12/10 Q1018 MNBL 202000Z 09010KT 3000 FU BKN017 31/25 Q1012 YGDH 202030Z AUTO 00000KT //// // ////// 02/00 Q1020 FYOO 202000Z AUTO 09002KT //// // ////// 22/13 Q1020 MNCH 202000Z 23006KT 9999 SCT025 36/21 Q1009 MMMA 201945Z 10016KT 8SM OVC025 27/19 A3010 RMK 8/5// MMLM 201943Z 23010KT 12SM SKC 29/14 A2996 RMK HZY MMMD 201942Z 01009KT 7SM FEW030 SCT300 33/14 A2998 RMK 8/101 FYOW 202000Z AUTO 13001KT //// // ////// 19/M01 Q1022 MMLO 201947Z 00000KT 10SM SCT030TCU OVC220 31/08 A3021 RMK 8/207 MMLP 201940Z 32011KT 10SM SKC 28/11 A2998 YGEL 202030Z AUTO 15005KT 9999 // SCT035 BKN046 15/13 Q1015 MMLT 201945Z 04010KT 8SM SKC 27/15 A2996 MMML 201943Z 10006KT 10SM SKC 30/08 A2998 MMMM 201946Z 00000KT 7SM BKN030CB BKN230 25/10 A3022 RMK 8/303 AC HZY MMMT 202002Z RTD 36010G20KT 13SM FEW200 27/20 A2997 RMK 8/001 MMNL 201941Z 13010KT 10SM BKN030 OVC040 26/20 A3004 RMK 8/5// YGFN 202030Z AUTO 00000KT 1400 // BKN001 11/10 Q1019 MMMV 201940Z 05006KT 8SM SCT050 29/16 A2997 RMK 8/500 HZY FYRN 201800Z 18003KT CAVOK 23/03 Q1020 MMMX 201945Z 05007KT 15SM SCT200 26/01 A3029 NOSIG RMK 8/002 ISOL CU DSNT TCU SSW SKBG 202000Z 35005KT 9999 SCT015TCU SCT080 25/19 A2993 RMK TCU/E MMMY 201945Z 12005KT 6SM BKN025 OVC040 24/19 A3004 RMK 8/8// HZY MMMZ 201944Z 23011KT 12SM SKC 28/18 A2991 SKAR 202000Z 27008KT 9999 SCT022TCU SCT100 28/18 A2999 RMK TCU/N MMPA 201945Z 09008KT 4SM BKN010 OVC020 25/23 A3006 RMK 8/8// HZY OCNL DROPS MMPB 201940Z 00000KT 8SM SCT200 27/M02 A3030 RMK 8/002 HZY SKCC 202000Z 16020KT 9999 FEW020 SCT090 30/19 A2986 SKBO 202000Z 12007KT 9999 BKN020 18/08 A3028 SKCG 202000Z 01006KT 9999 SCT015 SCT070 30/25 A2978 MMPG 201940Z 12007KT 7SM BKN005 OVC030 22/21 A3006 RMK 8/5// BR SKBQ 202000Z 04015KT 9999 FEW020 SCT200 32/26 A2977 SKCL 202000Z 04003KT 9999 SCT017 BKN090 30/20 A2989 MMPN 201940Z 14007KT 7SM SCT045CB BKN090 OVC280 27/13 A3020 RMK 8/371 HZY FU MMOX 201955Z 11005KT 12SM FEW040 29/06 A3015 RMK 8/200 MMPQ 201944Z 09010KT 10SM SCT030TCU 31/23 A2994 RMK 8/200 HZY MSGTX MMMD MMPR 201950Z 19009KT 15SM BKN300 28/21 A2994 RMK 8/008 CU-E MMPS 201941Z 18009KT 14SM SKC 30/24 A3004 RMK CU N HZY K01M 202035Z AUTO 00000KT 10SM CLR 25/08 A3013 RMK AO2 T02510076 YHBA 202030Z AUTO 00000KT 9999 // NCD 15/14 Q1020 SKEJ 202000Z 09005KT 9999 VCSH FEW015TCU SCT200 33/24 A2980 RMK VCSH/TCU/SE YFRT 202030Z AUTO 15003KT //// // ////// 15/15 Q1011 BKPR 202100Z 00000KT 9999 BKN080 09/06 Q1013 NOSIG MMQT 201957Z RTD 06007KT 8SM SCT020 OVC220 29/06 A3028 RMK 8/107 FYWB 202000Z AUTO 16010KT //// // ////// 27/08 Q1013 MMSD 201946Z 15017KT 15SM SKC 29/17 A2996 FYWE 201200Z 03006KT 9999 BKN050 23/06 Q1025 MNJG 202000Z 36004KT 9999 SCT020 29/14 Q1013 YGLA 202030Z AUTO 21006KT 9999 // NCD 16/14 Q1019 FYWH 201800Z 00000KT CAVOK 17/11 Q1024 TAPA 202000Z 09010KT 9999 SCT018 27/21 Q1016 NOSIG MMSL 201944Z 22010KT 12SM SKC 26/15 A3003 RMK ISOL SC MMTC 201940Z 10005KT 10SM SKC 31/04 A3003 RMK SC AC SE YHAY 202030Z AUTO 01006KT //// // ////// 09/04 Q1021 MMRX 201844Z 16006KT 8SM BKN020 OVC020 24/17 A3006 RMK 8/7// OCNL -DZ HZY FU GQNN 202030Z 34012KT 8000 NSC 27/16 Q1010 NOSIG YGLI 202030Z AUTO 12004KT //// // ////// 01/01 Q1022 MMSP 201951Z 00000KT 15SM FEW020 OVC230 26/09 A3023 RMK 8/207 AC MMTG 201943Z 06017KT 12SM SCT030 34/15 A2991 RMK 8/100 MMTJ 201943Z 32014KT 7SM SKC 20/12 A3008 RMK HZY MNJU 202000Z 07006KT 9999 SCT020 34/22 Q1011 MMTM 201941Z 13010KT 5SM SCT010 OVC200 27/20 A3004 RMK 8/407 HZY/BINOVC YFTZ 202000Z AUTO 00000KT //// // ////// 18/09 Q1011 FYWW 202000Z AUTO 09004KT //// // ////// 17/10 Q1024 MMTO 201946Z 03005KT 6SM BKN015TCU BKN200 22/00 A3038 RMK 8/202 HZY MMTP 201940Z 27009KT 6SM SCT040 32/24 A2987 RMK 8/100 HZY TCU DSNT N NE NW YGLS 202030Z 03003KT CAVOK 18/01 Q1016 SKIB 202000Z 16003KT 9999 FEW023 BKN100 29/20 A3000 MMVA 201944Z 06010KT 7SM SCT015 BKN020 32/23 A2997 RMK 8/800 MMUN 201942Z 02007KT 8SM FEW018 28/19 A3003 RMK 8/500 CI K04V 202035Z AUTO 00000KT 10SM SCT110 17/M03 A3014 RMK AO2 LTG DSNT N K06D 202035Z AUTO 17014G22KT 10SM CLR 18/03 A2984 RMK AO2 K04W 202046Z AUTO 23005KT 10SM CLR 20/03 A2999 RMK AO2 MNMG 202000Z 12014KT 9999 SCT024 37/18 Q1009 A2980 NOSIG GQPP 202000Z 33012KT 6000 DRSA NSC 21/15 Q1014 NOSIG K05U 202040Z AUTO 10007KT 10SM CLR 18/M04 A3024 RMK AO1 SKIP 202000Z 11009KT 9999 BKN018 14/09 A3044 MMVR 201944Z 07008KT 7SM FEW015 28/19 A3001 RMK 8/100 HZY ISOL CI K08D 202035Z AUTO 31021G30KT 10SM CLR 18/00 A2986 RMK AO2 LWOH 201400Z 15008KT 9999 SCT050 SCT080 13/08 Q1012 SLCA 202000Z 00000KT 9999 OVC027 22/18 Q1017 SLCB 202000Z 08010KT 9999 FEW027 FEW030CB SCT200 27/08 Q1022 SKLC 202000Z 32008KT 8000 SCT010 OVC090 28/27 A2978 RMK HZ LXGB 201950Z 23015G33KT 9999 SHRA FEW014 SCT025 BKN045 16/13 Q1006 MNPC 202000Z 08012KT 7000 SCT016 30/24 Q1012 HZ NFFN 202000Z 12006KT 9999 FEW030 26/21 Q1014 NOSIG YHID 202030Z AUTO 11013KT 5000 RA BKN014 BKN023 OVC099 26/25 Q1009 SKMD 202000Z 22007KT 9999 SCT035 BKN080 27/16 A2999 MMZC 201941Z 21015KT 10SM FEW030 BKN200 26/00 A3028 RMK 8/106 SLCO 202000Z 26006KT 9999 SCT017 FEW020CB SCT070 BKN200 24/24 Q1010 SLCP 202000Z 00000KT 9999 SCT020 FEW027CB OVC200 29/24 Q1014 MMZH 201948Z 24010KT 6SM SCT250 32/25 A2987 RMK 8/002 HZY SKLT 202030Z 00000KT 1500 -RA SCT009 BKN080 25/25 A2982 MMZO 201845Z 21008KT 7SM FEW020 SCT250 28/22 A2981 RMK 8/106 HZY SKMR 202000Z 00000KT 9999 SCT020 BKN100 29/24 A2976 K11R 202035Z AUTO 14011G15KT 10SM CLR 26/13 A3010 RMK AO2 T02590128 YGTE 202030Z AUTO 00000KT //// // ////// 22/21 Q1009 YGTH 202030Z AUTO 00000KT 9999 // NCD 05/05 Q1021 K12N 201954Z AUTO VRB05KT 16/M03 A3037 RMK AO1 SLP288 T01561028 YHLC 202030Z AUTO 10001KT //// // ////// 16/10 Q1014 MNRS 202000Z 08006KT 9999 FEW020 33/22 Q1012 SLET 202000Z 13007KT 9999 FEW080 BKN200 26/20 Q1012 TBPB 202000Z 09018KT 9999 SCT018 BKN300 29/23 Q1015 NOSIG SKPC 201900Z 00000KT 9999 FEW020 34/21 A2979 LWSK 202030Z 00000KT CAVOK 09/08 Q1014 NOSIG YGTN 202030Z AUTO 11007KT //// // ////// 20/15 Q1014 SKNV 202000Z 20008KT 9999 VCSH FEW040 SCT120 33/18 A2980 RMK VCSH/SW SKPE 202000Z 13003KT 9999 VCSH FEW018 BKN080 23/18 A3004 RMK VCSH/E LYBE 202030Z 11008KT CAVOK 13/11 Q1011 NOSIG MPBO 202000Z 32004KT 9999 FEW016 BKN080 Q1014 RERA RWY WET SKPS 202000Z 15009KT 9999 BKN025 25/11 A3013 YHML 202030Z AUTO 36008KT 9999 // SCT110 10/10 Q1016 MPDA 202000Z 08006KT 9999 SCT020 33/23 Q1008 LYBT 202030Z 13010KT CAVOK 13/13 Q1011 NOSIG SKPV 202000Z 06005KT 9999 FEW018 BKN200 29/24 AXXXX SKRG 202000Z 03007KT 9999 SCT025CB 23/12 A3023 RMK CB/W/N SKRH 202000Z 02012KT 9999 FEW020 BKN200 32/24 A2980 K14Y 202045Z AUTO 00000KT 10SM CLR 20/01 A2999 RMK AO2 NFNA 202000Z 00000KT 9999 FEW022 25/23 Q1015 K0A9 202035Z AUTO 30006KT 10SM CLR 23/00 A3016 RMK SLJE 201800Z 00000KT 9999 BKN017 32/23 Q1015 SKSM 202000Z 35008KT 9999 FEW020CB BKN200 33/25 A2977 RMK CB E YHOO 202030Z AUTO 00000KT //// // ////// 14/10 Q1013 SLJO 202000Z 18003KT 8000 VCSH SCT017 FEW020CB BKN070 24/22 Q1010 SKSP 202000Z 07007KT 9999 FEW020 BKN200 29/25 AXXXX SKUC 202000Z VRB02KT 9999 -DZ BKN017 SCT080 27/25 A2984 K19A 202035Z AUTO 10006KT 10SM CLR 23/M10 A3016 RMK AO2 TDCF 202000Z 03003KT 9999 BKN020 29/19 Q1014 SKUI 202000Z 00000KT 9999 SCT020 30/24 A2979 NGFU 202000Z 00000KT 9999 FEW020 30/26 Q1011 K0E0 202035Z AUTO 29019G23KT 10SM CLR 20/01 A3011 RMK AO2 LTG DSNT NE T01970014 K21D 202031Z AUTO 18005KT 10SM CLR 23/05 A2999 RMK AO2 LTG DSNT SE SLMG 202000Z 14004KT 9999 -RA FEW007 SCT020 OVC070 24/24 Q1013 SLLP 202000Z 08009KT 9999 SCT017 FEW020CB BKN200 11/03 Q1036 YJAB 202030Z AUTO 11004KT //// // ////// 24/22 Q1009 K20V 202036Z AUTO 19008KT 10SM SCT065 SCT080 16/M02 A3016 RMK AO2 LTG DSNT S K0F2 202035Z AUTO 23005KT 10SM VCTSRA OVC050 18/16 A3009 RMK AO2 LTG DSNT ALQS P0003 T01790155 SKVP 202000Z 00000KT 9999 FEW020 BKN200 35/20 A2979 K0CO 202035Z AUTO 34012G19KT 10SM VCTS SCT005 SCT011 BKN100 M02/M07 A3038 RMK AO2 LTG DSNT S YHSM 202030Z AUTO 02008KT //// // NCD 09/06 Q1017 SKVV 202000Z 00000KT 9999 FEW020 SCT090 32/21 A2986 HKEL 202000Z 09006KT CAVOK 14/11 Q1024 HKEM 201900Z 00000KT 9999 SCT019 19/16 -RERA YHUG 202030Z AUTO 05011KT //// // ////// 20/13 Q1016 NFTF 202000Z 14003KT 9999 SCT018 22/20 Q1015 SLOR 202000Z 30007KT 9999 -RA SCT017 FEW020CB SCT200 12/05 Q1033 HKGA 202000Z 15006KT SKC 29/23 Q1009 K24J 202035Z AUTO 34006KT 10SM OVC019 18/13 A3012 RMK AO1 NFTL 202000Z 10006KT 9999 FEW017 BKN040 25/21 Q1015 SLPS 202000Z 33005KT 9999 SCT020 32/25 Q1010 SLRB 202000Z 00000KT 9999 SCT017 BKN070 27/23 Q1015 NFTV 202000Z 10008KT CAVOK 26/21 Q1014 LYKV 202030Z 11004KT 9999 FEW047 11/10 Q1011 NOSIG MPMG 202000Z 05010KT 9999 SCT020 33/21 Q1008 NOSIG K0J4 201958Z AUTO 05009G14KT 10SM OVC023 17/11 A3018 RMK AO2 SLP217 T01720111 $ SLRI 202000Z 00000KT 8000 VCSH FEW007 SCT017 FEW020CB BKN070 26/24 Q1010 K1A5 202035Z AUTO 23003KT 10SM CLR 23/02 A3016 RMK AO2 T02290021 SLSA 202000Z 12010KT 9999 SCT017 FEW023CB BKN200 27/23 Q1011 K1A6 202035Z AUTO 09003KT 10SM CLR 25/02 A3015 RMK AO2 T02490023 K1A9 202035Z AUTO 10005G08KT 10SM CLR 23/10 A3012 RMK AO2 T02320103 SLRQ 202000Z 14015KT 6000 VCSH FEW008 BKN010 OVC070 25/23 Q1011 SLSI 202000Z 00000KT 9999 SCT017 SCT070 29/24 Q1012 LYNI 202030Z VRB02KT 9999 FEW040 13/09 Q1012 K1B7 202013Z 09006KT 10SM SKC 20/16 A3016 SLRY 202000Z 14006KT 6000 -RA BKN006 FEW023CB OVC080 25/24 Q1012 SMJP 201500Z 04006KT 9999 FEW015TCU SCT018 27/25 Q1014 RESHRA NOSIG SLTJ 202000Z 23008KT 9999 BKN025 OVC070 20/15 Q1019 MPPA 202000Z 35012KT 9999 SCT020 Q1008 SLSU 202000Z 06009KT 9999 SCT020 SCT200 17/09 Q1028 K28J 202035Z AUTO 35009KT 10SM OVC020 18/14 A3007 RMK AO2 HKJK 202000Z 01004KT CAVOK 16/15 Q1021 NOSIG LYPG 202030Z 32004KT 9999 -RA FEW023 SCT030 OVC080 12/12 Q1012 NOSIG SLTR 202000Z 10004KT 9999 FEW015 FEW020CB BKN200 28/23 Q1011 HKKG 201600Z 27004KT 9999 FEW022CB SCT090 23/16 HKKI 201700Z 29005KT 9999 FEW022CB BKN090 25/19 Q1014 ZBAA 202030Z 35004MPS CAVOK 07/02 Q1016 NOSIG HKKR 201600Z 00000KT 9999 FEW023CB SCT024 21/17 HKMA 201600Z 00000KT 9999 FEW033 33/18 HKKS 202000Z 10005KT CAVOK 18/13 LZIB 202030Z 02002KT 9999 FEW033 10/08 Q1010 SLVM 201700Z 00000KT 4000 -DZ BKN012 OVC070 22/20 Q1018 HKKT 202000Z 00000KT CAVOK 19/14 K1F0 202035Z AUTO 19007KT 160V220 10SM 25/11 A3005 RMK AO2 LTG DSNT SW HKME 201600Z 17003KT 9999 SCT018 FEW019CB BKN080 20/17 HKLO 201600Z 09018KT 9999 FEW032 BKN300 33/17 SLVR 202000Z 16009KT 9999 FEW020 FEW025TCU BKN200 26/19 Q1013 HKLU 201600Z 18009KT 9999 FEW025 30/24 HKML 201900Z 17006KT 9999 FEW022 28/24 Q1011 HKNC 201800Z 06004KT 9999 SCT017 17/15 Q1022 HKMO 202000Z 19004KT 9999 SCT022 26/24 Q1012 NOSIG GUCY 202000Z 28006KT 9999 SCT015 27/25 Q1010 NOSIG SLYA 202000Z 00000KT 9999 BKN023 OVC070 24/19 Q1015 YJLC 202030Z AUTO 11002KT //// // ////// 18/07 Q1014 HKNI 201600Z 19002KT 9999 FEW021 BKN080 19/16 HKNK 201900Z 00000KT 9999 FEW018 SCT090 17/14 TDPD 202000Z 11009KT 9999 FEW017 28/23 Q1016 HKMU 201600Z 09003KT 9999 FEW024 24/17 K1H2 202035Z AUTO 21006KT 10SM CLR 25/02 A3013 RMK AO2 T02490021 CERM 202000Z AUTO 18001KT 10/M13 RMK AO1 SOG 23 6022 SLP276 T01011131 HKNO 202000Z 16007KT 9999 FEW017 BKN080 17/13 HKMY 201600Z 13004KT 9999 FEW023 SCT260 25/18 K0R0 202035Z AUTO 10SM CLR 27/11 A3011 RMK AO2 K33V 202036Z AUTO 00000KT 10SM SCT023 BKN039 OVC095 10/M02 A3021 RMK AO2 HKNW 201900Z 08004KT 9999 SCT022 18/16 Q1020 MPTO 202100Z 02008KT 9999 SCT018TCU 35/// Q1007 NOSIG NGTT 202000Z 08003KT 9999 VCSH FEW018 SCT020 BKN100 26/23 Q1010 YIVO 202030Z AUTO 06005KT //// // ////// 08/04 Q1020 LYTV 202030Z VRB02KT 9999 FEW020 SCT030 BKN080 14/12 Q1012 LZKZ 202030Z 00000KT CAVOK 10/07 Q1012 LYUZ 202030Z VRB03KT 9999 FEW020 08/05 Q1012 LYVR 202030Z 13015KT 9999 FEW033 BKN040 13/09 Q1012 NOSIG K1II 202035Z AUTO 12010G14KT 10SM CLR 22/02 A3015 RMK AO2 GVAC 201400Z 05018KT 9999 FEW014 BKN200 25/18 Q1015 NOSIG K36U 202035Z AUTO 23004KT 10SM SCT090 BKN110 21/00 A3013 RMK AO2 SOCA 202030Z AUTO 07014KT 9999 BKN024 BKN034 OVC072 28/23 Q1011 GVBA 201400Z 06018KT 9999 FEW015 BKN200 27/18 Q1015 NOSIG K2C8 202035Z AUTO 14008KT 10SM CLR 14/06 A2993 RMK AO2 K40B 202016Z AUTO VRB02KT 12/M12 A3030 RMK AO1 SLP277 T01171120 57022 ZBHH 202000Z 04002MPS CAVOK 06/M01 Q1018 NOSIG K1M4 201956Z AUTO 19005KT 10SM CLR 25/07 A3018 RMK AO2 T02500066 SLP230 $ K2D5 202035Z AUTO 16010G16KT 130V190 10SM CLR 24/M01 A2991 RMK AO2 K40J 202035Z AUTO 04006KT 10SM OVC019 16/12 A3012 RMK AO2 HLLB 201956Z 15010KT 8000 22/-02 Q1014 YKII 202030Z AUTO 09009KT 9999 // SCT019 OVC024 12/11 Q1016 LZPP 202030Z AUTO 01006KT 9999 FEW057/// SCT110/// 08/06 Q1011 HLLM 201950Z 22004KT 6000 NSC 34/03 Q1005 YLBD 202030Z AUTO 00000KT 9999 // NCD 23/21 Q1010 K42J 202035Z AUTO 35010G14KT 10SM OVC016 17/13 A3007 RMK AO1 MSAC 201950Z 16010KT 9999 FEW040 32/24 Q1010 A2984 HLLT 202020Z 20007KT 8000 NSC 30/02 Q1005 K1P1 202055Z AUTO 14005KT 10SM 16/M12 A3034 RMK AO2 T01581122 TFFF 202030Z AUTO 07014KT 9999 FEW022 SCT027 BKN033 27/23 Q1015 HKVO 201100Z 14010KT 9999 BKN026 31/20 K2G4 202045Z AUTO 12011KT 10SM CLR 15/M15 A3026 RMK AO1 K2DP 202043Z AUTO 02022G36KT 5SM -RA OVC007 10/09 A3016 RMK AO2 HKWJ 201200Z 16008KT 9999 SCT034 SCT330 33/21 Q1008 LZSL 202030Z VRB02KT 2000 R36/0275N PRFG BR SCT001 06/06 Q1011 TFFR 202030Z 12015KT 090V150 9999 SCT026 28/20 Q1016 NOSIG MRLB 202000Z 09012KT 9999 FEW035 37/18 A2978 K2I0 202035Z AUTO 05003KT 10SM CLR 26/04 A3014 RMK AO2 T02550038 YLEC 202030Z AUTO 19004KT //// // ////// 15/08 Q1018 K1R7 202055Z AUTO 10004KT 8SM CLR 27/11 A3013 RMK AO2 LZTT 202030Z 00000KT 9999 FEW030 BKN056 06/05 Q1012 MRLM 201900Z 07013KT 9999 FEW025 BKN070 28/23 A2991 YKMP 202030Z AUTO 25004KT //// // ////// 12/11 Q1019 K46D 202035Z AUTO 20016G23KT 10SM CLR 23/00 A2988 RMK AO2 SMZO 201500Z 09006KT 9999 FEW020CB 30/23 Q1014 NOSIG K2J9 202015Z AUTO 34005KT 10SM OVC018 15/11 A3017 RMK AO1 YLEO 202000Z AUTO 30005KT 9999 // NCD 17/07 Q1012 YKNT 202030Z AUTO 08009KT //// // ////// 19/04 Q1016 MROC 202000Z 09012KT 9999 SCT030 30/15 A2999 NOSIG AYMO 200900Z 00000KT 9999 FEW018CB SCT140 BKN300 27/25 Q1008 RMKS YKOW 202030Z AUTO 12004KT //// // ////// 20/17 Q1012 YLHI 202030Z 20003KT 9999 FEW032 20/13 Q1021 K1V4 201954Z AUTO 16/M12 A3032 RMK AO1 SLP271 T01561122 K1V6 202035Z AUTO 04004KT 10SM CLR 21/03 A3005 RMK AO2 LTG DSNT NW SPCL 202000Z VRB02KT 9999 SCT015 FEW035TCU SCT100 28/24 Q1010 RMK BIRD HAZARD RWY 02/20 PP000 YLHR 202030Z AUTO 13011KT //// // ////// 25/23 Q1010 LZZI 202030Z VRB02KT CAVOK 09/07 Q1011 YKSC 202030Z AUTO 04006KT 9999 // NCD 18/14 Q1011 MRPV 202000Z 07013KT 9999 FEW025TCU BKN040 27/16 A3001 NOSIG YMBA 202030Z AUTO 11005KT //// // ////// 21/16 Q1016 YLIS 202030Z AUTO 00000KT 0600 // BKN001 10/10 Q1019 ZBSJ 202000Z 26001MPS 1300 R15/P2000U BR NSC 12/12 Q1016 NOSIG OAHR 201954Z AUTO 35002KT //// // ////// 20/M01 Q1016 YMBD 202030Z AUTO 01017KT //// // ////// 15/07 Q1015 YKRY 202030Z AUTO 00000KT //// // ////// 09/08 Q1021 ZBTJ 202030Z 25001MPS 1600 BR NSC 14/10 Q1016 NOSIG AYPY 202000Z 34005KT 9999 FEW004 FEW040 SCT300 25/23 Q1007- OAKB 201950Z 02003KT 9999 -SHRA BKN042 12/06 Q1022 NOSIG RMK BLU BLU YMAV 202030Z AUTO 03011KT 9999 // OVC125 13/05 Q1017 YLLE 202000Z AUTO 11006KT //// // ////// 15/05 Q1018 YMAY 202030Z AUTO 00000KT 9999 // NCD 04/03 Q1022 GVNP 201400Z 03020KT 9999 FEW015 28/17 Q1014 NOSIG OBBI 202000Z 29007KT CAVOK 27/16 Q1008 NOSIG K54J 202035Z AUTO 03009KT 10SM OVC018 15/11 A3015 RMK AO2 T01510110 SPGM 201700Z /////KT 9999 FEW040 29/21 Q1017 RMK PP000 YMCO 202030Z AUTO 30007KT //// // ////// 09/05 Q1019 NIUE 202000Z 11004KT 9999 SCT018 26/22 Q1014 RMKS OAKN 201955Z 00000KT 5000 HZ BKN200 19/07 Q1014 RMK A2994 DA4700 WHT K3I2 202035Z AUTO 00000KT 10SM CLR 26/M05 A3018 RMK AO2 YMDG 202030Z AUTO 03003KT //// // ////// 01/01 Q1021 MTBO 202030Z AUTO 27006KT 9999 // NCD 04/02 Q//// SPHI 202000Z 18015KT CAVOK 29/20 Q1010 RMK PP000 SPHO 202000Z VRB04KT 9999 VCSH SCT046 BKN060 21/12 Q1022 RMK PP000 MSLP 202050Z 16006KT 100V220 9999 FEW070 33/22 Q1009 A2981 K4A6 202035Z AUTO 06007KT 10SM CLR 25/06 A3014 RMK AO2 YMEK 202030Z AUTO 19006KT 9999 // NCD 17/06 Q1014 K3J7 202035Z AUTO 01004KT 10SM CLR 22/05 A3012 RMK AO2 MSLU 201950Z 12009KT CAVOK 34/17 Q1008 A2978 K1YT 201956Z AUTO 16009G14KT 12SM CLR 15/M02 A3024 RMK AO2 SLPNO T01461019 SPIM 202000Z 28006KT 250V320 8000 OVC006 19/17 Q1012 NOSIG RMK PP000 K4A9 202035Z AUTO 36007KT 10SM CLR 25/02 A3013 RMK AO2 YMEN 202030Z AUTO 36016KT 9999 // NCD 12/06 Q1018 SPHY 201900Z 35014KT 9999 SCT040 16/09 Q1037 RMK PP000 YMER 202030Z AUTO 29006KT 9999 // NCD 09/07 Q1020 YMES 202030Z AUTO 31004KT 9999 // NCD 06/04 Q1019 YMGB 202030Z AUTO 15007KT //// // ////// 24/22 Q1009 OAMS 201950Z 17003KT 9999 SKC 20/03 Q1013 BLU/BLU/ YMGD 202030Z AUTO 16007KT 9999 // NCD 24/24 Q1008 SPJL 202000Z 30006KT 9999 SCT020 16/02 Q1036 RMK PP000 SPJR 202030Z 12008KT 9999 FEW025 SCT040 22/08 Q1026 YMHB 202030Z 31009KT 9999 FEW035 SCT250 05/01 Q1018 ZBYN 202030Z 25002MPS 4000 HZ NSC 12/07 Q1018 NOSIG AYWK 202000Z 00000KT 9999 FEW020TCU SCT140 BKN300 26/24 Q1010 RMKS K2V5 202055Z AUTO 10SM CLR 21/09 A2998 RMK AO2 T02060093 YMIA 202030Z 04007KT CAVOK 10/05 Q1019 YLRE 202030Z AUTO 10008KT 9999 // NCD 19/10 Q1017 SPME 202000Z 33006KT 9999 OVC025 25/24 Q//// RMK BIRD HAZARD RWY 32/14 PP000 GVSV 201400Z 06026KT 9999 FEW017 BKN200 27/18 Q1015 NOSIG K4BM 202034Z AUTO 04006KT 1 1/2SM -TSSN BKN004 OVC011 01/00 A3035 RMK AO2 LTG DSNT NE AND NW K3LF 202035Z AUTO 00000KT 10SM CLR 24/07 A3011 RMK AO2 T02430073 K2W6 202045Z AUTO 09010G16KT 10SM CLR 15/01 A3036 RMK AO1 K3N8 202035Z AUTO 20005G15KT 10SM CLR 20/00 A2997 RMK AO2 T02040003 YMIN 202030Z AUTO 36021KT //// // ////// 19/09 Q1012 SPMS 202000Z /////KT 8000 VCSH BKN015 32/24 Q1013 RMK BIRD HAZARD 09/27 PP000 MSSA 201950Z 32005KT 9999 SCT037 34/16 Q1017 A3005 YNAR 202030Z AUTO 00000KT //// // ////// 03/02 Q1021 YLST 202000Z AUTO 23006KT 9999 // NCD 18/08 Q1013 MSSM 201950Z 10003KT 9999 FEW037 39/16 Q1007 A2976 DAAD 201800Z 26014KT 9999 FEW033 BKN200 24/06 Q1007 K3MW 202036Z AUTO 25010KT 10SM SCT035 BKN047 BKN060 08/M05 A3033 RMK AO2 LTG DSNT SE PWINO YNBR 202030Z AUTO 20004KT 160V220 //// // ////// 06/04 Q1020 DAAE 202000Z 00000KT 8000 FEW020 SCT233 15/13 Q1008 YMMB 202030Z AUTO 36011KT 9999 // NCD 13/05 Q1018 DAAG 202030Z 00000KT 9999 FEW026 15/11 Q1008 MSSS 202050Z 18006KT CAVOK 33/23 Q1014 A2997 YLTV 202030Z AUTO 00000KT 9999 // NCD 04/04 Q1019 DAAJ 201900Z 24004KT CAVOK 27/M07 Q1016 DABB 202030Z 20004KT CAVOK 15/13 Q1007 DABC 202030Z 00000KT 9999 FEW040 SCT100 12/09 Q1009 MUCF 201950Z 24011KT 9999 SCT025 30/23 Q1015 K4I3 202035Z AUTO 12004KT 10SM CLR 23/03 A3019 RMK AO2 K2WX 201956Z AUTO 31026G31KT 18/M02 A2992 RMK AO1 PK WND 31031/1956 SLP131 T01831022 DAAP 202000Z 12010KT CAVOK 33/M01 Q1010 YMLT 202030Z AUTO 19008KT 9999 // NCD 03/00 Q1018 K4I7 202035Z AUTO 00000KT 10SM CLR 22/03 A3015 RMK AO2 K3R7 202035Z AUTO 12004KT 10SM BKN060 27/13 A3011 RMK AO2 T02710128 YMML 202030Z 36021KT CAVOK 11/04 Q1018 NOSIG YMNE 202030Z AUTO 20005KT 9999 // NCD 18/08 Q1014 DAAS 202000Z 36002KT 8000 FEW030 SCT233 13/10 Q1011 MUCL 201951Z 31006KT 280V010 9999 FEW020 28/20 Q1016 DAAT 201800Z 18011KT CAVOK 30/M01 Q1017 MUCM 201950Z 24007KT 210V270 9000 SCT016CB BKN020 29/21 Q1015 YMNG 202030Z AUTO 00000KT 9999 // NCD 04/03 Q1020 DAAV 202000Z 00000KT 8000 FEW040 SCT100 18/13 Q1008 TGPY 202000Z 12014KT 9999 SCT018TCU 27/25 Q1013 NOSIG TCU-NE/W DAAY 201800Z 00000KT 8000 FEW030 SCT100 19/05 Q1012 SPQT 202000Z VRB04KT 9999 BKN025 32/23 Q1009 NOSIG RMK BIRD HAZARD PP000 K65S 202035Z AUTO 19010G15KT 160V240 10SM CLR 13/00 A3023 RMK AO2 SPQU 202000Z 25009KT 210V280 9999 SCT050 SCT110 21/05 Q1025 NOSIG RMK PP000 YNEN 202030Z AUTO 09009KT 9999 // NCD 29/23 Q1009 DABS 202030Z 30010KT 9999 FEW046 SCT100 BKN230 17/07 Q1008 MUCU 201950Z 22007KT 200V260 9999 FEW020 FEW040 29/21 Q1016 DABT 202000Z 04010KT CAVOK 15/10 Q1009 YMOG 202000Z AUTO 25007KT //// // ////// 17/10 Q1014 K3T5 202035Z AUTO 17008KT 10SM SCT040 SCT075 25/16 A3006 RMK AO2 T02510164 SPRU 202000Z 16009KT 5000 BR BKN003 20/17 Q1011 RMK PP000 K5C1 202030Z AUTO 12007KT 4SM BKN008 OVC014 18/17 A3009 RMK AO1 SPSO 202000Z 28006KT 240V300 8000 NSC 24/18 Q1011 RMK BIRD HAZARD RWY 22/04 P0000 YMOR 202030Z 07005KT CAVOK 09/04 Q1020 DAEF 201800Z 19016KT 8000 DRSA BKN040 SCT100 35/// Q1008 SPST 202000Z 28003KT 9999 SCT020 32/23 Q1009 RMK BIRD HAZARD RWY 17/35 PP000 SPTN 202000Z 22011KT CAVOK 23/15 Q1010 RMK PP000 DAEN 201700Z 21014KT 8000 FEW046 SCT100 39/// Q1005 YMRB 202030Z AUTO 16005KT 9999 // NCD 13/12 Q1018 YNHL 202030Z AUTO 36008KT //// // ////// 13/05 Q1017 DAFH 201800Z /////KT CAVOK 25/08 Q1007 MUHA 201955Z 31013KT 290V020 9000 SCT030 27/15 Q1017 SPTU 202000Z 25003KT 9999 SCT010 34/26 Q1008 RMK BIRD HAZARD RWY 01/19 PP000 K4M9 202035Z AUTO 19006KT 10SM 26/08 A3011 RMK AO2 MUGM 201956Z 23014G18KT 9999 FEW030 SCT120 SCT250 29/23 A2998 RMK SLP151 T20940228 MTPP 201700Z 09011KT 9999 FEW030 32// Q1015/8 A3000 MUHG 202018Z 25013KT 0300 +TSRA BKN018CB OVC070 23/21 Q1015 R MK CB AT SW/W /NW AD K4O4 202041Z AUTO 17007KT 10SM SCT050 26/12 A3009 RMK AO2 YMRY 202030Z AUTO 26004KT 9999 // NCD 09/09 Q1019 YMTG 202030Z AUTO 02008KT 4600 // OVC001 12/12 Q1015 YMTI 202030Z AUTO 08006KT //// // ////// 25/21 Q1011 K4MR 202017Z AUTO 25013G22KT 220V290 12SM DZ BKN060 20/10 A3003 RMK AO2 WSHFT 15 LTG DSNT W K5H4 202035Z AUTO 20014G21KT 10SM CLR 22/01 A2984 RMK AO2 SPZA 202030Z VRB07KT CAVOK 33/16 Q1011 DBBB 202000Z 29004KT 260V330 8000 FEW011 BKN100 25/25 Q1007 NOSIG SPZO 202030Z 36007KT 300V070 9999 SCT080 19/01 Q1028 K6A2 202035Z AUTO 35004KT 10SM CLR 23/ A3015 RMK AO2 UAAA 202030Z 18004MPS 9999 SCT050CB BKN100 11/06 Q1018 88CLRD65 NOSIG K6B0 202035Z AUTO 16007KT 10SM CLR 16/M06 A3033 RMK AO2 T01551060 TSNO YMYB 202030Z AUTO 03004KT 9999 // NCD 16/15 Q1020 DAMH 201227Z 20024KT 7000 DRSA SCT040 39/// Q1008 UACC 202030Z 21003MPS 6000 SCT100 04/02 Q1014 R22/0/0070 NOSIG RMK QFE729/0972 DAOB 202000Z 00000KT 9999 FEW026 SCT216 13/03 Q1009 TJBQ 201950Z 07014KT 10SM SCT048 SCT060 30/22 A3002 RMK RWY08 ATIS E DAOF 202000Z 29018KT 9999 SCT046 SCT100 22/03 Q1013 YNRC 202030Z AUTO 04006KT //// // ////// 12/10 Q1016 UACK 201130Z 30006MPS 270V330 CAVOK 16/M03 Q1015 R20/010070 NOSIG RMK QFE737/0983 DAOI 202000Z 28003KT CAVOK 18/09 Q1007 K79J 202038Z AUTO 08007KT 050V110 10SM OVC031 22/12 A3015 RMK AO2 UADD 202000Z 26002MPS 9999 NSC 09/03 Q1016 NOSIG RMK QFE705/0940 K5M9 202035Z AUTO 00000KT 10SM CLR 25/06 A3014 RMK AO2 T02460060 DAOL 200800Z 25020KT 9999 FEW030 SCT100 BKN200 17/11 Q1010 UACP 201130Z 28009G14MPS CAVOK 16/M01 Q1012 R23/0/0060 NOSIG RMK QFE747/0996 DAON 202030Z 36002KT 9999 FEW030 15/07 Q1008 DAOO 202030Z 02002KT 9999 FEW020 17/14 Q1008 YPAD 202030Z 04011KT CAVOK 20/06 Q1013 FM2030 MOD TURB BLW 5000FT DAOR 202000Z 36006KT 5000 NSC 24/10 Q1007 YPAG 202030Z AUTO 31003KT //// // NCD 15/10 Q1015 DAOV 202000Z 04004KT 9999 FEW030 15/09 Q1008 YNSM 202000Z AUTO 18004KT //// // ////// 12/11 Q1015 OEAB 202000Z 20003KT CAVOK 19/10 Q1025 NOSIG OEAH 202000Z 28003KT CAVOK 26/M01 Q1009 NOSIG YPCC 202030Z AUTO 33005KT 9999 // SCT020 SCT026 27/24 Q1007 OEBA 202000Z 10004KT CAVOK 25/10 Q1020 NOSIG YOLD 202030Z AUTO 05006KT 9999 // NCD 17/09 Q1016 YNTN 202030Z AUTO 11004KT //// // ////// 22/15 Q1013 YPBO 202030Z AUTO 07004KT 9999 // NCD 17/01 Q1014 K82V 202035Z AUTO 32013G17KT 10SM SCT100 21/M02 A3001 RMK AO2 OEAO 202000Z 36012KT CAVOK 32/M03 Q1013 OEBH 202000Z 07008KT 8000 SKC 28/01 Q1016 NOSIG MWCB 202000Z 22004KT 9999 FEW018 30/23 Q1015 YPEA 202000Z AUTO 16003KT 9999 // NCD 12/09 Q1016 YPED 202030Z AUTO 04013KT 9999 // NCD 19/07 Q1014 K5R8 202035Z AUTO 17005KT 10SM SCT060 27/13 A3010 RMK AO2 T02740131 YOLW 202030Z AUTO 21011KT //// // ////// 23/11 Q1011 YPDN 202030Z 12006KT CAVOK 25/22 Q1009 DAUA 202000Z 25010KT 7000 NSC 32/M03 Q1007 DAUB 202000Z 32020KT CAVOK 26/05 Q1003 TJIG 201952Z 09012KT 8SM -RA SCT025 BKN060 27/22 A3004 RMK RY09 IN USE ATIS I DATM 201200Z 18008KT CAVOK 40/// Q1010 OEDF 202000Z 35006KT CAVOK 24/06 Q1008 NOSIG DAUE 202000Z /////KT 8000 NSC 28/03 Q1006 UAII 202030Z 14003MPS CAVOK 10/05 Q1016 R10/0///70 NOSIG RMK QFE726/0969 DAUG 202000Z 30006KT 7000 SCT046 BKN100 29/M01 Q1006 MWCR 202000Z 04004KT 010V080 9999 SCT016TCU SCT030 28/25 Q1015 DAUH 202030Z 30006KT 7000 SCT040 BKN100 32/11 Q1004 YOOD 202030Z AUTO 32004KT //// // ////// 16/07 Q1017 DAUI 202000Z 26008KT CAVOK 34/// Q1008 YNWN 202030Z AUTO 00000KT 9999 // NCD 16/02 Q1013 OEDM 201800Z 05015KT CAVOK 29/M05 Q1015 DAUK 202000Z 00000KT CAVOK 28/12 Q1003 DAUL 202000Z 33012KT 9999 FEW033 SCT100 20/02 Q1009 DAUO 202000Z /////KT 9999 SCT040 BKN100 27/09 Q1003 MUVR 201950Z 32013KT 9000 SCT020 26/16 Q1017 OEDR 202000Z 33005KT CAVOK 28/04 Q1007 NOSIG UBBB 202030Z 31007KT CAVOK 14/10 Q1011 88CLRD70 NOSIG YOOM 202030Z AUTO 05006KT //// // ////// 15/05 Q1018 UAKD 201600Z VRB02MPS 7000 NSC 15/M03 Q1016 R040///65 NOSIG RMK QFE729/0972 DAUT 202000Z 24008KT 7000 NSC 30/// Q1007 ZGGG 202030Z 15003MPS 7000 BKN030 26/23 Q1010 NOSIG DAUU 202000Z 31010KT 7000 SCT040 SCT100 32/02 Q1004 UBBG 202030Z 26004KT 9999 BKN100 19/10 Q1010 R30/CLRD70 NOSIG ZGHA 202000Z VRB01MPS 2000 -DZ BR SCT004 BKN007 OVC050 16/14 Q1012 NOSIG TIST 201953Z 14012G18KT 10SM CLR 28/22 A3002 RMK AO2 SLP167 T02830222 DAUZ 202000Z 15011KT 8000 NSC 30/M05 Q1011 UAKK 202030Z 07002MPS CAVOK 00/M01 Q1015 R23/0///70 NOSIG RMK QFE714/0953 UBBL 202000Z 17004KT 9999 BKN100 17/14 Q1010 R33/CLRD70 NOSIG RMK MT OP UBBN 202030Z 16002KT 9999 SCT050CB OVC086 17/07 Q1011 R14R/CLRD60 NOSIG RMK MT OP QFE683 TISX 201953Z 10013KT 10SM FEW025 29/21 A3003 RMK AO2 SLP167 T02890206 K5SM 202038Z AUTO 35003KT 10SM CLR 08/M03 A3035 RMK AO2 LTG DSNT E UBBQ 202000Z 04002KT 9999 OVC200 15/09 Q1011 R16/CLRD70 NOSIG RMK MT OBSC YPGV 202030Z 11009KT 9999 FEW028 BKN300 27/22 Q1009 OEGN 202000Z 07003KT CAVOK 30/21 Q1009 NOSIG K7BM 202035Z AUTO 00000KT 10SM SCT043 BKN060 OVC080 11/M02 A3026 RMK AO2 LTG DSNT NE UBBY 202000Z 08008KT 9999 BKN100 18/08 Q1014 R33/////// NOSIG RMK MT OP OEGS 202000Z 04010KT CAVOK 30/04 Q1013 OEGT 202000Z 27006KT 9999 SCT040 25/08 Q1012 NOSIG K5W8 202030Z AUTO 05012G18KT 10SM CLR 19/05 A3020 RMK AO2 T01940051 OEHL 202000Z 25012KT 9999 SCT045 29/05 Q1017 UBEE 201400Z 23006KT 9999 SCT040 BKN080 25/09 Q1009 R30/CLRD70 NOSIG YPKA 202030Z AUTO 24004KT 9999 // NCD 24/23 Q1010 YPKG 202030Z AUTO 14008KT 9999 // OVC016 16/12 Q1014 TJMZ 192150Z 08005KT 10SM BKN040 28/22 A2999 TJNR 201953Z AUTO 11013KT 10SM FEW035 BKN042 28/22 A3005 RMK AO2 SLP176 T02830217 $ YPJT 202030Z AUTO 19006KT //// // ////// 11/10 Q1018 YPLC 202030Z AUTO 34021KT 9999 // NCD 23/08 Q1010 ZHCC 202000Z 08002MPS 2000 BR NSC 14/12 Q1015 NOSIG ZGKL 202000Z VRB02MPS 5000 BR SCT026 OVC040 18/16 Q1010 NOSIG UAOO 202000Z 02003MPS CAVOK 13/00 Q1016 NOSIG RMK QFE751/1001 OEJN 202000Z 29004KT CAVOK 30/17 Q1006 NOSIG YPKS 202030Z AUTO 07006KT //// // ////// 03/02 Q1021 YPKT 202030Z AUTO 13004KT //// // ////// 25/20 Q1009 YPKU 201830Z AUTO 18004KT 9999 // NCD 21/15 Q1010 OEKJ 202000Z 07004KT CAVOK 29/M07 Q1013 OEKK 201800Z 36008KT CAVOK 31/09 Q1013 NOSIG YPLM 202030Z AUTO 21010KT 9999 // NCD 20/15 Q1012 OEKM 202000Z 00000KT CAVOK 20/12 Q1024 NOSIG K6R3 202035Z AUTO 19008KT 7SM CLR 27/13 A3011 RMK AO2 T02730134 TJPS 201950Z 17012KT 10SM SCT030 31/23 A2999 K6R6 201953Z AUTO VRB06G14KT 27/17 A3002 RMK AO1 SLP134 T02670167 OEMA 202000Z 26011KT CAVOK 34/02 Q1013 NOSIG K8A0 202035Z AUTO 35006KT 10SM CLR 23/11 A3014 RMK AO2 K96D 202035Z AUTO 13013KT 10SM 15/05 A2992 RMK AO2 YPMQ 202030Z AUTO 25002KT 9999 // NCD 13/12 Q1018 SUAA 202000Z 00000KT 9999 FEW013 BKN100 20/10 Q1019 YPOD 202030Z AUTO 01005KT 9999 // ////// 13/13 Q1015 OEMK 202000Z 00000KT CAVOK 33/17 Q1008 ZGNN 202000Z 16002MPS 7000 NSC 25/23 Q1008 NOSIG OENG 202000Z 02002KT CAVOK 25/M03 Q1017 NOSIG UARR 202000Z 06002MPS CAVOK 05/M01 Q1021 R04/CLRD70 NOSIG RMK QFE762/1017 TJSJ 201956Z 05013KT 10SM BKN022 BKN045 OVC060 28/22 A3001 RMK AO2 SLP162 T02830217 $ UASK 202000Z 12002MPS 9999 BKN100 08/03 Q1015 R30/000060 NOSIG RMK QFE736/0981 YPPD 202030Z AUTO 20002KT 9999 // NCD 21/20 Q1011 YPPF 202030Z AUTO 03015KT 9999 // NCD 20/07 Q1013 UATE 202030Z 05004MPS CAVOK 15/M05 Q1015 R12/0///70 NOSIG RMK QFE759/1012 K7L2 202035Z AUTO 21013G22KT 10SM CLR 23/00 A2989 RMK AO2 PWINO PNO YPPH 202030Z 20008KT CAVOK 11/09 Q1017 UASP 202000Z 20004MPS CAVOK 07/00 Q1012 R21/0///70 NOSIG RMK QFE748/0997 UATG 202030Z 03003MPS 5000 FU BKN200 13/M03 Q1018 R14/CLRD70 NOSIG RMK QFE766/1021 SUCA 202000Z XXXXX CAVOK XXXX XXXX OEPA 202000Z 33006KT CAVOK 28/10 Q1013 NOSIG ZGOW 202000Z 10004MPS 070V130 6000 SCT009 BKN033 20/19 Q1013 NOSIG ZHHH 202000Z 07004MPS 3000 BR SCT004 OVC040 15/15 Q1013 NOSIG K8D3 201956Z AUTO 18009KT 23/M01 A2994 RMK AO1 SLP137 T02281006 UATT 202030Z VRB01MPS CAVOK 06/01 Q1019 R31/CLRD70 NOSIG RMK QFE744/0992 CMGB 202045Z AUTO 22004KT 13/M04 RMK AO1 SLP276 T01271040 58021 CMFM 202000Z AUTO 22006KT 05/M13 RMK AO1 SOG 64 6010 SLP284 T00541132 UAUU 202030Z 28005MPS CAVOK 05/00 Q1013 R33/CLRD70 NOSIG RMK QFE744/0993 OERF 202000Z 32009KT CAVOK 27/02 Q1013 SUDU 201000Z 00000KT 5000 BR NSC 08/08 Q1020 OERK 202000Z 05003KT CAVOK 27/M04 Q1014 NOSIG OESH 202000Z 06009KT CAVOK 31/06 Q1012 NOSIG OERR 202000Z 17003KT CAVOK 24/13 Q1013 NOSIG OETB 202000Z 14012KT 9999 SCT040 28/M02 Q1012 NOSIG OESK 202000Z 13007KT 9999 FEW040 SCT100 24/02 Q1014 NOSIG YPTN 202030Z AUTO 13006KT 9999 // NCD 23/20 Q1011 UCFM 202030Z 12002MPS 9999 SCT050CB BKN130 11/04 Q1017 NOSIG UCFO 202030Z 13002MPS 040V150 CAVOK 11/04 Q1017 NOSIG OETF 202000Z 28003KT 9999 FEW030 25/11 Q1019 NOSIG ZGSZ 202000Z 17003MPS 9999 BKN050 25/23 Q1011 NOSIG OERY 201600Z 02011KT CAVOK 34/01 Q1014 TKPK 202000Z 07015KT 9999 FEW020 28/22 Q1016 TKPN 202000Z 10012KT 9999 BKN019 29/21 Q1016 K7R3 201656Z 29004KT 10SM SKC 26/15 A3018 K7R4 201250Z 35003KT 3 1/2 SM HZ BKN022 17/12 A3016 OETR 202000Z 16010KT CAVOK 22/08 Q1013 SVAC 202000Z 290//KT 9999 SCT020 ///// Q1012 YREN 202030Z AUTO 01009KT //// // ////// 12/06 Q1017 OEWD 202000Z 12004KT CAVOK 27/11 Q1013 NOSIG YPWR 202030Z AUTO 03009KT 9999 // NCD 17/07 Q1016 OEWJ 202000Z 23003KT CAVOK 27/24 Q1007 NOSIG YPXM 201900Z AUTO 22001KT //// // SCT011 25/24 Q1009 SVBC 202000Z 02015KT 9999 FEW010 34/21 Q1013 SVBI 202000Z 05004KT 9999 FEW020 34/24 Q1011 SVCB 202000Z /////KT 9999 BKN013 33/// Q1009 SVBM 202000Z 14011KT 9999 SCT016 32/18 Q1015 SVBS 202000Z 18008KT 9999 SCT016 34/23 Q1012 HTAR 192300Z 09010KT 9999 -RA FEW018CB BKN020 BKN070 18/18 Q1021 K9D7 202035Z AUTO 15015G18KT 10SM CLR 20/04 A2986 RMK AO2 SVCL 201900Z 09003KT 9999 SCT013 ///// Q1011 SVCN 201900Z 01008KT 9999 RA BKN020 //// Q1019 OEYN 202000Z 00000KT CAVOK 30/20 Q1006 NOSIG SVCR 202000Z 06020G30KT 9999 FEW013 BKN050 33/22 Q1009 SULS 202000Z 09007KT 9999 FEW030 BKN080 17/11 Q1020 SVCU 201900Z 02016KT 9999 FEW013 30/21 Q1010 HTDA 202000Z 00000KT 9999 FEW022 25/25 Q1013 HTBU 202000Z 00000KT 9999 FEW015 FEW017CB BKN200 19/17 Q1015 K9F2 201000Z 29010KT 7SM SKC 19/18 A3012 SVCZ 202000Z /////KT 9999 SCT020 34/23 Q1006 SUMU 202000Z 12006KT CAVOK 18/13 Q1020 NOSIG HTDO 202000Z 09010KT 9999 FEW021 SCT260 21/17 Q1017 NOSIG YSBK 202030Z AUTO 29003KT 9999 // NCD 11/05 Q1020 YSCB 202030Z 00000KT 9999 BKN032 03/03 Q1021 TLPC 202000Z 09011KT 9999 BKN020 27/23 Q1015 TEMPO SHRA SVFM 191400Z /////KT 9999 BKN040 ///// Q1018 SVGD 202000Z 27006KT 9999 SCT020CB SCT070 26/26 Q//// TSDZ SVGI 201900Z /////KT 9999 OVC010CB 29/18 Q1010 YRMD 202030Z AUTO 03009KT //// // ////// 21/10 Q1015 TLPL 202000Z 08018KT 9999 FEW023 SCT040 BKN300 27/25 Q1015 NOSIG YSCN 202030Z AUTO 00000KT 9999 // NCD 08/06 Q1020 YSCO 202030Z AUTO 00000KT //// // ////// 03/03 Q1020 YSCR 202000Z AUTO 15011KT //// // ////// 15/11 Q1015 SVGU 202000Z 11001KT 9999 FEW017 31/22 Q1013 MZBZ 202000Z 08008KT 9999 BKN024 31/25 A2998 Q1015 NOSIG YSDU 202030Z AUTO 00000KT 9999 // NCD 03/03 Q1021 SVJC 202000Z 08022KT 9999 FEW016 32/21 Q1009 YROM 202030Z AUTO 03005KT 9999 // NCD 10/08 Q1019 YSGE 202030Z AUTO 13005KT //// // ////// 11/05 Q1019 SVJM 202000Z /////KT 9999 SCT020 34/15 Q1011 K9L2 201955Z AUTO 14004KT 10SM CLR 27/M01 A3003 RMK AO2 SLP155 T02671006 $ MYNN 202000Z 30014KT 9999 FEW016 SCT035 26/17 A3001 SUSO 202000Z 10010KT 9999 FEW030 25/13 Q1016 TNCA 202000Z 08018KT 9999 VCSH BKN020 29/25 Q1011 A2986 NOSIG HTIR 201900Z 00000KT 9999 BKN018 18/17 Q1021 TNCB 202000Z AUTO 07020KT 040V110 //// ////// 29/23 Q1012 NOSIG HTKA 202000Z 00000KT 9999 FEW020 FEW021CB SCT080 23/20 Q1017 TNCC 202000Z 10015KT 9999 FEW025 29/23 Q1012 NOSIG SVLC 200000Z /////KT 9999 FEW010 29/26 Q//// YSHG 202030Z AUTO 20006KT 9999 // NCD 22/14 Q1012 SVLF 201900Z 00000KT 9999 SCT060 XX/XX Q1010 DFFD 202000Z 18011KT 9999 FEW026 FEW040CB BKN260 35/18 Q1008 TEMPO TS YSHK 202000Z AUTO 15007KT //// // ////// 18/14 Q1014 ZJHK 202000Z 11002MPS 7000 NSC 24/23 Q1009 NOSIG HTKJ 202000Z 10009KT 9999 BKN023 BKN080 22/20 Q1015 NOSIG SVMC 202000Z /////KT 9999 SCT016 34/26 Q1011 HSSS 202030Z 21011KT 6000MHZ Q1004 SVMD 202000Z 23010KT 9000 VCBR BKN017 24/21 Q1019 TNCM 202000Z 10010G21KT 070V130 9999 SCT023 28/21 Q1016 A3002 NOSIG SVMG 202100Z /////KT 9999 FEW010 SCT270 30/23 Q1012 NOSIG SVMI 202000Z 07004KT 9999 FEW020 29/21 Q1011 NOSIG YSHT 202030Z AUTO 00000KT //// // ////// 04/04 Q1021 YSHW 202030Z AUTO 22003KT 9999 // NCD 09/05 Q1020 HTMB 201500Z 10008KT 9999 -RA SCT019 FEW020CB BKN080 18/17 Q//// SVMN 202000Z 23006KT 999 TS FEW010CB SCT013 BKN100 34/// Q1011 UEEE 202030Z 34003MPS CAVOK M03/M09 Q1002 NOSIG RMK QFE743 2309//60 HTMG 201900Z 00000KT 9999 FEW025 23/20 Q1014 SVMT 201700Z 07013KT 9999 -DZ BKN010 27/27 Q1013 OIAA 202000Z 32010KT CAVOK 29/13 Q1008 K9MN 202032Z AUTO 22005KT 10SM SCT011 OVC020 16/13 A3002 RMK AO1 T01630129 YTAR 202030Z AUTO 02009KT //// // ////// 19/06 Q1015 YRTI 202030Z AUTO 17019KT //// // ////// 18/12 Q1017 OIAG 202000Z 34006KT CAVOK 27/05 Q1007 SVPA 201800Z /////KT 9999 BKN013 32/15 Q1012 OIBA 201500Z 24012KT 4500 HZ SKC 27/22 Q1004 SVPC 202000Z 07014KT 9999 SCT040 29/XX Q1012 OIBB 202000Z 00000KT CAVOK 24/13 Q1006 A2972 HTMT 202000Z 18008KT 9999 SCT021 FEW022CB 24/23 Q1013 DGAA 201957Z 18008KT 9999 FEW018 FEW030CB 29/25 Q1010 TEMPO TSRA HTMU 201900Z 00000KT 9999 FEW022CB BKN090 Q1016 OIAM 202000Z 31010KT CAVOK 28/10 Q1007 HTMW 202000Z 00000KT 9999 TS SCT022 FEW023CB BKN090 24/20 Q1015 RERA HUEN 201800Z 25005KT 9999 FEW021 FEW023CB SCT220 22/19 Q1015 OIBJ 201500Z 31008KT CAVOK 31/07 Q1009 OIBK 202000Z 28004KT 5000 BR SKC 24/21 Q1006 SVPM 201100Z 18010KT 9999 OVC030 XX/XX Q1016 OICC 202000Z 28008KT 9999 FEW050 15/06 Q1018 A3008 OIBL 201500Z 25010KT 6000 SKC 27/21 Q1004 OIAW 202030Z 28004KT CAVOK 29/10 Q1007 YSMH 202030Z AUTO 00000KT 9999 // NCD 14/13 Q1018 YSMI 202030Z AUTO 00000KT //// // ////// 07/07 Q1017 OIBP 201500Z 30006KT 6000 SKC 27/20 Q1006 A2971 SVPR 202000Z 02010KT 9999 SCT040 ///// Q1010 OIBQ 201500Z 34008KT 7000 SKC 28/18 Q1006 OICI 202000Z 00000KT CAVOK 17/06 Q1020 A3012 OIBS 201400Z 25018KT CAVOK 34/21 Q1005 YTEE 202030Z AUTO 23005KT //// // ////// 17/M01 Q1016 KMG 202030Z AUTO 36018KT 9999 // NCD 07/04 Q1019 OIBV 201400Z 27018KT 7000 SKC 27/19 Q1004 YSNF 202030Z 19004KT 9999 FEW018 SCT100 20/16 Q1021 YTEF 202000Z AUTO 12005KT //// // ////// 17/03 Q1012 SVSA 202000Z /////KT 9999 SCT020 SCT090 30/19 Q1012 OICS 201300Z 17006KT 6000 FEW040 SCT100 25/01 Q1016 YTEM 202030Z AUTO 00000KT //// // ////// 01/01 Q1021 SVSE 201900Z 09006KT 9999 BKN045 ///// Q//// CPBT 201900Z AUTO 27030KT 13/M04 RMK AO1 PK WND 27036/1808 T01271042 UDSG 202030Z 18002MPS 150V220 9999 BKN050CB OVC100 11/04 Q1015 R02/CLRD70 NOSIG YSNW 202030Z AUTO 29007KT 9999 // SCT029 SCT036 SCT057 11/05 Q1019 SVSO 201900Z 09003KT 9999 OVC017 25/22 Q1015 SVSP 201900Z 04010KT 6000 +HZ BKN035 XX/XX Q1012 SVSR 202000Z /////KT 9999 SCT016 BKN300 33/// Q1009 SVST 202000Z 00000KT 9999 BKN060 ///// Q1015 HUJI 201200Z 19005KT 9999 SCT020 FEW023CB BKN130 26/19 CPEH 201900Z AUTO 31011KT 15/M04 RMK AO1 PK WND 31018/1825 T01521039 YTGM 202030Z AUTO 11004KT //// // ////// 12/05 Q1019 HUKA 201200Z 23005KT 9999 BKN023 FEW025CB BKN120 26/21 881.5 SVTM 200900Z /////KT 9999 OVC010 19/19 Q//// HTTB 202000Z 00000KT 9999 FEW018 21/17 Q1018 OIFM 202030Z 15006KT CAVOK 17/00 Q1017 A3003 OIGG 202000Z 12004KT 4000 -SHRA FEW015CB SCT020 BKN080 17/15 Q1010 HTSO 201900Z 19004KT 9999 BKN022 FEW024CB SCT070 20/19 Q1019 YTIB 202030Z AUTO 02005KT //// // ////// 15/05 Q1019 SVVA 202000Z 09003KT 9999 BKN016 33/18 Q1012 OIFS 201700Z 32004KT CAVOK 14/01 Q1021 CPFI 202000Z AUTO 27016KT 14/M04 RMK AO1 PK WND 26025/1957 T01441039 K9V9 201952Z AUTO 17012G17KT 26/M01 A2990 RMK AO1 SLP118 T02611006 HTSU 202000Z 12005KT 9999 SCT018 SCT230 17/15 Q1022 SVVG 202000Z 05007KT 5000 DZ OVC016 27/26 Q1009 YSRI 202030Z AUTO 00000KT 9999 // NCD 08/08 Q1020 OIHH 201100Z 36004KT 9999 FEW040 BKN170 22/02 Q1020 SVVL 201800Z 07008KT 9999 BKN020 31/21 Q1015 YSRN 202030Z AUTO 05003KT 9999 // NCD 05/04 Q1017 OIIE 202000Z VRB02KT CAVOK 19/01 Q1013 A2992 NOSIG OIII 202030Z 00000KT 9999 FEW040 SCT200 20/01 Q1014 A2996 NOSIG OIIK 202000Z 00000KT CAVOK 16/07 Q1015 PAAD 202035Z AUTO 08017KT 3SM BR OVC004 M11/M12 A3018 RMK AO2 YSTH 202030Z AUTO 32005KT //// // ////// 06/05 Q1018 OIIP 201700Z 00000KT 9999 SCT040 BKN100 20/M04 Q1014 OJAI 201900Z 29004KT CAVOK 18/05 Q1014 NOSIG PABA 202001Z AUTO 09011KT 9SM -SN CLR M12/M14 A3022 RMK AO2 SLPNO P0000 T11171139 FZRANO PAAK 202036Z 11020G25KT 10SM BKN034 04/M01 A2972 RMK AO1 OIKB 202030Z 15004KT 4000 BR SKC 26/23 Q1008 A2978 OJAM 202000Z 31003KT 5000 HZ NSC 19/07 Q1014 NOSIG YSSY 202030Z 29011KT 9999 FEW045 13/04 Q1019 NOSIG ZJSY 202000Z 10002MPS 9999 FEW020 26/24 Q1009 NOSIG PABE 201953Z 00000KT 10SM CLR 06/00 A2970 RMK AO2 SLP060 T00610000 OJAQ 202000Z 36015KT 6000 NSC 27/16 Q1010 NOSIG PAAQ 201953Z 13006KT 10SM FEW200 12/M09 A2963 RMK AO2 SLP036 ACSL SE-S T01171094 PABI 201953Z 08007KT 060V130 10SM FEW060 FEW150 09/M04 A2971 RMK AO2 SLP074 FU VC E T00941044 CPIR 201900Z AUTO 28012KT 13/M03 RMK AO1 PK WND 30020/1845 T01331026 OIKK 202000Z 29004KT 9999 FEW040 12/03 Q1020 A3013 YSTW 202030Z AUTO 11003KT 9999 // NCD 05/02 Q1021 PACD 201953Z 29019KT 10SM OVC025 04/M02 A2987 RMK AO2 RAB06E16SNE18 SLP115 PRSNT WX PABN 202045Z 09006KT 20SM FEW060 SCT090 SCT120 07/M08 A2969 RMK NOSPECI OIKQ 201500Z 21014KT 6000 SKC 27/22 Q1004 PABR 201953Z 04009KT 3SM -SN BR OVC021 M12/M14 A3022 RMK AO2 SLP235 P0000 T11221139 HTZA 202000Z 16010KT 9999 FEW018 27/24 Q1012 NOSIG OIMB 202000Z 07008KT CAVOK 12/06 Q1018 PABT 201953Z 03008KT 10SM CLR 03/M07 A2991 RMK AO2 SLP142 T00331072 PNO OIMC 201400Z 00000KT CAVOK 29/M01 Q1013 YTMO 202030Z AUTO 22001KT //// // ////// 15/// Q1016 OIMD 201400Z 10008KT 9999 FEW035 24/05 Q1012 PABV 202036Z AUTO 00000KT 10SM CLR 07/M06 A2967 RMK AO1 PACM 201956Z AUTO 29006KT 10SM CLR 01/00 A2980 RMK AO2 TSNO T00050000 SLP405 $ YTNG 202030Z AUTO 08006KT 9999 // NCD 12/11 Q1020 PADE 201953Z AUTO 25009KT 10SM CLR M04/M07 A2992 RMK AO2 SLP132 T10391072 TSNO YSWG 202030Z 00000KT 9999 BCFG NSC 03/02 Q1021 YSWH 202030Z AUTO 01009KT //// // ////// 11/03 Q1019 UDYZ 202030Z 33003MPS 9999 -RA OVC043 14/10 Q1013 R09/19//65 NOSIG PADG 192351Z 05004KT 15SM FEW040 01/M06 A2977 YTNK 202030Z AUTO 10011KT 9999 // NCD 20/01 Q1015 PADK 202036Z AUTO 12019G23KT 6SM BKN019 OVC025 03/M01 A2961 RMK AO1 P0001 PAEC 201849Z 28006KT 40SM SKC 07/M12 A2958 RMK NOSPECI PADL 201955Z VRB04KT 30SM FEW085 07/M01 A2966 OIMM 202030Z 20004KT CAVOK 16/M02 Q1017 A3003 PACV 201953Z 07006G16KT 10SM BKN035 BKN045 OVC060 09/02 A2972 RMK AO2 RAB1859E33 SLP064 P0000 T00890017 PADM 201956Z AUTO 05013G19KT CLR A2974 RMK AO2 PWINO TSNO SLPNO $ PAED 201958Z AUTO 36005KT 10SM CLR 10/M05 A2964 RMK AO2 SLP034 T01011053 OIMN 202000Z 00000KT CAVOK 15/05 Q1017 A3003 OINE 201500Z 09004KT CAVOK 24/16 Q1010 OING 202000Z 23008KT CAVOK 16/14 Q1011 PAEG 201953Z AUTO 04008KT 10SM CLR 07/M04 A2981 RMK AO2 SLP105 T00671044 TSNO OIMQ 201400Z 03006KT 9999 FEW035 23/06 Q1015 PAEH 201955Z AUTO 20004KT 10SM SCT065 02/02 A2972 RMK AO2 SLP073 T00190015 PADQ 201953Z 30014G24KT 10SM FEW020 SCT050 OVC070 08/02 A2952 RMK AO2 SLP996 T00830017 $ PACZ 201955Z AUTO 08015KT 10SM SCT065 04/00 A2974 RMK AO2 SLP075 T00371002 PAEI 201958Z AUTO 05010KT 10SM CLR 10/M04 A2972 RMK AO2 SLP070 T01011038 $ OIMS 201700Z 10012KT 9999 FEW030CB FEW035 21/03 Q1017 NSFA 202000Z 05002KT 9999 FEW024 BKN140 29/24 Q1013 PAFA 201953Z 08008KT 10SM FEW200 08/M03 A2973 RMK AO2 SLP074 T00831033 PNO $ OIMT 201100Z 34008KT 9999 FEW035TCU 30/04 Q1010 PAFB 201956Z AUTO 07009KT 10SM CLR 09/M04 A2973 RMK SLP071 T00941039 $ VIA AUTODIAL PAEL 201857Z 10009KT 20SM FEW023 SCT028 BKN150 09/03 A2982 RMK SPB E03012KT SEA 0 SWELL 1 SW NOSPECI PADU 202000Z 29005KT 10SM SCT026 BKN035 BKN040 03/M05 A2996 RMK AO2 CS PAEM 202036Z AUTO 02009KT 10SM CLR 04/M02 A2976 RMK AO1 OINN 202000Z 00000KT 9999 SCT020 BKN180 15/15 Q1011 PAEN 201953Z 01010KT 10SM CLR 10/M04 A2963 RMK AO2 SLP035 T01001039 PAER 200258Z 36025KT 11SM FEW100 07/M04 A2950 RMK EPO OINR 202000Z VRB02KT 7000 SCT025 15/13 Q1010 PAGA 201958Z AUTO VRB05KT 10SM CLR 05/M03 A2981 RMK AO2 SLP103 T00501028 PNO $ PAFM 202036Z AUTO 04006KT 10SM CLR 02/M07 A2993 RMK AO1 HUSO 200900Z 27003KT 9999 BKN020 SCT120 26/20 Q1016 PAGH 201957Z AUTO 29003KT 10SM CLR 02/M04 A2992 RMK AO2 SLP165 T00171044 FZRANO OINZ 202000Z VRB02KT 3500 BR NSC 18/18 Q1009 SYCJ 202000Z 08014KT 8000 -SHRA BKN018 BKN090 28/24 Q1011 NOSIG PAFS 201956Z AUTO 05010KT 10SM CLR 07/M03 A2967 RMK AO2 TSNO T00721027 SLP057 $ PAGK 201953Z AUTO 15005KT 10SM OVC085 06/M05 A2966 RMK AO2 SLP062 T00611050 TSNO PAGL 202036Z 03015G18KT 10SM CLR 08/M02 A2984 RMK AO1 PAHC 201956Z AUTO 36008KT 10SM CLR 06/M02 A2969 RMK AO2 TSNO T00551022 SLP059 $ YTRE 202030Z AUTO 26004KT //// // ////// 12/10 Q1018 PAGM 202036Z 03020G24KT 3SM BKN013 BKN018 OVC024 M05/M07 A2995 RMK AO1 PAGN 201956Z AUTO 14013G20KT 10SM BKN050 BKN070 11/03 A2984 RMK AO2 TSNO T01050027 BKN V SCT SLP106 $ PAGS 202036Z AUTO 13011G16KT 10SM FEW060 12/M01 A2986 RMK AO1 PNO PAHL 202036Z AUTO 05011G16KT 10SM CLR 05/M04 A2985 RMK AO1 PAHN 201954Z AUTO 09010G18KT 10SM BKN080 11/03 A2986 RMK AO2 SLP115 T01060028 TSNO PAHO 201953Z 10007KT 10SM SCT080 OVC090 08/M04 A2961 RMK AO2 SLP027 T00831044 PAGY 201953Z AUTO 20015KT 10SM BKN060 OVC095 09/02 A2985 RMK AO2 SLP109 T00890022 TSNO PAHP 202036Z AUTO 33018G21KT 10SM FEW004 12/M01 A2977 RMK AO1 PAIG 201956Z AUTO 00000KT 10SM CLR 08/M03 A2964 RMK AO2 TSNO T00771027 SLP042 $ PAII 202036Z AUTO 29007KT 10SM OVC065 07/01 A2969 RMK AO1 NTAA 202030Z 09007KT 020V170 9999 FEW016CB SCT050 29/22 Q1013 WS R22 TEMPO 3000 SHRA FEW015CB BKN018 PAIK 202001Z AUTO 07003KT 10SM CLR 03/M04 A2994 RMK AO2 SLP180 T00331039 PAIL 201953Z 02005KT 10SM CLR 09/M04 A2964 RMK AO2 SLP040 T00891044 PAJC 202036Z AUTO 26018G25KT 10SM OVC080 06/00 A2972 RMK AO1 PAIM 201955Z AUTO 10014G21KT 10SM CLR 02/M06 A2983 RMK AO2 SLP120 T00161063 PAIN 202036Z AUTO 23005KT 10SM CLR 09/M07 A2965 RMK AO1 PNO PAHX 201956Z AUTO 03014KT 10SM CLR 06/M02 A2971 RMK AO2 SLP064 T00561022 YTTI 202000Z AUTO 09006KT //// // ////// 29/24 Q1009 PAHY 202036Z AUTO 11016G28KT 070V130 9SM FEW033 BKN042 OVC049 07/M22 A2977 RMK AO1 P0002 YTST 202030Z AUTO 19005KT 9999 // NCD 24/19 Q1009 OISL 201500Z 22008KT CAVOK 32/02 Q1007 PAJN 201953Z 12015KT 10SM FEW055 SCT080 10/03 A2988 RMK AO2 SLP119 T01000028 PAIW 201958Z AUTO 06020KT 10SM OVC008 M07/ A2999 RMK AO2 SLP155 T1072 FZRANO $ DIAD 201700Z 20006KT 9999 SCT015 FEW020CB SCT260 31/24 Q1006 NOSIG PAKF 202001Z AUTO 29009KT 10SM BKN026 OVC032 04/M02 A2989 RMK AO2 RAE1915B1935E1950SNB1915E1935 SLP218 P0000 T00391017 $ CPRO 202000Z AUTO 28019KT 15/M05 RMK AO1 PK WND 30028/1924 T01471046 PAKH 201956Z AUTO 36010KT 07/00 RMK AO2 PWINO TSNO T00660000 SLPNO $ PAKI 201956Z AUTO 32013KT 10SM FEW080 04/01 A2974 RMK AO2 TSNO T00380005 SLP073 $ ZLLL 202000Z 23002MPS 190V270 6000 -RA OVC046 02/01 Q1023 NOSIG OISS 202030Z 29006KT CAVOK 19/00 Q1016 A3002 OITK 201000Z 23004KT 9999 FEW035CB SCT040 BKN100 22/02 Q1017 PAKK 202036Z AUTO 02010G15KT 10SM CLR 06/M03 A2978 RMK AO1 OKBK 202000Z 35014KT CAVOK 31/10 Q1009 NOSIG OITL 201400Z 07008KT 9999 VCSH FEW030TCU BKN035CB BKN080 OVC180 19/09 Q1016 OITM 201500Z 14004KT 9999 FEW032CB BKN034 17/10 Q1017 RESH SYGO 201800Z 05016KT 9999 SHRA BKN015 30/24 Q1012 PAKN 201954Z 30004KT 10SM FEW095 11/00 A2962 RMK AO2 SLP030 T01110000 OISY 202000Z 10004KT CAVOK 14/01 Q1020 PAKP 202036Z AUTO 03008KT 10SM CLR M11/M14 A2989 RMK AO1 PALG 201956Z AUTO 00000KT 10SM CLR 09/M01 A2968 RMK AO2 TSNO T00881005 SLP052 $ PAJZ 201956Z AUTO 35005KT 10SM CLR 08/M02 A2969 RMK AO2 PWINO TSNO T00831022 SLP044 $ PALH 201953Z 01004KT 10SM CLR 09/M05 A2965 RMK AO2 SLP040 T00941050 YTWB 202030Z AUTO 06006KT 9999 // NCD 13/11 Q1022 CPRY 202000Z AUTO 27029KT 14/M06 RMK AO1 PK WND 26037/1955 T01401063 DIAP 202037Z 23011KT 9999 TS SCT012 FEW020CB 29/25 Q1010 TEMPO 3000 -TSRA SCT003 BKN009 FEW020CB OITR 202000Z 04002KT 9999 FEW035CB SCT040 SCT160 11/07 Q1014 PALJ 201654Z 00000KT 40SM FEW150 01/00 A2958 RMK EST PASS OPEN NOSPECI PAKT 201953Z 15009KT 10SM SCT035 OVC049 09/03 A2985 RMK AO2 RAE1856 SLP110 P0000 T00940033 PAMB 201956Z AUTO 19003KT 10SM CLR 09/02 A2962 RMK AO2 TSNO T00940016 SLP032 $ OITT 202000Z VRB02KT 9999 FEW035 FEW040CB SCT090 15/08 Q1016 A3000 PAMC 201953Z 03006KT 10SM FEW045 SCT250 06/M03 A2968 RMK AO2 SLP057 T00611033 PAKU 202045Z 05011KT 7SM R06/P6000FT BKN003 M13/M14 A3020 CPST 202000Z AUTO 34007KT 12/M04 RMK AO1 T01231035 PAKV 201953Z AUTO 05008KT 10SM CLR 06/M03 A2981 RMK AO2 SLP099 T00611033 TSNO PAMD 202036Z 09029G35KT 7SM BKN016 OVC021 07/03 A2956 RMK AO1 PAKW 201953Z AUTO VRB04KT 10SM OVC042 09/03 A2977 RMK AO2 RAB32E43 SLP082 P0000 T00940033 TSNO CPSV 202000Z AUTO 29017KT 15/M02 RMK AO1 PK WND 29024/1946 T01531023 PALP 201850Z 06013KT 2SM -SN BR OVC003 M10/M12 A3019 OITZ 201500Z 25023KT 7000 TS SCT030CB SCT035 OVC080 17/09 Q1017 RETSSHRA PAMH 202036Z AUTO 05005KT 10SM CLR 08/M02 A2968 RMK AO1 PANA 201956Z AUTO 36004KT 10SM CLR 06/00 A2969 RMK AO2 SLP055 T00610000 PAMK 201956Z AUTO 05009KT 10SM CLR 02/M02 A2978 RMK AO2 TSNO T00161016 SLP088 $ PAML 202040Z 03009G20KT 15SM FEW200 07/ A2979 RMK NO SPECI PANC 201953Z 00000KT 10SM FEW200 11/M06 A2964 RMK AO2 SLP037 T01061056 $ PALU 201955Z AUTO 09010KT 10SM OVC010 M09/M10 A3007 RMK AO2 SHSNB1949E1950 SLP182 T10901102 PAMM 202036Z AUTO 09012G16KT 10SM OVC060 09/01 A2985 RMK AO1 DIBU 201700Z 00000KT 9999 BKN016 FEW023CB 33/23 Q1005 BECMG TS PAMO 201956Z AUTO 00000KT 10SM CLR 07/00 A2975 RMK AO2 PWINO TSNO T00720000 SLP961 $ PAMR 201953Z 30004KT 10SM FEW090 11/M04 A2964 RMK AO2 SLP037 T01061044 PANI 202036Z 35005KT 10SM CLR 08/00 A2968 RMK AO1 UHBB 202030Z 25001MPS CAVOK 02/M02 Q1006 NOSIG RMK QFE737/0983 36090060 DIDK 201700Z ///// 9999 FEW015 36/27 Q//// NOSIG DIDL 201700Z ///// 9999 SCT015 34/24 Q1008 NOSIG PANN 201953Z AUTO 03008KT 10SM CLR 10/M03 A2971 RMK AO2 SLP065 T01001033 TSNO $ PAMX 202050Z 07005KT 25SM SCT060 OVC080 10/M02 A2974 RMK NOSPECI PAMY 202036Z AUTO 30010KT 10SM OVC003 00/M03 A2980 RMK AO1 PAOH 201956Z AUTO 13011G21KT 10SM SCT050 11/01 A2986 RMK AO2 TSNO T01110005 SLP113 $ PANT 201953Z 11009G21KT 10SM SCT049 OVC060 09/02 A2984 RMK AO2 SLP104 T00890017 PAPB 202007Z AUTO 22004KT 9SM -SN SCT016 BKN023 OVC030 01/00 A2990 RMK AO2 P0000 T00110000 TSNO $ PAOM 201953Z 03010KT 10SM OVC210 07/M01 A2983 RMK SLP103 T00671011 VIA AUTODIAL PANV 202036Z 02008KT 340V040 CLR 07/M03 A2971 RMK AO1 UGKO 202030Z VRB03KT CAVOK 14/10 Q1015 R07/09//70 NOSIG PANW 201956Z AUTO 00000KT CLR 08/M02 RMK AO2 PWINO TSNO T00831022 SLPNO $ PAOO 202028Z AUTO 30015G21KT 10SM SCT007 02/01 A2977 RMK AO2 TSNO $ PAPG 202055Z 080G15KT 10SM BKN050 BKN090 11/M01 A2986 RMK (RD) PAPH 202036Z AUTO 29014KT 10SM SCT055 OVC085 04/00 A2975 RMK AO1 PAOR 201953Z 08004KT 10SM FEW080 SCT120 08/M04 A2968 RMK AO2 SLP066 T00831044 OIZB 201800Z 33006KT CAVOK 24/07 Q1009 PAOT 201953Z 00000KT 10SM SCT200 02/M04 A2992 RMK AO2 SLP132 T00171039 DIGA 201700Z 14004KT 9999 SCT015 34/24 Q1006 NOSIG PAOU 202044Z AUTO 29016KT 2SM UP 02/ A2984 RMK AO2 PNO TSNO UPB1958 $ PAPM 201956Z AUTO 28010KT 10SM CLR 02/02 A2972 RMK AO2 TSNO T00220022 SLP064 $ CPXL 202000Z AUTO 30010KT 15/M04 RMK AO1 PK WND 27019/1931 T01481037 PAPN 201956Z AUTO 27006KT 10SM CLR 04/02 A2969 RMK AO2 PWINO TSNO T00440016 SLP055 $ PAPO 202036Z AUTO 01008KT 10SM CLR M05/M30 A2999 RMK AO1 OIZH 202000Z 08006KT 9999 -SHRA SCT035CB SCT090 18/07 Q1015 A2999 PAQH 201956Z AUTO 00000KT 10SM CLR 04/M01 A2970 RMK AO2 SLP059 T00391006 OIZI 202000Z 06006KT 5000 HZ FEW035CB FEW040TCU SCT200 25/09 Q1012 OIZJ 201700Z 13012KT 8000 BR BKN015 27/26 Q1006 PAPT 201845Z 00000KT 25SM SKC 01/M03 A2958 RMK NOSPECI PARC 202036Z AUTO 05007KT 10SM CLR M04/M11 A2996 RMK AO1 OIYY 2010504Z 30006KT 9999 FEW035TCU FEW040 28/00 Q1016 PASA 202036Z 09003KT 1 1/2SM BKN007 OVC011 M03/M06 A2995 RMK AO1 P0001 PAQT 202034Z AUTO 04010KT 6SM BLSN BR OVC004 M11/M12 A3021 RMK AO2 SNB01E27 P0000 T11111117 TSNO PASC 202011Z 06013KT 1 1/4SM R05/3000VP6000FT -SN BR OVC003 M12/M14 A3018 RMK AO2 VIS 3/4V2 1/2 P0000 T11221139 PASD 202036Z 30013KT 10SM SCT024 BKN031 06/01 A2981 RMK AO1 WEA YWCA 202030Z AUTO 06007KT //// // ////// 10/06 Q1020 PASH 202036Z AUTO 32006KT 10SM CLR M07/M08 A3003 RMK AO1 PASI 201953Z 12010KT 10SM BKN080 OVC095 11/01 A2976 RMK AO2 SLP078 T01060011 YWBL 202030Z AUTO 35009KT //// // ////// 13/12 Q1016 OLBA 202000Z 30004KT 8000 SCT026 SCT080 19/16 Q1015 PATA 201952Z 11009KT 10SM SCT100 04/M04 A2981 RMK AO2 SLP097 T00441044 PNO PARS 201956Z AUTO 00000KT 10SM CLR 08/M01 A2971 RMK AO2 TSNO T00771011 SLP064 $ PASK 202036Z AUTO 00000KT 10SM CLR M02/M06 A2993 RMK AO1 PATC 202042Z AUTO 1SM BR BKN004 M08/M09 A2990 RMK AO2 SLP134 PASL 202036Z AUTO 00000KT 10SM CLR 08/M02 A2971 RMK AO1 PASM 202036Z AUTO 05008KT 10SM 08/M03 A2973 RMK AO1 PASN 201953Z 29005KT 10SM FEW007 BKN014 BKN028 02/M01 A2988 RMK AO2 SLP120 T00171011 PATE 201958Z AUTO 07009KT 10SM CLR 01/M03 A2990 RMK AO2 SLP137 T00111033 FZRANO PASO 201953Z AUTO 00000KT 10SM OVC090 06/01 A2960 RMK AO2 SLP024 T00610011 TSNO YWBR 202030Z AUTO 01008KT //// // ////// 20/02 Q1015 PATG 202036Z AUTO 19006KT 10SM CLR 06/03 A2968 RMK AO1 MSV 202030Z AUTO 00000KT 9999 // NCD 03/02 Q1020 PATK 201953Z 24003KT 10SM CLR 10/M07 A2964 RMK AO2 SLP040 T01001067 PATL 201955Z AUTO 10012G16KT 10SM CLR 06/M03 A2969 RMK AO2 SLP064 T00581031 $ PASV 201955Z AUTO VRB04KT 10SM CLR 08/M08 A2961 RMK AO2 SLP041 T00811078 MUI 202030Z AUTO 13003KT 9999 // NCD 10/03 Q1021 PASW 201851Z 27003KT 30SM SKC 09/M06 A2962 RMK NOSPECI PATO 201953Z AUTO 12016G27KT 10SM BKN080 OVC095 11/M04 A2968 RMK AO2 PK WND 06027/1950 SLP050 T01061044 TSNO PASX 202036Z AUTO 07005KT 10SM BKN070 OVC080 11/M04 A2963 RMK AO1 UHHH 202030Z 14002MPS 120V190 9999 SCT033CB OVC100 06/M00 Q1009 NOSIG RMK QFE750/1000 23090060 PASY 202047Z AUTO 07032G43KT 1 1/2SM -SN OVC006 01/ A2922 RMK AO2 PK WND 08044/2009 FZRANO TSNO $ PATQ 202004Z AUTO 05007KT 4SM -SN BR OVC016 M13/M15 A3019 RMK AO2 TSNO P0000 $ PAVA 201957Z AUTO 36014KT CLR 04/01 A2979 RMK AO2 SLP092 T00440011 PNO $ NSTU 201950Z 10012KT 12SM SCT023 BKN040 30/24 A2991 RMK SLP129 T02960241 PAVC 202027Z AUTO 29015G20KT 7SM SCT012 BKN020 OVC090 02/M01 A2986 RMK AO2 TSNO RAB1958E22 P0000 $ PAVD 202036Z 00000KT 10SM FEW070 BKN090 BKN150 08/M02 A2975 RMK AO1 1947Z WEA PAUN 202036Z AUTO 31007KT 10SM CLR 03/M01 A2977 RMK AO1 UIAA 202030Z VRB01MPS 9999 SKC 01/M06 Q1010 NOSIG RMK QFE699 29CLRD70 UGSB 202030Z 07005KT 9999 FEW030 BKN080 14/11 Q1016 R13/CLRD70 NOSIG PAUT 202035Z AUTO 29015KT 10SM OVC035 02/M02 A2994 RMK AO2 T00241025 PAVL 201953Z AUTO 03003KT 10SM CLR M03/M07 A2994 RMK AO2 SLP139 T10281072 TSNO $ PAWD 201953Z AUTO VRB05KT 10SM BKN080 OVC100 12/M04 A2962 RMK AO2 SLP030 T01221044 TSNO PAWG 202036Z 11010KT 10SM BKN045 11/02 A2989 RMK AO1 WEA PAWI 201953Z AUTO 03012KT 5SM -SN OVC011 M17/M19 A3018 RMK SLP221 P0000 T11671194 TSNO VIA AUTODIAL UIBB 202030Z 24004MPS 5000 -SHRA BKN030CB OVC100 05/04 Q1003 NOSIG RMK QFE710/0946 30290150 UGTB 202030Z 33011KT 300V360 9999 SCT050CB 17/10 Q1013 R31L/CLRD80 NOSIG PAWM 201958Z AUTO 02009G16KT 360V080 10SM CLR 07/M03 A2983 RMK AO2 SLP112 T00721028 PAWN 202036Z AUTO 05009KT 10SM CLR 01/M06 A2994 RMK AO1 YWHA 202030Z AUTO 35012KT 9999 // NCD 19/10 Q1014 PAYA 201953Z 14009G20KT 9SM BKN029 OVC037 08/02 A2984 RMK AO2 SLP103 T00780022 PAWS 202036Z AUTO 14006KT 10SM CLR 12/M05 A2964 RMK AO1 ZLXY 202000Z 35001MPS 1700 -RA BR BKN030 OVC050 13/13 Q1016 NOSIG UHMA 202030Z 33003MPS 9999 SCT200 M17/M19 Q1019 NOSIG RMK QFE761/1014 YWGT 202030Z AUTO 00000KT //// // ////// 02/02 Q1021 YVRD 202030Z AUTO 24005KT //// // ////// 18/11 Q1012 UHMD 202030Z 34003MPS 4000 -SNRA OVC016 M03/M05 Q1015 NOSIG RMK QBB480 MT OBSC QFE760/1014 PAZK 202036Z AUTO 36005KT 10SM CLR 03/M04 A2964 RMK AO1 PNO UHMM 202030Z 00000MPS 9999 FEW200 M15/M20 Q1014 NOSIG RMK QFE745 88CLRD70 YWIS 202000Z AUTO 00000KT //// // ////// 15/15 Q1018 OMAA 202000Z 18005KT CAVOK 26/16 Q1008 A2976 NOSIG OMAD 202000Z 21004KT 170V240 CAVOK 26/19 Q1008 A2977 NOSIG ZMUB 202100Z 00000MPS CAVOK M05/M08 Q1016 NOSIG RMK QFE654.7 83 OMAL 202000Z 15003KT CAVOK 24/09 Q1010 A2983 NOSIG YWLG 202030Z AUTO 17002KT 9999 // NCD 04/M01 Q1021 TQPF 202000Z 10015KT 9999 FEW021 28/21 Q1017 YWLM 202030Z 29007KT CAVOK 10/07 Q1020 DITB 201700Z ///// 9999 FEW015CB 29/25 Q1008 NOSIG UHPP 202030Z 02003MPS 9999 -SHSN BKN016CB BKN100 M00/M07 Q1006 NOSIG RMK MT OBSC QFE751/1002 SC070 EBBE 202025Z AUTO 13003KT 9999 BKN077/// OVC100/// 16/07 Q1005 BLU DISP 201700Z 20010KT 9999 FEW013 FEW020CB 31/26 Q1008 NOSIG OMDB 202000Z 19005KT CAVOK 26/18 Q1008 NOSIG DISS 201700Z ///// 9999 FEW015CB 30/26 Q1007 NOSIG EBBL 202025Z AUTO VRB02KT 9999 FEW110/// 14/06 Q1006 BLU EBAW 202020Z 11002KT CAVOK 15/09 Q1005 NOSIG UIII 202030Z 10003MPS CAVOK M00/M06 Q1009 NOSIG RMK QFE714/0953 12CLRD60 EBCI 202020Z 31003KT 280V350 CAVOK 14/05 Q1005 NOSIG EBBR 202020Z 12003KT CAVOK 15/08 Q1005 NOSIG VAAH 202010Z 09003KT 3000 HZ SCT020 BKN080 23/15 Q1010 NOSIG YWOL 202030Z AUTO 24003KT 9999 // NCD 09/07 Q1019 VABB 202010Z 33007KT 3000 HZ SCT020 28/25 Q1008 NOSIG OMDW 202000Z 18009KT CAVOK 23/15 Q1009 NOSIG EBCV 202025Z AUTO VRB01KT 9999 FEW050/// BKN075/// 13/06 Q1005 BLU UHSS 202030Z 00000MPS 9999 FEW020 00/M01 Q1015 NOSIG RMK MT OBSC QFE760/1013 01CLRD70 OMFJ 202000Z 31009KT 8000 NSC 29/09 Q1008 A2978 EBDT 202025Z AUTO 05003KT 9999 BKN110/// 15/09 Q1005 BLU EBFN 202039Z 34004KT 5000 BR FEW060 SCT070 BKN250 11/09 Q1006 WHT EBFS 202025Z 04003G15KT 9999 FEW045 BKN100 12/08 Q1005 BLU DIYO 201900Z 28004KT 9999 FEW015 FEW023CB 30/25 Q1008 NOSIG YWUD 202030Z AUTO 01013KT //// // ////// 20/07 Q1012 YWTN 202030Z AUTO 11005KT //// // ////// 19/03 Q1016 UHWW 202030Z 14004MPS 5000 -SHRA BR BKN005 OVC013CB 06/05 Q1011 NOSIG RMK QBB150 MT OBSC QFE757/1009 2529//60 TRPG 202000Z 10022KT 9999 HZ SCT021 26/21 Q1017 EBLB 202025Z AUTO VRB02KT 9999 SCT100/// 09/06 Q1006 BLU EBLG 202020Z 13002KT CAVOK 16/06 Q1005 NOSIG YWWL 202030Z AUTO 25001KT //// // ////// 03/02 Q1021 YXNR 201300Z 08002KT //// 25/18 Q1012 UKBB 202030Z VRB01MPS 9999 FEW033CB 13/11 Q1012 88290060 NOSIG YWYM 202000Z AUTO 07005KT //// // ////// 24/15 Q1009 UKCC 202030Z 15006MPS 1900 BR BKN002 11/11 Q1013 08290057 TEMPO 0300 FG BKN002 CTNK 202000Z AUTO 24003KT 14/M08 RMK AO1 SLP234 T01351084 57028 UKCM 201900Z 19003MPS 5000 BR SCT016CB OVC100 11/11 Q1013 01010065 NOSIG UKDD 202030Z 10005MPS 9999 FEW011 BKN100 12/11 Q1011 08250356 NOSIG UKDE 202030Z VRB02MPS 3900 BR OVC003 14/13 Q1011 20290456 NOSIG YWYY 202030Z AUTO 30006KT 9999 // OVC036 05/05 Q1017 TTCP 202000Z 10016KT 9999 SCT015 BKN250 29/22 Q1014 NOSIG UIUU 202030Z 25002MPS 9999 SKC M03/M07 Q1010 NOSIG RMK QFE713/0951 26CLRD60 EBOS 202020Z 35004KT 7000 NSC 12/09 Q1005 NOSIG UKCW 202030Z 16005MPS 9999 SCT033CB SCT040 11/10 Q1015 0919//65 TEMPO 0300 FG BKN002 BKN015CB UKDR 202030Z 00000MPS 0100 R36/0450N FG VV003 12/12 Q1011 36290157 TEMPO 1100 -TSRA BR BKN003 BKN015CB OMRK 202000Z 15005KT CAVOK 24/15 Q1008 A2979 CTRA 202000Z AUTO 28006KT 10/M01 RMK AO1 SOG 20 1001 SLP166 T00981012 UKFF 202030Z 18003MPS CAVOK 09/06 Q1014 19010065 NOSIG VANP 201940Z 33004KT 4000 HZ FEW025 FEW030CB CB TO NW E SCT100 28/15 Q1009 NOSIG OMSJ 202000Z 18004KT CAVOK 25/17 Q1008 EDAC 201650Z 06010KT 020V100 CAVOK 17/07 Q1008 EDAH 201450Z 04013KT CAVOK 12/07 Q1013 EDBC 201550Z 09008KT CAVOK 18/08 Q1009 UKHH 202030Z 10006MPS 9999 BKN009 OVC023CB 13/11 Q1013 07290050 TEMPO 2100 BR PFCL 201956Z AUTO 33003KT 10SM CLR 07/00 A2966 RMK AO2 SLP048 T00720000 YYNG 202030Z AUTO 20004KT //// // ////// 00/M00 Q1021 ULAA 202030Z 00000MPS CAVOK M02/M03 Q1030 NOSIG RMK QFE771/1028 SC070 EDDB 202020Z 08008KT CAVOK 16/08 Q1010 NOSIG EDDC 202020Z 13005KT CAVOK 12/07 Q1009 EDDE 202020Z 07006KT 9999 FEW040 11/07 Q1008 EDDF 202020Z 06009KT CAVOK 15/04 Q1006 NOSIG EDDG 202020Z 08007KT CAVOK 16/06 Q1008 NOSIG EDDH 202020Z 05008KT CAVOK 12/09 Q1011 NOSIG KAAA 202035Z AUTO 20008KT 10SM CLR 28/05 A3007 RMK AO2 T02780047 PFEL 201958Z AUTO 03018G23KT 10SM CLR 07/M03 A2982 RMK AO2 SLP104 T00671033 KC09 202035Z AUTO 18012G15KT 10SM CLR 27/M02 A3009 RMK AO2 LTG DSNT NW T02651025 EDDK 202020Z 08009KT CAVOK 16/04 Q1006 NOSIG EDDL 202020Z 07008KT CAVOK 13/06 Q1006 NOSIG EDDM 202020Z 07008KT CAVOK 10/05 Q1006 NOSIG KAAF 201953Z AUTO 01009KT 10SM OVC020 19/12 A3012 RMK AO2 SLP199 T01890122 EDDN 202020Z 06003KT 030V090 CAVOK 10/06 Q1006 VCBI 202010Z 12004KT 9999 SCT016 28/25 Q1007 NOSIG EDDP 202020Z 07006KT CAVOK 13/08 Q1009 NOSIG UKKK 202030Z 09002MPS 9999 -SHRA SCT030CB BKN056 14/11 Q1012 08190060 NOSIG EDDR 202020Z VRB01KT 9999 -RA NSC 12/08 Q1005 NOSIG UKKM 202000Z AUTO 07002MPS 9999 FEW061 15/05 Q1012 EDDS 202020Z 07006KT CAVOK 11/05 Q1005 EDDT 202020Z 07009KT CAVOK 16/07 Q1011 NOSIG ZPPP 202000Z 23008MPS CAVOK 19/03 Q1017 NOSIG KABE 201951Z 14004KT 10SM CLR 16/M02 A3038 RMK AO2 SLP287 T01611017 EDDV 202020Z 07005KT CAVOK 13/07 Q1010 NOSIG EDFE 201850Z 07006KT CAVOK 15/03 Q1005 EDDW 202020Z 06008KT CAVOK 15/08 Q1010 NOSIG KAAO 201954Z AUTO 19008KT 6SM -RA OVC090 19/16 A3006 RMK AO2 RAB00 SLP173 P0001 T01890156 UKLI 201930Z 00000MPS CAVOK 09/08 Q1012 28090070 NOSIG EDFH 202020Z 12005KT 9999 VCSH FEW035TCU BKN090 12/05 Q1006 KABI 202047Z 16008KT 10SM FEW009 OVC029 18/17 A3005 RMK AO2 RAE08 P0001 $ UKLL 202030Z 07004MPS CAVOK 09/07 Q1013 13CLRD80 NOSIG KACB 202035Z AUTO 00000KT 10SM BKN100 OVC120 16/03 A3008 RMK AO2 T01610034 KAAT 201955Z AUTO 00000KT 10SM CLR 17/M10 A3024 RMK AO2 SLP226 T01671100 KC29 202035Z AUTO 34009KT 10SM SCT065 SCT080 BKN120 23/06 A3006 RMK AO1 T02300056 UKLN 201500Z 13003MPS CAVOK 17/06 Q1011 3309//70 NOSIG EDFM 201720Z 11006KT 080V140 CAVOK 20/04 Q1004 UKLR 201630Z 10005MPS 3800 -SHRA SCT006 BKN011CB 12/12 Q1014 12190060 NOSIG KC35 202035Z AUTO 15006KT 5SM -RA SCT070 OVC090 15/13 A3005 RMK AO2 P0002 T01510126 KABQ 202008Z 29013G21KT 10SM SCT065 BKN250 22/01 A3009 RMK AO2 WSHFT 1948 T02170006 KABR 201953Z AUTO 16015G21KT 10SM CLR 24/M03 A2992 RMK AO2 SLP131 T02441028 UKLU 201900Z 12002MPS 9999 BKN100 11/08 Q1011 10090070 NOSIG KACJ 202030Z AUTO 03009KT 10SM OVC043 20/10 A3015 RMK AO2 KACK 201953Z 03008G15KT 10SM CLR 09/M01 A3045 RMK AO2 SLP311 T00891006 KADC 202035Z AUTO 18003KT 10SM CLR 21/01 A2997 RMK AO2 KADF 201956Z AUTO 26004KT 10SM FEW039 SCT060 27/12 A3013 RMK AO2 T02660122 SLP215 KADG 201953Z AUTO 23007G16KT 10SM CLR 21/M02 A3019 RMK AO2 SLP226 T02111022 TSNO KABY 201953Z VRB03KT 10SM OVC022 17/12 A3018 RMK AO2 SLP218 T01670117 PNO $ KACP 202035Z AUTO 23005KT 10SM SCT055 28/13 A3011 RMK AO2 T02800133 KACQ 202037Z AUTO 16007KT 10SM SCT032 22/13 A3000 RMK AO2 LTG DSNT SE KADH 202035Z AUTO 16012G15KT 10SM SCT042 BKN070 OVC090 22/15 A3008 RMK AO2 P0006 EDGS 201850Z 07008KT 9999 FEW046 12/04 Q1007 KACT 201951Z 14013KT 10SM SCT090 22/14 A3005 RMK AO2 PRESFR SLP171 T02220139 $ EDHK 201450Z 07014KT CAVOK 13/08 Q1014 EDHL 201950Z 04007KT CAVOK 11/08 Q1012 KADM 201955Z 15007KT 10 SCT060 24/15 A3007 KACV 201953Z AUTO 32007KT 8SM CLR 14/09 A3022 RMK AO2 SLP240 T01390089 KACY 201954Z 06016G22KT 10SM CLR 11/M01 A3041 RMK AO2 SLP297 T01111011 KAEG 201950Z VRB05G15KT 230V330 10SM SCT075 BKN120 20/02 A3012 KADS 201949Z 17012G19KT 13SM SCT070 BKN080 25/09 A3008 KAEJ 202035Z AUTO 10007KT 10SM BKN070 BKN080 14/00 A3017 RMK AO2 LTG DSNT NE T01371001 EDJA 201950Z 06005KT CAVOK 09/05 Q1005 DNAA 201900Z 17005KT CAVOK 29/21 Q1010 NOSIG UKON 201700Z 19003MPS 9999 SCT026CB OVC100 13/09 Q1011 NOSIG KAEL 202029Z AUTO 18005KT 10SM VCTS SCT026 21/13 A2999 RMK AO2 KADU 202035Z AUTO 19012G15KT 10SM CLR 28/06 A2995 RMK AO2 UKOO 202030Z 23003MPS CAVOK 12/08 Q1012 16090060 NOSIG KADW 201958Z AUTO 07009KT 050V110 10SM CLR 16/03 A3035 RMK AO2 SLP285 T01550026 $ CWAE 202000Z 18006KT 15SM BKN023 OVC046 07/02 A3021 RMK SC5SC3 WND ESTD SLP240 KAFF 202048Z AUTO 01012G18KT 10SM FEW090 19/00 A3008 RMK AO2 WSHFT 41 CWAF 202000Z AUTO 36002KT 03/M04 RMK AO1 T00341039 KAFJ 202035Z AUTO 09007G14KT 10SM CLR 22/M04 A3023 RMK AO1 CWAJ 202000Z AUTO 04004KT 12/02 RMK AO1 SLP234 T01220017 58018 CWBA 202200Z AUTO 30003KT 09/M13 RMK AO1 T00861127 KAFK 202035Z AUTO 18007G21KT 10SM SCT070 SCT080 28/11 A2994 RMK AO2 LTG DSNT NE T02840108 DNAK 201000Z 36002KT 9999 BKN014 30/24 Q1015 KAGC 201953Z AUTO 16006KT 10SM CLR 22/M05 A3023 RMK AO2 SLP238 T02221050 TSNO $ TTPP 202000Z 13010KT 9999 -SHRA SCT018 SCT090 28/23 Q1013 NOSIG KAFN 201952Z AUTO 16007KT 10SM CLR 13/M11 A3038 RMK AO2 SLP302 T01331106 CWBE 202000Z AUTO 10006KT 02/M01 RMK AO1 SLP238 T00191011 56024 KAEX 201953Z 00000KT 10SM CLR 27/11 A3011 RMK AO2 SLP199 T02720111 KAFO 202035Z AUTO 31009G16KT 10SM CLR 14/M06 A3018 RMK AO2 KAFP 202035Z AUTO 01008KT 10SM BKN050 OVC065 20/02 A3017 RMK AO2 T02020019 KC75 202035Z AUTO 20009KT 10SM CLR 26/06 A3007 RMK AO2 T02600060 CWAQ 202000Z AUTO 28026G38KT 13/M01 RMK AO1 PK WND 28038/1957 SLP134 T01341012 53013 CWAR 202000Z AUTO 00032KT 03/M03 RMK AO1 SLP143 T00341031 53001 PFKT 201958Z AUTO 03019G25KT 10SM CLR M01/M04 A2991 RMK AO2 PK WND 02026/1945 SLP129 T10061039 FZRANO CWCA 202000Z 35019KT 15SM SCT020 BKN070 M03/M06 A3006 RMK CU3AC2 SLP181 CWBK 202000Z AUTO 31008KT 03/M03 RMK AO1 SLP284 T00321028 58009 PFKW 201956Z AUTO 01005KT 10SM CLR 07/M01 A2968 RMK AO2 SLP052 T00721011 $ CWAV 202000Z AUTO 04001KT 11/M04 RMK AO1 SLP168 T01071035 51015 KAFW 201953Z 17011G19KT 10SM BKN065 BKN100 22/12 A3006 RMK AO2 SLP173 T02220117 CWCF 202000Z AUTO 27006KT 01/M01 RMK AO1 SOG 00 5001 SLP169 T00131009 CWBO 202000Z AUTO 31017G25KT 16/M03 RMK AO1 SOG 02 1011 PK WND 31025/1950 SLP152 T01571034 KAIA 201953Z AUTO 29008G15KT 10SM FEW090 24/01 A2994 RMK AO2 SLP116 T02440006 $ KAGS 201953Z AUTO 02012G16KT 10SM FEW048 23/07 A3013 RMK AO2 SLP201 T02280067 EDMA 201850Z 07006KT CAVOK 10/04 Q1005 CWDA 202000Z AUTO 31016G21KT 03/M06 RMK AO1 PK WND 31024/1942 SLP152 T00261064 CWCJ 202000Z AUTO 20004KT 05/02 RMK AO1 SOG 53 5001 PK WND 18017/1906 SLP171 T00530015 CWBS 202000Z AUTO 00000KT 10/M10 RMK AO1 T00971097 KAIB 202035Z AUTO 08007G23KT 053V113 10SM -DZ 17/00 A3018 RMK AO2 CWBT 202200Z AUTO 27004KT M00/M01 RMK AO1 SLP192 T10021007 53011 CWDC 202000Z AUTO 23003KT 07/M04 RMK AO1 SOG 54 3006 SLP148 T00711035 CWBU 202000Z AUTO 13003KT 04/M02 RMK AO1 SOG 08 5001 SLP157 T00391020 CWCL 202000Z AUTO 21009G16KT 9SM 09/M07 A3009 RMK SLP210 CWBV 202000Z AUTO 34010KT 08/M02 RMK AO1 SLP273 T00801018 55002 KAHN 201951Z 07008G15KT 10SM CLR 22/04 A3017 RMK AO2 SLP212 T02220044 EDLN 201820Z 10006KT CAVOK 16/06 Q1005 CWCO 202000Z AUTO 20005KT 19/M00 RMK AO1 SLP223 T01901003 56026 KAIG 202035Z AUTO 21007KT 10SM SCT033 BKN043 OVC060 14/10 A3004 RMK AO2 T01420100 EDLP 202020Z 11006KT CAVOK 12/04 Q1008 CWBY 202000Z AUTO 27016G21KT 02/M07 RMK AO1 SOG 33 7022 PK WND 26023/1904 SLP249 T00171068 KAHQ 202035Z AUTO 20015KT 10SM CLR 28/07 A2992 RMK AO2 T02770073 UMBB 201300Z 19001MPS 7000 BKN040CB FEW100 14/12 Q1014 NOSIG CWBZ 202000Z AUTO 05006KT 14/M05 RMK AO1 SLP269 T01381052 58026 OOMS 200650Z 05011KT 7000 NSC 35/21 Q1007 NOSIG KD07 201956Z AUTO 27009KT 23/06 A2991 RMK AO1 SLP128 T02280061 CWDJ 202000Z AUTO 03007KT 07/03 RMK AO1 0012 SLP129 T00740031 50002 KAIK 202055Z AUTO 03008KT 360V060 10SM OVC048 21/08 A3017 RMK AO2 PNO KBAB 201958Z AUTO 31006KT 10SM CLR 25/08 A3007 RMK AO2 SLP258 T02530079 $ CWCT 202000Z AUTO 32021G27KT 09/M00 RMK AO1 SOG 02 1021 PK WND 32028/1948 SLP150 T00861002 CWDK 202000Z AUTO 26019G26KT 15/M05 RMK AO1 SOG 00 2012 PK WND 28029/1945 SLP178 T01481054 CWEB 202000Z AUTO 10017G34KT 09/ RMK AO1 PK WND 12040/1943 SLP202 T0087 58001 KBAC 202035Z AUTO 21013G18KT 10SM CLR 23/00 A2991 RMK AO2 KBAD 201958Z AUTO 17009KT 10SM FEW060 27/12 A3012 RMK AO2 SLP201 T02720118 EDLV 202020Z 07005KT 020V130 CAVOK 17/07 Q1007 CWDM 202000Z AUTO 31014KT 04/M07 RMK AO1 SOG 58 6008 PK WND 29020/1908 SLP185 T00421071 PFNO 201958Z AUTO 07009KT 10SM CLR 04/M04 A2992 RMK AO2 SLP135 T00441039 EDLW 201950Z 08008KT CAVOK 15/06 Q1007 CWEE 202000Z AUTO 06/M08 RMK AO1 SLP238 T00591077 58031 KBAF 201953Z 24008KT 10SM CLR 16/M08 A3039 RMK AO2 SLP294 T01611083 KAIO 202035Z AUTO 21015G23KT 10SM CLR 28/11 A2993 RMK AO2 CWEF 202000Z AUTO 30025G30KT M00/M04 RMK AO1 PK WND 29034/1929 SLP241 T10031041 51001 CWDO 202000Z AUTO 30020G26KT M02/M10 RMK AO1 SOG 50 3011 PK WND 33032/1900 SLP164 T10171102 KAJG 202035Z AUTO 00000KT 10SM CLR 26/02 A3015 RMK AO2 CWEH 202000Z AUTO 29022G30KT 12/M03 RMK AO1 PK WND 28035/1904 SLP152 T01241031 53022 CWDQ 202000Z AUTO 17005KT 08/M11 RMK AO1 SLP276 T00801107 58025 KBBB 202032Z AUTO 17005KT 10SM CLR 23/03 A2996 RMK AO2 KAIT 202033Z AUTO 00000KT 10SM CLR 22/M07 A2998 RMK AO2 LTG DSNT S KBAK 201945Z 18006KT 10SM SKC 23/03 A3017 CWEK 202000Z AUTO 07011KT 08/04 RMK AO1 PK WND 07018/1926 SLP108 T00750044 58010 CWDT 202000Z AUTO 15005KT 04/M12 RMK AO1 SLP270 T00431122 58021 CWEL 202000Z AUTO 13013KT 09/06 RMK AO1 SLP240 T00910063 58001 KBBD 202035Z AUTO 14008KT 10SM OVC030 20/17 A3006 RMK NWWW 202030Z AUTO 00000KT 9999 NSC 21/19 Q1017 CWDV 202000Z AUTO 28007KT 11/M02 RMK AO1 SOG 33 1001 PK WND 25019/1946 SLP165 T01111018 KBAN 201952Z AUTO 06008KT 010V120 10SM CLR 18/M11 A3021 RMK AO2 SLP164 T01831111 $ CWFD 202049Z AUTO 04002KT 3/4SM OVC008 OVC020 M17/ A2962 DNEN 201000Z 24009KT 9999 BKN013 FEW020CB 30/24 Q1012 NOSIG KAJO 201956Z AUTO 28008KT 230V300 10SM CLR 27/12 A3002 RMK AO2 T02660116 SLP161 $ KBBF 202035Z AUTO 16015KT 6SM HZ CLR 22/17 A3010 RMK A01 KBBG 202048Z 22007KT 10SM BKN060 BKN150 25/10 A3011 ULLI 202030Z 00000MPS CAVOK 06/03 Q1024 60////// 10090070 NOSIG CWFF 202000Z AUTO 11003KT 04/M02 RMK AO1 SOG 01 1007 SLP161 T00371021 KD25 202035Z AUTO 32005KT 10SM CLR 18/02 A2999 RMK AO2 T01840016 CWEP 202000Z AUTO 30013KT 01/M05 RMK AO1 SOG 00 7008 PK WND 31019/1910 SLP280 T00051048 KAIZ 202035Z AUTO 20010KT 10SM FEW065 26/08 A3009 RMK AO1 KAKH 201954Z AUTO 03007G17KT 10SM CLR 21/02 A3019 RMK AO2 SLP222 T02060017 CWDZ 202000Z AUTO 34015KT 15/M04 RMK AO1 PK WND 35027/1917 SLP151 T01511036 53014 CWEQ 202000Z AUTO 01008KT 05/M01 RMK AO1 SOG 01 8010 SLP147 T00491010 CWER 202000Z AUTO 15002KT RMK AO1 CWFJ 202000Z AUTO 26017G26KT 11/M05 RMK AO1 PK WND 24026/1933 T01071046 KALB 201951Z 15007KT 10SM FEW200 BKN270 17/M10 A3036 RMK AO2 SLP284 T01671100 KBCB 202035Z AUTO 11006G14KT 10SM CLR 19/M01 A3027 RMK AO2 CWGB 202000Z AUTO 11019KT 09/07 RMK AO1 PK WND 12029/1902 SLP235 T00920070 50001 CWEU 202000Z 14014KT 15SM FEW030 BKN100 OVC220 M20/M25 A3006 RMK SC1AS3CS0 SLP182 CWGD 202000Z AUTO 22008KT 16/02 RMK AO1 SLP228 T01620019 56020 KBCE 201953Z AUTO 32013G18KT 10SM FEW080 SCT100 18/M02 A3023 RMK AO2 SLP156 T01781017 CWEW 202000Z AUTO 14004KT 12/M08 RMK AO1 SLP285 T01181083 58029 KAKO 201953Z AUTO 01014G25KT 10SM SCT120 22/03 A3001 RMK AO2 SLP127 T02220028 KBAX 202037Z AUTO 19008KT 10SM CLR 21/M01 A3015 RMK AO2 T02131008 KBBP 202035Z AUTO 01007KT 10SM OVC045 19/05 A3015 RMK AO2 EDOP 201650Z 07011KT CAVOK 18/08 Q1011 KBAZ 202040Z 14008KT 10SM SCT027 OVC038 22/17 A3006 RMK AO2 T02220172 KAKQ 201954Z AUTO 04008G15KT 10SM SCT055 17/03 A3029 RMK AO2 SLP258 T01720033 TSNO KAJZ 202035Z AUTO 26007G17KT 10SM CLR 24/01 A3008 RMK AO2 T02430012 EDNY 202020Z AUTO VRB03KT CAVOK 09/05 Q1004 CWFQ 202000Z AUTO 28006KT 13/M04 RMK AO1 T01301038 CWEZ 202000Z AUTO 18012KT 11/05 RMK AO1 PK WND 17018/1913 SLP241 T01130053 58011 KALI 201953Z AUTO 13016G22KT 10SM BKN038 27/18 A3005 RMK AO2 SLP172 T02720178 KAKR 201954Z AUTO 14008KT 120V180 10SM CLR 22/M03 A3022 RMK AO2 SLP232 T02171028 KAMA 202040Z 23013KT 10SM FEW050 BKN110 21/10 A2997 RMK AO2 WSHFT 1940 LTG DSNT NE-S RAB1955E16 TSE05 P0004 T02060100 ULMM 202030Z VRB01MPS CAVOK M02/M06 Q1028 NOSIG RMK QFE764 31090070 KD39 202032Z AUTO 21004KT 10SM CLR 21/01 A2999 RMK AO2 T02050010 KALK 201956Z AUTO VRB04KT 10SM CLR 22/01 A3017 RMK AO2 SLP145 T02220006 TSNO $ KBCK 202035Z AUTO 23004KT 10SM OVC011 15/12 A3004 RMK AO2 LTG DSNT SW T01480121 CWGL 202000Z AUTO 18010KT 10/M02 RMK AO1 SLP238 T00971020 56029 KALM 202035Z AUTO 00000KT 10SM CLR 21/04 A3011 RMK AO2 CWGM 202000Z AUTO 24018G27KT 10/M05 RMK AO1 PK WND 25031/1932 T01021051 KBDE 201953Z AUTO 01004KT 10SM CLR 14/02 A3000 RMK AO2 SLP169 T01390022 TSNO KBBW 201953Z AUTO 22006KT 10SM OVC100 20/12 A2997 RMK AO2 RAB16E47 SLP138 P0002 T02000122 $ KALN 201950Z 17010KT 10SM SCT200 25/02 A3011 KALO 201954Z AUTO 10SM FEW065 24/11 A2999 RMK AO2 SLP152 T02390106 TSNO $ KAMG 202049Z AUTO 31007KT 10SM SCT018 BKN030 OVC035 17/12 A3011 RMK AO2 KBDH 202035Z AUTO 15007KT 10SM CLR 23/02 A2998 RMK AO2 NZAA 202030Z AUTO 29007KT 9999 FEW014/// BKN060/// 16/14 Q1013 NOSIG OOSA 200650Z 15005KT 100V220 CAVOK 30/22 Q1010 NOSIG CWHI 201900Z AUTO 31018KT 13/M03 RMK AO1 PK WND 31026/1847 T01271028 CWGR 201900Z AUTO 30013KT 02/M04 RMK AO1 PK WND 30019/1803 SLP267 T00171037 58004 ZSAM 202000Z 06003MPS 9999 BKN021 BKN050 20/16 Q1014 NOSIG KALS 201952Z AUTO VRB04KT 10SM CLR 17/00 A3013 RMK AO2 SLP133 T01670000 KBEA 202035Z AUTO 16015G18KT 10SM OVC034 27/17 A3005 RMK AO2 T02710170 KBCT 201953Z 31007G13KT 10SM FEW040 BKN045 M/M A2999 KANB 201953Z AUTO 11007KT 070V130 10SM CLR 24/07 A3015 RMK AO2 SLP207 T02440072 KD50 202035Z AUTO 30015G27KT 10SM BKN120 16/00 A2987 RMK AO2 DNIB 201000Z 27008KT 9999 BKN014 31/24 Q1013 CWGT 202000Z AUTO 11028KT 09/06 RMK AO1 PK WND 11033/1914 SLP222 T00910062 57004 KBDL 201951Z VRB03KT 10SM BKN250 15/M10 A3039 RMK AO2 SLP292 T01501100 CWHL 202000Z AUTO 11017G23KT 10/01 RMK AO1 PK WND 10025/1906 SLP106 T01010013 58016 KAND 201956Z AUTO 04006KT 10SM CLR 22/01 A3018 RMK AO2 SLP214 T02220011 KBED 201956Z 13010KT 10SM BKN250 11/M07 A3043 RMK AO2 SLP319 T01111067 CWID 202000Z AUTO 36004KT 07/M04 RMK AO1 SLP151 T00651036 52008 CWHM 202000Z AUTO 21004KT 13/M09 RMK AO1 T01281094 KALW 201953Z 24011KT 10SM CLR 15/01 A3026 RMK AO2 SLP250 T01500011 EDQM 202020Z AUTO 01005KT 340V050 9999NDV FEW068/// 09/03 Q1008 KBDN 202035Z AUTO 22009G16KT 10SM CLR 17/M05 A3020 RMK AO2 KAMN 202032Z AUTO 19007KT 10SM CLR 21/M01 A3015 RMK AO2 T02111013 KANE 202045Z 00000KT 10SM SKC 24/01 A2997 CWGW 202000Z AUTO 24008KT 09/M02 RMK AO1 PK WND 19025/1932 SLP224 T00861020 53015 CWHN 202027Z AUTO 21005KT 140V250 9SM SCT013 OVC079 07/04 A2990 KALX 202035Z AUTO 06003KT 10SM CLR 26/06 A3015 RMK AO2 T02560055 CWGX 202000Z AUTO 28003KT 01/M04 RMK AO1 SOG 24 3017 SLP152 T00051035 CWHO 202000Z AUTO 06004KT M04/M12 RMK AO1 SLP193 T10391118 58007 KD55 202035Z AUTO 18018G22KT 10SM CLR 20/02 A2989 RMK AO2 PFSH 201958Z AUTO 01017KT 10SM CLR 03/M01 A2981 RMK AO2 SLP108 T00281006 CWHP 202000Z AUTO 32013G18KT RMK AO1 SOG 08 7009 PK WND 32022/1918 CWIG 202000Z AUTO 15005KT RMK AO1 CWGY 202000Z AUTO 30017G23KT 08/02 RMK AO1 PK WND 29027/1913 SLP151 T00770024 51031 KBEH 201953Z AUTO 29006KT 10SM CLR 22/03 A3015 RMK AO2 SLP209 T02220028 CWHQ 202000Z AUTO 33004KT 09/M10 RMK AO1 T00911097 KBDR 201952Z 10008KT 10SM CLR 11/01 A3044 RMK AO2 SLP308 T01110006 $ KD57 202035Z AUTO 30020G27KT 10SM CLR 21/M01 A2988 RMK AO2 CWII 202000Z AUTO 31005KT 04/M01 RMK AO1 T00411014 KANJ 202013Z AUTO 11004KT 5SM BR BKN023 OVC041 04/03 A3011 RMK AO2 T00390028 CWIJ 202000Z AUTO 06003KT M02/M06 RMK AO1 SOG 46 3011 SLP161 T10201061 KANK 202035Z AUTO 00000KT 10SM CLR 19/M01 A3021 RMK AO1 T01901014 KD60 202035Z AUTO 29020G30KT 10SM CLR 18/00 A2990 RMK AO2 OPKC 202025Z 35006KT 6000 FEW100 28/11 Q1009 NOSIG EDSB 202020Z 04003KT CAVOK 13/09 Q1004 CWJB 202000Z AUTO 30003KT 08/M10 RMK AO1 SOG 17 T00761098 CWHT 202000Z AUTO 27005KT 08/M07 RMK AO1 SLP078 T00841069 52015 CWIK 202000Z AUTO 07008KT 08/03 RMK AO1 PK WND 11017/1902 SLP117 T00840034 55006 KBDU 202036Z AUTO 06007KT 10SM BKN100 20/00 A3003 RMK AO2 LTG DSNT S ULOO 201900Z VRB02MPS P6000 SKC 15/03 Q1021 NOSIG RMK QFE762 CWJC 202000Z AUTO 01/M07 RMK AO1 SOG 00 0003 SLP174 T00131073 CWIL 202000Z AUTO 02012KT M13/ A3003 RMK SLP178 KBFD 201953Z AUTO 14008KT 120V190 10SM CLR 19/M09 A3027 RMK AO2 SLP255 T01891089 CWHV 202300Z AUTO 30003KT 05/M09 RMK AO1 SLP263 T00511088 52018 CWJD 202000Z AUTO 33003KT 06/M05 RMK AO1 SOG 28 5002 SLP162 T00641046 UMGG 202000Z 06004MPS CAVOK 13/05 Q1015 R10/CLRD// NOSIG KAMW 201953Z AUTO 19014G21KT 10SM FEW095 26/12 A2996 RMK AO2 SLP138 T02610117 NZAP 202000Z 31007KT 9000 SHRA BKN015 12/10 Q1010 RMK ALT VATSIM USE ONLY KBFF 201953Z AUTO 33005KT 10SM CLR 26/00 A2996 RMK AO2 SLP112 T02560000 CXAF 202000Z AUTO 35005KT 08/02 RMK AO1 T00760021 CXAG 202000Z AUTO 33007KT 07/05 RMK AO1 T00680047 50010 CWIP 202000Z AUTO 21012G19KT 05/ RMK AO1 PK WND 19021/1942 T0053 KAOH 201953Z AUTO 15009KT 10SM CLR 23/01 A3018 RMK AO2 SLP222 T02280006 KANQ 202055Z AUTO VRB03KT 10SM CLR 22/M01 A3016 RMK TUPJ 202100Z 11009KT 9999 SCT020 28/22 Q1017 RMK A3003 CWJH 202000Z AUTO 11003KT 05/M05 RMK AO1 SOG 48 8002 SLP159 T00541051 KBFI 201953Z 12005KT 10SM FEW060 15/01 A3026 RMK AO2 SLP245 T01500006 OPLA 201955Z 00000KT 6000 FEW100 23/15 Q1012 NO SIG CWJI 202000Z AUTO 28029G43KT 12/M02 RMK AO1 PK WND 29043/1958 SLP128 T01201019 53005 KAPA 201953Z 33007G16KT 10SM SCT070 SCT100 BKN200 19/01 A3007 RMK AO2 SLP141 VIRGA VC NW AND DSNT SW-NW TCU DSNT W-NW T01940006 PHBK 201956Z AUTO 24006KT 10SM FEW040 26/18 A3015 RMK AO2 SLP213 T02560183 TSNO EEKA 201550Z 04007KT CAVOK 11/02 Q1023 CXBA 202000Z AUTO 33013KT 08/03 RMK AO1 PK WND 34026/1903 T00790032 CXAJ 202000Z AUTO 34003KT 11/02 RMK AO1 T01050023 CWIS 202000Z AUTO 21007KT 04/M16 RMK AO1 SOG 62 7015 SLP278 T00441156 CXAK 202000Z AUTO 32019KT 12/01 RMK AO1 PK WND 32029/1943 T01180010 KAPC 201954Z 22004KT 10SM CLR 22/13 A3011 RMK AO2 SLP187 T02220133 KBFL 201954Z 31008KT 10SM CLR 24/06 A3010 RMK AO2 SLP187 T02390061 KBFM 201953Z 02009KT 10SM FEW030 22/12 A3016 RMK AO2 SLP211 T02170122 KBGD 202041Z AUTO 25014G22KT 10SM FEW044 FEW075 BKN095 19/08 A2996 RMK AO2 PK WND 24033/1952 WSHFT 1941 LTG DSNT ALQDS RAB00E18 TSE01B13E28 P0001 T01940078 EDTD 201750Z 10008KT 9999 SCT042TCU 11/09 Q1005 LAST CWKD 202000Z AUTO 22007KT 03/M15 RMK AO1 17 6025 SLP261 T00311146 KANW 202035Z AUTO 17005KT 10SM CLR 27/06 A2991 RMK AO2 T02650058 KBGE 202035Z AUTO 05008KT 10SM BKN019 BKN025 17/13 A3016 RMK AO2 CWIW 202000Z AUTO 06012KT 03/00 RMK AO1 SLP139 T00280000 50001 KAPF 201953Z AUTO 31011KT 10SM SCT044 24/16 A3001 RMK AO2 SLP162 T02390156 TSNO KAOO 201953Z AUTO 19009KT 10SM CLR 18/M02 A3030 RMK AO2 SLP261 T01831017 EEKE 201950Z AUTO 03008KT 9999NDV NCD 11/03 Q1021 KBGF 202035Z AUTO VRB05KT 10SM CLR 24/07 A3014 RMK KAPG 201955Z 08007KT 7SM SCT150 14/03 A3038 CWIX 202000Z AUTO 06005KT 03/M04 RMK AO1 T00301042 DNJO 200000Z 27014KT 9999 FEW007 FEW017CB 21/19 Q1018 NOSIG CWJO 202000Z AUTO 11002KT 06/M12 RMK AO1 SLP280 T00561115 58024 NZCH 202030Z AUTO 30002KT 9999 NCD 11/08 Q1005 NOSIG NZCI 202008Z 24008KT 30KM FEW040 16/09 Q1008 RMK NZNR VATSIM USE ONLY CWIY 202000Z AUTO 15002KT 08/M11 RMK AO1 SLP279 T00841109 58021 CWKG 202000Z AUTO 01003KT 11/M08 RMK AO1 SOG 00 6017 SLP274 T01091081 EDRZ 201850Z 32003KT CAVOK 15/08 Q1004 CWIZ 202000Z AUTO 15005KT 13/M08 RMK AO1 T01281078 CWKH 202000Z AUTO 08/06 RMK AO1 SLP232 T00830061 58007 CWJR 202000Z AUTO 17009G16KT 13/01 RMK AO1 PK WND 15019/1934 SLP244 T01260011 50002 CXBI 202000Z AUTO 17009KT 14/M02 RMK AO1 SLP242 T01351015 56030 CXCA 202000Z AUTO 16007KT 12/03 RMK AO1 SOG 26 6010 SLP150 T01200031 KBHB 202035Z AUTO 19019G23KT 10SM CLR 08/M02 A3041 RMK AO1 CWKK 202000Z AUTO 12007KT 04/M01 RMK AO1 SOG 27 8002 SLP153 T00381006 CXAT 202000Z AUTO 15001KT M15/M18 RMK AO1 SOG 02 SLP185 T11481181 CXBK 202000Z AUTO 36007KT 09/04 RMK AO1 1012 SLP115 T00860042 50003 CWJT 202000Z AUTO 18005KT 13/M10 RMK AO1 SLP271 T01321096 58030 CWLB 202000Z AUTO 32007KT 09/01 RMK AO1 SLP146 T00930013 51019 KBHC 202035Z AUTO 32006KT 10SM SCT018 OVC035 17/13 A3010 RMK AO2 EDTL 201720Z 01006KT CAVOK 16/09 Q1003 CWJU 202000Z AUTO 15012G28KT 08/05 RMK AO1 PK WND 12034/1928 SLP042 T00780054 55000 CWLC 202000Z AUTO 13022KT 09/ RMK AO1 T0085 KBGM 201953Z 16008G17KT 10SM CLR 17/M04 A3031 RMK AO2 SLP268 T01671039 CXCD 202000Z AUTO 27010KT 12/M00 RMK AO1 PK WND 27017/1900 T01191003 CWJV 202000Z AUTO 30006KT 14/M01 RMK AO1 SLP217 T01421014 58009 CWKM 202000Z AUTO 08010KT M10/ A3021 RMK SLP235 KAPN 201954Z AUTO 07004KT 10SM OVC085 09/03 A3014 RMK AO2 SLP212 T00940028 KBFW 202033Z AUTO 16003KT 10SM CLR 14/04 A2998 RMK AO2 DNKN 201400Z 27012KT 9999 FEW019 39/18 Q1008 NOSIG CWLE 202000Z AUTO 28018G27KT 11/03 RMK AO1 PK WND 26027/1959 SLP110 T01110027 55005 CWJW 202000Z AUTO 23005KT 11/M06 RMK AO1 SOG 00 1010 SLP176 T01071062 UMII 201700Z 04003G06MPS CAVOK 18/02 Q1018 R05/CLRD// NOSIG VCRI 202010Z 36002KT 9999 SCT016 27/25 Q1008 NOSIG CXBO 202000Z AUTO 25007KT RMK AO1 CWJX 202000Z AUTO 32018G26KT 09/03 RMK AO1 PK WND 30030/1903 SLP142 T00920026 51028 CWKO 201300Z AUTO 21006KT 03/M02 RMK AO1 SLP107 T00251017 56006 UNAA 202030Z 22004MPS 9999 SCT030CB BKN100 08/01 Q1010 NOSIG RMK QFE735 20090065 CWKP 202000Z AUTO 10002KT M11/ A3001 RMK SLP205 CXCH 202000Z AUTO 01/M06 RMK AO1 T00051055 KBGR 201953Z VRB03KT 10SM FEW150 SCT200 14/M11 A3038 RMK AO2 SLP287 T01391106 CXBR 202000Z AUTO 25020KT 12/M06 RMK AO1 PK WND 24031/1915 T01191055 CWLI 202000Z AUTO 35006KT M10/ A3016 RMK SLP228 KARA 201953Z VRB03KT 10SM CLR 28/12 A3013 RMK AO2 SLP201 T02780122 KARB 201953Z 17011KT 10SM CLR 22/M03 A3018 RMK AO2 SLP222 T02221028 KBHK 201951Z AUTO 29015G27KT 10SM CLR 18/M03 A2999 RMK AO2 PK WND 29028/1857 SLP156 T01831033 DNKT 201000Z 36003KT CAVOK 35/18 Q1013 CXDB 202000Z AUTO 26024KT 11/M07 RMK AO1 PK WND 25035/1902 T01141067 CXCK 202000Z AUTO 13011G16KT 09/M02 RMK AO1 SOG 23 1004 SLP085 T00891023 NZDN 202033Z 22018KT 25KM VCSH BKN025 BKN050 11/07 Q1006 RMK VATSIM USE ONLY KBHM 201953Z VRB06KT 10SM SCT250 26/05 A3017 RMK AO2 SLP209 T02610050 KBID 202035Z 15009KT 10SM CLR 08/M02 A3045 RMK AO1 CWLM 202000Z AUTO 12006KT 11/07 RMK AO1 T01100066 KBIE 202035Z AUTO 21015G19KT 10SM CLR 28/11 A2994 RMK AO2 LTG DSNT N AND SW T02760111 EDVE 201550Z 12013KT CAVOK 19/07 Q1009 CXBW 201900Z AUTO 29017KT 14/M05 RMK AO1 PK WND 29024/1836 T01401051 CWME 202000Z AUTO 07011G16KT 11/03 RMK AO1 PK WND 08017/1941 SLP135 T01080034 58025 CXDE 202000Z AUTO 18002KT M03/M08 RMK AO1 SLP182 T10311081 53010 KBIF 201956Z AUTO 21004G12KT 12SM FEW210 23/04 A3013 RMK AO2 LTG DSNT NW SLP156 T02310042 KAQO 202035Z AUTO 19008KT 9SM BKN029 OVC036 22/16 A3010 RMK AO2 CWKX 202000Z AUTO 20008KT 07/M05 RMK AO1 PK WND 24017/1935 SLP135 T00721049 51015 KAQP 202034Z AUTO 12006KT 10SM CLR 24/M02 A2995 RMK AO2 LTG DSNT SE KD95 202034Z AUTO 23008KT 200V260 10SM CLR 21/M03 A3017 RMK AO2 T02121031 KARG 202035Z AUTO 19004KT 10SM CLR 26/08 A3011 RMK AO1 OPNH 202000Z 31506KT 5000M HZ SCT035 SCT100 26/17 Q1008 KAPY 202015Z AUTO 14013G19KT 10SM OVC024 26/18 A3002 RMK AO2 T02620186 CXCP 202000Z AUTO 28013KT 16/M07 RMK AO1 PK WND 27025/1901 T01561067 CWLP 202000Z AUTO 12042G49KT 09/04 RMK AO1 PK WND 13052/1942 SLP139 T00920042 56018 KBIH 201956Z AUTO 21007KT 10SM CLR 26/M06 A3010 RMK AO2 SLP152 T02611061 UNBB 202030Z 24005MPS CAVOK 08/M04 Q1010 NOSIG RMK QFE735/0980 24CLRD66 KAQR 202035Z AUTO 17007G14KT 10SM SCT055 SCT065 OVC110 25/14 A3008 RMK AO2 OPMT 201455Z 00000KTS 4000 HZ SCT120 29/14 Q1011 NOSIG CXDI 202000Z AUTO 19007KT 20/M03 RMK AO1 SLP235 T02001033 57019 KBIJ 202035Z AUTO 07007KT 10SM BKN026 OVC036 17/13 A3016 RMK AO2 CXCS 202000Z AUTO 32018KT 10/03 RMK AO1 PK WND 31028/1908 T00960033 CWLS 202000Z AUTO 20009G16KT 18/01 RMK AO1 PK WND 21019/1914 SLP232 T01790006 56022 CXEA 202000Z AUTO 25005KT 07/M03 RMK AO1 SOG 43 5000 SLP168 T00741026 CWMJ 202000Z AUTO 18011KT 11/M10 RMK AO1 PK WND 15018/1927 SLP254 T01131095 56032 EDVK 201950Z 14006KT 090V160 CAVOK 11/08 Q1009 CWNB 201300Z AUTO 05/ RMK AO1 T0047 CXDK 201900Z AUTO 13006KT 10/M04 RMK AO1 SLP127 T01041035 53001 KBIL 201953Z 29016G27KT 10SM FEW120 SCT200 18/M11 A3006 RMK AO2 PK WND 32027/1950 SLP167 T01831106 KBJC 201947Z 20009KT 70SM SCT100 BKN150 20/04 A3007 KE11 202035Z AUTO 25008G17KT 180V280 10SM CLR 25/10 A3003 RMK AO2 T02480103 CXEC 202000Z AUTO 10/05 RMK AO1 T01020047 CWNC 202000Z AUTO 10005KT 08/01 RMK AO1 SLP257 T00770010 57024 KASD 201953Z AUTO 36011G16KT 10SM CLR 28/11 A3012 RMK AO2 SLP199 T02780106 KCAD 202034Z AUTO 23008KT 10SM SCT080 20/04 A3010 RMK AO2 T02080042 KAQV 201956Z AUTO VRB06KT 10SM SCT060 27/12 A3010 RMK AO2 SLP192 T02720117 KARM 202035Z AUTO 15010KT 10SM BKN090 26/12 A3010 RMK AO2 T02560121 CWND 202000Z AUTO 34007KT M11/M14 RMK AO1 SLP196 T11121143 51012 DNMM 202000Z 17003KT 9999 FEW008 24/23 Q1009 NOSIG CWMM 202000Z AUTO 36006KT 12/06 RMK AO1 SLP250 T01160061 58009 KASE 202032Z 04010G26KT 10SM BKN080 12/M01 A3019 RMK AO2 PK WND 04026/2023 WSHFT 2012 RAE1959 P0000 T01221006 KAQW 201952Z AUTO 29005KT 10SM CLR 17/M09 A3035 RMK AO2 SLP282 T01671094 KCAE 201956Z 04011G23KT 10SM BKN045 OVC060 21/06 A3014 RMK AO2 SLP205 T02060061 DNMN 200500Z 10006KT 9999 FEW010 25/22 Q1010 CWNE 202000Z AUTO 23009KT 04/M05 RMK AO1 SLP273 T00381049 56020 CWLX 202000Z AUTO 07008KT M18/ A2993 RMK SLP161 KCAG 202041Z AUTO 31022G42KT 9SM TS SCT070 BKN090 BKN110 11/03 A3020 RMK AO2 PK WND 32042/2033 WSHFT 2014 LTG DSNT NE TSB35 PRESRR T01110028 KASG 202048Z 17010KT 10SM SCT050 BKN250 23/11 A3012 CXDP 202000Z AUTO 31006KT 09/05 RMK AO1 7PAST HR M PK WND 31021/1928 P0003 T00920050 50007 CXEG 202000Z AUTO 12/04 RMK AO1 T01210044 CWLY 202000Z AUTO 20015G24KT 160V230 9SM CLR 11/00 A3018 RMK MAX WND 19021KT AT 1916Z SLP224 KASH 201951Z 14008G14KT 080V190 10SM CLR 14/M07 A3042 RMK AO2 T01381066 SLP558 KE16 202035Z AUTO 34008KT 300V360 10SM CLR 24/10 A3010 RMK AO2 UMKK 202030Z 08003MPS CAVOK 13/05 Q1015 R24/CLRD70 NOSIG RMK QFE760/1014 CWMQ 202000Z AUTO 31021G31KT 14/M03 RMK AO1 PK WND 31034/1917 SLP154 T01401028 51019 CWNH 202000Z AUTO 33002KT 04/M08 RMK AO1 SLP282 T00441075 57021 ZSHC 202030Z VRB01MPS 4500 -RA BR BKN023 14/11 Q1016 NOSIG KBJI 202031Z AUTO 32003KT 5SM HZ CLR 21/M01 A2997 RMK AO2 T02061008 KARR 201952Z 20013G19KT 10SM CLR 26/05 A3010 RMK AO2 SLP192 T02560050 KBIS 201952Z AUTO 20014G20KT 10SM CLR 24/00 A2987 RMK AO2 SLP116 T02390000 VECC 202050Z 28003KT 2800 HZ FEW020 28/17 Q1006 NOSIG KBJJ 201956Z AUTO 16011KT 10SM CLR 22/M01 A3022 RMK AO2 SLP236 T02171011 TSNO KASJ 202035Z AUTO 02018G26KT 10SM OVC050 15/01 A3024 RMK AO2 T01470010 KBKB 201954Z AUTO 00000KT 10SM SCT060 28/12 A3009 RMK AO2 SLP216 T02830117 KCAK 201951Z 15007KT 10SM BKN200 23/M02 A3022 RMK AO2 SLP234 T02281020 PNO KART 201956Z AUTO 27008KT 10SM CLR 17/M03 A3029 RMK AO2 SLP260 T01671028 CWMT 202000Z AUTO 30007KT 05/M03 RMK AO1 SLP153 T00501030 52009 CWNK 202000Z AUTO 15012KT 13/06 RMK AO1 T01300055 CWOB 202000Z AUTO 23005KT M12/ A2985 RMK SLP160 KASL 202035Z AUTO 13004KT 10SM SCT055 25/12 A3009 RMK AO1 T02530121 CWNL 202000Z AUTO 12005KT 03/M00 RMK AO1 SLP215 T00341004 56018 CWOC 202000Z AUTO 26011G16KT 06/M09 RMK AO1 SLP261 T00611091 56018 KBIV 201953Z AUTO 24009KT 10SM CLR 23/03 A3016 RMK AO2 SLP212 T02280028 KBKD 202035Z AUTO 25005KT 10SM -VCTSRA SCT006 BKN032 OVC041 19/18 A3007 RMK AO2 LTG DSNT NE THRU S P0009 T01910181 KARV 202035Z AUTO 22/06 A2999 RMK AO2 T02220062 PWINO KBJN 201956Z AUTO VRB06KT 10SM CLR 20/M05 A3019 RMK AO2 SLP296 T02001050 CWOD 202000Z AUTO 14005KT 02/M05 RMK AO1 SOG 28 8026 SLP249 T00161053 CWNM 202000Z AUTO 23003KT 14/00 RMK AO1 SLP225 T01370000 50000 ZSFZ 202000Z 02003MPS 340V040 9999 OVC040 17/13 Q1015 NOSIG KCBE 202046Z AUTO 14008G14KT 10SM CLR 20/M02 A3030 RMK AO1 KBKE 201953Z AUTO 00000KT 10SM CLR 13/M03 A3025 RMK AO2 SLP247 T01281033 TSNO KARW 202035Z AUTO 02017G22KT 10SM BKN041 21/12 A3007 RMK AO2 CXDW 202000Z AUTO 12012G17KT 13/04 RMK AO1 SOG 01 PK WND 12017/1959 T01330043 CWOE 202000Z AUTO 29025G38KT 14/M02 RMK AO1 SOG 00 1019 PK WND 30038/1957 SLP163 T01381024 KBKF 201955Z 33008G17KT 25SM FEW060 SCT120 BKN200 21/02 A3007 RMK SLP126 KCAO 202021Z AUTO 32022KT 10SM CLR 19/05 A3000 RMK AO2 PK WND 32026/2016 WSHFT 2001 LTG DSNT E AND SE T01890050 KCBF 202035Z AUTO 21013G18KT 10SM CLR 28/12 A2992 RMK AO2 KBIX 201958Z AUTO 19013KT 10SM CLR 22/15 A3015 RMK AO2 SLP213 T02170152 KCBG 202036Z AUTO 00000KT 10SM CLR 22/08 A2997 RMK AO2 LTG DSNT S VEBS 200100Z 21004KT 1500 BR FEW018 SCT100 28/27 Q1009 BECMG 2000 HZ CWNP 202000Z AUTO 30003KT 12/M00 RMK AO1 SLP226 T01181003 58001 CWNQ 202300Z AUTO 33006KT 08/M10 RMK AO1 SLP280 T00811101 51017 CWMZ 202000Z AUTO 14012KT 07/M01 RMK AO1 SLP223 T00731012 56030 KCAR 201954Z AUTO 08005KT 10SM CLR 08/M09 A3033 RMK AO2 SLP280 T00831094 KCCA 202035Z AUTO 23006KT 10SM SCT070 27/12 A3011 RMK AO2 KAST 201955Z AUTO 21008KT 9SM BKN035 OVC055 13/05 A3024 RMK AO2 SLP238 T01330050 KCBK 202030Z AUTO 22008G14KT 10SM BKN095 25/11 A2995 RMK AO2 CXET 202000Z AUTO 16009G15KT 15/01 RMK AO1 PK WND 17017/1936 SLP235 T01500005 56028 EFET 202020Z AUTO 09003KT CAVOK M02/M07 Q1025 KBKL 201953Z 01007KT 10SM CLR 16/05 A3019 RMK AO2 SLP225 T01560050 PNO KATL 201952Z 03007KT 10SM FEW250 22/06 A3017 RMK AO2 SLP212 T02220061 $ CWPC 202000Z AUTO 26004KT RMK AO1 58026 KCAV 202035Z AUTO 10011KT 10SM CLR 23/17 A2995 RMK AO2 KCBM 201958Z AUTO VRB01KT 10SM CLR 25/07 A3015 RMK AO2 SLP212 T02510072 $ UMMG 200900Z 08005G08MPS CAVOK 18/07 Q1017 NOSIG CXFM 202000Z AUTO 28017KT 15/M04 RMK AO1 PK WND 29029/1925 T01451043 CWPD 202000Z AUTO 21007KT 05/M13 RMK AO1 SLP274 T00511133 56008 KASW 202035Z AUTO 24003KT 10SM CLR 22/01 A3016 RMK AO2 CWPE 202000Z AUTO 18010KT 06/02 RMK AO1 SLP289 T00610019 56011 KASX 201953Z AUTO 36006KT 10SM CLR 16/06 A3001 RMK AO2 SLP168 T01560056 $ KBLF 201952Z AUTO VRB05KT 10SM CLR 21/M04 A3025 RMK AO2 SLP223 T02111044 CWPF 202045Z AUTO 14003KT 11/06 RMK AO1 T01090063 KAUG 201953Z AUTO 19007KT 10SM CLR 12/M07 A3038 RMK AO2 SLP291 T01171067 KATP 202035Z AUTO 36007KT 9SM CLR A3019 RMK A01 KBLH 201952Z AUTO 17008KT 10SM CLR 32/07 A2997 RMK AO2 SLP142 T03220067 PHHI 202038Z AUTO 06005KT 5SM -RA FEW017 OVC028 21/19 A3017 RMK AO2 RAB2020DZE2020 $ KAUH 202035Z AUTO 22012G16KT 10SM CLR 26/10 A2994 RMK AO2 T02630100 NZGS 201924Z 32010KT 30KM FEW040 16/09 Q1009 RMK VATSIM USE ONLY CXGH 202000Z AUTO 03/M01 RMK AO1 T00321007 CWNZ 202000Z AUTO 25010G16KT 13/02 RMK AO1 SOG 70 8014 PK WND 30017/1907 SLP125 T01340018 KBLI 201953Z 18008KT 10SM FEW045 SCT060 12/03 A3025 RMK AO2 SLP250 T01220033 OPPS 202000Z SW-08KT 4000 HZ FEW040 FEW100 FEW200 17/12 Q1015.3 NZHK 202000Z 05002KT 3000 RA BKN018 11/10 Q1007 RMK ALT VATSIM USE ONLY ULWC 201800Z 34002MPS CAVOK 11/02 Q1022 NOSIG RMK QFE757/1009 SC060 CXFR 202000Z AUTO 26015KT 11/M01 RMK AO1 PK WND 23021/1958 T01081013 KBKS 202035Z AUTO 11012G18KT 10SM OVC036 26/18 A3003 RMK AO1 T02620177 KCDA 202035Z AUTO 18005KT 10SM CLR 15/M17 A3033 RMK AO2 T01461175 KE38 202035Z AUTO 18007KT 10SM SCT100 26/03 A3014 RMK AO2 T02560029 KATS 202035Z AUTO 27010G15KT 10SM CLR 25/04 A3001 RMK AO2 CXHA 200800Z AUTO 23004KT 09/03 RMK AO1 SLP231 T00930029 56007 UMMM 201900Z 07003MPS CAVOK 17/03 Q1016 R12/CLRD60 NOSIG RMK QFE742 EFHA 202020Z AUTO 08003KT CAVOK 09/03 Q1025 KATT 202051Z AUTO VRB06KT 10SM FEW044 OVC070 23/16 A3008 RMK AO2 SLP177 T02330156 56019 PFYU 202016Z 04010G15KT 10SM CLR 02/M05 A2995 RMK AO1 SKC UNEE 202030Z 22005MPS CAVOK 06/M02 Q1006 NOSIG RMK QFE732 23CLRD60 CWPK 202000Z AUTO 19006KT 07/M12 RMK AO1 SOG 33 8028 SLP257 T00711116 KCDC 201953Z AUTO VRB05KT 10SM CLR 22/M02 A3013 RMK AO2 SLP148 T02221022 $ KAVC 202035Z AUTO 06005KT 10SM CLR 19/04 A3029 RMK AO2 NZHN 201951Z 26012KT 30KM VCSH FEW020 SCT055 15/13 Q1012 RMK VATSIM USE ONLY KBKV 202005Z 30007KT 10SM OVC029 21/15 A3006 RMK AO2 T02060150 KCDD 202033Z AUTO 33007KT 10SM CLR 17/00 A3002 RMK AO2 KBLM 202035Z AUTO 08011KT 10SM CLR 09/M02 A3044 RMK AO1 KAUM 202035Z AUTO 19006KT 10SM TS SCT021 SCT026 19/13 A3000 RMK AO2 LTG DSNT SE CXHD 202000Z AUTO 32018KT 08/M03 RMK AO1 PK WND 31024/1948 T00821027 KBKW 201951Z AUTO 08005KT 10SM CLR 19/M06 A3024 RMK AO2 SLP226 T01941061 TSNO KATW 202045Z VRB04KT 7SM OVC060 14/08 A3008 KAUN 202035Z AUTO 31004KT 10SM CLR 22/07 A3011 RMK AO1 EDXW 201920Z 08015KT CAVOK 13/08 Q1014 KAUO 202035Z AUTO 03008KT 10SM CLR 22/09 A3018 RMK AO1 KCCO 202035Z AUTO 03006KT 10SM CLR 23/09 A3015 RMK AO2 T02300093 DNPO 201000Z 02005KT 9999 BKN014 FEW022CB 30/23 Q1012 NOSIG CXHF 202300Z AUTO 07/M13 RMK AO1 T00671126 CWPO 202000Z AUTO 16016G21KT 18/04 RMK AO1 PK WND 16021/1952 SLP132 T01800038 57027 KBMG 201953Z 14005KT 10SM CLR 24/M03 A3015 RMK AO2 SLP208 T02391033 KATY 201953Z AUTO 15011KT 10SM CLR 23/M01 A2995 RMK AO2 SLP143 T02281011 $ EFHF 202020Z AUTO 00000KT CAVOK 06/03 Q1024 UMMS 202030Z 10002MPS CAVOK 13/03 Q1017 R31/CLRD// NOSIG CWOY 202000Z AUTO 08007KT 04/M01 RMK AO1 SLP150 T00361014 50011 KCDH 202035Z AUTO 10SM CLR 27/09 A3011 RMK AO2 NZHS 202008Z 24008KT 30KM FEW040 16/09 Q1008 RMK NZNR VATSIM USE ONLY CWQH 202000Z AUTO 22008KT 14/M10 RMK AO1 T01361104 KCCR 201953Z 31007KT 10SM CLR 23/08 A3011 RMK AO2 SLP184 T02330078 KBMI 201956Z 19009G18KT 10SM CLR 26/05 A3012 RMK AO2 T02550050 SLP194 NZHT 202000Z 22003KT 20KM SCT003 10/09 Q1007 RMK ALT VATSIM USE ONLY CWPR 202000Z AUTO 28003KT 11/M06 RMK AO1 SLP225 T01121058 58009 KBNA 201953Z 00000KT 10SM FEW200 SCT250 27/04 A3015 RMK AO2 SLP205 T02720044 KAUS 201953Z 19014KT 10SM BKN033 BKN045 OVC100 24/16 A3008 RMK AO2 SLP182 T02390161 KCDJ 201952Z AUTO 19009G19KT 150V220 26/10 A3005 RMK AO1 SLP168 T02610100 $ CWPS 202000Z AUTO 03010KT 11/M04 RMK AO1 SLP238 T01051037 57022 CWRA 202000Z AUTO 30022G29KT 04/ RMK AO1 PK WND 31029/1943 SLP141 T0042 52007 KAVK 202035Z AUTO 16016G23KT 10SM CLR 23/14 A2999 RMK AO2 CXIB 202000Z AUTO 31005KT 03/M11 RMK AO1 SOG 25 1003 PK WND 30020/1902 SLP258 T00261110 CWQK 202000Z AUTO 01010KT 09/06 RMK AO1 SLP203 T00920060 58010 KBML 201952Z AUTO 20006KT 10SM CLR 16/M13 A3031 RMK AO2 SLP276 T01561133 EFHK 202020Z 35002KT CAVOK 07/01 Q1024 NOSIG KBLU 201952Z AUTO 31007KT 10SM CLR 18/M09 A3024 RMK AO2 SLP180 T01781094 TSNO KAVL 201954Z AUTO VRB04KT 10SM CLR 21/M02 A3021 RMK AO2 SLP217 T02061017 KCEC 201956Z AUTO 30009KT 8SM CLR 12/08 A3026 RMK AO2 SLP247 T01220078 KCCU 202036Z AUTO 27015KT 10SM VCTS SCT034 BKN075 OVC085 03/M02 A3037 RMK AO2 EEPU 201250Z 09006KT 050V140 CAVOK 20/00 Q1022 KBLV 201958Z AUTO VRB06G15KT 10SM CLR 26/06 A3011 RMK AO2 SLP198 T02580064 OPRN 202000Z 00000KT 8000 FEW040 18/13 Q1015.0/29.97 PGRO 202050Z 13010KT 7SM BKN012 27/25 A2989 KAUW 202017Z AUTO 20003KT 10SM BKN016 OVC038 14/09 A3003 RMK AO2 T01390094 $ KCDN 202035Z AUTO 03012G19KT 10SM OVC044 19/05 A3016 RMK AO2 TSNO KCEF 201958Z AUTO VRB02KT 10SM CLR 16/M07 A3039 RMK AO2 SLP298 T01621073 CWQO 202000Z AUTO 24006KT 04/M07 RMK AO1 T00441067 CWRF 202000Z AUTO ///// M14/ A2992 RMK SLP172 CWPX 202000Z AUTO 04017KT M14/ A3006 RMK SLP205 KAVP 201954Z 17005KT 10SM CLR 18/M04 A3032 RMK AO2 SLP268 T01831044 PHJH 201945Z 04015G19KT 15SM VCSH FEW025 SCT045 BKN100 24/19 A3015 KCCY 202035Z AUTO 09006KT 9SM FEW070 OVC080 16/13 A3001 RMK AO2 KAWG 202035Z AUTO 21010G19KT 10SM CLR 28/08 A3002 RMK AO2 CXHP 202000Z AUTO 27012KT 11/M02 RMK AO1 PK WND 28018/1941 T01091018 CWQP 202000Z AUTO 08011KT 09/M00 RMK AO1 SLP261 T00941004 56029 KBMQ 201953Z AUTO 15006G14KT 10SM BKN024 OVC033 22/16 A3011 RMK AO2 SLP183 T02170156 $ CWPZ 202000Z AUTO 26005KT 10/M05 RMK AO1 SLP165 T01001047 58006 CWRH 202000Z AUTO 28013KT M09/ A2990 RMK SLP166 KCDR 201953Z AUTO 32007KT 10SM CLR 24/03 A2992 RMK AO2 SLP118 T02440033 CXHR 202000Z AUTO 31020KT 13/M05 RMK AO1 PK WND 30028/1900 T01301048 CWQR 202000Z AUTO 25020KT M00/M04 RMK AO1 PK WND 26029/1915 T10011039 OPSK 201900Z 36003KTS 4000 HZ BKN100 FEW200 27/19 QNH.1009 RH.63 PC KCDS 201953Z AUTO 17008G18KT 10SM SCT050 BKN060 OVC080 25/11 A2999 RMK AO2 LTG DSNT W AND NW SLP133 T02500111 KAXA 202035Z AUTO 14010G15KT 10SM CLR 24/13 A2995 RMK AO2 CWQS 202000Z AUTO 13013G20KT 08/04 RMK AO1 2PAST HR 8003 PK WND 16029/1924 SLP038 P0001 T00810040 50016 CWRJ 202000Z AUTO 03004KT 10/04 RMK AO1 SLP106 T01030044 53009 CWSA 202000Z AUTO 30014KT 9SM CLR 05/M01 A3036 RMK SLP282 EGAA 202020Z 04011KT CAVOK 11/06 Q1012 KBMT 202035Z AUTO 16007KT 10SM CLR 27/13 A3012 RMK AO2 T02690130 CWRK 202000Z AUTO 22006KT 15/M07 RMK AO1 SLP249 T01481067 56025 KBNL 202035Z AUTO 04011G17KT 10SM BKN042 OVC050 21/08 A3013 RMK AO2 EGAC 202020Z 04018KT 9999 FEW023 11/07 Q1011 UMOO 201400Z 08006G09MPS 9999 FEW033 21/07 Q1017 NOSIG KAWM 201953Z AUTO 17006KT 10SM CLR 26/09 A3012 RMK AO2 SLP198 T02560089 $ PGSN 201954Z 10013G18KT 10SM SCT018 SCT029 27/24 A2987 RMK AO2 SLP136 T02670239 $ KCFD 202035Z AUTO 17012G15KT 10SM BKN049 26/14 A3007 RMK AO2 T02560139 CWSD 202000Z AUTO 07005KT 06/M05 RMK AO1 SLP277 T00551053 58018 CWQV 202000Z AUTO 09012KT 06/ RMK AO1 T0061 CWRM 202000Z AUTO 30009KT 09/M04 RMK AO1 SOG 07 1015 SLP173 T00921043 KCDW 201953Z VRB05KT 10SM CLR 12/M03 A3042 RMK AO2 SLP307 T01221028 KCFE 202036Z AUTO 35004KT 10SM CLR 23/01 A2998 RMK AO2 LTG DSNT SE T02250009 EGAE 202020Z 04010KT CAVOK 11/07 Q1013 CWRN 202000Z AUTO 31024KT 02/ RMK AO1 PK WND 31031/1944 T0023 KBNO 201953Z AUTO 16008KT 10SM CLR 13/M05 A3026 RMK AO2 SLP247 T01331050 KAVX 201951Z AUTO 27004KT 10SM CLR 20/13 A3009 RMK AO2 SLP171 T02000128 TSNO KAWO 202035Z AUTO 20007KT 10SM FEW050 13/02 A3026 RMK AO1 CWRO 202000Z AUTO 13040G49KT 08/05 RMK AO1 0PAST HR 6011 PK WND 13049/1958 SLP081 P0004 T00790051 50016 CWSF 202000Z AUTO 27012G17KT 03/M04 RMK AO1 PK WND 29017/1958 SLP263 T00281037 56025 NZKI 202000Z 26007KT 25KM BKN045 15/04 Q1003 RMK ALT VATSIM USE ONLY CWSG 202000Z AUTO 26014KT 04/M05 RMK AO1 PK WND 26020/1900 SLP270 T00411054 56027 PHJR 201953Z 06007G17KT 010V090 10SM FEW027 SCT034 BKN043 26/18 A3016 RMK AO2 RAB25E35 SLP218 P0000 T02560183 $ ORBI 202030Z VRB01KT 3700 DU SKC 25/12 Q1010 KAXH 202035Z AUTO 15009G16KT 10SM BKN090 26/12 A3011 RMK AO2 T02630123 CYAH 202000Z AUTO 17013G19KT 9SM OVC065 03/M13 A3009 RMK SLP213 PGUA 202046Z AUTO 13012KT 9SM SCT010 SCT015 BKN030 BKN038 26/25 A2988 RMK AO2 RAE2007 CIG 010 RWY24L TSNO $ KBOI 201953Z 30008KT 10SM CLR 15/M05 A3026 RMK AO2 SLP239 T01501050 NZKK 202029Z 23010KT 25KM VCSH FEW012 SCT025 17/15 Q1013 RMK NZAA VATSIM USE ONL CXKA 202000Z AUTO 23016G21KT 11/03 RMK AO1 SOG 53 7015 PK WND 22025/1949 SLP125 T01080028 EFKA 202020Z AUTO 04004KT CAVOK 07/M01 Q1026 KBOK 201956Z AUTO 29008KT 260V330 5SM HZ CLR 16/05 A3024 RMK AO2 T01550050 SLP243 ORBM 201900Z 15004KT CAVOK 19/14 Q1012 NOSIG CWSK 202000Z AUTO 18006KT 11/05 RMK AO1 SLP243 T01060048 58004 CWRT 202000Z AUTO 27008G28KT 10/M06 RMK AO1 PK WND 29031/1907 T01021057 CYBB 202000Z 03006KT 15SM FEW022 FEW090 M12/M15 A3005 RMK SC1AC1 SLP178 EGBB 202020Z 12007KT 3400 -RA FEW005 BKN010 BKN014 11/10 Q1005 RERA KCEU 201954Z AUTO 08012G17KT 10SM CLR 23/M01 A3019 RMK AO2 SLP215 T02281011 KCGC 202035Z AUTO 02007KT 10SM OVC025 20/13 A3006 RMK AO2 KBPC 202035Z AUTO 22023G31KT 10SM SCT070 SCT100 BKN120 25/06 A2993 RMK AO2 CWRU 202000Z AUTO 13044G58KT 08/ RMK AO1 6PAST HR 5009 PK WND 13060/1919 SLP117 P0002 T0081 50006 CWSL 202000Z AUTO 24003KT 15/M01 RMK AO1 SLP223 T01481008 58003 CYBC 202000Z AUTO 23012G17KT 9SM CLR 02/M05 A3034 RMK SLP275 CYAM 202000Z 09005KT 6SM BR SCT019 OVC042 04/03 A3012 RMK SC4SC4 SLP209 CYBD 202000Z VRB02KT 15SM BKN080 14/00 A2998 RMK AC6 SLP153 KCGE 202043Z AUTO 10014G17KT 10SM CLR 15/00 A3036 RMK AO1 VDPP 201800Z 23006KT 9000 FEW017 29/21 Q1007 EFIV 202020Z AUTO 22001KT CAVOK M01/M05 Q1027 KAXN 201953Z AUTO VRB04KT 10SM CLR 21/01 A3000 RMK AO2 SLP161 T02060011 KCEW 201953Z AUTO 01007KT 10SM OVC021 17/11 A3017 RMK AO2 SLP216 T01720111 PHKO 201953Z 26005KT 10SM CLR 27/19 A3008 RMK AO2 SLP186 T02670194 KBNW 202035Z AUTO 23016KT 10SM CLR 27/11 A2994 RMK AO2 KAXO 201625Z 07008KT 7SM BKN080 23/17 A3020 EGBE 201750Z 05015KT 8000 FEW030 13/09 Q1003 CXKE 201600Z AUTO 19004KT 11/M06 RMK AO1 SLP296 T01141062 58025 EFKE 202020Z AUTO 02001KT CAVOK M01/M04 Q1027 KCGF 202045Z 20008KT 10SM SCT200 23/00 A3021 EFJO 201420Z 01007KT 330V050 CAVOK 12/M05 Q1025 CWRX 202000Z AUTO 08006KT M12/ A2996 KBPG 202035Z AUTO 18011G16KT 10SM CLR 26/15 A3004 RMK AO2 T02610145 KCEY 202035Z AUTO 15004KT 10SM CLR 24/05 A3014 RMK AO1 CWTG 202300Z AUTO 26006KT 01/01 RMK AO1 0PAST HR 3036 SLP235 P0004 T00060005 50030 CWSP 202000Z AUTO 12013KT 10/06 RMK AO1 SLP234 T00970059 58007 CWRY 202000Z AUTO 30023G31KT 14/M06 RMK AO1 SOG 04 1015 PK WND 29031/1943 SLP172 T01391064 ZSNB 202000Z 00000MPS 5000 BR SCT026 13/12 Q1016 NOSIG CYBG 202000Z 00000KT 25SM BKN100 06/M11 A3031 RMK AC7 SLP274 KCEZ 201953Z AUTO VRB04G22KT 10SM SCT090 21/M01 A3012 RMK AO2 SLP151 T02111006 PHLI 201953Z 05015KT 10SM SCT015 BKN019 BKN034 24/21 A3020 RMK AO2 RAE1854 SLP226 T02390206 $ CWRZ 202000Z AUTO 11011KT 01/M03 RMK AO1 SLP258 T00121029 56014 KBPI 201953Z AUTO 28009G21KT 220V330 10SM CLR 16/M09 A3018 RMK AO2 SLP177 T01561094 KCGI 201953Z 16008KT 10SM CLR 25/07 A3013 RMK AO2 SLP201 T02500072 $ CXKI 202000Z AUTO 07/M03 RMK AO1 SOG 21 8021 SLP193 T00671034 CWSR 202000Z AUTO 10008KT 07/M02 RMK AO1 SOG 01 3014 SLP140 T00661021 EFKI 202020Z AUTO 12004KT CAVOK M01/M07 Q1027 KCHA 201953Z 34005KT 10SM SCT150 SCT250 25/06 A3016 RMK AO2 SLP207 T02500056 KBOS 201954Z 09010KT 10SM FEW220 BKN250 08/M02 A3047 RMK AO2 SLP318 T00831017 KCFS 202035Z AUTO 18006G14KT 10SM CLR 23/M05 A3014 RMK AO2 T02301047 KAXS 202040Z AUTO 13016KT 10SM CLR 21/16 A3002 RMK AO2 T02050159 NZMC 202000Z 22003KT 20KM SCT003 10/09 Q1007 RMK ALT NZHT VATSIM USE ONLY CYAS 202000Z 27018G24KT 15SM FEW070 FEW260 M07/M10 A3004 RMK AC1CC0 SLP185 EGBJ 201820Z 10006KT 5000 -RA SCT009 OVC014 11/08 Q1003 CWSS 202000Z AUTO 28005KT 12/M09 RMK AO1 SLP283 T01211090 55017 KBPK 201953Z AUTO VRB03KT 10SM CLR 26/06 A3010 RMK AO2 SLP185 T02560061 KE80 202035Z AUTO 26009G17KT 10SM BKN080 BKN110 22/02 A3008 RMK AO2 LTG DSNT NE T02210022 CXLB 202000Z AUTO 19010KT 07/ RMK AO1 SLP280 T0070 56013 CWST 202000Z AUTO 25004KT 05/M05 RMK AO1 SLP278 T00521050 56023 CYCB 202000Z 04019G24KT 10SM DRSN FEW007 SCT015 BKN050 BKN100 OVC140 M16/M20 A3010 RMK SF1SC1SC2AC1AC1 SLP199 CYBK 202000Z 20004KT 20SM FEW045 M08/M11 A3001 RMK SC1 SLP165 EFKK 202020Z AUTO 04005KT CAVOK 04/M02 Q1026 PGUM 201954Z 12007KT 10SM BKN047 27/25 A2986 RMK AO2 SLP103 T02670250 KAZC 202035Z AUTO 28008G17KT 10SM CLR 25/01 A3015 RMK AO2 T02510005 CXLC 202000Z AUTO 05003KT 02/M02 RMK AO1 SOG 24 1013 SLP146 T00161019 CYBL 202012Z 12019G25KT 20SM -RA SCT013 BKN040 OVC080 09/06 A3018 RMK SC3SC4AS1 SLP223 EGCC 202020Z 07022KT 9000 NSC 11/07 Q1006 KCFV 202011Z AUTO 18015G18KT 10SM SCT055 24/12 A3008 RMK AO2 T02390122 KCHD 202047Z 19008KT 40SM FEW080 30/04 A2999 KAXV 202032Z AUTO 00000KT 10SM CLR 23/M07 A3018 RMK AO2 NZMF 202001Z 24008KT 50KM SCT045 10/06 Q1006 RMK NZQN VATSIM USE ONLY CXKM 202000Z AUTO 32020KT 09/04 RMK AO1 PK WND 33029/1931 T00870035 50005 CYCD 202000Z 15007KT 15SM VCSH SCT030 BKN060 OVC100 11/07 A3026 RMK CU4SC2AC2 SLP247 KBOW 201115Z AUTO 32010KT 8SM BKN008 OVC014 16/16 A3003 RMK AO2 KAZE 202035Z AUTO 00000KT 10SM BKN040 19/14 A3010 RMK AO2 T01890140 CWTN 201300Z AUTO 12003KT 03/M05 RMK AO1 SLP342 T00251047 50005 CYBN 202000Z AUTO 00000KT 9SM CLR 16/01 A3021 RMK SLP237 CWSW 202037Z 30004KT 20SM BKN050 RMK SC6 TCU EMBD EETN 202050Z 09006KT CAVOK 08/M00 Q1023 NOSIG KAXX 202035Z AUTO 28013G17KT 10SM BKN070 OVC080 12/03 A3018 RMK AO2 T01180027 ZSNJ 202000Z 08003MPS 3000 BR BKN028 14/13 Q1016 NOSIG CYCG 202000Z 21010G18KT 170V230 15SM SCT065 16/M00 A3018 RMK CU4 SLP225 DENSITY ALT 1700FT CYAY 202049Z AUTO 05011KT 9SM SCT055 M02/M06 A3000 RMK WSHFT AT 2036Z SLP161 EFJY 202020Z AUTO 00000KT CAVOK 06/01 Q1025 CYAZ 202000Z 13016G23KT 3SM -RA BR FEW008 BKN018 OVC100 09/07 A3017 RMK CF2SC4AS2 SLP217 CYBQ 202000Z AUTO 11005KT 050V120 9SM CLR 01/M11 A2998 RMK PRESFR SLP172 CYBR 202000Z 11011G20KT 15SM SCT120 OVC250 12/04 A2988 RMK AC3CI5 SLP133 KCGS 202045Z AUTO 08004KT 10SM CLR 17/01 A3035 RMK AO1 PHMK 202017Z 05016G27KT 10SM FEW019 SCT030 BKN038 25/20 A3016 RMK AO2 PK WND 05027/2013 RAB1956E06 P0000 $ CYDA 202000Z VRB02KT 20SM FEW050 FEW100 09/M04 A2973 RMK CU1AC1 AC TR SLP087 EFKS 202020Z AUTO 00000KT CAVOK M02/M07 Q1028 KBPT 201953Z 18009G20KT 10SM CLR 27/12 A3013 RMK AO2 SLP201 T02720122 EFMA 202020Z AUTO 36002KT CAVOK 05/04 Q1024 KCHK 202035Z AUTO 16009KT 10SM SCT120 20/17 A3006 RMK AO2 KBQK 202035Z AUTO 28004KT 10SM OVC017 16/13 A3009 RMK AO1 CWTT 202300Z AUTO 19008KT 07/M09 RMK AO1 T00681089 CXKT 202000Z AUTO 34005KT 09/M09 RMK AO1 SLP278 T00941087 56018 ZSOF 202000Z 08002MPS 2500 -RA BR SCT026 14/14 Q1015 NOSIG CYCK 202000Z AUTO 14007KT 110V180 9SM CLR 18/01 A3022 RMK SLP234 DENSITY ALT 700FT CYDB 202000Z 09006KT 060V140 30SM FEW055 SCT150 BKN230 07/M07 A2964 RMK CF1AC3CS1 SLP074 EFKT 202020Z AUTO 14004KT CAVOK 00/M07 Q1026 KCIC 202047Z 31010KT 40SM SKC 27/05 A3006 CXLL 202000Z AUTO 35005KT 09/M06 RMK AO1 SOG 25 2002 SLP140 T00851057 CWTU 202000Z AUTO ///// M11/ A2985 RMK SLP163 CYDC 202000Z 12005KT 120V210 25SM FEW055 BKN260 11/M05 A3018 RMK CU1CS6 SLP231 CYBU 202000Z AUTO 11004KT 9SM CLR 05/M01 A2995 RMK SLP160 KBRD 201953Z AUTO VRB03KT 10SM CLR 23/M03 A2999 RMK AO2 SLP158 T02281028 $ KCID 201952Z 21015G20KT 10SM CLR 27/08 A3001 RMK AO2 SLP158 T02670083 EETU 202050Z AUTO 05005KT 9999NDV NCD 10/M01 Q1022 EFKU 202020Z AUTO VRB01KT CAVOK 05/M04 Q1027 CXMD 202000Z AUTO 14012KT 14/04 RMK AO1 SOG 00 8026 SLP138 T01430041 CYBW 202000Z AUTO 29020G28KT 9SM CLR 13/M07 A2998 RMK MAX WND 28029KT AT 1919Z SLP174 DENSITY ALT 4500FT KCHO 201953Z 09007G15KT 060V120 10SM CLR 18/02 A3029 RMK AO2 SLP257 T01830017 EGCN 202020Z 03011KT 9000 FEW034 11/08 Q1008 KAZO 201953Z 16009G16KT 10SM CLR 22/M02 A3017 RMK AO2 SLP219 T02221017 PHNG 201957Z 08009G17KT 7SM FEW021 SCT026 22/20 A3017 RMK AO2 SLP212 T02200200 PNO $ CWVF 202000Z AUTO 15011KT 10/06 RMK AO1 PK WND 15017/1912 T00980060 CYDF 202000Z 26011G21KT 15SM FEW025 01/M09 A3011 RMK CF1 SLP198 CYBX 202000Z 20004KT 15SM FEW050 00/M04 A3000 RMK CU1 SLP160 CYCO 202000Z 32004KT 12SM -SN OVC009 M10/M12 A3011 RMK ST8 SLP198 KF05 202035Z AUTO 14015KT 10SM SCT026 SCT060 BKN070 20/16 A3002 RMK AO1 LTG DSNT S T02030160 KBQP 202035Z AUTO 19005KT 10SM CLR 28/10 A3012 RMK AO2 T02780100 CXMG 202000Z AUTO 17008KT 11/02 RMK AO1 T01090021 CWTY 202000Z AUTO 20007KT 06/M02 RMK AO1 SLP284 T00581022 58021 CYCP 202007Z 16006KT 15SM -SHRA BKN055CB BKN120 RMK CB5AC1 CWUP 202000Z AUTO 35016KT M15/ A2986 RMK SLP157 EFLP 202020Z AUTO 05007KT CAVOK 09/01 Q1025 KCGZ 202035Z AUTO 36003KT 10SM CLR 29/04 A3001 RMK AO1 CYCQ 202000Z 23022G28KT 35SM FEW040 SCT120 BKN210 11/M06 A2993 RMK CU2AC1CI3 SLP155 CWVH 202000Z AUTO ///// M09/ A3012 RMK SLP226 CXMI 202000Z AUTO 30004KT 10/M03 RMK AO1 SLP278 T01021032 56015 CWVI 202000Z AUTO 34004KT 07/06 RMK AO1 SLP152 T00700060 53021 ZSPD 202030Z 07002MPS 9999 -RA BKN011 13/11 Q1017 NOSIG EFMI 202020Z AUTO 07002KT CAVOK 09/01 Q1026 KCHS 201956Z 02016G23KT 10SM SCT032 OVC044 19/09 A3009 RMK AO2 PK WND 35029/1912 SLP188 T01890094 KDAA 201958Z AUTO 10005KT 10SM CLR 17/01 A3034 RMK AO2 SLP277 T01740011 CYCS 202000Z 28003KT 15SM SKC M06/M10 A3003 RMK -5.7/-11.9/0/14 MED PACK LAST OB/NEXT 221200Z SLP171 CWWA 202000Z AUTO 07003KT 08/04 RMK AO1 SLP257 T00830036 58005 CWUS 202000Z AUTO 11006KT 14/M05 RMK AO1 SLP221 T01411046 58013 KDAB 201953Z 01015G20KT 10SM BKN024 19/13 A3004 RMK AO2 SLP172 T01940133 PHNL 201953Z 07017G23KT 10SM FEW025 SCT035 BKN042 BKN250 26/18 A3015 RMK AO2 RAB07E40 SLP208 VCSH NE-SE AND NW P0000 T02610178 CWWB 202000Z AUTO 05006KT 03/01 RMK AO1 SLP256 T00310011 58022 KBRL 201953Z AUTO 22010G20KT 7SM CLR 27/08 A3005 RMK AO2 SLP170 T02670083 CYDL 202000Z AUTO 18010G16KT 160V230 9SM BKN065 08/M05 A2983 RMK SLP118 CXMM 201800Z AUTO 27003KT 09/01 RMK AO1 SOG 00 3010 SLP120 T00870014 EGDM 201950Z AUTO 08006KT 6000 BR NCD 07/06 Q1003 CYED 202037Z AUTO 29014KT 9SM -RA FEW035 SCT049 SCT071 11/02 A2994 KCIN 202035Z AUTO 22016G24KT 10SM CLR 28/10 A2993 RMK AO2 NZNP 202031Z 23020KT 20KM SHRA SCT031 16/11 Q1011 RMK VATSIM USE ONLY CWVN 202000Z AUTO 29019G27KT 15/M03 RMK AO1 PK WND 31040/1920 SLP150 T01541029 53014 CWWE 202000Z AUTO 18006KT 07/M10 RMK AO1 SLP289 T00661098 56012 CYDN 202000Z AUTO 06015KT 9SM CLR 07/01 A2992 RMK SLP145 KBRO 201953Z AUTO 13015KT 10SM OVC032 26/18 A3007 RMK AO2 SLP180 T02560183 TSNO CWUW 202000Z AUTO 10008KT 9SM FEW049 FEW083 M17/ A2981 RMK SLP162 PHOG 201954Z 05016G22KT 10SM FEW027 SCT037 25/19 A3015 RMK AO2 RAB06E29 SLP215 P0000 T02500194 KBQX 202035Z AUTO 12006G11KT 10SM CLR 22/18 A3012 RMK A01 NZOH 202021Z 30010KT 30KM VCSH FEW015 SCT025TCU 15/12 Q1009 RMK NZPM VATSIM USE CXMO 202000Z AUTO 32021KT 13/M03 RMK AO1 PK WND 33028/1928 T01251031 CWWF 202000Z AUTO 30014G20KT 13/01 RMK AO1 PK WND 28020/1958 SLP124 T01290014 51023 CWUX 202000Z AUTO 07004KT 05/M13 RMK AO1 2PAST HR 6025 SLP272 P0001 T00461131 CYCX 202000Z 32004KT 15SM FEW150 SCT230 BKN240 11/M10 A3035 RMK AC2CC2CI1 DA-739FT SLP279 VDSR 201800Z 28004KT 9000 NSC 28/25 Q1007 KDAG 201950Z AUTO 34004KT 10SM CLR 29/M02 A3003 RMK AO2 SLP144 T02891022 NZNR 202008Z 24008KT 30KM FEW040 16/09 Q1008 RMK VATSIM USE ONLY CYDP 202000Z 29013KT 15SM FEW120 M03/M10 A3008 RMK AC1 TR AC SLP188 CWVP 202000Z AUTO 30012G21KT 09/M04 RMK AO1 PK WND 30027/1909 SLP155 T00871038 51022 ORER 202000Z 21004KT 9000 NSC 16/14 Q1011 CYEG 202000Z 33015G21KT 15SM FEW030 BKN040TCU BKN060 12/01 A2995 RMK CF1TCU4SC2 SH SW-W+N SLP158 DENSITY ALT 2500FT CYCY 202043Z AUTO 32012KT 9SM -SN OVC027 M12/M15 A3003 RMK SLP172 VEJS 200200Z 00000KT 3500 HZ FEW020 BKN100 29/18 Q1010 NZNS 202029Z 18008KT 50KM FEW050 12/09 Q1008 RMK VATSIM USE ONLY CWVQ 202000Z AUTO 16004KT 13/M07 RMK AO1 SLP270 T01311066 58029 CYDQ 202000Z AUTO 23014G25KT 9SM BKN070 12/M05 A2990 RMK MAX WND 23020KT AT 1933Z SLP145 DENSITY ALT 2300FT KCIR 202035Z AUTO 20005KT 10SM CLR 27/05 A3013 RMK AO2 T02670052 PWINO UNKL 202030Z 22004G07MPS 9999 SCT046 BKN083 07/M03 Q1004 NOSIG RMK QFE728 29////65 ZSQD 202000Z VRB01MPS 4000 BR NSC 11/08 Q1017 NOSIG KBTA 202035Z AUTO 19013G17KT 10SM CLR 29/10 A2992 RMK AO2 LTG DSNT NE T02850095 PGWT 201958Z 11008KT 7SM SCT015 SCT030 SCT110 BKN180 27/225 A2986 RMK WIND DATA ESTIMATED FIRST EGDR 201950Z 01004KT 4000 -RA FEW010 SCT030 OVC044 09/09 Q1000 GRN CWXA 202000Z AUTO 25012G20KT 11/M07 RMK AO1 PK WND 27020/1951 SLP171 T01051068 51017 TVSV 202000Z 09013KT 9999 FEW019 29/24 Q1015 -HZ KCKB 201953Z 02003KT 10SM CLR 22/M06 A3020 RMK AO2 SLP220 T02221061 NZNV 201949Z 24015KT 35KM -SHRA FEW028 BKN038 BKN048 PLWR 10/06 Q1006 RMK VATSIM CWWK 202000Z AUTO 16005KT 13/04 RMK AO1 SLP251 T01320042 58010 CWVT 202000Z AUTO 13003KT 09/01 RMK AO1 SOG 15 1005 SLP146 T00880009 CYEK 202000Z 35004KT 15SM BKN260 M06/M06 A3007 RMK CI7 LAST STAFFED OB/NEXT 221200Z SLP183 CYFB 202000Z 26004KT 30SM SCT200 M09/M14 A2999 RMK CI4 SLP159 KDAL 201953Z 20011G22KT 10SM FEW040 BKN070 OVC280 26/10 A3007 RMK AO2 SLP178 T02560100 KCIU 202035Z AUTO 14004KT 3SM OVC022 04/04 A3010 RMK AO1 P0002 KCKC 202033Z AUTO 27010KT 249V329 10SM CLR 14/M04 A3001 RMK AO2 CWWL 202000Z AUTO 16030G43KT 08/04 RMK AO1 6PAST HR 6010 PK WND 15048/1946 SLP090 P0002 T00790044 50006 CWXC 202000Z AUTO 23003KT 06/M17 RMK AO1 SLP260 T00571168 58020 CWVU 202000Z AUTO 28005KT 06/M02 RMK AO1 SOG 05 6017 SLP309 T00621022 CYFC 202000Z AUTO 28004KT 220V320 9SM CLR 12/M13 A3035 RMK SLP277 KDAN 201953Z AUTO 05012KT 10SM CLR 21/01 A3023 RMK AO2 SLP231 T02060011 CYEN 202000Z 29018G29KT 15SM BKN050 BKN140 15/01 A2983 RMK SC6AC1 TCU EMBD PRESRR PAST HR SLP118 PHNY 202044Z AUTO 05014KT 10SM SCT027 SCT033 SCT040 26/18 A3018 RMK AO2 TSNO $ KCKF 202035Z AUTO 01005KT 10SM OVC041 22/12 A3014 RMK AO2 T02240118 EGEO 201550Z 16008KT CAVOK 18/03 Q1014 EGDX 201950Z AUTO 08009KT 9999 FEW028/// BKN048/// 09/09 Q1002 RERA EGFF 202020Z 08007KT 9999 SCT007 SCT014 09/08 Q1002 RESHRA CXMY 202000Z AUTO 09/M08 RMK AO1 T00881078 EGDY 201950Z AUTO 04005KT 6000 BR FEW100/// 06/06 Q1002 CXNP 202000Z AUTO 29004KT 09/M02 RMK AO1 SLP279 T00881019 58014 KCKI 202035Z AUTO 02012G21KT 350V060 10SM BKN035 OVC043 19/10 A3011 RMK AO2 KCJR 202035Z AUTO 05006G14KT 10SM CLR 20/M02 A3032 RMK AO2 CWXI 202000Z AUTO 23012KT M01/M04 RMK AO1 SOG 72 6009 PK WND 23018/1915 SLP155 T10051035 CYER 202049Z AUTO 33011G16KT 9SM OVC010 M02/M05 A2984 RMK SLP106 KDCA 201952Z 10012G15KT 10SM BKN250 18/03 A3035 RMK AO2 SLP277 T01780028 CWWS 202000Z AUTO 32004KT 01/M02 RMK AO1 SOG 77 3003 SLP168 T00111024 CXPA 202000Z AUTO 25013KT 13/M03 RMK AO1 PK WND 24023/1959 T01301026 NZPM 202021Z 30010KT 30KM VCSH FEW015 SCT025TCU 15/12 Q1009 RMK VATSIM USE ONLY CYET 202000Z AUTO VRB02KT 9SM FEW034 SCT065 SCT079 08/02 A2997 RMK MAX WND 31020KT AT 1914Z PRESFR SLP170 KBTL 201953Z 17007G20KT 10SM CLR 22/M02 A3018 RMK AO2 SLP219 T02171022 CWWU 201300Z CCA 32020G30KT 15SM BKN024 BKN045 M01/M04 A2988 RMK SC6SC2 LAST OBS/NXT 210800Z SLP119 CXOL 202000Z AUTO 36008KT 11/01 RMK AO1 T01120005 CWXL 202000Z AUTO 31014G19KT 15/M03 RMK AO1 8PAST HR M PK WND 33029/1949 P0003 T01481033 50008 CXPC 202000Z AUTO 14/M02 RMK AO1 SLP222 T01381017 56026 KBTM 201953Z AUTO 32011G15KT 280V350 10SM CLR 11/M11 A3018 RMK AO2 SLP201 T01061111 KCKM 202035Z AUTO 14010KT 10SM 26/10 A3012 RMK AO1 CYEV 202000Z 01007KT 15SM -SN FEW010 BKN028 OVC055 M06/M09 A3015 RMK ST1SC7SC1 ST TR SLP217 EGGD 202020Z 09009KT 3500 BR FEW007 06/06 Q1003 KDAW 201951Z AUTO 14009KT 10SM CLR 10/M06 A3042 RMK AO2 SLP301 T01001056 KCLE 201951Z 15010KT 10SM SCT250 23/M01 A3022 RMK AO2 SLP235 T02331011 KCKN 202035Z AUTO 20010G16KT 10SM CLR 20/03 A2996 RMK AO2 KDBN 202035Z AUTO 02005KT 10SM BKN050 23/11 A3014 RMK AO2 NZPP 202000Z 29005KT 45KM SCT013 15/11 Q1006 RMK ALT VATSIM USE ONLY CYGE 202000Z 35008KT 30SM FEW060TCU SCT075 SCT095 14/01 A3009 RMK TCU2AC1AC1 SH DIST N SLP207 KBUF 201954Z 32005KT 10SM FEW200 FEW250 20/M06 A3024 RMK AO2 SLP243 T02001061 CYFO 202000Z 05002KT 15SM BKN030 OVC070 04/M01 A2996 RMK CU6AC2 SLP163 CWWX 202000Z AUTO 26006KT 09/M02 RMK AO1 SLP222 T00861021 56018 KBTP 202035Z AUTO 09005KT 10SM CLR 21/M05 A3025 RMK AO1 KDAY 201956Z 16005KT 10SM BKN250 23/01 A3019 RMK AO2 SLP222 T02330011 KCKP 202035Z AUTO 19008KT 10SM BKN090 27/11 A2991 RMK AO2 LTG DSNT E T02680114 KDBQ 201953Z AUTO 20011G17KT 10SM FEW075 26/08 A3005 RMK AO2 SLP172 T02560078 CYGH 201800Z 36002KT 10SM OVC020 M01/M03 A3002 RMK SC8 -0.6/-2.1/TR/MEDIUM PACK LAST OBS/NXT 211300UTC SLP173 CWWZ 202000Z AUTO 06008KT 05/02 RMK AO1 SLP251 T00470016 58023 KBTR 201953Z 05004KT 10SM CLR 29/10 A3012 RMK AO2 SLP199 T02940100 KCLI 202035Z AUTO 21004KT 10SM SCT035 SCT055 OVC100 12/10 A3007 RMK AO2 CWXR 202000Z AUTO 09006KT M10/ A3011 RMK SLP207 KCMA 201955Z 23008KT 10SM CLR 21/13 A3005 RMK AO2 SLP183 T02060133 NZRC 201949Z 24015KT 35KM -SHRA FEW028 BKN038 BKN048 PLWR 10/06 Q1006 RMK NZNV V DNZA 200300Z 16010KT CAVOK 25/20 Q1012 CWZA 202000Z AUTO 21001KT 13/05 RMK AO1 SLP247 T01260047 58010 CWYJ 202000Z AUTO 10002KT 12/06 RMK AO1 SLP240 T01160059 58011 CYFS 202000Z 30002KT 15SM FEW210 09/M03 A2995 RMK CI1 SLP154 KCLK 202035Z AUTO 17013KT 10SM SCT060 SCT070 SCT090 21/13 A3003 RMK AO2 CYFT 202000Z 31011KT 15SM FEW030 M04/M08 A3009 RMK CU1 TR CU LAST OB/NEXT 210900 UTC SLP196 CYGK 202000Z 16005KT 15SM BKN250 11/M03 A3031 RMK CI7 SLP266 CWYK 202000Z AUTO 23011G16KT M11/ A2981 RMK SLP166 KCLL 201953Z 16009G22KT 10SM BKN090 26/14 A3010 RMK AO2 SLP190 T02610139 $ KDDC 201952Z AUTO 18019G23KT 10SM BKN070 BKN090 25/09 A2995 RMK AO2 SLP118 T02500089 NZQN 202001Z 24008KT 50KM SCT045 10/06 Q1006 RMK VATSIM USE ONLY CXPL 202000Z AUTO 31023KT 15/M03 RMK AO1 PK WND 32032/1940 T01521032 CWYL 202000Z AUTO 26011G17KT 02/01 RMK AO1 2PAST HR SOG 120 2021 PK WND 26020/1921 SLP211 P0001 T00200005 50008 CYGL 202000Z 15014G21KT 15SM OVC035 03/M05 A2989 RMK SC8 VIRGA SLP137 KCLM 201953Z AUTO 00000KT 10SM BKN100 10/06 A3023 RMK AO2 SLP238 T01000061 KCKV 201952Z AUTO 32006KT 10SM CLR 26/06 A3015 RMK AO2 SLP207 T02610056 $ EFOU 202020Z AUTO VRB02KT CAVOK 00/M04 Q1027 KBTV 201954Z 18010KT 10SM FEW150 BKN200 16/M10 A3034 RMK AO2 SLP276 T01561100 KCMD 202035Z AUTO 00000KT 10SM CLR 25/07 A3017 RMK AO2 T02460070 KDCM 202035Z AUTO 36013G16KT 7SM BKN050 23/03 A3017 RMK AO2 CYHD 202000Z AUTO 28013G18KT 9SM CLR 09/M01 A2998 RMK SLP170 CWYM 202000Z AUTO 27004KT M16/ A2977 RMK SLP148 KBVE 202051Z AUTO 09004KT 10SM CLR 21/14 A3014 RMK AO2 SLP206 T02060144 58016 $ CYHE 202000Z AUTO 28009KT 9SM CLR 13/04 A3024 RMK SLP242 KF44 202035Z AUTO 18009G17KT 10SM SCT050 25/12 A3008 RMK AO2 DNYO 201000Z 27010KT 9999 FEW017 36/22 Q1010 CXOX 202000Z AUTO 07004KT 05/M03 RMK AO1 SOG 22 1003 SLP158 T00501031 EFPO 202020Z AUTO 08005KT 9999 BKN079/// 12/03 Q1024 CXOY 202000Z AUTO 33027KT 10/02 RMK AO1 PK WND 32035/1957 T01010022 CWZG 202000Z AUTO 24008G15KT 08/M05 RMK AO1 SOG 00 2014 PK WND 22021/1943 SLP193 T00801048 CYGP 202000Z 34008KT 15SM FEW220 08/M18 A3026 RMK CI2 SLP250 EGGP 202020Z 05016KT CAVOK 11/07 Q1006 KCMH 201951Z 12005KT 10SM BKN250 24/03 A3018 RMK AO2 SLP219 T02440028 KDDH 201954Z AUTO 00000KT 10SM CLR 16/M09 A3034 RMK AO2 SLP278 T01611089 KF46 202035Z AUTO 14014G18KT 10SM BKN050 BKN055 OVC070 25/13 A3007 RMK AO2 T02510132 EGHH 202020Z 10009KT 9999 SCT033 10/07 Q1002 CYGQ 202000Z 27010KT 15SM FEW030 09/00 A2995 RMK CU2 SLP155 KBUR 201953Z 18007KT 10SM CLR 25/12 A3003 RMK AO2 SLP157 T02500117 $ KBVI 200047Z 34005KT 10SM CLR 13/M04 A3030 KCMI 201953Z 18009G17KT 10SM CLR 26/03 A3014 RMK AO2 SLP204 T02560033 CYHI 202000Z 11005KT 12SM -SN FEW040 FEW090 OVC200 M10/M14 A3018 RMK SC1AC1CI3 SLP224 EGHI 202020Z VRB02KT 7000 BKN046 07/06 Q1003 CYGR 202000Z 30012G19KT 20SM FEW180 SCT240 01/M04 A3031 RMK AC1CI2 SLP265 KCLS 202035Z AUTO 20008KT 8SM FEW044 15/04 A3025 RMK AO2 KCLT 201952Z 02012G16KT 10SM FEW060 SCT100 21/01 A3020 RMK AO2 SLP221 T02110006 KCNB 202034Z AUTO 12011G17KT 060V140 10SM CLR 23/01 A2996 RMK AO2 T02310014 CXRB 202000Z AUTO 31007KT M22/M27 RMK AO1 SOG 04 1006 SLP214 T12231267 CYHK 202000Z 06014KT 15SM IC OVC007 M12/M13 A3002 RMK ST8 SLP171 KDCU 201953Z AUTO 20006KT 10SM CLR 24/08 A3017 RMK AO2 SLP212 T02440083 KDEC 201954Z 23008KT 210V280 10SM CLR 25/06 A3013 RMK AO2 SLP200 T02500056 KCNC 202035Z AUTO 20015KT 10SM CLR 26/11 A3000 RMK AO2 KBUU 202035Z AUTO 24011G19KT 10SM CLR 25/05 A3006 RMK AO2 T02520052 CWZL 202000Z AUTO 15040G50KT 07/06 RMK AO1 PK WND 14052/1944 SLP054 T00690059 55005 KBWD 202035Z AUTO 20005KT 8SM FEW029 BKN035 OVC047 19/17 A3006 RMK AO2 P0002 KDED 202035Z AUTO 32006KT 10SM OVC021 19/13 A3006 RMK AO1 NZRO 202008Z 25010KT 30KM VCSH SCT014 BKN020 13/12 Q1012 RMK VATSIM USE ONLY CYHM 202000Z 06010KT 15SM FEW170 BKN220 11/01 A3025 RMK AC1CI6 AC TR SLP250 CYGV 202000Z AUTO 26024G29KT 9SM CLR 01/M05 A3021 RMK MAX WND 26026KT AT 1911Z SLP232 PHSF 201956Z AUTO 26002KT 12SM FEW160 18/06 A3041 RMK AO2 SLP185 T01770059 KBVN 202035Z AUTO 24008G15KT 200V260 10SM CLR 27/08 A2992 RMK AO2 T02650084 CWZN 202000Z AUTO 32028G34KT 02/M11 RMK AO1 PK WND 31036/1927 SLP158 T00231109 53008 CYGW 202046Z AUTO 14011G17KT 120V180 7SM -RA UP BKN018 OVC036 01/M02 A2992 RMK MAX WND 13019KT AT 2004Z SLP133 KBVO 201953Z AUTO 20008G17KT 10SM OVC070 24/12 A3008 RMK AO2 SLP179 T02390122 EGGW 202020Z 11004KT 5000 HZ NSC 09/08 Q1005 CWZO 202000Z AUTO 15020KT RMK AO1 PK WND 15023/1948 CYGX 202000Z 29004KT 15SM OVC013 01/M03 A2996 RMK SC8 SLP157 ZSSS 202030Z 08002MPS 9999 -RA BKN016 14/11 Q1016 NOSIG KBWG 201953Z AUTO 25006KT 10SM CLR 24/04 A3016 RMK AO2 SLP211 T02440039 KBUY 201954Z AUTO 05013G25KT 10SM CLR 20/M02 A3021 RMK AO2 SLP227 T02001017 KDCY 202035Z AUTO 27004KT 10SM CLR 24/03 A3014 RMK AO2 T02370030 CWYY 202000Z AUTO 17006KT 17/M05 RMK AO1 SOG 00 8012 SLP220 T01661047 KDEH 202035Z AUTO VRB03KT 10SM FEW090 16/14 A3002 RMK AO2 EGHQ 201950Z 16005KT 0550 R30/0450 -RA FG BKN001 09/09 Q1000 CXRH 202000Z AUTO 27008KT 01/M05 RMK AO1 17 T00081051 CWZQ 202040Z AUTO 29011KT 02/M04 RMK AO1 T00171040 UNNT 202030Z 21006MPS CAVOK 07/M01 Q1006 25090070 16090070 NOSIG RMK QFE744/0993 KCMR 202035Z AUTO 32007KT 10SM CLR 19/M03 A3029 RMK AO1 KBWI 201954Z 05010G16KT 10SM FEW200 BKN250 15/02 A3036 RMK AO2 SLP279 T01500017 KCNI 202035Z AUTO 00000KT 1SM HZ VV007 25/M03 A3015 RMK AO2 KBXA 202035Z AUTO 00000KT 10SM 28/09 A3013 RMK AO2 T02810086 KBVS 202035Z AUTO 14007KT 6SM FEW041 BKN110 13/05 A3026 RMK A01 P000 EGJA 201820Z 15009KT 9999 SCT008 BKN020 09/08 Q1000 CWZS 202000Z AUTO 35006KT 05/M13 RMK AO1 SLP272 T00521133 56024 EFSA 202020Z AUTO 05003KT CAVOK 07/M03 Q1026 KCNK 201955Z AUTO 21015G25KT 10SM FEW080 BKN110 23/11 A2999 RMK AO2 SLP144 T02330106 $ CYIK 202000Z 18020G25KT 15SM DRSN FEW150 FEW200 FEW300 M07/M10 A3003 RMK AS1CI1CC1 SLP175 EGJB 201950Z 15007KT 4500 VCSH FEW003 SCT008 BKN035 09/08 Q1001 KBVU 202035Z AUTO 25007KT 10SM CLR 31/M00 A3000 RMK AO2 CXSC 202000Z AUTO 31023KT 14/M03 RMK AO1 PK WND 30036/1909 T01351029 UNOO 202030Z 23004MPS CAVOK 07/00 Q1006 25CLRD60 NOSIG RMK QFE746 CXRL 202000Z AUTO 09/03 RMK AO1 T00860028 CYHU 202000Z AUTO VRB02KT 9SM CLR 13/M06 A3034 RMK SLP275 KCNM 201953Z AUTO 27014G22KT 10SM CLR 26/06 A3003 RMK AO2 PK WND 25026/1936 SLP123 T02560061 KCOD 202035Z 02010KT 10SM FEW100 17/M01 A3007 RMK AO1 CWZV 202000Z AUTO 17024G29KT 07/06 RMK AO1 4PAST HR 6003 PK WND 17033/1918 SLP068 P0002 T00720063 50017 KDEN 201953Z 00000KT 10SM FEW080 SCT140 BKN220 20/01 A3005 RMK AO2 SLP122 T02000011 KCOE 202035Z AUTO 25004KT 10SM BKN055 12/00 A3026 RMK AO1 NZTG 202006Z 25011KT 25KM FEW011 SCT025 16/12 Q1012 RMK VATSIM USE ONLY NZSP 201750Z 08008KT 3200 BR FEW020 M66/ A2850 RMK AURBO CLN AIR 06011KT ALL WNDS GRID CWZW 202000Z AUTO 22010KT 07/M03 RMK AO1 SOG 41 3016 SLP114 T00731029 CYIN 202000Z AUTO 18015G21KT 9SM CLR 08/M09 A3007 RMK MAX WND 17017KT AT 1957Z SLP196 KCMX 201953Z AUTO 28010KT 10SM CLR 11/04 A3000 RMK AO2 SLP167 T01110039 $ KCNO 201953Z 30005KT 10SM CLR 27/12 A3003 RMK AO2 SLP165 T02720117 KBVX 202035Z AUTO 12006KT 10SM CLR 27/09 A3010 RMK AO1 KCOF 201958Z AUTO 01013KT 10SM OVC026 21/15 A3003 RMK AO2 SLP173 T02100145 $ CYIO 202000Z AUTO 25003KT 9SM CLR M15/M18 A3004 RMK SLP180 EFRO 202020Z AUTO VRB03KT 080V160 CAVOK 04/M07 Q1027 KBVY 201953Z 14010KT 10SM CLR 08/M06 A3046 RMK AO2 SLP312 T00831056 KCMY 202035Z AUTO 20005KT 10SM SCT010 SCT021 BKN110 15/12 A3005 RMK AO2 LTG DSNT SW T01530123 KBWP 202035Z AUTO 21009KT 10SM CLR 23/M04 A2994 RMK AO1 ZUCK 202000Z 02003MPS 5000 -RA BR FEW008 SCT020 OVC050 15/14 Q1011 NOSIG CYHY 202000Z 30006KT 15SM FEW030 FEW230 04/M05 A2995 RMK SC1CI0 SLP154 KDEQ 201953Z AUTO VRB04KT 10SM BKN060 BKN070 26/13 A3009 RMK AO2 SLP185 T02610128 CXSH 202000Z AUTO 17005KT 08/M09 RMK AO1 SLP279 T00841093 58022 CYHZ 202000Z 34006G18KT 15SM FEW270 09/M04 A3034 RMK CI1 SLP280 KDFI 201953Z AUTO 17011KT 10SM CLR 23/M01 A3018 RMK AO2 SLP222 T02281006 EFSI 202020Z AUTO 02003KT CAVOK ///// Q//// EGKA 201750Z 10008KT 9999 SCT045 11/07 Q1003 EGJJ 202020Z 18006KT 9999 FEW009 BKN021 10/08 Q1001 TEMPO BKN010 CYKA 202000Z 35004KT 40SM FEW080 BKN260 15/M04 A3013 RMK CU1CI6 SLP210 KDET 201953Z 17009KT 10SM CLR 22/M03 A3019 RMK AO2 SLP224 T02171033 KBXK 202035Z AUTO 19004KT 10SM CLR 30/03 A2999 RMK AO1 KF70 202035Z AUTO 22010G14KT 10SM CLR 27/12 A3003 RMK AO1 EGKB 201850Z 09004KT 9999 MIFG NSC 10/07 Q1004 KCNU 201952Z AUTO 18013KT 10SM -RA SCT050 BKN070 OVC095 23/12 A3009 RMK AO2 RAB44 SLP181 P0000 T02280122 EHAK 202025Z AUTO 08029KT 9999 NCD 11/08 Q1013 KCPC 202035Z AUTO 02010G19KT 360V060 10SM SCT017 BKN022 OVC050 16/12 A3009 RMK AO2 T01640116 CXSL 202000Z AUTO 32009KT 08/04 RMK AO1 T00780037 KCOM 202035Z AUTO 21003KT 1 3/4SM +DZ BKN006 BKN012 OVC017 19/17 A3007 RMK AO2 LTG DSNT N AND NE P0004 T01850173 CYKD 201900Z 35008KT 12SM OVC020 M05/M08 A3017 RMK ST8 -5.1/-6.8/0.0/37 TRACE LOOSE LAST OBS/NEXT 211300Z SLP218 CXTD 202000Z AUTO 36012KT 01/M04 RMK AO1 PK WND 35019/1900 SLP295 T00131043 51002 CYIV 202000Z 35002KT 15SM BKN015 03/03 A2994 RMK SC5 SLP154 KDEW 201953Z AUTO 23010KT 10SM FEW050 12/M01 A3026 RMK AO2 SLP252 T01221006 PHTO 201953Z 29006KT 10SM FEW030 OVC045 22/21 A3016 RMK AO2 RAB05E35 SLP212 P0008 T02220211 KCON 201951Z AUTO 13009KT 10SM CLR 14/M09 A3039 RMK AO2 SLP295 T01391094 KCNW 201953Z 16008KT 10SM BKN080 23/13 A3008 EHAM 202025Z 08010KT CAVOK 16/08 Q1006 NOSIG CYKF 202000Z AUTO 13010G15KT 9SM CLR 19/01 A3022 RMK SLP237 DENSITY ALT 1300FT CZBF 202000Z 28006KT 15SM FEW220 09/M14 A3031 RMK CI1 SLP267 KCNY 201953Z AUTO 31005KT 10SM CLR 22/03 A3007 RMK AO2 SLP150 T02220028 KBYG 201953Z AUTO 36014G22KT 10SM CLR 15/M01 A3009 RMK AO2 SLP168 T01501011 $ CXSP 202000Z AUTO 25003KT 06/04 RMK AO1 T00550041 KCOQ 202036Z AUTO 30007KT 10SM CLR 19/M04 A2999 RMK AO2 LTG DSNT S CXTH 202000Z AUTO 31007KT 07/05 RMK AO1 T00690047 KBYI 201953Z AUTO 25017G24KT 10SM CLR 14/M04 A3021 RMK AO2 PK WND 26026/1859 SLP209 T01441039 VEPT 201350Z 27003KT 5000 HZ FEW100 31/15 Q1006 NOSIG CXSR 202000Z AUTO 26011G19KT 08/M08 RMK AO1 SOG 57 1011 PK WND 23023/1919 SLP134 T00771080 KCOS 201954Z 03018G25KT 10SM SCT070 BKN085 21/01 A3008 RMK AO2 SLP126 VIRGA SE AND SW T02060006 NZTU 202000Z 12001KT 35KM BKN095 07/07 Q1002 RMK ALT VATSIM USE ONLY CYLA 202000Z 28017G23KT 15SM DRSN FEW015 FEW070 FEW230 M05/M08 A3008 RMK SC1AC1CI0 SLP192 CYKJ 202000Z AUTO 00000KT 9SM OVC065 05/M05 A2990 RMK SLP153 KCOT 202014Z AUTO 15009KT 10SM OVC032 24/18 A3004 RMK AO2 T02440178 KCPK 202035Z AUTO 01011G25KT 5SM HZ SCT039 OVC055 14/04 A3028 RMK AO2 KCQB 202035Z AUTO 20012G16KT 7SM SCT040 SCT050 OVC100 25/16 A3006 RMK AO2 CYJT 202000Z 30020KT 15SM FEW018 M00/M07 A3020 RMK CU1 SLP229 KCQC 201953Z AUTO 28021G30KT 10SM FEW060 18/01 A3012 RMK AO2 PK WND 31030/1949 SLP133 T01830006 EGKK 202020Z VRB03KT 8000 NSC 09/07 Q1004 KCOU 201954Z 20008G16KT 10SM FEW065 26/09 A3008 RMK AO2 SLP181 T02610094 EHBK 202025Z AUTO 08005KT 9999 NSC 16/06 Q1005 NOSIG CYKL 202000Z AUTO 30012KT 9SM CLR M01/M19 A3011 RMK SLP237 EGLC 202020Z 00000KT 6000 NSC 11/09 Q1005 CYLD 202000Z 21012KT 15SM OVC012 06/04 A3004 RMK SC8 SLP190 KDFW 201953Z 19020KT 10SM BKN070 OVC110 24/12 A3007 RMK AO2 SLP174 T02440117 $ KCQF 202035Z AUTO 02006KT 10SM SCT034 20/12 A3014 RMK AO2 CYKO 202000Z 13010KT 15SM FEW070 FEW200 M12/M15 A3011 RMK AS2CC1 SLP199 EGLF 201820Z 06006KT 7000 FEW012 10/09 Q1003 CXTO 202000Z AUTO 11/M01 RMK AO1 SLP258 T01101014 58022 CXTP 202000Z AUTO 01/M10 RMK AO1 26 SOG 00 3014 SLP142 T00091102 OSDI 202000Z 09004KT CAVOK 18/07 Q1013 EFTP 202020Z AUTO 08003KT CAVOK 09/02 Q1025 CYKQ 202000Z 17011G17KT 15SM OVC050 10/M03 A2990 RMK SC8 SLP126 KCPR 202042Z 36011KT 10SM SCT110 20/M02 A3003 RMK AO2 WSHFT 2022 T02001022 CYLH 202000Z AUTO 27013G21KT 9SM OVC043 05/M03 A2987 RMK MAX WND 26028KT AT 1914Z SLP129 NZWB 202016Z 25015KT 20KM NSC 13/07 Q1006 RMK VATSIM USE ONLY KCPS 201953Z 15009KT 10SM CLR 27/07 A3010 RMK AO2 SLP190 T02670072 KBYS 201955Z AUTO 20009G15KT 10SM CLR 28/M02 A3004 RMK AO2 SLP139 T02791024 $ CYLJ 202000Z 01003KT 3SM -RA BR FEW003 BKN006 OVC023 03/02 A2993 RMK SF2ST3SC3 VIS S 1 SLP160 CYMA 202000Z 09004KT 20SM FEW050 BKN080 09/M05 A2973 RMK CU2AC3 SLP089 EFVA 202020Z AUTO 02003KT 360V060 CAVOK 06/M02 Q1026 KCPT 202035Z AUTO 17010KT 10SM FEW035 23/16 A3008 RMK AO2 LTG DSNT NW CYLK 202000Z 08004KT 15SM FEW020 OVC050 05/M02 A2990 RMK CF1SC7 SLP137 CZDB 202000Z AUTO 25011KT 08/M03 RMK AO1 SLP277 T00821031 58010 ORMM 202000Z 27010KT CAVOK 28/14 Q1009 NOSIG EGMC 202020Z 01003KT 6000 R24/0200 R06/0200 MIFG NSC 07/06 Q1005 CYLL 202000Z 02006KT 15SM BKN027 BKN095 OVC280 09/02 A2990 RMK SC5AC1CI2 SLP148 EGLL 202020Z 07005KT 7000 NSC 10/08 Q1005 EFTU 202020Z AUTO 00000KT CAVOK 06/04 Q1023 KCQM 202035Z AUTO 30004KT 10SM CLR 17/01 A3001 RMK AO2 EGMD 201750Z 06006KT CAVOK 13/10 Q1004 CXTV 202000Z AUTO 35007KT M08/M10 RMK AO1 SLP210 T10771101 53012 KDHN 201953Z 05009KT 10SM OVC023 17/11 A3019 RMK AO2 SLP221 T01670111 KDGW 201953Z AUTO 29010G17KT 10SM FEW120 21/M03 A3002 RMK AO2 SLP125 T02111028 KCRE 202041Z 02017G30KT 10SM OVC014 15/12 A3005 RMK AO2 PK WND 01030/2041 T01500122 KCPW 202037Z AUTO 01007KT 10SM BKN045 OVC055 03/M05 A3035 RMK AO2 LTG DSNT SE AND S KBZN 201956Z 30017G24KT 10SM CLR 16/M11 A3014 RMK AO2 PK WND 29028/1936 SLP195 T01561111 KCRG 201953Z 33011G16KT 10SM OVC017 18/12 A3008 RMK AO2 SLP186 T01780122 KBYY 202035Z AUTO 15010G17KT 10SM CLR 26/15 A3011 RMK AO2 T02620149 ORNI 202000Z 04005KT 7000 NSC 25/08 Q1011 NOSIG CYKY 202000Z 31019G28KT 15SM BKN030 OVC070 07/01 A2987 RMK SC7AC1 SLP133 CZCP 202000Z AUTO 06009KT 9SM OVC007 M10/ A3013 RMK SLP213 KCRH 202035Z AUTO 09003KT CLR 21/15 A3015 RMK A01 EGMH 201650Z 21004KT 9999 BKN040 12/10 Q1004 CYKZ 202000Z 12008KT 15SM SCT160 BKN260 13/M01 A3026 RMK AS3CI0 SLP254 CYMH 202000Z AUTO 01014G20KT 9SM CLR M00/M10 A2998 RMK SLP153 NZWK 202143Z 15010KT 50KM SCT040 14/07 Q1016 RMK VATSIM USE ONLY CZCR 202000Z AUTO 25007KT 09/M15 RMK AO1 SOG 37 6025 SLP265 T00881148 KDIJ 202005Z AUTO 19011G15KT 8SM FEW001 SCT015 SCT065 13/M03 A3020 RMK AO2 $ KDHT 201953Z AUTO 23004KT 10SM CLR 21/07 A2999 RMK AO2 LTG DSNT N AND NW SLP119 T02060067 KCQT 202047Z AUTO 00000KT 10SM CLR 23/13 A3002 RMK AO2 SLP165 T02330133 56012 CYNA 202000Z AUTO 27021G29KT 9SM CLR 00/M04 A3016 RMK MAX WND 27024KT AT 1935Z SLP215 KDIK 201956Z AUTO 29020G27KT 10SM CLR 21/M03 A2991 RMK AO2 PK WND 32029/1937 SLP130 T02061033 EFUT 202020Z AUTO 06007KT CAVOK 10/02 Q1025 CYNC 202000Z 18009KT 10SM -RA BKN030 OVC050 06/01 A2988 RMK SC4SC4 SLP120 CYLU 202000Z 24005KT 12SM -SN BKN018 BKN025 OVC030 M08/M10 A3012 RMK SC5SC2SC2 SLP207 EGNC 201620Z 08023G36KT 050V110 9999 SCT045 14/06 Q1011 NZWN 202030Z AUTO 02008KT 9999 NCD 15/10 Q1006 NOSIG TXKF 201955Z 17010KT 9999 FEW015 SCT082 BKN300 24/20 Q1021  EHDL 202025Z AUTO 07008KT //// // FEW079 15/07 Q1007 RE// CXVM 202000Z AUTO 32004KT 07/04 RMK AO1 T00720040 CYND 202000Z 12006KT 15SM SCT130 BKN240 14/M03 A3029 RMK AC3CI2 SLP261 CYMM 201800Z AUTO 25003KT 220V310 9SM CLR 08/01 A2987 RMK SLP131 KCQW 202035Z AUTO OVC046 18/05 A3016 RMK AO2 NZWP 202029Z 23010KT 25KM VCSH FEW012 SCT025 17/15 Q1013 RMK NZAA VATSIM USE ONL CXVN 201800Z AUTO 04005KT 05/02 RMK AO1 SLP262 T00510019 58017 CYLW 202000Z AUTO 19009KT 150V240 9SM CLR 14/M03 A3017 RMK SLP224 CYNE 202001Z AUTO 30006KT 240V340 9SM OVC026 02/M03 A2998 RMK SLP166 KCQX 201952Z AUTO 04005KT 10SM CLR 08/01 A3047 RMK AO2 SLP320 T00780006 CYMO 202000Z AUTO /////KT 9SM OVC045 11/01 A2987 RMK WND MISG SLP114 KCSG 201951Z 08006KT 10SM CLR 22/08 A3015 RMK AO2 SLP206 T02220083 KCRP 201951Z 14016KT 10SM SCT033 SCT041 BKN075 BKN250 27/17 A3008 RMK AO2 SLP183 T02670167 NZWR 202029Z 23010KT 25KM VCSH FEW012 SCT025 17/15 Q1013 RMK NZAA VATSIM USE ONL KCRQ 201953Z AUTO 23008KT 10SM CLR 18/13 A3005 RMK AO2 SLP173 T01830128 NZWS 202000Z 11001KT 10KM SHRA BKN031 11/10 Q1008 RMK ALT VATSIM USE ONLY EGNH 202020Z 04013KT 9999 FEW040 12/07 Q1007 EHEH 202025Z AUTO 07006KT 9999 SCT100 17/08 Q1005 BLU 07006KT CAVOK EFVR 202020Z AUTO 11001KT CAVOK 06/M02 Q1026 KCRS 201953Z AUTO 17012KT 10SM CLR 24/14 A3011 RMK AO2 SLP193 T02440139 NZWU 202021Z 30010KT 30KM VCSH FEW015 SCT025TCU 15/12 Q1009 RMK NZPM VATSIM USE CZFA 202000Z 11006KT 30SM FEW060 SCT100 BKN220 07/M06 A2974 RMK SC2AC1CS3 SLP100 CYOA 202000Z 34006KT 15SM OVC050 M03/M06 A2989 RMK SC8 SLP159 EGNJ 202020Z 06008KT 9000 FEW014 11/09 Q1008 KCTB 201956Z AUTO 28027G31KT 10SM CLR 13/M06 A3007 RMK AO2 PK WND 26034/1935 SLP182 T01281061 TSNO KDKB 202035Z AUTO 21011G16KT CLR 25/04 A3009 RMK AO2 T02480044 PWINO CYMT 202000Z 17011G16KT 15SM BKN040 BKN100 06/M08 A3014 RMK SC3AC2 SLP231 CYOC 202000Z 02019G25KT 25SM FEW017 OVC030 M04/M09 A3004 RMK ST2SC6 CLIMAT -4.0/-6.0/0.0 CM/0 .0 MWE/LAST OBS/NEXT 211300 UTC SLP192 CYMU 202000Z 13015G21KT 15SM FEW035 FEW090 BKN240 02/01 A2998 RMK SC2AC1CI0 PRESFR SLP160 CZEL 202000Z AUTO 20011G16KT RMK AO1 PK WND 19017/1945 57023 KCSM 201953Z AUTO 16016KT 10SM SCT060 BKN080 BKN090 20/16 A3004 RMK AO2 SLP160 T02000156 CXWM 201700Z AUTO 27029KT 12/M04 RMK AO1 PK WND 26040/1619 T01201039 CZEM 202000Z 18010G15KT 15SM BKN040 OVC065 09/M02 A2990 RMK SC6SC2 SLP125 CYNM 202000Z AUTO 19014G19KT 9SM OVC028 05/M01 A3002 RMK SLP182 CYOD 202038Z 21004KT 15SM BKN013 OVC030 RMK SC6SC2 EGNM 202020Z 03013KT 360V070 9000 FEW020 08/06 Q1008 KCRW 201954Z VRB05KT 10SM SCT300 25/M08 A3018 RMK AO2 SLP215 T02501083 EHDV 202025Z AUTO 09026KT 9999 NCD 11/08 Q1010 EHFD 202025Z AUTO 08028KT 9999 NCD 11/07 Q1011 CXVW 202000Z AUTO 26015KT 12/M04 RMK AO1 PK WND 27023/1947 T01181035 CXWN 202000Z AUTO 09004KT 10/01 RMK AO1 SLP154 T01020009 58017 KCRX 202030Z AUTO 10006KT 10SM -RA CLR 26/04 A3013 RMK AO2 CYMX 202000Z 16005KT 45SM SCT130 BKN260 12/M10 A3034 RMK AC3CI4 SLP277 KEBG 202035Z AUTO 14010G14KT 10SM SCT037 OVC044 27/18 A3004 RMK AO2 T02730175 KCSQ 202035Z AUTO 19012G23KT 10SM CLR 26/12 A2999 RMK AO2 UNTT 202030Z 21006MPS 9999 SCT040 OVC066 07/01 Q1002 NOSIG RMK QFE736 21190055 KEAR 202035Z AUTO 19012KT 10SM OVC110 23/12 A2996 RMK AO1 EGNR 201450Z 05008KT 9999 -RA FEW030 SCT040 14/10 Q1009 KCTJ 202033Z AUTO 06005KT 10SM CLR 23/06 A3015 RMK AO2 CYPA 202000Z 14007KT 15SM OVC088 06/M02 A2993 RMK AC8 SLP156 CYOJ 202000Z 08003KT 080V150 15SM FEW052 FEW120 OVC260 10/M04 A2986 RMK CU1AC1CS6 SLP127 KDKK 201953Z AUTO 02008KT 10SM CLR 17/M04 A3025 RMK AO2 SLP247 T01671039 KCUB 201953Z AUTO 10SM BKN050 BKN060 21/06 A3015 RMK AO2 SLP209 T02110056 EGNS 202020Z 04020G30KT 360V070 CAVOK 13/06 Q1008 NOSIG EGPA 202020Z AUTO 13009KT 8000 OVC001/// 06/05 Q1019 KEAT 201955Z AUTO 12007KT 10SM CLR 16/M05 A3021 RMK AO2 SLP232 T01561050 EGPB 202020Z AUTO 16005KT 9999 BKN001/// 05/04 Q1020 EGNT 202020Z 02011KT 6000 BKN014 08/06 Q1013 KEAU 201956Z 21008KT 10SM CLR 20/10 A3000 RMK AO2 SLP159 T02000100 CYPC 201800Z 00000KT 15SM -SN OVC006 M10/M12 A3013 RMK ST8 -9.0/-12.0/TR/18 TRACE LOOSE/LAST OBS/NEXT 211300Z SLP204 ZUGY 202000Z 01005MPS 6000 FEW008 BKN015 OVC033 15/14 Q1010 NOSIG KCSV 201953Z AUTO 09004KT 10SM CLR 23/02 A3018 RMK AO2 SLP212 T02330017 EGPC 202020Z AUTO 13009KT 1000 BR BKN001/// 05/05 Q1019 CZFM 201900Z 35010KT 4SM -SN OVC020 M05/M09 A3013 RMK SC8 -4.6/-7.4/1.0/38 MUCH LOOSE OBS/NEXT 211300Z SLP208 EGNV 202020Z 03014KT 8000 BKN011 09/07 Q1012 CZEV 202000Z AUTO 01006KT M06/M10 RMK AO1 SOG 48 3014 SLP218 T10631097 EGOM 201950Z AUTO 05015KT 9999 BKN210/// 07/04 Q1012 CYPD 202000Z AUTO 31014G21KT 9SM CLR 02/M08 A3034 RMK MAX WND 31017KT AT 1903Z SLP279 EGPD 202020Z 08004KT 040V120 1200 BR SCT002 BKN003 05/05 Q1018 TEMPO BKN002 CYPE 202000Z 29009KT 15SM BKN035 11/01 A2988 RMK CU6 SLP139 EGPE 202020Z 00000KT CAVOK 07/05 Q1017 KDLF 202018Z AUTO 15012KT 10SM OVC008 21/20 A3003 RMK AO2 CYOO 202000Z AUTO 12009KT 080V150 9SM SCT170 12/M02 A3028 RMK SLP256 EGNX 202020Z 06012KT 9999 SHRA FEW017 BKN023 11/09 Q1006 EGPF 202020Z 07009KT CAVOK 10/04 Q1015 KECG 202045Z 02019G32KT 2SM -RA FEW012 BKN050 OVC060 11/08 A3023 RMK AO2 PK WND 03032/2039 SFC VIS 3 P0000 EGOP 201950Z AUTO 09007KT 6000 // FEW006/// BKN036/// 10/09 Q1002 EHGG 202025Z AUTO 08007KT 050V110 9999 NCD 13/08 Q1009 NOSIG KDLH 201955Z 26006KT 10SM CLR 18/M01 A3000 RMK AO2 SLP169 T01781006 KCUH 202035Z AUTO 18011G16KT 10SM CLR 23/15 A3005 RMK AO2 CXYH 202000Z AUTO 16005KT 11/M04 RMK AO1 SOG 02 8002 SLP120 T01111038 CYPH 202000Z 11012KT 15SM BKN230 M05/M10 A3005 RMK CI2 CC ASOCTD SLP179 EGPH 202020Z 07012KT 9999 BKN004 06/05 Q1016 KDKR 202030Z AUTO 20010KT 10SM CLR 28/16 A3011 RMK AO2 EGPI 202020Z AUTO 36006KT 320V060 9999 NCD 12/03 Q1013 KDMA 201958Z AUTO 00000KT 10SM CLR 27/03 A3006 RMK AO2 SLP145 T02680034 $ KEBS 202035Z AUTO 20016KT 10SM CLR 28/12 A2993 RMK AO2 CZFS 202000Z AUTO 28001KT 08/M05 RMK AO1 SOG 23 1004 SLP151 T00841049 EGOS 201950Z AUTO 05009KT 9999 BKN027/// BKN090/// 13/08 Q1004 CYQA 202000Z AUTO 17013G18KT 140V200 9SM SCT130 BKN160 16/M04 A3021 RMK SLP239 EHFS 202025Z AUTO 34007KT 8000 NSC 14/10 Q1005 KCVB 202035Z AUTO 13011G15KT 7SM OVC023 24/17 A3007 RMK AO2 T02420166 CYQB 202000Z /////KT 30SM OVC120 08/M07 A3037 RMK AS8 SLP287 EGPK 202020Z 04014KT CAVOK 10/03 Q1014 KEDC 202035Z AUTO 18008KT 10SM OVC042 23/16 A3008 RMK AO2 KCVC 202035Z AUTO 10007KT 10SM CLR 23/M07 A3015 RMK AO2 KCUL 202035Z AUTO 00000KT 10SM CLR 25/06 A3014 RMK AO2 T02510060 KDLL 202035Z AUTO 20006KT 10SM -RA SCT055 SCT070 OVC080 16/11 A3007 RMK AO2 P0001 T01600105 CXZC 202000Z AUTO 25004KT 12/02 RMK AO1 SOG 44 6015 SLP114 T01180020 CYPL 202000Z 28016G22KT 15SM BKN028 05/M02 A2993 RMK SC7 SLP152 EGPL 202020Z AUTO 01007KT 9999 NCD 07/05 Q1017 VGEG 201550Z 33007KT 5000 HZ NSC 31/24 Q1006 NOSIG EGOV 201950Z AUTO 04016KT 9000 HZ FEW130/// BKN180/// 11/07 Q1006 CYQD 202000Z 36005KT 15SM BKN030 BKN220 04/M02 A2996 RMK SC6CI0 SLP161 KDLN 201953Z AUTO 23017G24KT 10SM CLR 13/M17 A3017 RMK AO2 PK WND 25029/1941 SLP188 T01331167 TSNO EGPM 202020Z AUTO 17007KT 9999 NCD 05/04 Q1020 KEDE 202035Z AUTO 04015G24KT 5SM BR BKN023 OVC030 11/10 A3021 RMK AO2 P0001 T01100100 EGPN 201920Z 11006KT 9999 FEW002 08/07 Q1016 CYOW 202000Z 16011KT 130V200 15SM FEW130 SCT220 16/M08 A3029 RMK AC2CI1 SLP260 CYQF 202000Z 36010KT 15SM FEW050 13/M01 A2997 RMK CU2 SLP171 KECP 201953Z AUTO 36011KT 10SM OVC016 16/11 A3014 RMK AO2 SLP218 T01560111 TSNO $ KCVG 201952Z 00000KT 10SM FEW100 SCT250 24/02 A3017 RMK AO2 SLP212 T02390017 $ KCTY 201953Z AUTO 07006KT 19/13 A3008 RMK AO1 SLP185 T01940133 EGPO 202020Z AUTO 02011KT 9999 NCD 09/06 Q1018 KDLP 202035Z AUTO 10009KT 10SM CLR 22/16 A3014 RMK A01 CYOY 202000Z AUTO 25004KT 210V270 9SM CLR 07/M13 A3035 RMK ICG PAST HR SLP288 CYQG 202000Z 20010KT 15SM BKN280 20/M00 A3020 RMK CI3 SLP229 KCVH 202030Z AUTO 32006KT 10SM CLR 26/10 A3009 RMK AO1 KDMH 201954Z AUTO 16/02 A3037 RMK AO1 SLP284 T01560017 KCTZ 202035Z AUTO 04013G24KT 10SM OVC029 16/11 A3016 RMK AO2 T01640110 CYPQ 202000Z AUTO 15010KT 9SM OVC160 14/M05 A3027 RMK SLP256 CYQH 202000Z 10008KT 30SM BKN025 OVC040 09/M01 A2980 RMK SC5SC1 CU EMBD SLP116 EHFZ 202025Z AUTO 08034KT 9999 NCD 11/08 Q1010 CYQI 202000Z 32011KT 15SM SCT250 09/M01 A3038 RMK CI4 SLP290 CYPR 202000Z AUTO 13015G25KT 9SM OVC050 11/02 A2985 RMK MAX WND 13021KT AT 1916Z SLP109 KDLS 201953Z AUTO 33003KT 10SM CLR 17/03 A3024 RMK AO2 SLP241 T01670028 KCWA 201950Z 17006KT 10SM OVC015 12/11 A3007 EHGR 202025Z AUTO 08009KT 9999 FEW092 OVC100 16/08 Q1005 BLU KEDJ 202030Z AUTO 19008KT 10SM CLR 22/00 A3016 RMK A01 P000 KECS 202035Z AUTO 32015KT 10SM CLR 18/00 A3000 RMK AO2 CYRA 202000Z 16004KT 15SM SCT090 05/M05 A2995 RMK AC3 SLP156 KCUT 201953Z AUTO 13008KT 10SM BKN085 OVC110 18/02 A3000 RMK AO2 SLP118 T01780017 EGQK 201950Z AUTO 08008KT 9999 NCD 10/03 Q1016 CYRB 202000Z 31006KT 15SM FEW230 M23/M27 A3016 RMK CI1 SLP226 CYQK 202000Z 26006KT 220V280 15SM OVC230 09/M01 A3001 RMK CI8 SLP176 KECU 202035Z AUTO 14009KT 1 1/4SM BR BKN005 OVC010 18/18 A3009 RMK AO2 KCWC 202035Z AUTO 20009G15KT 1 3/4SM +RA BKN014 OVC020 17/15 A3011 RMK AO2 VIS 1 1/4V3 LTG DSNT ALQS P0047 T01730147 CYQL 202000Z 27034G41KT 40SM SCT060 14/M05 A3001 RMK SC3 SLP174 DENSITY ALT 3500FT EGQL 201950Z 08007KT 7000 BR BKN003 06/06 Q1017 YLO2 TEMPO 1500 BR BKN002 AMB KEED 201956Z AUTO 22011G15KT 10SM CLR 34/02 A2996 RMK AO2 SLP115 T03390017 $ EGPU 202020Z AUTO 02012KT 9999 NCD 09/06 Q1015 CYQM 202000Z 28010KT 190V280 15SM FEW050 FEW120 FEW250 10/M09 A3032 RMK SC1AC1CI2 SC TR AC TR SLP271 KDMN 201953Z AUTO VRB05KT 10SM CLR 22/02 A3012 RMK AO2 SLP151 T02220022 KCVN 202035Z AUTO 24010G23KT 10SM 22/07 A3002 RMK AO1 LTG DSNT NE EGQM 201950Z AUTO 35011KT 9999 SCT210/// 08/07 Q1014 KCWF 201950Z 15006KT 10SM SCT050 28/12 A3014 CYPW 202035Z 09013G22KT 20SM FEW008 FEW030 BKN050 OVC180 09/06 A3023 RMK SF1CU1SC5AS2 SF TR SLP238 KDMO 201953Z AUTO 21012G21KT 10SM FEW065 26/10 A3008 RMK AO2 SLP182 T02610100 KCVO 202035Z 16006KT 10SM CLR 18/08 A3023 RMK AO1 CYPX 202000Z 15004KT 15SM FEW220 M06/M08 A3011 RMK CI2 SLP200 CYPY 202000Z AUTO VRB02KT 9SM CLR 08/M02 A2990 RMK SLP139 KDLZ 202037Z AUTO 19007KT 10SM CLR 22/02 A3019 RMK AO2 CYQQ 202000Z 14020G28KT 15SM FEW025 BKN049 OVC120 10/07 A3021 RMK SC2SC4AS2 MAX WND PAST HR 140 23 G31 SLP230 KCWI 202035Z 22015KT 10SM CLR 27/08 A3007 RMK AO1 CYQR 202000Z 01005KT 15SM BKN051 BKN100 08/04 A2985 RMK SC6AC1 SC TR CVCTV CLD EMBD SLP134 KCVS 202003Z 23012G20KT 10SM FEW060 SCT140 SCT170 BKN200 22/05 A3001 RMK AO2A WSHFT 00 CYRJ 202000Z 12006KT 40SM BKN065 04/M09 A3029 RMK SC5 SLP268 EGQS 201950Z 09010KT 9999 VCFG FEW001 10/05 Q1016 BLU EHJA 202025Z AUTO 06032KT 9999 NCD 12/09 Q1008 CYQT 202000Z 27011KT 20SM FEW270 15/00 A2997 RMK CI1 SLP157 DENSITY ALT 700FT CYSB 202000Z 19014G21KT 15SM BKN063 OVC100 08/M02 A3014 RMK SC5AC3 PRESFR SLP218 KDNL 201953Z AUTO 35010G17KT 10SM CLR 23/06 A3014 RMK AO2 SLP204 T02280056 KEDU 202035Z AUTO 36011G14KT 10SM CLR 25/04 A3008 RMK AO1 OTBD 202000Z 31006KT 260V340 CAVOK 29/11 Q1008 NOSIG CXZU 201900Z AUTO 30009G21KT 12/M02 RMK AO1 PK WND 30028/1705 T01181024 EGSC 201720Z VRB07KT 4000 SHRA BKN023 13/11 Q1004 CYRL 202000Z 22009KT 15SM FEW036 SCT110 BKN240 06/M02 A2998 RMK SC1AS2CI2 CONTRAILS SLP167 CYSC 202000Z AUTO VRB08KT 9SM FEW120 13/M10 A3032 RMK SLP278 CYQU 202000Z 27026G33KT 25SM FEW060 FEW200 12/M05 A2993 RMK SC1CI1 SLP156 DENSITY ALT 2300FT KEFD 201950Z 12007G15KT 10SM FEW040 27/14 A3014 EGSD 201920Z 07014KT 6000 FEW014 12/11 Q1005 CXZV 202000Z AUTO 25007KT 01/M04 RMK AO1 SOG 82 6027 SLP252 T00121039 KDMW 202045Z AUTO 12005KT 10SM CLR 18/M01 A3033 RMK AO2 CYQV 202024Z AUTO 22003KT 150V260 9SM BKN024 BKN075 BKN092 05/M00 A2992 RMK PRESFR SLP154 KEEN 202035Z AUTO 25007KT 10SM CLR 16/M09 A3037 RMK AO1 KCVW 202035Z AUTO 20008KT 10SM CLR 24/15 A3013 RMK A01 KDNN 202035Z AUTO 01005KT 10SM CLR 24/07 A3013 RMK AO2 KEDW 201958Z 07004KT 60SM FEW110 SCT300 27/00 A3003 RMK AO2A SLP149 CONTRAILS T02720003 CYQW 202040Z AUTO 08007KT 5SM -RA BR OVC023 02/02 A2994 RMK PCPN 1.0MM PAST HR SLP166 KEEO 201953Z AUTO VRB03KT 10SM FEW028 SCT090 SCT110 18/M02 A3015 RMK AO2 SLP160 T01781017 KCVX 202035Z AUTO 30007KT 10SM SCT110 09/04 A3013 RMK AO2 T00930044 CYSF 202000Z AUTO 18005KT 120V230 9SM SCT065 07/M09 A2992 RMK SLP147 CYQX 202000Z 35019G30KT 20SM FEW030 M01/M09 A2997 RMK SC1 SLP158 CZHY 202000Z AUTO 32008KT 04/M05 RMK AO1 SOG 11 2011 SLP147 T00411046 CYQY 202000Z 32012G20KT 15SM FEW250 03/M09 A3029 RMK CI1 SLP259 CYRQ 202000Z AUTO 22007KT 9SM OVC110 09/M09 A3036 RMK SLP282 CYQZ 202000Z AUTO 15010G17KT 130V220 9SM FEW080 13/M04 A3005 RMK SLP189 DENSITY ALT 1800FT EGSH 202020Z 09006KT 8000 NSC 12/10 Q1006 NOSIG KDPA 201952Z 19010KT 170V230 10SM CLR 26/05 A3010 RMK AO2 SLP190 T02560050 KDNS 202035Z AUTO 22016G22KT 10SM CLR 27/10 A2992 RMK AO2 ORSU 202000Z 00000KT 5000 DU FEW045 SCT080 13/11 Q1016 CYSJ 202000Z 23009KT 15SM BKN260 09/M05 A3036 RMK CI6 SLP284 KEET 201953Z AUTO VRB04KT 10SM CLR 24/07 A3016 RMK AO2 SLP207 T02390067 KEFK 202035Z AUTO 17004KT 10SM CLR 15/M13 A3032 RMK AO2 T01511127 CYSK 192300Z 22010KT 15SM FEW200 M11/M12 A3050 RMK CS1 CALL OUT LAST OBS/NEXT 221200UTC SLP332 CYRT 202000Z 26005KT 15SM FEW250 M07/M08 A3004 RMK CI1 SLP177 CYSL 202000Z 16003KT 15SM FEW240 08/M12 A3033 RMK CI1 LAST OBS/NEXT 210800 UTC SLP283 EGTC 201620Z 03007KT 1800 -RA BR BKN009 12/12 Q1002 KCWV 202035Z AUTO 36010G14KT 10SM SCT035 21/14 A3010 RMK AO2 KDNV 202035Z AUTO 18011KT 10SM CLR 25/04 A3011 RMK AO2 T02460038 CZKD 202000Z AUTO 32003KT 03/M03 RMK AO1 SOG 60 1009 SLP147 T00281026 CYRV 202000Z AUTO 33006KT 270V030 9SM FEW033 SCT065 BKN087 12/02 A3020 RMK SLP236 CYSM 202000Z 00000KT 15SM FEW050 FEW240 10/M02 A2987 RMK CU1CI0 SLP127 EHKD 202025Z AUTO 08009KT 9999 NCD 14/10 Q1007 BLU KEGE 201950Z 06007KT 10SM VCSH BKN080 15/03 A3016 EGTE 201950Z 10009KT 9999 FEW018 SCT025 09/07 Q1001 CYSN 202000Z 01007KT 15SM BKN220 14/01 A3026 RMK CI5 SLP249 CYTE 202000Z AUTO 26009KT 9SM OVC008 M06/M08 A2993 RMK SLP140 KCXO 201953Z 16014G18KT 10SM FEW055 27/12 A3012 RMK AO2 SLP197 T02670117 KCXP 202035Z AUTO 03005KT 10SM CLR 19/M09 A3022 RMK AO2 CYSP 202051Z 23006KT 10SM FEW004 SCT012 BKN030 BKN110 RMK SF2SC2SC2AC1 HZ VIS N NW 4 CYTH 202000Z 30004KT 15SM BKN015 OVC027 02/M00 A2997 RMK SC6SC2 SLP163 KEGI 201958Z AUTO 02008KT 10SM OVC022 17/11 A3015 RMK AO2 SLP212 T01650108 $ EHJR 202025Z AUTO 07030G31KT ///////// 12/09 Q1007 W09/H15 OSLK 202000Z 30002KT CAVOK 15/12 Q1013 CYUA 202000Z AUTO 02004KT 9SM OVC006 M09/ A3020 RMK SLP231 EGSS 202020Z VRB03KT 2800 HZ NSC 11/09 Q1005 KEFT 202035Z AUTO 23013G17KT 10SM SCT075 26/07 A3005 RMK AO2 LTG DSNT NW T02620066 EGUB 201950Z AUTO 07009KT 4400 // FEW090/// 08/07 Q1004 CYUB 202000Z 06007KT 1/2SM FZFG VV003 M08/M10 A3018 RMK FG8 SLP222 KEHC 202035Z AUTO 07004KT 10SM CLR 24/17 A3013 RMK A01 KDPL 202035Z AUTO 03017G25KT 10SM OVC024 14/10 A3016 RMK AO2 T01430098 CYTL 202000Z AUTO 30010G17KT 9SM FEW022 SCT030 OVC047 03/00 A2984 RMK SLP118 KDOV 201958Z AUTO 10014KT 10SM FEW180 12/02 A3036 RMK AO2 SLP284 T01220020 $ KCXY 201956Z 10008KT 10SM CLR 17/02 A3035 RMK AO2 SLP279 T01670017 CYSY 201800Z 08003KT 10SM BKN090 M10/M12 A3013 RMK AC5 -9.3/-10.6/14/2.0/MEDIUM PACK 2 LOOSE LAST OBS/NXT 211300Z SLP213 VGHS 201950Z 00000KT 4000 HZ NSC 29/23 Q1005 NOSIG KDQH 202035Z AUTO 36007KT 10SM SCT020 SCT025 OVC033 17/12 A3014 RMK AO2 CYTQ 202000Z 28023G28KT 15SM DRSN BKN240 M05/M12 A3012 RMK CI1 SLP204 CYTR 202000Z 19006KT 15SM BKN250 14/M04 A3029 RMK CI2 SLP259 KCYS 201953Z 29011G21KT 10SM FEW095 20/M06 A3006 RMK AO2 PK WND 35029/1919 SLP119 T02001056 KDRA 201952Z AUTO 23008G15KT 10SM CLR 27/01 A3007 RMK AO2 SLP144 T02720006 CYTS 202000Z 22009G18KT 10SM -DZ OVC018 07/03 A3001 RMK ST8 SLP174 EHMA 202025Z AUTO 08014KT 360V160 9000 NSC 13/10 Q1009 EICK 202030Z 02016KT 9999 -RA FEW017 BKN041 BKN060 09/07 Q1006 NOSIG CYVC 202000Z 04007KT 15SM FEW030 OVC060 04/M03 A2995 RMK SC1SC7 SLP162 CYUL 202000Z 12003KT 090V170 30SM FEW120 FEW150 BKN240 13/M06 A3033 RMK AC1AC1CI4 SLP272 EGUL 202011Z AUTO 16003KT 9999 SCT019 13/13 A2969 RMK AO2 KEGV 202035Z AUTO 21007KT 10SM CLR 19/02 A3000 RMK AO2 T01910024 CZMD 202000Z AUTO 27012G19KT 9SM -RA FEW024 SCT031 BKN043 BKN055 04/00 A2989 RMK SLP136 EHKV 202025Z AUTO 08027KT 9999 NCD 12/09 Q1007 EGUN 201958Z AUTO 14004KT 9999 FEW021 SCT035 SCT100 13/13 A2970 RMK AO2 SLP061 T01270125 KEHO 202035Z AUTO 01007KT 10SM CLR 21/02 A3019 RMK AO2 T02050016 CYTZ 202000Z AUTO 08012KT 9SM BKN170 OVC190 07/01 A3028 RMK SLP255 KEHR 202035Z AUTO 21004KT 10SM CLR 25/04 A3014 RMK AO1 KDRI 202035Z AUTO 16006KT 10SM SCT006 BKN060 27/11 A3012 RMK AO2 T02740114 CZMJ 202000Z AUTO 32005KT 12/02 RMK AO1 5000 SLP132 T01170023 50002 CYWA 202000Z AUTO 10007KT 9SM CLR 13/M04 A3021 RMK SLP235 CYUS 202004Z AUTO 07013KT OVC010 OVC063 OVC092 M12/ A3003 KEIK 202036Z AUTO 00000KT 10SM CLR 21/02 A3003 RMK AO2 LTG DSNT S T02130018 KCZT 202035Z AUTO 15009KT 10SM OVC026 23/18 A3002 RMK AO2 CYUT 202000Z 36008KT 20SM IC FEW006 SCT025 BKN150 M08/M09 A2996 RMK ST1SC2AC3 -7.4/-12.3/TR/8 TRACE LOOSE LASTOBS/NXT 221200 SLP148 EIDL 201600Z 05016KT CAVOK 13/04 Q1015 KDRM 202035Z AUTO 13003KT 7SM BKN024 BKN055 OVC080 04/03 A3012 RMK AO2 T00410026 CYVM 202000Z AUTO 10004KT 9SM BKN049 M11/M16 A2999 RMK SLP155 EGUW 201950Z AUTO 08001KT 7000 HZ BKN050/// 11/10 Q1005 CYWE 202000Z AUTO 00000KT 9SM OVC046 02/M02 A2992 RMK SLP158 KDRO 201953Z AUTO 25007KT 10SM FEW080 19/M01 A3011 RMK AO2 SLP150 T01891011 EHLW 202025Z AUTO 06008KT 9999 NCD 12/09 Q1008 BLU EGVN 201950Z 09005KT 8000 HZ SCT090 09/08 Q1004 BECMG 5000 BR KFAF 201958Z AUTO 07014G23KT 10SM CLR 16/06 A3029 RMK AO2 PK WND 07026/13 SLP260 T01580062 $ CYVO 202000Z 17011KT 15SM -SHRA OVC044 06/M02 A3013 RMK SC8 SLP219 CYUX 202000Z 35005KT 12SM -SN FEW008 FEW018 BKN036 BKN048 BKN200 M11/M13 A3000 RMK SF1SC1SC4SC1CI1 SF TR SLP159 EGVO 201950Z 07005KT 3000 BR FEW080 08/07 Q1003 YLO1 EGVP 201950Z AUTO 07007KT 7000 // NCD 08/06 Q1003 CYVP 202000Z 27014KT 15SM FEW260 FEW380 M03/M15 A3015 RMK CI2CC1 CC TR CONTRAILS SLP212 CYUY 202050Z 19009KT 15SM OVC035 06/M03 A3008 RMK SC8 SLP201 CYWG 202000Z VRB02KT 15SM BKN250 11/02 A2998 RMK CI7 SLP160 KCZZ 201952Z AUTO 23014G23KT 28/06 A3001 RMK AO1 SLP136 T02780056 CYVQ 202048Z 26003KT 20SM FEW007 SCT011 BKN035 OVC050 01/M02 A3003 RMK ST1SC3SC2SC2 SLP173 CYWH 202000Z 13007KT 10SM SCT020 OVC100 13/06 A3024 RMK CU3AS5 SLP240 KEIR 202035Z AUTO 00000KT 10SM CLR 22/16 A3014 RMK A01 CYVR 202000Z 15014KT 12SM FEW025 SCT045 BKN080 OVC120 12/06 A3027 RMK CF1SC2AC4AS1 SLP251 CYWJ 202000Z 16003KT 20SM BKN050 M03/M05 A2999 RMK SC7 SLP174 KDRT 202049Z AUTO 12008KT 10SM SCT013 BKN020 OVC027 23/19 A3000 RMK AO2 CYWK 202000Z 27006KT 15SM BKN280 00/M17 A3016 RMK CI7 SLP253 CZMT 202000Z 15023G41KT 6SM -RA OVC008 07/05 A2973 RMK ST8 SLP067 CYVT 202000Z 15005KT 15SM BKN040 BKN080 09/01 A2987 RMK SC6AC1 SLP134 KH21 202035Z AUTO 18005G15KT 10SM BKN070 26/09 A3009 RMK AO2 CZMU 202000Z AUTO 33011KT 07/04 RMK AO1 PK WND 32017/1903 T00660043 50015 CYXC 202000Z 28007KT 25SM BKN075 11/M05 A3015 RMK AC6 SH ALQDS SLP223 CYWL 202000Z 18008KT 15SM FEW040 OVC130 09/M07 A3007 RMK CU2AS6 SLP201 KDSM 201954Z 21013G23KT 10SM CLR 28/11 A2998 RMK AO2 PK WND 21027/1933 SLP145 T02780111 KFAM 202035Z AUTO 17007KT 10SM CLR 26/05 A3013 RMK AO1 EGXC 201950Z 07015KT 8000 HZ BKN070 11/09 Q1005 BLU EGXD 201950Z AUTO 36008KT 9000 // SCT100/// 10/06 Q1010 CYVV 202000Z 22005KT 15SM BKN090 OVC250 16/01 A3019 RMK AC6CS2 SLP229 CYXD 202035Z AUTO 30008KT 9SM BKN016 BKN057 BKN061 BKN068 11/01 A2995 EGXE 201950Z AUTO 01012KT 6000 HZ SCT011/// BKN180/// 08/06 Q1011 CYXE 202000Z 06011KT 15SM OVC038 04/01 A2988 RMK SC8 SLP145 EIDW 202030Z 02017KT 9999 FEW005 BKN050 11/07 Q1008 NOSIG KFBG 201958Z AUTO 04011G25KT 10SM CLR 19/09 A3016 RMK AO2 PK WND 02026/46 SLP216 T01870094 $ CYXH 202000Z 29021G28KT 30SM BKN075 BKN270 15/M04 A2997 RMK CU6CI1 VIRGA SLP158 DENSITY ALT 2800FT KFAR 201953Z 18009KT 10SM CLR 23/01 A2994 RMK AO2 SLP143 T02280006 KDUA 202035Z AUTO 18012G16KT 10SM SCT075 BKN090 26/14 A3007 RMK AO2 CYXJ 202000Z 22013G22KT 200V260 15SM BKN056 OVC230 12/M00 A2988 RMK SC5CI3 SLP137 DENSITY ALT 2400FT KFAT 201953Z VRB04KT 10SM FEW250 24/07 A3009 RMK AO2 SLP188 T02390067 KDUB 202035Z AUTO 34015G22KT 10SM CLR 13/M10 A3015 RMK AO2 CYYB 202000Z 22009KT 15SM BKN050 BKN080 OVC200 11/M06 A3017 RMK SC5AC2CI1 SLP229 KFBL 202034Z AUTO 15004KT 10SM SCT036 22/10 A2999 RMK AO2 LTG DSNT SE KDTL 202034Z AUTO 21006KT 10SM CLR 21/00 A2998 RMK AO2 KDUC 202035Z AUTO 00000KT 10SM SCT046 OVC055 18/16 A3007 RMK AO2 TSNO KEKM 201855Z 24009KT 10SM CLR 21/M02 A3019 RMK A02 CZOL 202000Z AUTO 34009KT 10/03 RMK AO1 T01010028 EGWU 201950Z 08004KT 6000 HZ FEW080 SCT250 09/08 Q1004 BECMG 8000 CZPC 202000Z AUTO 27028G35KT 9SM CLR 11/M06 A3005 RMK MAX WND 27031KT AT 1945Z PRESFR SLP193 DENSITY ALT 4100FT CYXL 202000Z 31005KT 15SM FEW030 BKN240 08/M02 A2998 RMK SC1CI5 SC TR SLP168 CYYC 202000Z 35012G19KT 40SM BKN076TCU 13/M04 A2997 RMK TCU6 SH NW-N & E SLP170 DENSITY ALT 4000FT KELD 201953Z AUTO 10SM CLR 26/11 A3012 RMK AO2 SLP197 T02610106 KDSV 201954Z AUTO 16007KT 10SM CLR 22/M04 A3024 RMK AO2 SLP249 T02221044 EGYD 201950Z AUTO 06014KT 7000 // BKN050/// SCT100/// 11/09 Q1006 CYYD 202000Z 16007KT 25SM BKN065 BKN210 10/M04 A2996 RMK SC6CI1 SLP158 KEKN 201951Z AUTO 13007KT 10SM CLR 22/M08 A3022 RMK AO2 SLP240 T02221078 TSNO KDTN 201953Z 14008KT 10SM BKN060 26/14 A3012 RMK AO2 SLP197 T02610139 $ CYYE 202000Z 01005KT 310V010 30SM FEW050 OVC120 08/M02 A2988 RMK CU1AS7 SLP134 KDTO 201953Z 18011KT 10SM FEW080 OVC100 25/10 A3006 RMK AO2 SLP172 T02500100 KEKO 201956Z AUTO 29009KT 10SM CLR 18/M05 A3021 RMK AO2 SLP197 T01781050 CYYF 202000Z 17009KT 15SM FEW065 FEW230 16/M02 A3017 RMK CF1CI1 SLP222 KFAY 201953Z AUTO 04017G26KT 10SM SCT039 SCT048 OVC060 20/09 A3014 RMK AO2 PK WND 02029/1921 SLP201 T02000089 KDUG 201956Z AUTO 30007KT 10SM CLR 23/01 A3013 RMK AO2 SLP159 T02330006 CYXP 202000Z 25005KT 15SM SKC M13/M16 A2998 RMK SC TR -12.4/-19.6/0/13 MEDIUM PACK LAST STFD OBS/NEXT 221100Z SLP155 EGXP 201950Z AUTO 06012KT 7000 // FEW060/// SCT100/// 10/08 Q1006 CYYG 202000Z 34008KT 15SM SCT250 SCT300 05/M08 A3037 RMK CI3CI1 CONTRAILS SLP287 KDUH 202035Z AUTO 08007KT 10SM CLR 21/03 A3018 RMK AO2 KEKQ 201956Z AUTO VRB04KT 10SM CLR 25/06 A3018 RMK AO2 T02500061 SLP221 EHPG 202025Z AUTO 07025KT 9999 NSC 15/09 Q1005 CYXQ 202000Z 07005KT 30SM FEW100 FEW140 BKN210 07/01 A2967 RMK AC1AC1CC2 SLP075 CYYH 202000Z 05007KT 15SM FEW030 FEW100 SCT200 M13/M15 A3008 RMK SC1AC0CI0 SLP191 KFBR 202035Z AUTO 29019G28KT 10SM CLR 18/M06 A3021 RMK AO2 T01801059 CYXR 202000Z AUTO 19014G19KT 9SM OVC040 06/M04 A3010 RMK SLP203 KDTS 201953Z AUTO 05009KT 10SM OVC022 18/11 A3015 RMK AO2 SLP207 T01780111 TSNO KDUJ 201956Z AUTO VRB06KT 10SM CLR 19/M06 A3026 RMK AO2 SLP249 T01941061 TSNO EGXS 201950Z AUTO /////KT 6000 // NCD 10/09 Q1007 CYXS 202000Z AUTO VRB08G15KT 9SM CLR 11/M06 A3002 RMK MAX WND 23016KT AT 1943Z SLP188 CYYJ 202000Z 11003KT 070V140 20SM BKN033 OVC055 10/06 A3026 RMK SC6SC2 SLP246 CYXT 202000Z 00000KT 20SM FEW030 SCT065 BKN080 BKN190 10/01 A2996 RMK CF1SC3AC3CI1 CF TR SLP152 EGXT 201950Z AUTO 11004KT 7000 HZ BKN011/// BKN026/// 12/10 Q1005 RERA EGXU 201950Z AUTO 04009KT 9999 // BKN100/// 11/07 Q1009 CYXU 202000Z 19010G18KT 15SM BKN250 19/M02 A3022 RMK CI7 SLP239 DENSITY ALT 1200FT CYYL 202000Z AUTO VRB02KT 9SM BKN044 05/M06 A2995 RMK SLP161 KFCM 201953Z 06008KT 10SM CLR 23/02 A2997 RMK AO2 SLP149 T02330022 KELM 201953Z AUTO 00000KT 10SM CLR 21/M05 A3027 RMK AO2 SLP255 T02061050 EGYM 201950Z AUTO 11007KT 9999 BKN090/// 13/09 Q1005 KDTW 201953Z 11005KT 10SM BKN240 22/M01 A3019 RMK AO2 SLP225 T02171006 KELN 201953Z AUTO 08007KT 10SM CLR 16/M03 A3022 RMK AO2 SLP237 T01561028 TSNO EGXV 201950Z AUTO 05013KT 7000 HZ SCT100/// 10/08 Q1008 CYZE 202007Z AUTO 22007KT 9SM -RA FEW045 OVC075 06/M00 A3017 RMK SLP222 CYYN 202041Z AUTO 29040G46KT 9SM -RA BKN030 BKN036 OVC044 09/02 A2986 RMK MAX WND 29040KT AT 2041Z SLP133 KELO 202033Z AUTO 28005KT 10SM CLR 16/M02 A3001 RMK AO2 EGXW 201950Z 06014KT 7000 HZ BKN050 11/08 Q1006 WHT EHQE 202025Z AUTO 09025KT 9999 NSC 14/09 Q//// CYXX 202000Z 26006KT 25SM BKN040 OVC180 13/04 A3026 RMK CU5AS3 SLP248 CYZF 202000Z 02008KT 15SM OVC027 04/M01 A2991 RMK SC8 SLP141 KELP 201951Z 26008G17KT 10SM SCT080 23/04 A3010 RMK AO2 SLP142 T02330044 CYZG 202000Z 22017G26KT 15SM FEW180 SCT210 M07/M09 A2997 RMK AS1CS2 SLP176 CYXY 202000Z 17011G18KT 40SM SCT060 BKN110 BKN220 09/M03 A2973 RMK CU4AC1CI2 SLP095 EGYP 201950Z 15017KT 9999 SCT018CB 03/01 Q1004 WHT EGXZ 201950Z AUTO 36010KT 9000 HZ FEW100/// BKN190/// 09/07 Q1010 CYZH 202000Z AUTO 32007KT 310V010 9SM FEW044 OVC065 07/02 A2992 RMK SLP154 CYYQ 202000Z 01007KT 15SM SCT230 M05/M07 A3002 RMK CI4 SLP170 CYXZ 202033Z 21010KT 15SM BKN011 RMK ST4 CYYR 202000Z 34013G19KT 15SM FEW063 03/M10 A3008 RMK SC1 SLP188 KFCS 201958Z AUTO 05010G15KT 020V080 10SM BKN085 BKN130 19/01 A3006 RMK AO2 SLP152 T01940014 $ CZPS 202000Z AUTO 33018KT 10/M01 RMK AO1 PK WND 33026/1902 T01041008 KDVK 202035Z AUTO 17004KT 10SM CLR 25/05 A3017 RMK AO2 KFDK 202045Z VRB05KT 10SM SKC 18/03 A3035 CYYT 202000Z 33019G24KT 15SM FEW040 FEW200 00/M05 A2991 RMK CU1CI1 SLP137 KDVL 202035Z AUTO 16009KT 10SM CLR 21/02 A2987 RMK AO1 CYYU 202000Z 20013G18KT 15SM FEW035 FEW210 BKN250 13/05 A2991 RMK CU1CC1CS2 SLP137 KEMM 202035Z AUTO 28016G27KT 10SM CLR 15/M06 A3020 RMK AO2 KEND 201958Z AUTO 18009KT 10SM FEW200 24/16 A3003 RMK AO2 SLP163 T02370160 $ KDVN 201952Z AUTO 21014KT 10SM CLR 27/07 A3005 RMK AO2 SLP173 T02720067 $ EHRD 202025Z AUTO 09009KT 060V120 9999 NCD 16/08 Q1006 NOSIG KDVO 202035Z AUTO 36007KT 10SM CLR 25/07 A3010 RMK AO2 KDUX 202035Z AUTO 16010KT 10SM CLR 19/09 A2996 RMK AO2 T01910085 KEMP 201953Z AUTO 19013KT 9SM FEW080 23/12 A3004 RMK AO2 SLP169 T02280122 KELY 201953Z AUTO VRB06KT 10SM FEW095 19/M03 A3019 RMK AO2 SLP162 T01941033 KDVP 202033Z AUTO 11010KT 10SM CLR 24/03 A2996 RMK AO2 LTG DSNT E T02380028 CYYY 202000Z 27007KT 30SM FEW150 BKN220 05/M13 A3035 RMK AC2CI5 SLP281 CYZP 202052Z AUTO 15024G42KT 1 3/4SM RA BR SCT013 SCT024 BKN037 OVC050 08/06 A2969 RMK VIS VRB 1-3 MAX WND 13043KT AT 2019Z PRESRR PCPN 1.5MM PAST HR SLP052 KDWH 201953Z 16006KT 10SM OVC090 26/12 A3012 RMK AO2 SLP195 T02610122 KELZ 201956Z AUTO 16009G15KT 10SM CLR 20/M13 A3027 RMK AO2 SLP258 T02001128 CYYZ 202000Z 16007KT 15SM SCT180 BKN250 12/M04 A3026 RMK AC4CS3 HALO SLP253 KFDR 201953Z AUTO 12008KT 9SM -RA BKN065 BKN090 OVC110 18/17 A3003 RMK AO2 LTG DSNT SE AND S TSB38E53RAB45 SLP159 P0000 T01830167 $ CYZR 202000Z AUTO 19012G19KT 9SM CLR 21/M01 A3019 RMK SLP226 DENSITY ALT 1000FT KFFA 202035Z AUTO 02018G26KT 3SM -RA BKN008 OVC011 09/09 A3017 RMK AO2 P0003 T00910085 CYZS 202000Z 29013KT 15SM FEW030 M05/M10 A2993 RMK SC1 SLP143 EHSA 202025Z AUTO VRB01G07KT 8000 ///////// 14/10 Q1005 W10/H10 KDVT 201953Z VRB03KT 10SM CLR 28/04 A3000 RMK AO2 SLP139 T02830044 KEMT 201946Z COR 21005KT 10SM CLR 24/12 A3004 RMK BIRDS IN THE VC OF ARPT CYZT 202000Z 11020G27KT 20SM BKN047 OVC120 09/06 A3001 RMK SC6AC2 SLP162 KFFC 201953Z AUTO 03008KT 10SM CLR 23/06 A3016 RMK AO2 SLP213 T02280061 KENL 202035Z AUTO 00000KT 25/04 A3012 RMK AO2 T02450044 PWINO TSNO CYZU 202000Z 32014G21KT 15SM SCT056 13/M03 A2992 RMK CU4 SLP152 EHSC 202025Z AUTO 15012G15KT 9999 ///////// 17/10 Q1005 W10/H8 KEMV 202035Z AUTO 01011G19KT 340V050 10SM CLR 16/04 A3027 RMK AO2 CYZV 202000Z 24014KT 30SM BKN180 02/M06 A3027 RMK CI7 SLP255 KFDW 202055Z AUTO 03007KT 10SM BKN046 20/04 A3016 RMK AO1 KEOE 202035Z AUTO 03009KT 10SM BKN060 21/03 A3019 RMK AO2 CYZW 202000Z 18007KT 30SM OVC040 07/M02 A2978 RMK SC6 SLP112 CYZX 202000Z 00000KT 15SM FEW250 09/M02 A3038 RMK CI2 WNDY HILL 34004KT SLP288 KFDY 201953Z AUTO 14009KT 10SM CLR 22/00 A3018 RMK AO2 SLP216 T02220000 KFEP 202035Z AUTO 23009G21KT 10SM CLR 27/04 A3007 RMK AO2 LTG DSNT W T02700044 CZRP 202000Z AUTO 17001KT M21/M25 RMK AO1 SLP252 T12091254 CYZY 202000Z AUTO 20010G17KT 9SM SCT060 07/M02 A2998 RMK SLP176 KDYA 202035Z AUTO 00000KT 10SM CLR 24/10 A3014 RMK AO2 T02430095 CZSJ 202000Z AUTO 28009KT 9SM OVC030 04/M02 A2993 RMK SLP149 KFET 202035Z AUTO 22009G15KT 10SM CLR 28/09 A2992 RMK AO2 LTG DSNT E T02750089 KEOK 202035Z AUTO 16010KT 10SM CLR 27/09 A3003 RMK AO2 CZTB 202000Z AUTO 28010KT 14/M00 RMK AO1 SOG 01 6010 SLP157 T01431002 KFFL 202035Z AUTO 21012G21KT 10SM CLR 27/08 A3002 RMK AO2 KFFM 202033Z AUTO 15003KT 10SM CLR 22/M04 A2992 RMK AO2 KENV 202035Z 09008KT 10SM CLR 21/M04 A3016 RMK AO1 CZSM 202000Z AUTO 24006KT 09/M04 RMK AO1 SLP122 T00891041 51005 KENW 201953Z 19012KT 10SM CLR 25/06 A3009 RMK AO2 SLP188 T02500056 KFFO 201958Z AUTO 19009KT 10SM CLR 23/03 A3018 RMK AO2 VIS 2 RWY23R SLP222 T02310025 KDWX 202035Z AUTO 16008KT 10SM SCT009 SCT041 OVC100 12/05 A3018 RMK AO2 T01210052 VHHH 202030Z 11010KT 9999 FEW012 SCT030 26/22 Q1011 NOSIG PLCH 201700Z CALM 9999 FEW019 BKN040 26/25 Q1010 CZSP 202000Z AUTO 30009KT 02/M11 RMK AO1 SLP289 T00241108 58011 KEPH 201953Z AUTO 20011KT 10SM CLR 16/M06 A3023 RMK AO2 SLP240 T01561056 $ ZUUU 202000Z 34002MPS 300V020 6000 -SHRA FEW009 SCT026 16/14 Q1012 NOSIG KDXR 201953Z 14006KT 10SM CLR 13/M04 A3041 RMK AO2 SLP299 T01331039 KH78 201720Z 01008KT 12SM SCT030 23/16 A3017 RMK SEAS 1-2 KFFT 201953Z AUTO 17007KT 10SM CLR 24/04 A3016 RMK AO2 SLP210 T02390039 KDZB 202035Z AUTO 17008KT 10SM BKN029 OVC035 22/15 A3007 RMK AO2 T02160150 KFHB 202035Z AUTO 34008KT 10SM OVC014 16/12 A3008 RMK AO1 CZST 202000Z 03008KT 15SM BKN120 BKN200 09/05 A2994 RMK AC5CI2 SLP140 KDYL 201954Z AUTO VRB06KT 10SM CLR 13/M01 A3038 RMK AO2 SLP292 T01281011 FABL 201800Z VRB02KT CAVOK 16/05 Q1023 NOSIG KFGN 202033Z AUTO 13004KT 10SM CLR 07/00 A2999 RMK AO2 EIKN 201800Z 01009G20KT 350V090 9999 SCT040 BKN280 13/04 Q1011 NOSIG KDXX 202034Z AUTO 11009KT 10SM CLR 24/01 A2995 RMK AO2 KFFX 202034Z AUTO 20012G17KT 7SM CLR 21/00 A3012 RMK AO2 T02100003 KFFZ 201947Z 25008KT 40SM SCT080 28/05 A3001 KDYR 202035Z 20005KT 10SM CLR 27/07 A3013 RMK AO1 KDYS 202038Z AUTO 16010KT 10SM FEW009 SCT026 BKN042 OVC050 19/17 A3004 RMK AO2 CIG 022 RWY34 $ KDYT 202033Z AUTO 00000KT 10SM CLR 07/03 A3001 RMK AO2 LTG DSNT S CZUM 202000Z AUTO 29013G19KT 9SM CLR M01/M14 A3012 RMK MAX WND 31017KT AT 1946Z SLP231 EIME 202000Z 04008KT 9999 -RA FEW015 OVC040 10/08 Q1009 KFGX 202035Z AUTO 24003KT 10SM CLR 24/05 A3017 RMK AO2 T02430049 KFIG 201954Z AUTO VRB05KT 10SM CLR 19/M08 A3029 RMK AO2 SLP260 T01941083 EIKY 202000Z 03005KT 350V080 9999 BKN035 13/06 Q1008 PKMR 201950Z 12012KT 15SM FEW014 SCT045 BKN110 OVC130 27/25 A2987 RMK SHRAE12 SLP115 T02700245  KFHR 201953Z AUTO 12011KT 10SM CLR 13/06 A3025 RMK AO2 SLP244 T01280056 KERI 201951Z 02008KT 10SM CLR 18/M02 A3024 RMK AO2 SLP241 T01781022 KESC 202035Z AUTO 19005KT 6SM BKN009 OVC060 04/02 A3006 RMK AO1 EHVK 202025Z AUTO 08009KT 9999 NCD 15/07 Q1006 BLU KFHU 201956Z AUTO 10SM CLR 24/01 A3016 RMK AO2 SLP167 T02390006 $ FACT 202000Z 20009KT 9999 FEW010 19/15 Q1015 NOSIG CZVL 202007Z AUTO 34014KT 9SM SCT049 SCT065 11/04 A2995 RMK MAX WND 33018KT AT 2005Z SLP157 EHVL 202025Z AUTO 07015KT 9999 FEW290 13/11 Q1008 BLU RMK TS INFO NOT AVBL FACV 200824Z 15001KT CAVOK 27/05 Q1021 KESF 201953Z AUTO 22003KT 10SM CLR 28/11 A3012 RMK AO2 SLP200 T02780111 KGAF 202035Z AUTO 16009KT 10SM CLR 18/06 A2992 RMK AO2 VIAR 202030Z 00000KT 4000 BR SCT100 19/17 Q1012 KGAG 201953Z AUTO 17014G26KT 10SM FEW047 SCT100 26/12 A2997 RMK AO2 PK WND 21030/1927 SLP125 T02560117 KEQY 201953Z AUTO 04015G19KT 10SM BKN060 20/02 A3017 RMK AO2 SLP225 T02000017 KI16 202035Z AUTO 10SM CLR 25/M01 A3023 RMK AO2 T02521014 KGAI 202035Z AUTO 08004KT 10SM CLR 15/01 A3037 RMK AO1 KFKA 202032Z AUTO 21006KT 10SM VCTS SCT016 SCT090 18/13 A3003 RMK AO2 LTG DSNT S T01790134 KFIT 201952Z AUTO 18006KT 10SM CLR 14/M10 A3041 RMK AO2 SLP300 T01441100 KETB 202030Z AUTO 26006KT 10SM CLR 23/03 A3006 RMK AO2 VIBN 201830Z 33002KT 5000 HZ NSC 26/09 Q1009 KETC 202035Z AUTO 03012G25KT 10SM BKN040 OVC049 16/04 A3022 RMK AO2 T01590037 FAEL 201900Z 04007KT 9999 SCT016 BKN025 21/17 Q1016 KGBD 202035Z AUTO 17018G25KT 10SM CLR 24/12 A2995 RMK AO1 KERV 202035Z AUTO 13008KT 10SM BKN011 OVC015 18/17 A3008 RMK AO2 T01800170 KESN 202050Z 09011G16KT 10SM BKN250 14/02 A3040 KGAO 202035Z AUTO 00000KT 10SM CLR 26/13 A3012 RMK AO2 T02630134 EINN 202030Z 36009KT 9999 FEW015 BKN050 13/06 Q1009 NOSIG EHWO 202025Z AUTO 07002KT 9999 BKN088 BKN095 OVC100 13/09 Q1005 BLU KERY 202035Z AUTO 20012KT 7SM OVC032 04/02 A3007 RMK AO2 T00390018 KGBG 202035Z AUTO 20008G19KT 10SM CLR 26/09 A3005 RMK AO2 T02630091 KETH 202034Z AUTO 15007KT 10SM CLR 24/03 A2995 RMK AO2 LTG DSNT SE KEST 201952Z AUTO 18012G16KT 10SM CLR 23/13 A2995 RMK AO2 SLP140 T02330128 KGBK 202035Z AUTO VRB05KT 10SM CLR M17/M23 A3014 RMK A01 KGCC 201953Z AUTO 34012KT 10SM CLR 16/M01 A3007 RMK AO2 SLP164 T01611011 $ KFKL 202035Z AUTO 13011KT 10SM CLR 21/M05 A3025 RMK AO1 KGCD 202037Z AUTO 31005KT 10SM CLR 16/M01 A3023 RMK AO2 FAGC 202000Z AUTO 00000KT //// // ////// 16/06 Q1026 KFLD 201953Z AUTO 19004KT 10SM -RA OVC090 19/08 A3008 RMK AO2 RAB17 SLP184 P0000 T01940078 KFKN 202035Z AUTO 06017G25KT 10SM CLR 16/03 A3027 RMK AO1 KEUF 201958Z AUTO 06004KT 10SM OVC037 20/12 A3015 RMK AO2 SLP207 T02000117 PWINO KEUG 201954Z 33004KT 10SM FEW028 BKN150 16/07 A3023 RMK AO2 SLP239 T01610072 KFLG 201957Z VRB03KT 10SM OVC070 15/01 A3025 RMK AO2 RAB36E50 SLP191 P0000 T01500011 KI35 202035Z AUTO 00000KT 10SM CLR 25/00 A3015 RMK AO1 FAGG 202000Z AUTO 30005KT 9999 // OVC005 17/16 Q1017 KFKS 202033Z AUTO 23010G15KT 10SM SCT080 SCT120 11/01 A3011 RMK AO2 T01100008 KGDB 202032Z AUTO 09006KT 10SM CLR 23/01 A2997 RMK AO2 LTG DSNT E T02300007 KEVB 202047Z AUTO 01018G26KT 10SM SCT019 19/14 A3006 KGCK 201954Z 19018G25KT 10SM FEW065 25/08 A2993 RMK AO2 PK WND 19026/1924 SLP108 T02500078 KFLL 201953Z 32007KT 10SM BKN040 25/14 A2999 RMK AO2 SLP156 T02500144 KEUL 202035Z AUTO 29004KT 10SM CLR 16/M04 A3028 RMK AO1 KGCM 202035Z AUTO 19006KT 10SM CLR 22/13 A3010 RMK AO2 VIDP 202030Z 00000KT 2000 HZ SCT100 24/10 Q1011 NOSIG KFME 202045Z AUTO 06007KT 10SM CLR 15/01 A3037 RMK AO1 KGCN 201954Z 22007KT 10SM SCT070 19/01 A3022 RMK AO2 SLP184 T01890006 KFLO 201953Z 02016G23KT 10SM OVC037 18/08 A3014 RMK AO2 PK WND 03026/1929 SLP204 T01780083 KFLP 202035Z 19006KT 10SM FEW080 26/08 A3010 RMK AO1 KFMH 202035Z AUTO 05008KT 10SM CLR 10/M00 A3044 RMK AO2 KGDJ 202035Z AUTO 17012G16KT 10SM BKN037 OVC075 24/15 A3007 RMK AO2 LTG DSNT SW THRU NW T02430149 CZZJ 202000Z AUTO 09003KT 08/M00 RMK AO1 PK WND 29020/1911 SLP170 T00791003 52014 KFNB 201953Z AUTO 19015G21KT 10SM SCT070 28/12 A2996 RMK AO2 SLP138 T02830122 KEWB 201953Z 15012KT 10SM CLR 11/M02 A3044 RMK AO2 SLP307 T01061022 KEVM 202034Z AUTO 27003KT 10SM CLR 17/M01 A3001 RMK AO2 KGED 201954Z AUTO 08015G23KT 10SM CLR 12/M02 A3040 RMK AO2 SLP296 T01171017 KFMM 202035Z AUTO 36017G22KT 10SM BKN085 22/02 A3000 RMK AO2 T02210016 KFMN 201953Z 28017G28KT 10SM CLR 22/00 A3006 RMK AO2 PK WND 29029/1929 SLP139 T02220000 KGEG 201953Z 22009KT 10SM FEW048 SCT180 BKN220 11/M03 A3025 RMK AO2 SLP251 T01111028 KGDP 201951Z AUTO 25020G28KT 10SM CLR 21/07 A3016 RMK AO2 PK WND 24031/1932 SLP156 T02110072 KFLY 202029Z AUTO 01014G18KT 10SM BKN090 18/00 A3012 RMK AO2 LTG DSNT W T01751001 KGFA 201956Z AUTO 22014G24KT 10SM FEW095 14/M11 A3007 RMK AO2 PK WND 25026/1900 SLP215 T01441106 TSNO $ KEWK 202035Z AUTO 17010KT 10SM CLR 18/13 A3008 RMK AO1 FAJB 202000Z AUTO 15001KT //// // ////// 14/07 Q1026 KFNL 202035Z AUTO 22009KT 10SM CLR 22/03 A3002 RMK AO1 LTG DSNT N KEVV 201954Z VRB03KT 10SM CLR 24/02 A3016 RMK AO2 SLP210 T02390022 KFOD 202035Z AUTO 21008G16KT 10SM CLR 28/13 A2994 RMK AO1 KGDV 202035Z AUTO 29018G26KT 10SM CLR 18/M04 A2999 RMK AO1 DRRM 201800Z 28004KT 9999 FEW050CB BKN300 38/19 Q1006 KFOE 201953Z 18011KT 10SM CLR 24/12 A3003 RMK AO2 SLP161 T02440122 KEVW 201953Z AUTO 29016G21KT 10SM SCT070 17/M03 A3021 RMK AO2 SLP162 T01721033 $ KEWN 201954Z 03019G29KT 4SM -RA BR OVC010 13/11 A3014 RMK AO2 PK WND 04037/1927 RAE03B26 SLP204 P0001 T01330111 $ DRRN 202000Z 24001KT 8000 NSC 38/10 Q1006 NOSIG KFMY 201953Z VRB05KT 10SM OVC041 25/14 A3001 RMK AO2 SLP164 T02500144 EISG 201200Z 31007KT CAVOK 13/// Q1015 KEWR 202028Z 13009KT 10SM SCT250 11/M03 A3044 RMK AO2 $ EKAH 202020Z AUTO 03002KT 9999NDV FEW060/// 10/06 Q1018 KGFK 201953Z 19010KT 10SM BKN250 20/04 A2994 RMK AO2 SLP144 T02000044 KFOK 201953Z 11008KT 10SM CLR 09/M03 A3047 RMK AO2 SLP319 T00941028 KFNT 201953Z 20010G14KT 10SM CLR 22/M03 A3017 RMK AO2 SLP217 T02221028 KI69 202037Z AUTO 18003KT 10SM CLR 25/02 A3017 RMK AO1 DRRT 201800Z 28006KT CAVOK 40/14 Q1007 KGEU 202047Z 22006KT 20SM FEW080 32/04 A2999 KGFL 201953Z AUTO 10SM CLR 17/M08 A3035 RMK AO2 SLP283 T01721078 KGEV 202035Z AUTO 22003KT 10SM CLR 18/M05 A3024 RMK AO2 T01751054 KEYE 201953Z AUTO 04003KT 10SM CLR 23/02 A3016 RMK AO2 SLP210 T02330022 KGGE 202055Z AUTO 36014G22KT 10SM OVC024 15/12 A3007 RMK AO2 KEYF 202035Z AUTO 02006G15KT 10SM OVC028 16/11 A3012 RMK AO2 T01620109 KGEY 201953Z AUTO 34012KT 10SM CLR 21/M03 A3002 RMK AO2 SLP153 T02061028 KGGG 201953Z AUTO 15010KT 10SM FEW055 26/13 A3008 RMK AO2 SLP183 T02610133 TSNO KI75 202035Z AUTO 19013G20KT 10SM CLR 26/09 A2999 RMK AO2 T02630094 KGEZ 201953Z AUTO 18008KT 10SM CLR 24/03 A3016 RMK AO2 SLP212 T02440028 KGGI 202035Z AUTO 18013KT 10SM CLR 26/09 A3000 RMK AO2 T02630094 EKBI 202050Z 08009KT CAVOK 12/07 Q1016 KFPK 202035Z AUTO 21005KT 10SM CLR 22/M03 A3015 RMK AO2 T02221029 KFOT 202035Z AUTO 29014KT 10SM CLR 15/09 A3022 RMK AO1 KGHB 202035Z AUTO 05008KT 10SM CLR 22/17 A3014 RMK A01 FALA 202000Z 12006KT CAVOK 14/09 Q1026 NOSIG KFQD 202035Z AUTO 34004KT 10SM CLR 21/02 A3019 RMK AO2 T02130018 FAKM 200713Z 34007KT CAVOK 21/07 Q1026 EKAV 202020Z AUTO VRB03KT 9999NDV SCT064/// ///// Q1018 KEZF 202035Z AUTO 09006G14KT 10SM CLR 18/02 A3032 RMK AO2 KEXX 202035Z AUTO 05007G17KT 010V070 10SM CLR 20/01 A3019 RMK AO2 T02010005 FAKN 202000Z AUTO /////KT //// // ////// ///// Q//// FALE 202000Z VRB02KT 9999 FEW030 BKN035 23/20 Q1017 NOSIG KGHG 202035Z AUTO RMK AO2 PWINO TSNO KGGP 202035Z AUTO 18005KT 10SM CLR 22/M01 A3016 RMK AO2 KFOZ 202036Z AUTO 21006KT 10SM CLR 19/00 A3000 RMK AO2 WAAA 202030Z 06003KT 9000 NSC 25/24 Q1009 PKWA 202040Z AUTO 11009KT 4SM RA SCT013 BKN019 OVC035 27/23 A2989 KFPR 202008Z AUTO 34005KT 10SM OVC031 22/15 A3001 RMK AO2 T02220150 EKCH 202020Z 06008KT CAVOK 11/05 Q1016 NOSIG KGIC 202035Z AUTO 00000KT 10SM CLR 12/M03 A3029 RMK AO1 T01151035 KEZM 202035Z AUTO 05009G14KT 10SM OVC047 23/14 A3014 RMK AO2 T02340139 KGGW 201953Z AUTO 27028G34KT 10SM SCT075 18/M02 A2995 RMK AO2 PK WND 28037/1903 SLP146 T01831022 TSNO KEYW 201953Z 33011G17KT 10SM FEW033 SCT042 24/17 A3003 RMK AO2 SLP168 T02440172 KGIF 201953Z AUTO 36006KT 10SM OVC030 22/14 A3005 RMK AO2 SLP174 T02220144 TSNO $ KFRG 201953Z 14011KT 10SM CLR 11/M01 A3045 RMK AO2 SLP312 T01061011 URKA 202000Z 15005MPS CAVOK 10/09 Q1015 NOSIG RMK QFE756/1009 SC065 WABB 201400Z 00000KT 9999 FEW019 26/25 Q1008 NGS KFRI 201958Z AUTO 21013KT 10SM FEW085 24/13 A3001 RMK AO2 SLP154 T02350132 KEZS 202035Z AUTO 20003KT 10SM SCT030 SCT038 BKN090 14/10 A3006 RMK AO2 LTG DSNT SW T01380096 EKEB 202020Z AUTO 06006KT 040V100 9999NDV NCD 13/07 Q1015 KFRM 202035Z 13006KT 10SM OVC046 23/11 A2997 RMK AO1 KFSD 201956Z 10011G15KT 060V150 10SM CLR 26/08 A2993 RMK AO2 SLP129 T02560083 VIJP 202030Z VRB05KT 2500 HZ SCT035 SCT100 26/11 Q1012 NOSIG KGHW 202033Z AUTO 15003KT 10SM CLR 22/00 A2998 RMK AO2 LTG DSNT SE KFSE 202035Z AUTO 20007KT 10SM CLR 21/01 A2997 RMK AO2 KHAE 202035Z AUTO 21010G15KT 10SM CLR 28/03 A3006 RMK AO2 FAMM 202000Z AUTO 04005KT //// // ////// 13/10 Q1025 KHAF 202035Z AUTO 32011KT 5SM HZ CLR 17/12 A3013 RMK AO2 PMDY 201956Z AUTO 17008KT CLR 24/20 A3023 RMK AO2 TSNO T02380200 SLP546 $ FALW 202000Z AUTO 16001KT //// // ////// 14/09 Q1014 EIWF 201930Z 03011KT 350V060 6000 RA SCT030 09/08 Q1006 R03/1///// URKK 202030Z 00000MPS CAVOK 10/09 Q1016 NOSIG RMK QFE759 SC070 KHAI 202034Z AUTO 17009KT 10SM CLR 23/M04 A3016 RMK AO2 T02271036 KFSI 202013Z AUTO 15010KT 10SM -RA SCT065 BKN130 19/15 A3005 RMK AO2 RAB2013 USCC 202030Z 25006MPS CAVOK 10/M03 Q1011 27000060 NOSIG RMK QFE738 KFSM 201953Z VRB03KT 10SM FEW060 SCT075 26/11 A3011 RMK AO2 SLP190 T02560111 KHAO 201953Z AUTO 00000KT 10SM CLR 25/01 A3018 RMK AO2 SLP220 T02500011 KFSO 202035Z AUTO 19006KT 10SM CLR 16/M07 A3031 RMK AO2 T01611068 KHBG 201953Z AUTO VRB03KT 10SM CLR 27/11 A3015 RMK AO2 RAE02 SLP208 P0000 T02670111 VILK 202030Z VRB02KT 4000 HZ NSC 20/10 Q1008 KHBI 202035Z AUTO 04007G14KT 010V090 10SM BKN060 19/M01 A3022 RMK AO2 T01921010 KGKJ 201953Z AUTO 18008G15KT 110V220 10SM CLR 22/M05 A3023 RMK AO2 SLP236 T02171050 TSNO WADD 202030Z 04002KT 9999 FEW018 25/23 Q1008 NOSIG USCM 202030Z 25006MPS 8000 FEW100 05/M02 Q1016 NOSIG 01090060 RMK QFE724 KGJT 201953Z VRB03KT 10SM CLR 20/04 A3010 RMK AO2 SLP152 T02000044 KFST 201953Z AUTO 02007KT 10SM CLR 25/11 A3004 RMK AO2 LTG DSNT S SLP135 T02500106 KFTK 201958Z AUTO VRB04KT 10SM CLR 25/03 A3015 RMK AO2 SLP209 T02490034 KGLD 201953Z AUTO 17005KT 10SM SCT041 BKN050 21/09 A2998 RMK AO2 SLP129 T02110094 EKGC 202020Z AUTO 07021KT 9999NDV 10/08 Q1014 KHCD 202033Z AUTO 07003KT 10SM CLR 23/05 A2998 RMK AO2 LTG DSNT E T02310053 KFTN 202030Z AUTO 15010G16KT 10SM BKN024 BKN032 OVC041 24/18 A3003 RMK AO1 KFSW 202035Z AUTO 18011KT 10SM CLR 27/09 A3004 RMK AO2 KGLE 202035Z AUTO 14011KT 10SM BKN120 23/12 A3007 RMK AO2 T02310117 FAPE 202000Z 10005KT 070V130 CAVOK 19/16 Q1016 NOSIG EKGF 201950Z 08021KT CAVOK 10/07 Q1015 KGLH 201953Z AUTO 20006KT 10SM CLR 26/10 A3013 RMK AO2 SLP207 T02610100 KHBR 201953Z AUTO 16012KT 10SM BKN060 OVC085 21/15 A3004 RMK AO2 RAE1859 SLP160 P0000 T02110150 $ WADL 202100Z 00000KT 3000 HZ FEW016 24/23 Q1008 URML 202000Z 15003MPS 9999 SCT040CB OVC100 13/09 Q1013 TEMPO VRB07G12MPS -TSRA RMK QFE760/1013 SC070 FAOR 202000Z 30006KT CAVOK 18/07 Q1028 NOSIG DRZA 201800Z 12012KT 8000 NSC 36/M03 Q1009 URMM 202030Z 30004MPS 9999 SCT230 10/07 Q1014 R30/CLRD70 NOSIG RMK QFE732/0977 EKHA 202020Z AUTO 08023KT 9999NDV 11/08 Q1014 URMN 202000Z 00000MPS 9999 OVC110 14/09 Q1014 NOSIG RMK QFE723 SC07 KFUL 201953Z VRB04KT 10SM CLR 24/13 A3002 RMK AO2 SLP166 T02440133 KHDC 202035Z AUTO 34003KT 10SM CLR 29/09 A3012 RMK AO2 FBFT 202000Z VRB02KT CAVOK 16/10 Q1021 URMO 201530Z 31004MPS 9999 SCT040 BKN150 19/09 Q1013 NOSIG RMK QFE715/0954 SC070 KHBV 202035Z AUTO 14012KT 10SM OVC032 25/18 A3004 RMK AO2 T02500177 ZWSH 202000Z AUTO VRB06MPS CAVOK 14/M03 Q1019 EKHD 202020Z AUTO 07022KT 9999NDV 10/07 Q1015 KFTW 201953Z 16013G19KT 10SM OVC060 24/12 A3006 RMK AO2 SLP174 T02440122 KFVE 201953Z AUTO 18004KT 10SM CLR 06/M12 A3031 RMK AO2 SLP275 T00611117 KHDE 202035Z AUTO 20009G16KT 10SM OVC110 24/10 A2995 RMK AO2 T02370102 KHCO 202034Z AUTO 15008KT 10SM 14/07 A2996 RMK AO2 FAPN 202000Z AUTO 33003KT //// // ////// 16/09 Q1023 KFTY 201953Z 04003KT 10SM CLR 23/07 A3016 RMK AO2 SLP208 T02330067 KGKY 201953Z 13015KT 10SM OVC070 24/11 A3008 RMK AO2 SLP179 T02440111 FAPP 202000Z AUTO 19003KT //// // ////// 15/08 Q1024 URMT 202030Z 32003MPS CAVOK 12/06 Q1015 NOSIG RMK QFE723 SC07 KGLR 201953Z AUTO 25005KT 10SM -RA OVC085 16/02 A3012 RMK AO2 RAB24 SLP207 P0000 T01610022 KGLS 201952Z 12009KT 10SM CLR 22/19 A3015 RMK AO2 SLP209 T02220189 KFWA 201954Z 20008KT 10SM FEW230 BKN300 23/01 A3018 RMK AO2 SLP219 T02280006 KGNA 201956Z AUTO 25011KT 06/02 A3001 RMK AO2 SLP172 T00610017 PWINO KGMJ 202035Z AUTO 27005KT 10SM SCT060 BKN070 24/12 A3010 RMK AO2 KFWB 202035Z AUTO 17006G17KT 10SM CLR 24/09 A3012 RMK AO2 KGNC 202035Z AUTO 20010G16KT 10SM CLR 25/09 A3003 RMK AO2 T02460094 KFWC 202035Z AUTO 17005KT 10SM CLR 24/06 A3014 RMK AO2 KHDN 202035Z AUTO 04008KT 10SM CLR 17/01 A3017 RMK AO1 LTG DSNT N KGLW 202035Z AUTO 00000KT 10SM CLR 25/04 A3015 RMK AO2 T02500040 KHDO 201951Z AUTO 12008KT 10SM BKN018 OVC022 23/18 A3009 RMK AO2 SLP175 T02280183 $ EKHN 202020Z AUTO 07018KT 9999NDV FEW130/// 15/13 Q1017 KHEF 202035Z 08008KT 10SM CLR 18/01 A3032 RMK AO1 KGNF 202035Z AUTO 10004KT 10SM CLR 25/06 A3013 RMK AO2 KGLY 202035Z AUTO 22009KT 10SM SCT060 24/11 A3008 RMK AO2 ZYCC 202000Z 24003MPS CAVOK 06/M03 Q1010 NOSIG KHEI 201953Z AUTO 30016KT 10SM CLR 19/00 A2994 RMK AO2 WSHFT 1906 SLP145 T01940000 DRZR 201800Z 18008KT 9999 FEW040CB SCT140 BKN300 37/12 Q1007 EKHR 202020Z AUTO VRB02KT 9999NDV NCD 14/08 Q1015 FASB 200741Z 36006KT CAVOK 26/07 Q1022 KGMU 201953Z AUTO 04012KT 10SM CLR 21/00 A3019 RMK AO2 SLP221 T02110000 $ KHFD 201953Z 18005KT 10SM CLR 15/M07 A3040 RMK AO2 SLP294 T01501067 KFXE 201953Z 34005KT 10SM SCT038 24/15 A3000 RMK AO2 SLP160 T02440150 KFWN 201953Z AUTO 00000KT 10SM CLR 17/M04 A3037 RMK AO2 SLP286 T01671039 PWINO PNO $ KHFF 201956Z AUTO 01017G24KT 12SM BKN048 BKN070 19/07 A3017 RMK AO2 LTG DSNT E-SE SLP218 T01910069 KFVX 202035Z AUTO 07011G15KT 10SM CLR 21/00 A3025 RMK AO2 KHEQ 202035Z AUTO 12005KT 10SM CLR 23/07 A2997 RMK AO2 KGNR 201956Z AUTO VRB04KT 11/M14 A3030 RMK AO1 SLP276 T01061139 FASI 202000Z AUTO /////KT //// // ////// 12/M01 Q1026 KFWS 201950Z 15020KT 10SM OVC070 24/11 A3010 KHFJ 202035Z AUTO 15004KT 10SM BKN060 23/11 A3009 RMK AO2 DTKA 202000Z 21006KT 9999 FEW020 SCT030 16/13 Q1008 NOSIG EKKA 202050Z AUTO 07006KT 9999NDV NCD 12/06 Q1017 KGOK 201953Z AUTO 18007G15KT 9SM FEW041 OVC095 24/13 A3005 RMK AO2 SLP169 T02440133 KGNT 202035Z AUTO 35012G18KT 10SM SCT090 BKN110 20/M02 A3015 RMK AO2 T02011024 FCBB 202000Z 00000KT 8000 NSC 26/23 Q1011 NOSIG KGNV 201953Z 01006KT 10SM OVC019 18/13 A3007 RMK AO2 SLP182 T01780133 KGON 201956Z 15009KT 9SM CLR 09/M01 A3045 RMK AO2 SLP311 T00891006 FBKE 201800Z 15006KT CAVOK 22/15 Q1020 USHH 202030Z 27003MPS 9000 SCT013CB OVC080 00/M02 Q0998 TEMPO 30015MPS 1000 SHSNRA BKN003 RMK QFE744 24////50 KGOO 202035Z AUTO 30007KT 10SM CLR 21/04 A3015 RMK AO1 KHEY 201953Z AUTO 08009KT 10SM OVC024 17/11 A3016 RMK AO2 SLP200 T01670106 KGOP 202035Z AUTO 17005KT 10SM BKN034 BKN041 22/16 A3009 RMK AO2 KFWZ 202055Z AUTO 26014G17KT 10SM CLR 12/M06 A3014 RMK AO2 KGPH 202055Z AUTO 20009G14KT 10SM SCT060 25/11 A3003 RMK AO2 KHEZ 202035Z AUTO 02004KT 10SM CLR 27/09 A3011 RMK AO1 KGPI 201955Z 22010G17KT 10SM SCT060 OVC085 13/M03 A3020 RMK AO2 SLP233 T01281033 $ KFYJ 202035Z AUTO 07015G19KT 10SM CLR 17/02 A3033 RMK AO2 T01700018 KGOV 202034Z AUTO 24003KT 10SM SCT080 SCT110 20/00 A3011 RMK AO2 T02000000 KGPM 201950Z 16010G18KT 10SM BKN055 OVC075 24/11 A3011 KHHF 202035Z AUTO 18013G21KT 10SM VCTS SCT055 SCT070 SCT085 25/11 A2994 RMK AO2 LTG DSNT SW T02540108 KFZG 202035Z AUTO 01007KT 10SM OVC034 19/13 A3015 RMK AO2 T01920133 KHHG 202035Z AUTO 21005KT 10SM CLR 22/01 A3015 RMK AO2 T02220006 KFXY 202035Z AUTO 14008KT 10SM SCT090 22/13 A2996 RMK AO2 UTAA 202000Z 00000MPS 7000 SKC 18/01 Q1012 R30/CLRD70 NOSIG KHGR 201953Z AUTO 00000KT 10SM CLR 17/01 A3032 RMK AO2 SLP277 T01720006 KGPT 201953Z 17008KT 10SM CLR 23/14 A3014 RMK AO2 SLP205 T02330144 $ KGRB 201953Z AUTO 00000KT 7SM -RA OVC085 13/09 A3009 RMK AO2 SLP191 P0002 T01280089 TSNO KHIB 201953Z AUTO 28009KT 10SM CLR 19/M02 A3001 RMK AO2 SLP171 T01891022 DTMB 202030Z 34011KT 8000 FEW020 SCT040 18/16 Q1004 NOSIG KFYV 201953Z 16006KT 10SM SCT055 23/12 A3013 RMK AO2 SLP195 T02280117 $ KGRD 201956Z AUTO VRB06KT 10SM CLR 23/01 A3018 RMK AO2 SLP214 T02280011 KHIE 201952Z AUTO 29009KT 10SM BKN120 15/M08 A3033 RMK AO2 SLP280 T01501083 KHIF 202045Z AUTO 32008KT 10SM -RA FEW210 19/M07 A3017 RMK AO2 RAB2044 KGRF 201958Z AUTO VRB04KT 10SM SCT046 SCT055 BKN110 BKN150 BKN200 14/03 A3024 RMK AO2 SLP245 T01370033 PWINO $ URRR 202030Z 23003MPS 9999 SCT033CB BKN100 13/11 Q1015 22290043 TEMPO 2000 BR BKN005 KGPZ 202035Z AUTO 29008KT 9SM CLR 18/M01 A3000 RMK AO1 FAUP 202000Z AUTO 35006KT //// // ////// 20/02 Q1019 UTAK 202000Z 10006MPS CAVOK 20/M04 Q1011 NOSIG KGRI 201953Z 24013KT 10SM -RA BKN080 BKN110 22/12 A2996 RMK AO2 RAB48 SLP138 P0000 T02170122 KHHR 201953Z 25010KT 10SM CLR 21/12 A3005 RMK AO2 SLP174 T02060122 KHII 202035Z AUTO 24004KT 10SM CLR 33/03 A2995 RMK AO2 ZWWW 202030Z 17002MPS CAVOK 12/M04 Q1017 NOSIG UTAM 202000Z 01002MPS 6000 SKC 17/03 Q1014 NOSIG RMK SC07 KGSB 202031Z AUTO 03014G24KT 10SM OVC025 15/11 A3017 RMK AO2 KIAB 202000Z AUTO 15008KT 10SM SCT019 SCT095 19/19 A3006 RMK AO2 RAE1959DZB1959E2001 KGRK 201955Z 14015G21KT 7SM BKN030 OVC036 22/16 A3007 RMK SLP185 KIAD 201952Z 05011G16KT 10SM BKN250 16/01 A3034 RMK AO2 SLP274 T01610006 KHHV 202035Z AUTO 12010KT 10SM CLR 23/17 A3012 RMK A01 KHHW 202035Z AUTO 18007KT 10SM SCT047 SCT055 OVC075 27/16 A3007 RMK AO2 T02670155 KHIO 201953Z 13006KT 10SM SCT038 15/06 A3024 RMK AO2 SLP241 T01500056 FBMN 202000Z 14003KT CAVOK 21/12 Q1020 KIAG 201953Z VRB05KT 10SM FEW200 BKN270 18/01 A3024 RMK AO2 SLP249 T01780006 $ KFZY 201954Z AUTO 17006KT 10SM CLR 18/M02 A3029 RMK AO2 SLP259 T01781017 $ URSS 202030Z 07001MPS 9999 FEW006 BKN100 12/10 Q1014 TEMPO BKN004 BKN020CB RMK R06/07002MPS QBB200 MT OBSC QFE759 02000070 06000070 ZYHB 202000Z 25004MPS 3500 BR FEW040 03/02 Q1009 NOSIG KIAH 201953Z 13011KT 10SM FEW050 SCT250 26/11 A3012 RMK AO2 SLP200 T02610111 KGSH 201953Z AUTO 19006KT 10SM CLR 23/00 A3017 RMK AO2 SLP216 T02280000 KHJH 202035Z AUTO 21016G22KT 10SM -RA SCT032 BKN047 OVC080 22/12 A2996 RMK AO2 LTG DSNT ALQS T02210115 UTAT 202000Z 04004MPS CAVOK 18/M01 Q1016 99CLRD70 NOSIG KGRR 201953Z 23009G18KT 10SM FEW240 23/00 A3016 RMK AO2 SLP214 T02280000 $ KHKA 201953Z AUTO 25005KT 10SM CLR 26/07 A3014 RMK AO2 SLP203 T02610072 $ UTAV 202000Z 07001MPS 7000 SKC 16/02 Q1015 NOSIG KGTB 201958Z AUTO 21007G15KT 10SM CLR 17/M06 A3029 RMK AO2 SLP261 T01741059 FAVV 202000Z AUTO 00000KT //// // ////// 12/07 Q1024 KGTF 201953Z 25022G29KT 10SM CLR 14/M09 A3009 RMK AO2 PK WND 25031/1926 SLP189 T01441089 KHJO 201953Z AUTO VRB03KT 10SM CLR 24/08 A3010 RMK AO2 SLP193 T02440083 $ KGSO 201954Z 05012G21KT 10SM FEW100 BKN250 20/M01 A3021 RMK AO2 SLP226 T02001011 KGSP 201953Z 05010G17KT 10SM CLR 21/03 A3018 RMK AO2 SLP213 T02110028 KGRY 202035Z AUTO 05007KT 10SM CLR 23/18 A3013 RMK A01 WALL 201700Z 32005KT 8000 SCT020 26/25 Q1008 NOSIG UTDD 202030Z 00000MPS 9999 FEW200 12/06 Q1015 09CLRD70 NOSIG RMK QFE694/0925 KHLC 201953Z AUTO 17011KT 10SM BKN060 26/09 A2994 RMK AO2 LTG DSNT SW SLP121 T02560094 KGUC 202035Z AUTO 16007KT 10SM BKN085 16/M02 A3018 RMK AO1 KIBM 202035Z AUTO 31011G14KT 10SM CLR 23/M04 A2999 RMK AO2 T02261036 KHLG 201953Z 13010G14KT 10SM CLR 22/M06 A3021 RMK AO2 SLP232 T02171061 URWA 202030Z 07004MPS CAVOK 15/00 Q1017 NOSIG RMK QFE764/1019 SC070 KGTR 202050Z 20006KT 10SM SKC 24/09 A3017 UTDL 202030Z 24002MPS 9999 SKC 13/06 Q1015 NOSIG RMK QFE724/0965 88CLRD70 KHKS 201953Z VRB06KT 10SM CLR 28/07 A3014 RMK AO2 SLP199 T02780072 $ KIDA 201953Z 20011G28KT 10SM CLR 16/M02 A3017 RMK AO2 PK WND 23028/1945 SLP199 T01611022 WAMM 201600Z 00000KT 9000 FEW022 24/24 Q1009 NOSIG KGTU 201951Z 16012KT 10SM BKN035 OVC043 23/16 A3009 KGUL 202035Z AUTO 10SM CLR 23/16 A3013 RMK A01 KICL 202035Z AUTO 19016KT 10SM FEW065 SCT075 SCT085 27/12 A2997 RMK AO2 KHLN 201953Z 30013G21KT 10SM CLR 14/M09 A3015 RMK AO2 PK WND 26030/1939 SLP217 T01441089 URWI 201600Z 11007MPS 9999 FEW040CB BKN100 19/M01 Q1015 NOSIG KHKY 201953Z 03006G14KT 10SM CLR 21/M01 A3021 RMK AO2 SLP215 T02061006 KGUP 201953Z AUTO 11007KT 10SM -RA FEW043 BKN075 OVC100 16/02 A3018 RMK AO2 RAE21B39 SLP133 P0000 T01560022 KHLR 201956Z AUTO 15009KT 10SM FEW032 OVC040 24/16 A3007 RMK AO2 TSE20 SLP209 T02390161 PWINO $ KICR 201953Z AUTO 15012KT 10SM CLR 27/04 A2989 RMK AO2 SLP116 T02670044 KGUR 202035Z AUTO 31014G20KT 10SM CLR 28/00 A2998 RMK AO2 T02781005 PWINO KIDI 202035Z AUTO 14007KT 10SM CLR 21/M05 A3025 RMK AO2 KGUS 201958Z AUTO 22005KT 10SM CLR 23/01 A3016 RMK AO2 SLP216 T02340011 KICT 201953Z 14009KT 8SM -RA BKN070 OVC095 19/16 A3005 RMK AO2 SLP168 P0000 T01890156 KHNB 202035Z AUTO 00000KT 10SM CLR 24/03 A3015 RMK AO1 KGWB 202035Z AUTO 21005KT 10SM CLR 23/M02 A3017 RMK AO2 USNN 202030Z 21004MPS 9000 -RA OVC004 01/01 Q0988 TEMPO OVC004 RMK QFE736 QBB140 21250250 KGVL 201953Z AUTO VRB04KT 10SM CLR 22/03 A3019 RMK AO2 SLP213 T02170028 UTFF 201800Z 22004MPS 9999 NSC 17/03 Q1016 R18/CLRD70 KHND 201956Z 23007KT 200V300 10SM CLR 29/02 A3002 RMK AO2 T02940016 SLP146 KHMN 201958Z AUTO 14005KT 10SM CLR 22/05 A3010 RMK AO2 SLP146 T02150047 $ KHLX 202035Z AUTO 04006KT 10SM CLR 17/M15 A3027 RMK AO2 KGUY 201953Z AUTO 16013G21KT 10SM SCT095 25/06 A2991 RMK AO2 LTG DSNT SE AND SW AND NW SLP096 T02500061 KIDP 202035Z AUTO 18009G16KT 10SM CLR 22/12 A3007 RMK AO2 WBGB 202000Z 11002KT 9999 FEW001 BKN300 25/24 Q1008 KGXA 201955Z AUTO 18004KT 10SM FEW210 27/M04 A3007 RMK AO2 SLP151 T02651037 KIFA 202035Z AUTO 18015G20KT 10SM SCT060 SCT085 26/12 A2997 RMK AO2 T02560119 KHOB 202050Z 24019G25KT 10SM SCT070 25/04 A3003 KGVT 202035Z AUTO 17012G18KT 10SM SCT050 SCT080 26/11 A3009 RMK AO2 EKSB 201750Z 08019KT CAVOK 14/07 Q1014 UTFN 201830Z 32003MPS 9999 SCT050CB BKN100 16/04 Q1016 R28/CLRD70 NOSIG URWW 202030Z 07005MPS CAVOK 15/09 Q1018 NOSIG RMK SC070 EKRK 202020Z AUTO 07008KT 9999NDV NCD 12/04 Q1016 WAOO 201130Z 19005KT 8000 SCT019 29/26 Q1007 WBGG 202030Z 20002KT 9999 SCT020 SCT150 BKN300 24/23 Q1009 NOSIG KIEN 201952Z AUTO 25014G20KT 10SM CLR 24/01 A2992 RMK AO2 SLP115 T02440011 KHOE 202035Z AUTO 01007KT 340V040 10SM OVC016 16/13 A3012 RMK AO2 KGXF 200458Z 18004KT 10SM CLR 23/04 A2996 RMK SLP133 KGWO 201953Z AUTO 00000KT 10SM CLR 26/09 A3014 RMK AO2 SLP204 T02560089 TSNO EKRN 202020Z AUTO 06020KT 9999NDV FEW084/// 11/03 Q1015 KGWR 202055Z AUTO 18010G18KT 10SM CLR 26/01 A2992 RMK A01 P000 KIER 202035Z AUTO 12006KT 10SM CLR 28/16 A3010 RMK AO2 T02770155 KHNR 202035Z AUTO 20018KT 10SM CLR 28/10 A2996 RMK AO2 DTTA 202030Z 29009KT 260V320 9999 SCT023 SCT100 BKN200 18/13 Q1006 NOSIG KGYB 202035Z AUTO 18011G14KT 10SM SCT046 BKN100 26/14 A3012 RMK AO2 T02580137 FBSK 202000Z 17002KT CAVOK 17/11 Q1023 NOSIG FDBB 202000Z AUTO 00000KT //// // ////// 20/18 Q//// DTTB 202000Z 29007KT 260V330 9999 FEW020 SCT030 17/15 Q1006 WAPP 201400Z 32006KT 9999 FEW020 26/23 Q1009 NSG DTTD 201800Z 23012KT 190V250 4000 SA SCT026 36/M04 Q1004 RMK SIROCCO USPP 202030Z 34006G09MPS 9999 FEW046 BKN230 09/01 Q1015 21090060 NOSIG RMK QFE750/1001 MOD TURB 0M-1200 KHON 201955Z AUTO 18010G18KT 10SM CLR 26/M02 A2991 RMK AO2 SLP128 T02561022 KGWW 202035Z AUTO 03022G30KT 10SM SCT028 BKN047 OVC100 15/08 A3019 RMK AO2 T01500083 EKTE 202020Z AUTO 07023KT 9999NDV 11/08 Q1015 WBGR 202000Z 06002KT 9999 FEW014 BKN150 25/24 Q1008 DTTF 202000Z 23009KT 8000 NSC 26/01 Q1002 NOSIG KIFP 202035Z AUTO 20007KT 170V270 10SM CLR 33/03 A2995 RMK AO2 KHOP 201958Z AUTO 22004KT 10SM CLR 25/03 A3015 RMK AO2 SLP209 FBSP 201800Z 00000KT CAVOK 18/14 Q1021 WBGS 202000Z 20002KT 9999 FEW005 SCT150 24/23 Q1009 DTTG 202000Z 28015KT 5000 NSC 32/M01 Q1003 NOSIG KGYH 201947Z 08015KT 10SM CLR 21/01 A3019 EKSP 202050Z 05006KT CAVOK 11/07 Q1015 RMK FEW200 KHNZ 202035Z AUTO 03010G18KT 10SM CLR 19/04 A3022 RMK AO2 T01860039 KGYI 202035Z AUTO 17013KT 10SM SCT055 BKN100 25/11 A3006 RMK AO2 T02460107 DTTJ 202030Z 27005KT 230V290 4000 HZ SCT033 29/11 Q1000 NOSIG KHOT 201953Z AUTO VRB05KT 10SM BKN060 26/10 A3013 RMK AO2 SLP199 T02610100 DTTK 202000Z 34006KT 300V020 8000 FEW023 21/10 Q1005 KHOU 201953Z 16013G17KT 10SM FEW060 SCT090 26/12 A3012 RMK AO2 SLP204 T02560117 KGYL 202034Z AUTO 10003KT 10SM CLR 24/M01 A2996 RMK AO2 LTG DSNT SE T02371008 DTTL 201800Z 30009KT 230V360 9999 SCT026 SCT033 18/15 Q1004 KIGM 201951Z AUTO 23006KT 10SM CLR 27/00 A3009 RMK AO2 SLP128 T02670000 WBGY 202000Z 22001KT 9999 SCT022 SCT150 25/24 Q1009 KHPN 201956Z 16009KT 10SM CLR 13/M05 A3041 RMK AO2 SLP300 T01281050 DTTN 202000Z 31008KT 9999 FEW020 17/14 Q1007 KGXY 202035Z AUTO 12012KT 7SM TS FEW060 SCT075 BKN090 17/06 A3002 RMK AO1 LTG DSNT E TSB08 P0002 KGZH 201953Z AUTO VRB06KT 10SM SCT029 21/12 A3017 RMK AO2 SLP216 T02060117 KIGQ 202035Z AUTO 19008KT 160V300 10SM CLR 25/03 A3012 RMK AO2 LTG DSNT NW T02450026 KGYR 202047Z VRB06KT 10SM FEW080 A2999 KHQI 202035Z AUTO 07008KT 10SM CLR 22/17 A3015 RMK A01 DTTR 201800Z 20016KT 6000 NSC 36/M08 Q1004 KIIB 202035Z AUTO 19015G19KT 10SM 26/09 A3000 RMK AO2 KGZL 202035Z AUTO 19008KT 10SM SCT055 25/08 A3009 RMK AO2 KHQM 201953Z AUTO 16006KT 7SM OVC065 13/07 A3024 RMK AO2 SLP242 T01280067 EKVD 201450Z 07015KT CAVOK 17/07 Q1015 WARQ 201230Z 33010KT 3000 TSRA FEW015CB BKN012 25/24 Q1007 CB OTV KIGX 201956Z AUTO 02011KT 330V050 10SM CLR 19/05 A3021 RMK AO2 PK WND 05026/1934 SLP225 T01940050 WARR 202030Z 26003KT 5000 HZ FEW020 26/23 Q1007 USRR 202030Z 30010G13MPS 6000 SCT009 BKN015CB 01/M00 Q0990 TEMPO 2000 SHRA SCT005 RMK OBST OBSC QFE737 25////55 DTTX 202000Z 35010KT 5000 FEW023 SCT033 23/12 Q1003 NOSIG KGYY 202045Z 18007KT 10M BKN250 25/02 A3011 WARS 201400Z 20002KT 7000 FEW017CB BKN018 27/25 Q1009 NOSIG EKVG 202050Z AUTO 36009KT 9999NDV NCD 05/02 Q1020 RMK NCD WIND 850FT 34009KT 270V010 DTTZ 202000Z 29014KT 7000 BKN030 27/05 Q1003 NOSIG KHRI 201953Z AUTO VRB03KT 10SM CLR 17/01 A3025 RMK AO2 SLP244 T01670011 TSNO KHSA 201950Z 36006KT 10SM FEW065 28/08 A3013 KHRJ 202035Z AUTO 05012G24KT 10SM SCT042 OVC049 19/09 A3018 RMK AO2 T01880086 EKVJ 201250Z 09016KT CAVOK 19/10 Q1017 KHSB 202035Z AUTO 00000KT 10SM CLR 25/05 A3014 RMK AO2 T02510047 KHRL 201952Z AUTO 11020G25KT 10SM BKN039 OVC055 26/18 A3004 RMK AO2 SLP173 T02610183 KJAC 201952Z 24007KT 10SM CLR 12/M06 A3019 KHQU 202035Z AUTO 02009KT 10SM CLR 22/07 A3018 RMK AO1 T02150073 KIJD 201952Z AUTO 15009G14KT 070V190 10SM CLR 16/M08 A3040 RMK AO2 SLP296 T01561078 KHSE 202034Z AUTO 03014G26KT 350V060 4SM -RA BR OVC004 12/12 A3007 RMK AO2 PK WND 03026/2030 P0009 T01170117 TSNO KHRO 201953Z AUTO 18009KT 10SM BKN065 24/08 A3013 RMK AO2 SLP194 T02440083 ELLX 202020Z 05004KT 9999 -RA BKN060 13/09 Q1005 NOSIG USSS 202030Z 27007MPS CAVOK 11/M02 Q1009 7615//55 NOSIG RMK QFE736 KHQZ 201955Z 18014G18KT 10SM SCT 050 BKN 070 24/12 A3010 WBKK 202030Z 11004KT 9999 FEW014 SCT140 BKN270 25/24 Q1008 NOSIG KHSI 201953Z AUTO 24008G15KT 10SM CLR 24/10 A2996 RMK AO2 SLP131 T02440100 WBKL 202000Z 00000KT 9999 FEW010 SCT140 BKN290 27/25 Q1008 KL18 202035Z AUTO 21007KT 10SM CLR 22/13 A3004 RMK AO2 KHRT 201958Z AUTO 03009KT 10SM OVC023 17/09 A3014 RMK AO2 SLP208 T01720092 $ UUBP 201100Z 07006G09MPS CAVOK 21/01 Q1019 NOSIG RMK QFE746 SC070 KJAN 201954Z VRB04KT 10SM FEW070 SCT250 27/08 A3014 RMK AO2 SLP203 T02670083 KHRX 202035Z AUTO 21013KT 10SM SCT070 SCT080 24/05 A2997 RMK AO2 LTG DSNT W T02350046 USTR 202030Z 29005MPS CAVOK 11/M01 Q1004 NOSIG RMK QFE744/0992 21CLRD65 12CLRD65 KHSP 202035Z AUTO 07005G14KT 10SM CLR 14/M04 A3034 RMK AO2 KIIY 202035Z AUTO 03004KT 10SM CLR 24/04 A3015 RMK AO2 WBKS 202000Z 28005KT 9999 SCT016 BKN290 26/25 Q1007 WATT 201400Z 10006KT 8000 FEW020 26/23 Q1010 NOSIG WBKT 202000Z 23003KT 9999 FEW015 SCT140 BKN270 24/24 Q1008 KJAS 202035Z AUTO 17004KT 10SM CLR 27/12 A3012 RMK AO2 T02690116 UUDD 202030Z 11002MPS CAVOK 07/00 Q1021 NOSIG KHST 201958Z AUTO 33009KT 10SM SCT045 26/16 A3000 RMK AO2 SLP162 T02560158 KIKK 202035Z AUTO 20005KT 10SM CLR 25/06 A3013 RMK AO2 LTG DSNT NW T02490064 UUBW 202030Z 00000MPS CAVOK 10/01 Q1021 NOSIG WBKW 202000Z 30005KT 9999 FEW017 SCT140 BKN280 24/23 Q1007 KHTL 201953Z AUTO VRB06KT 10SM FEW100 20/01 A3013 RMK AO2 SLP208 T02000011 $ KHSV 201953Z 00000KT 10SM SCT250 26/07 A3016 RMK AO2 SLP209 T02560072 KILE 202035Z AUTO 15012G16KT 10SM BKN034 A3005 RMK AO1 KHUF 201953Z 10SM CLR 22/05 A3016 RMK AO2 SLP213 T02220050 KJAX 201956Z 32011KT 10SM BKN012 BKN045 15/13 A3009 RMK AO2 SLP190 T01500128 KIJX 202035Z AUTO 18009G15KT 10SM CLR 27/05 A3008 RMK AO2 T02690046 KILG 201951Z AUTO 06009KT 10SM CLR 15/M01 A3039 RMK AO2 SLP292 T01501006 TSNO KL35 202035Z AUTO 00000KT 10SM CLR 17/M01 A3026 RMK AO2 KJBR 201953Z AUTO 17007KT 10SM CLR 26/07 A3012 RMK AO2 SLP199 T02560067 UUDL 201730Z 00000MPS CAVOK 12/02 Q1021 NOSIG RMK QFE757 23000060 KHTS 201951Z 08006KT 10SM CLR 24/M03 A3017 RMK AO2 SLP212 T02391033 KL38 202035Z AUTO 08003KT 10SM CLR 27/11 A3011 RMK AO2 T02740112 KIKT 202035Z AUTO 03012KT 10SM SCT017 19/15 A3011 RMK A01 UUEE 202030Z VRB01MPS CAVOK 09/02 Q1021 NOSIG KHUL 201953Z AUTO VRB06KT 10SM CLR 10/M12 A3034 RMK AO2 SLP279 T01001122 KHUM 201950Z 14005KT 7SM SCT040 27/15 A3013 RMK ATIS S VA/RY36 LJ KILM 201953Z AUTO 01015G30KT 10SM OVC012 15/13 A3007 RMK AO2 PK WND 01030/1909 RAB1857E38 SLP183 P0001 T01500128 KJDD 202035Z AUTO 17006KT 9SM FEW033 SCT049 SCT060 26/13 A3009 RMK AO2 KIKV 202035Z AUTO 21014G22KT 10SM CLR 28/12 A2996 RMK AO2 KIKW 202032Z AUTO 22010G15KT 10SM CLR 22/M02 A3014 RMK AO2 T02171020 KILN 201954Z AUTO VRB03KT 10SM CLR 23/04 A3018 RMK AO2 SLP225 T02280039 FCPP 202000Z 17004KT 9999 TS FEW010 FEW030CB 28/24 Q1010 NOSIG OYAA 202000Z 00000KT CAVOK 26/19 Q1008 NOSIG KHUT 201952Z 16008KT 9SM OVC090 18/15 A3003 RMK AO2 RAE33 SLP153 P0000 T01830150 $ KJCT 201951Z AUTO 16009KT 10SM BKN023 OVC032 22/16 A3007 RMK AO2 SLP152 T02170161 UTNN 202030Z 00000MPS CAVOK 12/M01 Q1016 R33/CLRD60 NOSIG EKYT 202020Z 03007KT CAVOK 12/06 Q1018 RMK BKN250 KIML 201953Z AUTO VRB03KT 10SM CLR 22/09 A2997 RMK AO2 SLP138 T02170089 $ KIMM 202055Z AUTO 29004KT 9SM SCT037 OVC045 28/15 A3002 RMK A01 P000 KHWD 201954Z 29008KT 10SM CLR 21/10 A3012 RMK AO2 SLP208 T02110100 $ KIND 201954Z VRB03KT 10SM SCT250 23/01 A3016 RMK AO2 SLP210 T02280006 KJDN 202048Z AUTO 29023G30KT 18/M08 A3001 RMK AO1 PK WND 28031/1955 SLP171 T01831078 51011 KHVN 201953Z 14010KT 10SM SCT250 11/M01 A3045 RMK AO2 SLP309 T01111011 KJEF 201953Z 20010KT 10SM FEW070 26/09 A3007 RMK AO2 SLP171 T02610089 KINF 202035Z AUTO 01005KT 10SM OVC023 20/13 A3007 RMK AO2 ZYTL 202030Z 00000MPS 6000 NSC 08/01 Q1016 NOSIG KHVR 201953Z AUTO 30022G31KT 10SM SCT080 BKN100 16/M04 A3001 RMK AO2 PK WND 26035/1906 SLP168 T01561044 UTNU 202030Z 03002MPS CAVOK 12/02 Q1015 R31/CLRD60 NOSIG KHVS 202035Z AUTO 02009KT 10SM OVC042 19/05 A3017 RMK AO2 KINJ 202035Z AUTO 16013KT 10SM SCT085 25/13 A3008 RMK AO2 T02450126 KINK 201953Z AUTO 24007KT 10SM CLR 26/11 A3002 RMK AO2 SLP129 T02560106 KIMT 201954Z AUTO 15006KT 10SM BKN048 BKN080 18/09 A3001 RMK AO2 SLP167 T01780089 KIOB 202035Z AUTO 00000KT 10SM CLR 24/05 A3018 RMK AO2 KINL 201955Z AUTO 32005KT 10SM CLR 15/01 A3000 RMK AO2 SLP169 T01500011 KHXD 201950Z 36013G20 10SM FEW140 22/13 A3008 KHWO 201953Z 29008KT 10SM BKN040 26/14 A3001 RMK AO2 SLP163 T02560144 KJER 201953Z AUTO 23018G25KT 10SM CLR 16/M07 A3023 RMK AO2 PK WND 26028/1901 SLP220 T01561072 KHYA 201956Z 06005KT 10SM SCT034 10/00 A3045 RMK AO2 SLP310 T01000000 KINS 201958Z AUTO 27008KT 10SM CLR 28/00 A3006 RMK AO2 SLP142 T02770004 KJES 202030Z AUTO 31004KT 10SM OVC023 17/14 A3009 RMK AO2 KJFK 201951Z 13014KT 10SM SCT260 11/M04 A3046 RMK AO2 SLP314 T01061039 $ KINT 201954Z AUTO 03011G15KT 360V080 10SM CLR 20/M01 A3023 RMK AO2 SLP232 T02001011 ZYTX 202030Z VRB01MPS 7000 NSC 06/01 Q1014 NOSIG ENAL 202020Z 08001KT CAVOK 04/02 Q1021 KHWV 201956Z AUTO 15014G18KT 10SM CLR 10/M01 A3046 RMK AO2 SLP314 T01001011 TSNO KINW 201956Z AUTO 29008KT 10SM FEW075 23/02 A3015 RMK AO2 SLP163 T02330017 TSNO ENAN 201950Z 17004KT 9999 FEW045 BKN120 03/M01 Q1022 KHWY 202035Z AUTO 04013G17KT 10SM CLR 19/06 A3031 RMK AO2 T01900058 KJGG 202035Z AUTO 06007G19KT 030V090 10SM CLR 19/05 A3031 RMK AO1 KHYI 202050Z 14009KT 10SM BKN030 OVC035 23/16 A3008 FDJR 202000Z AUTO 03004KT //// // ////// 11/// Q1020 KIPJ 202035Z AUTO 08009G15KT 050V120 10SM CLR 21/M03 A3020 RMK AO2 T02091026 ENAT 201950Z 22007KT 180V250 CAVOK 02/M06 Q1025 RMK WIND 700FT 19017KT KIPL 201953Z AUTO 11006KT 10SM CLR 32/11 A2995 RMK AO2 SLP143 T03170106 ENBL 201950Z 34004KT CAVOK 06/01 Q1020 KIOW 201952Z AUTO 19018G22KT 10SM CLR 27/09 A3004 RMK AO2 SLP169 T02670089 $ KHZE 202035Z AUTO 27021G28KT 10SM CLR 22/02 A2986 RMK AO2 KIPN 202035Z AUTO VRB04G10KT 10SM FEW017 22/16 A3012 RMK A01 ENBN 201950Z 13013KT 110V180 CAVOK 10/03 Q1019 KJFX 202035Z AUTO 08004KT 10SM CLR 29/08 A3014 RMK A02 P-128 ENBO 202020Z 10007KT 9999 FEW025 SCT040 BKN050 07/01 Q1021 NOSIG UTSA 202030Z 14002MPS 9999 NSC 10/M01 Q1015 R07/CLRD70 NOSIG KJFZ 202035Z AUTO 10003KT 10SM CLR 22/M02 A3021 RMK AO2 T02241023 UTSB 201930Z 00000MPS CAVOK 16/00 Q1015 R01/CLRD70 NOSIG WBSB 202030Z 23002KT 9999 FEW014 BKN300 26/25 Q1009 NOSIG KHYR 201953Z AUTO 29006KT 10SM CLR 21/M02 A3000 RMK AO2 SLP163 T02061022 ENBR 202020Z 01003KT CAVOK 09/02 Q1020 RMK WIND 1200FT 03007KT KHYS 202035Z AUTO 16014G22KT 10SM CLR 24/13 A2995 RMK AO1 ENBS 201950Z 24017KT 9999 FEW035 M01/M09 Q1023 KIPT 201954Z 13008KT 10SM CLR 18/M01 A3032 RMK AO2 SLP268 T01831006 KHZL 202035Z AUTO 18006KT 10SM CLR 15/M04 A3036 RMK AO2 ENBV 201150Z 26022KT 9999 5000W -SHSN FEW010 SCT020 SCT038 01/M03 Q1022 KHYW 202035Z AUTO 01012G21KT 7SM OVC027 16/11 A3009 RMK AO2 ENCN 202020Z 06005KT CAVOK 10/05 Q1020 KHYX 202035Z AUTO 22009KT 10SM CLR 22/M02 A3013 RMK AO2 UTSK 201900Z 00000MPS CAVOK 15/02 Q1015 R16/CLRD70 KHZR 202035Z AUTO 15005KT 10SM CLR 27/11 A3011 RMK AO2 T02700107 KIRK 201955Z AUTO 20010G20KT 10SM CLR 26/09 A3006 RMK AO2 SLP178 T02610089 FDND 202000Z AUTO /////KT //// // ////// 21/17 Q//// FDLV 202000Z AUTO 03003KT //// // ////// 21/17 Q//// KJHW 202035Z AUTO 17008KT 10SM CLR 20/M06 A3023 RMK AO1 KHZX 202028Z AUTO 36005KT 10SM CLR 20/00 A2999 RMK AO2 LTG DSNT S KHZY 201953Z AUTO 19008KT 10SM CLR 22/M03 A3024 RMK AO2 SLP240 T02171028 UTSS 202030Z 13003MPS 100V170 9999 NSC 14/03 Q1016 R88/CLRD70 NOSIG FDNH 202000Z AUTO 00000KT //// // ////// ///// Q//// UTST 202030Z 03002MPS CAVOK 14/05 Q1013 R88/CLRD70 NOSIG ENDR 202020Z AUTO 23012KT 07/05 Q1020 KIRS 202035Z AUTO 00000KT 10SM CLR 22/01 A3015 RMK AO2 KJKA 202035Z AUTO 01006KT 360V060 10SM BKN032 20/12 A3014 RMK AO2 T02000123 FDMS 201500Z 30004KT CAVOK 27/14 Q1016 NOSIG KM19 201956Z AUTO 18006KT 10SM CLR 27/07 A3013 RMK AO2 T02660072 SLP201 ENFB 202020Z AUTO 19009KT 9999NDV BKN007/// 06/05 Q1021 W///S/ ENEK 202020Z 06024KT CAVOK 09/07 Q1016 W08/S3 KISM 201948Z 34008KT 10SM OVC026 21/15 A3005 ENDU 201950Z VRB02KT CAVOK 00/M06 Q1023 KISN 201952Z AUTO 28019G31KT 10SM FEW110 19/M03 A2989 RMK AO2 PK WND 27033/1941 SLP130 T01891033 KISO 201956Z AUTO 03015G27KT 4SM BR SCT007 0VC018 13/11 A3018 RMK AO2 FEFF 202000Z 17002KT CAVOK 23/23 Q1010 NOSIG KM25 202055Z AUTO 11003KT 10SM CLR 24/06 A3014 RMK AO2 PNO KISP 201956Z 13011G19KT 10SM SCT260 11/M03 A3043 RMK AO2 SLP305 T01061033 LBBG 202030Z 00000MPS CAVOK 10/09 Q1014 NOSIG KISQ 202034Z AUTO 19011KT 10SM BKN026 OVC033 03/01 A3007 RMK AO2 T00300011 KITH 201956Z 21007KT 10SM CLR 19/M05 A3030 RMK AO2 T01881050 SLP266 UTTT 202030Z 05002MPS CAVOK 13/05 Q1016 R08R/CLRD70 NOSIG KJKJ 202021Z AUTO 18007G16KT 10SM CLR 22/M05 A2995 RMK AO2 KM30 202035Z AUTO 00000KT 10SM CLR 26/01 A3012 RMK AO2 T02550009 KJKL 201953Z AUTO VRB03KT 10SM CLR 24/M03 A3018 RMK AO2 SLP209 T02391028 ENFL 202020Z 10003KT CAVOK 07/04 Q1021 ENGC 201950Z 21006KT 9999 BKN005 05/05 Q1021 W06/S4 ENEV 202020Z AUTO 15005KT 110V230 9999NDV BKN110/// 04/M08 Q1022 RMK WIND 1400FT 12011KT KISW 202046Z AUTO 23005KT 10SM BKN016 BKN041 14/11 A3007 RMK AO2 T01440111 FDNY 202000Z AUTO 32001KT //// // ////// 17/16 Q1028 KITR 201953Z AUTO 05008G18KT 10SM CLR 21/08 A3000 RMK AO2 SLP126 T02110078 KM40 202055Z AUTO 00000KT 10SM CLR 27/18 A3015 RMK AO2 FEFT 201000Z 34016KT 9999 TSRA SCT004 FEW033CB OVC150 22/21 Q1012 FDOT 202000Z AUTO /////KT //// // ////// 18/14 Q1019 UUMO 202000Z 00000MPS CAVOK 09/M02 Q1021 NOSIG RMK QFE750/1001 26090060 ENHD 202020Z AUTO 36008KT 9999NDV NCD 08/05 Q1020 KJLN 201953Z 21008KT 10SM FEW050 23/11 A3010 RMK AO2 SLP186 T02280106 ENGM 202020Z 33003KT CAVOK 10/05 Q1021 NOSIG ENHE 202020Z 24017KT 9999 SCT015 BKN095 07/04 Q1019 W///S4 ENHF 201950Z 20008KT 9999 FEW030 02/M03 Q1023 RMK WIND 1254FT 19017KT UUOB 202000Z 10004MPS 9999 SCT040 BKN070 13/06 Q1014 NOSIG RMK SC060 KIWA 202047Z 00000KT 45SM SKC 29/04 A3002 ENHK 201350Z 27010KT 9999 BKN038 04/M03 Q1026 KIWD 202035Z AUTO 31009KT 10SM CLR 16/03 A2997 RMK AO1